Flight Booking
Flight Operations | Kenya Airways Virtual © 2019

Schedule Search

Confused Where to Fly? How About VOCL (Kozhikode Calicut International Airport), click this link to view schedules from this airport!

Generate Rosters

Caution : durations are flexible (+/-) 2 hours


-- Flight Category --

JumpSeat Travel

Jumpseat tickets will cost you vMoney.

Current Account Balance : $
Last Jumpseat Flight : No Jumpseat flights!

Crew Information


Pilot Name :
ID # :
Hub :
Last Flight : New Hire, Stationed at Base

Location

AT BASE

Airport Information

No Records Found
METAR

TAF AGGH 251100Z 2512/2612 05010KT 9999 SCT017 BKN100 PROB40 INTER 2513/2518 5000 TSSH BKN016 FEW028CB T 25 24 23 26 Q 1011 1009 1008 1010 AYPY 251001Z 2512/2612 17010KT 9999 FEW018 BKN040 FM251800 17007KT 9999 BKN035 BGSF 251059Z 2512/2618 07010KT 9999 FEW050 BKN080 TEMPO 2512/2513 SCT080 BECMG 2513/2515 FEW050 TEMPO 2515/2524 BKN080 BGTL 251200Z 2512/2614 14009KT 9000 -RA FEW003 BKN050 OVC060 620509 520009 QNH2963INS BECMG 2514/2515 12012KT 9000 -RA FEW003 BKN040 OVC060 620409 QNH2970INS BECMG 2516/2517 10012KT 9000 -RA SCT010 OVC040 620409 QNH2971INS BECMG 2519/2520 10012KT 9999 NSW SCT010 OVC040 620409 QNH2974INS BECMG 2605/2606 13012G18KT 9999 SCT010 OVC030 620309 QNH2973INS TX06/2519Z TN03/2607Z LAST NO AMDS AFT 2512 NEXT 2609 BIAR 251359Z 2515/2615 VRB02KT 9999 FEW015 BKN035 TX14/2517Z TN07/2606Z BECMG 2515/2517 FEW035 BECMG 2521/2523 17008KT -RA BKN030 BECMG 2604/2606 VRB02KT BECMG 2612/2615 17013KT BIEG 251359Z 2515/2615 01006KT 9999 SCT050 TX14/2516Z TN06/2606Z BECMG 2515/2517 18015G25KT BECMG 2519/2521 20008KT -RA BKN025 OVC040 BECMG 2608/2611 19017G27KT NSW BKN035 BIKF 251359Z 2515/2615 12025G40KT 8000 RADZ OVC012 TX12/2518Z TN08/2606Z TEMPO 2515/2517 4000 RADZ OVC008 BECMG 2518/2520 14018G28KT TEMPO 2517/2522 1500 RADZ BR OVC004 BECMG 2522/2601 9999 -RA BKN015 OVC025 TEMPO 2522/2612 5000 RADZ OVC010 BECMG 2606/2609 12010KT BECMG 2610/2612 22015KT BIRK 251359Z 2515/2615 11022G38KT 9999 RA SCT020 BKN025 OVC035 TX13/2518Z TN08/2606Z TEMPO 2515/2600 5000 RADZ BKN013 OVC020 PROB40 TEMPO 2518/2521 4000 +RADZ OVC010 BECMG 2520/2522 17015KT BECMG 2522/2601 -RA BKN025 OVC035 TEMPO 2522/2615 5000 RA OVC014 BKPR 251130Z 2512/2612 10008KT 9999 SCT040 TEMPO 2512/2522 VRB18KT 3000 TSRA SCT025CB CBBC 251411Z 2514/2601 00000KT 3/4SM BR OVC003 TEMPO 2514/2519 6SM BR SCT003 OVC015 FM251900 VRB03KT P6SM SCT015 BKN030 TEMPO 2519/2601 P6SM -SHRA BKN015 RMK FCST BASED ON AUTO OBS. NXT FCST BY 251900Z CWSA 251338Z 2514/2524 07015G25KT P6SM SCT020 TEMPO 2514/2524 BKN020 RMK FCST BASED ON AUTO OBS. NXT FCST BY 252000Z CWWU 251200Z 2512/2612 VRB03KT P6SM SKC FM251900 22006KT P6SM FEW025 SCT050 FM260400 24009KT P6SM SCT020 SCT040 RMK FCST BASED ON AUTO OBS. NXT FCST BY 251800Z CYAH 251038Z 2511/2521 VRB03KT P6SM SKC BECMG 2512/2514 22012G22KT RMK FCST BASED ON AUTO OBS. NXT FCST BY 251800Z CYAM 251340Z 2514/2602 12006KT P6SM FEW180 BECMG 2514/2516 14010KT BECMG 2522/2524 12010G20KT RMK NXT FCST BY 252000Z CYAS 251338Z 2514/2521 FCST NOT AVBL DUE NO OBS RMK NXT FCST WILL BE ISSUED AT 261345Z CYAT 250838Z 2509/2519 20005KT P6SM SKC FM251500 20012G22KT P6SM FEW030 RMK FCST BASED ON AUTO OBS. NXT FCST BY 251500Z CYAY 251339Z 2514/2602 24012G22KT P6SM BKN150 FM251600 24012G22KT P6SM SCT150 RMK FCST BASED ON AUTO OBS. NXT FCST BY 252000Z CYBC 251338Z 2514/2602 VRB03KT P6SM SKC BECMG 2514/2516 23008KT BECMG 2522/2524 VRB03KT RMK FCST BASED ON AUTO OBS. NXT FCST BY 252000Z CYBG 251130Z 2512/2612 VRB03KT P6SM FEW250 PROB30 2512/2513 2SM BR RMK NXT FCST BY 251800Z CYBK 251138Z 2512/2524 12012KT 4SM -RA BR OVC015 TEMPO 2512/2524 P6SM -RA OVC025 BECMG 2519/2521 36008KT RMK NXT FCST BY 251800Z CYBN 251215Z 2512/2524 VRB03KT P6SM FEW040 FEW100 BECMG 2515/2517 15010KT SCT040 RMK FCST BASED ON AUTO OBS. NXT FCST BY 251800Z CYBR 251159Z 2512/2524 21008KT P6SM FEW008 SCT015 BKN100 TEMPO 2512/2515 2SM BR BKN008 OVC015 FM251500 21012KT P6SM FEW015 SCT030 BKN100 TEMPO 2515/2520 5SM -SHRA BR VCTS BKN015 OVC030 FM252000 26012KT P6SM -SHRA SCT020 BKN040 TEMPO 2520/2524 VRB20G30KT 2SM TSRA BR BKN008 OVC020CB RMK NXT FCST BY 251800Z CYBW 251138Z 2512/2524 30006KT P6SM SCT120 PROB30 2512/2514 1SM BR FM251600 34008KT P6SM SCT040 BKN080 FM252000 36010KT P6SM -SHRA BKN060 PROB30 2520/2524 VRB15G25KT 4SM TSRA OVC040CB RMK FCST BASED ON AUTO OBS. NXT FCST BY 251800Z CYBX 251339Z 2514/2602 25008KT P6SM BKN150 FM251600 24010KT P6SM SCT150 RMK NXT FCST BY 252000Z CYCA 251339Z 2514/2602 21006KT P6SM BKN120 BECMG 2514/2516 31010KT FM251800 31009KT P6SM FEW050 SCT120 BECMG 2518/2520 05008KT BECMG 2522/2524 VRB03KT RMK FCST BASED ON AUTO OBS. NXT FCST BY 252000Z CYCB 251238Z 2513/2601 30015KT P6SM FEW008 BKN015 TEMPO 2513/2515 SCT015 BKN025 FM251500 30015KT P6SM SCT025 RMK NXT FCST BY 251900Z CYCO 251311Z 2513/2601 22010KT P6SM FEW003 BKN150 TEMPO 2513/2515 4SM BR FM251500 25012KT P6SM FEW070 RMK NXT FCST BY 251900Z CYCY 251238Z 2513/2601 FCST NOT AVBL DUE NO OBS RMK FCST BASED ON AUTO OBS. NXT FCST BY 251900Z CYDB 251138Z 2512/2524 VRB03KT P6SM FEW030 SCT050 TEMPO 2512/2514 5SM BR BKN030 PROB30 2512/2514 1SM BR FM251400 12005KT P6SM FEW050 BECMG 2516/2518 12010KT RMK FCST BASED ON AUTO OBS. NXT FCST BY 251800Z CYDF 251339Z 2514/2602 22012KT P6SM FEW015 FM251600 27012G22KT P6SM FEW050 BECMG 2522/2524 24007KT RMK NXT FCST BY 252000Z CYDN 251159Z 2512/2524 24008KT P6SM FEW015 BKN080 TEMPO 2512/2518 5SM -SHRA BR BKN012 OVC080 FM251800 25012KT P6SM BKN040 BKN100 TEMPO 2518/2524 P6SM -SHRA PROB30 2518/2524 VRB15G25KT 4SM TSRA BKN020 OVC040CB RMK FCST BASED ON AUTO OBS. NXT FCST BY 251800Z CYDP 251339Z 2514/2523 28012G22KT P6SM BKN030 RMK NXT FCST BY 252000Z CYDQ 251238Z 2513/2601 30008KT P6SM FEW020 SCT200 FM251500 28015KT P6SM BKN040 RMK FCST BASED ON AUTO OBS. NXT FCST BY 251900Z CYEG 251138Z 2512/2612 26006KT P6SM SCT080 TEMPO 2512/2515 2SM BR PROB30 2512/2514 1/2SM FG VV002 FM251500 28010KT P6SM BKN040 BECMG 2516/2518 30015KT FM252000 30012G22KT P6SM BKN060 TEMPO 2522/2602 P6SM VCTS BKN040CB FM260200 29010KT P6SM FEW060 RMK NXT FCST BY 251500Z CYEK 251258Z 2512/2524 34012KT 2SM -RA BR OVC002 TEMPO 2512/2516 P6SM NSW OVC010 FM251600 36015KT P6SM SCT005 OVC030 BECMG 2519/2521 05010KT RMK FCST BASED ON AUTO OBS. NXT FCST BY 251800Z CYEN 251159Z 2512/2524 24010KT P6SM SCT040 BKN080 OVC120 TEMPO 2512/2515 VRB20G30KT 4SM TSRA BR BKN008 OVC040CB FM251500 27012KT P6SM VCSH SCT030 BKN100 FM252000 30015G25KT P6SM SCT040 PROB30 2520/2523 VRB20G30KT 4SM TSRA BKN020 OVC040CB RMK FCST BASED ON AUTO OBS. NXT FCST BY 251800Z CYER 250856Z 2509/2519 FCST CNCLD DUE NO OBS RMK FCST BASED ON AUTO OBS. NXT FCST BY 251500Z CYEU 251039Z 2511/2523 ADVISORY OFFSITE 12015KT P6SM SCT020 SCT080 TEMPO 2511/2518 BKN020 BKN080 RMK NXT FCST BY 251800Z CYEV 251238Z 2513/2601 VRB03KT P6SM SCT070 BKN160 BECMG 2513/2515 20006KT FM251500 20006KT P6SM BKN060 BECMG 2516/2518 31006KT FM252100 31006KT P6SM BKN050 BECMG 2522/2524 02005KT RMK NXT FCST BY 251900Z CYFB 251138Z 2512/2612 32012KT P6SM BKN025 TEMPO 2512/2518 BKN015 FM251800 32010KT P6SM SCT040 FM252100 31005KT P6SM SCT040 BKN120 BECMG 2522/2524 14010KT FM260600 14015KT P6SM -RA BKN020 OVC040 TEMPO 2606/2612 2SM -RA BR BKN006 OVC012 RMK NXT FCST BY 251800Z CYFC 251138Z 2512/2524 VRB03KT P6SM SKC BECMG 2513/2515 03005KT RMK FCST BASED ON AUTO OBS. NXT FCST BY 251800Z CYFS 251418Z 2514/2524 VRB03KT P6SM SCT020 BKN050 TEMPO 2514/2521 3SM -SHRA BR BKN020 OVC050 FM252100 03006KT P6SM -RA SCT008 OVC025 TEMPO 2521/2524 21/2SM SHRA BR BKN008 OVC020 RMK NXT FCST BY 251800Z CYGK 251339Z 2514/2602 04005KT P6SM FEW020 BECMG 2514/2516 15008KT FM251800 18008KT P6SM SCT040 BECMG 2522/2524 VRB03KT RMK NXT FCST BY 252000Z CYGL 251138Z 2512/2612 18010KT P6SM FEW150 SCT240 BECMG 2513/2515 22013G23KT FM251800 20015G25KT P6SM SCT240 BECMG 2523/2601 18010KT RMK NXT FCST BY 251800Z CYGP 251338Z 2514/2602 VRB03KT P6SM SKC BECMG 2515/2517 08008KT BECMG 2522/2524 VRB03KT RMK NXT FCST BY 252000Z CYGQ 251338Z 2514/2602 19010KT P6SM BKN007 TEMPO 2514/2515 SCT007 FM251500 20010G20KT P6SM SCT020 TEMPO 2515/2517 BKN020 FM251700 20015G25KT P6SM FEW040 BECMG 2523/2601 19010KT RMK NXT FCST BY 252000Z CYGR 251338Z 2514/2602 VRB03KT P6SM SKC BECMG 2515/2517 27006KT BECMG 2523/2601 VRB03KT RMK NXT FCST BY 252000Z CYGV 251338Z 2514/2602 25008KT P6SM FEW240 BECMG 2515/2517 24012KT RMK FCST BASED ON AUTO OBS. NXT FCST BY 252000Z CYGW 251138Z 2512/2524 17010G20KT P6SM FEW160 BKN180 FM251400 17015G25KT P6SM FEW200 BECMG 2515/2517 21015G25KT RMK FCST BASED ON AUTO OBS. NXT FCST BY 251800Z CYGX 251240Z 2513/2601 30006KT P6SM SCT006 BKN090 TEMPO 2513/2515 2SM -DZ BR BKN006 OVC090 FM251500 36006KT P6SM BKN025 OVC090 TEMPO 2515/2520 5SM -SHRA BR BKN008 OVC025 FM252000 36010KT P6SM -SHRA SCT005 OVC020 TEMPO 2520/2601 2SM -SHRA BR OVC005 BECMG 2522/2524 36012G22KT RMK NXT FCST BY 251900Z CYHA 251338Z 2514/2521 FCST NOT AVBL DUE NO OBS RMK NXT FCST WILL BE ISSUED AT 261345Z CYHD 251338Z 2514/2602 FCST NOT AVBL DUE WND SENSORS INOP RMK FCST BASED ON AUTO OBS. NXT FCST BY 252000Z CYHK 251309Z 2513/2524 26012G22KT 1/4SM -RA FG VV002 TEMPO 2513/2516 2SM BR OVC008 BECMG 2514/2516 32015KT FM251600 32015KT P6SM OVC008 TEMPO 2516/2519 BKN015 FM251900 32015KT P6SM SCT015 RMK FCST BASED ON AUTO OBS. NXT FCST BY 251800Z CYHM 251138Z 2512/2612 06006KT P6SM FEW020 FM251600 06012KT P6SM SCT040 FM260500 09008KT P6SM SKC RMK NXT FCST BY 251800Z CYHU 251138Z 2512/2612 03007KT P6SM SKC FM251500 06008KT P6SM FEW050 BECMG 2522/2524 03006KT FM260700 04005KT P6SM FEW006 PROB30 2607/2612 1SM BR RMK FCST BASED ON AUTO OBS. NXT FCST BY 251800Z CYHY 251406Z 2514/2524 VRB03KT P6SM FEW003 BKN120 TEMPO 2514/2515 1/4SM FG OVC004 FM251500 VRB03KT P6SM SCT060 BKN120 TEMPO 2515/2524 P6SM -SHRA BKN060 BECMG 2515/2517 05008KT RMK NXT FCST BY 251800Z CYHZ 251138Z 2512/2612 03005KT P6SM SKC FM251700 09005KT P6SM FEW050 FM252000 12010KT P6SM BKN050 FM260200 09007KT P6SM SCT040 FM260500 05010KT P6SM FEW020 FM260600 04007KT P6SM BKN200 RMK NXT FCST BY 251500Z CYIK 251338Z 2514/2521 FCST NOT AVBL DUE NO OBS RMK NXT FCST WILL BE ISSUED AT 261345Z CYIO 251238Z 2513/2601 20010KT P6SM BKN030 TEMPO 2513/2515 SCT030 FM251500 24010KT P6SM FEW030 RMK FCST BASED ON AUTO OBS. NXT FCST BY 251900Z CYIV 251240Z 2513/2601 20006KT P6SM -SHRA SCT008 OVC025 TEMPO 2513/2601 2SM -SHRA BR BKN008 OVC015 BECMG 2513/2515 20012G22KT RMK NXT FCST BY 251900Z CYJT 251139Z 2512/2612 VRB03KT P6SM SKC BECMG 2513/2515 24012KT BECMG 2523/2601 24008KT RMK NXT FCST BY 251800Z CYKA 251238Z 2513/2601 25008KT P6SM SCT015 SCT030 OVC070 TEMPO 2513/2517 3SM -SHRA BR SCT008 BKN012 OVC030 FM251700 28010KT P6SM BKN050 TEMPO 2517/2520 P6SM -SHRA FM252000 28010KT P6SM SCT070 RMK NXT FCST BY 251900Z CYKF 251339Z 2514/2602 11012KT P6SM FEW040 BECMG 2523/2601 08008KT RMK FCST BASED ON AUTO OBS. NXT FCST BY 252000Z CYKG 251338Z 2514/2521 VRB03KT P6SM FEW020 BKN160 BECMG 2516/2518 15010KT FM251800 15010KT P6SM BKN025 TEMPO 2518/2520 BKN020 FM252000 15010KT P6SM -RA BKN020 OVC050 RMK NXT FCST WILL BE ISSUED AT 261345Z CYKJ 251238Z 2513/2524 VRB03KT P6SM SCT040 BKN100 TEMPO 2513/2520 2SM -SHRA VCTS BR BKN040CB OVC080 FM252000 30008KT P6SM -SHRA OVC040 PROB40 2520/2524 VRB15G25KT 2SM TSRA OVC020CB RMK FCST BASED ON AUTO OBS. NXT FCST BY 251900Z CYKL 251339Z 2514/2602 29012KT P6SM BKN100 FM251600 28010KT P6SM SKC RMK FCST BASED ON AUTO OBS. NXT FCST BY 252000Z CYLD 251338Z 2514/2601 VRB03KT P6SM SKC BECMG 2514/2516 18007KT RMK NXT FCST BY 252000Z CYLL 251138Z 2512/2524 28006KT P6SM FEW080 TEMPO 2512/2514 2SM BR PROB40 2512/2514 1/2SM FG VV002 FM251600 29012KT P6SM SCT060 FM252100 30015KT P6SM BKN060 RMK FCST BASED ON AUTO OBS. NXT FCST BY 251800Z CYLW 251238Z 2513/2601 VRB03KT P6SM SCT040 OVC060 TEMPO 2513/2520 5SM -SHRA BR SCT008 BKN030 FM252000 34010KT P6SM BKN070 TEMPO 2520/2601 P6SM -SHRA BKN060 RMK FCST BASED ON AUTO OBS. NXT FCST BY 251900Z CYMA 251138Z 2512/2524 VRB03KT P6SM SCT060 BECMG 2519/2521 26006KT RMK NXT FCST BY 251800Z CYMH 251339Z 2514/2602 25006KT P6SM BKN130 FM251800 30012KT P6SM SCT150 BECMG 2522/2524 VRB03KT RMK FCST BASED ON AUTO OBS. NXT FCST BY 252000Z CYMM 251238Z 2513/2601 VRB03KT P6SM FEW060 FM251600 28010KT P6SM BKN040 FM252000 32010KT P6SM -SHRA BKN040 PROB40 2520/2601 VRB15G25KT 4SM TSRA SCT020 OVC040CB RMK FCST BASED ON AUTO OBS. NXT FCST BY 251900Z CYMO 251138Z 2512/2524 21012KT P6SM SKC RMK FCST BASED ON AUTO OBS. NXT FCST BY 251800Z CYMT 251138Z 2512/2524 VRB03KT P6SM SKC BECMG 2514/2516 20008KT RMK FCST BASED ON AUTO OBS. NXT FCST BY 251800Z CYMX 251138Z 2512/2612 VRB03KT P6SM SKC BECMG 2513/2515 08006KT FM260300 02005KT P6SM SKC PROB30 2608/2612 2SM BR RMK NXT FCST BY 251800Z CYNA 251338Z 2514/2602 26012KT P6SM FEW240 RMK FCST BASED ON AUTO OBS. NXT FCST BY 252000Z CYND 251238Z 2513/2601 VRB03KT P6SM FEW250 BECMG 2514/2516 09007KT BECMG 2523/2601 VRB03KT RMK NXT FCST BY 251800Z CYNE 251240Z 2513/2601 17006KT 2SM -SHRA BR OVC005 TEMPO 2513/2516 6SM -SHRA BR OVC010 FM251600 22008KT P6SM -SHRA SCT008 OVC020 TEMPO 2516/2521 5SM -SHRA BR OVC008 FM252100 24008KT P6SM -SHRA OVC025 TEMPO 2521/2601 4SM -SHRA BR SCT008 OVC015 BECMG 2522/2524 36008KT RMK FCST BASED ON AUTO OBS. NXT FCST BY 251900Z CYOA 251238Z 2513/2523 06005KT P6SM FEW200 BECMG 2519/2521 30005KT RMK NXT FCST BY 251900Z CYOD 251130Z 2512/2612 25005KT P6SM FEW015 PROB30 2512/2513 1SM BR FM251600 28008KT P6SM FEW015 FEW040 FM252000 20010KT P6SM SCT040 BKN080 TEMPO 2521/2602 P6SM -SHRA BKN040 OVC080 PROB30 2522/2601 4SM TSRA BR OVC030CB FM260200 28008KT P6SM BKN030 TEMPO 2602/2612 6SM -SHRA BR BKN020 RMK NXT FCST BY 251800Z CYOJ 251238Z 2513/2601 VRB03KT P6SM BKN080 FM251900 32006KT P6SM -SHRA BKN040 OVC080 PROB40 2519/2601 VRB15G25KT 4SM TSRA OVC020CB RMK FCST BASED ON AUTO OBS. NXT FCST BY 251900Z CYOO 251339Z 2514/2602 09007KT P6SM SKC FM251700 11012KT P6SM FEW040 BECMG 2522/2524 07006KT RMK FCST BASED ON AUTO OBS. NXT FCST BY 252000Z CYOW 251138Z 2512/2612 06006KT P6SM FEW250 BECMG 2514/2516 10007KT FM260300 07006KT P6SM SKC PROB30 2608/2612 1SM BR FEW002 RMK NXT FCST BY 251500Z CYPA 251240Z 2513/2601 29006KT 6SM BR FEW070 SCT250 TEMPO 2513/2514 1SM BR SCT002 BKN250 FM251400 31008KT P6SM SCT012 BKN060 TEMPO 2514/2517 P6SM -SHRA BKN012 OVC060 FM251700 33010KT P6SM FEW020 BKN040 TEMPO 2517/2601 P6SM -SHRA PROB30 2517/2601 VRB15G25KT 5SM TSRA BKN020 OVC040CB RMK NXT FCST BY 251900Z CYPE 251238Z 2513/2601 28006KT P6SM BKN060 FM251900 28012KT P6SM -SHRA BKN040 OVC080 PROB30 2519/2601 VRB15G25KT 4SM TSRA OVC040CB RMK NXT FCST BY 251900Z CYPH 251138Z 2512/2524 17012G22KT P6SM FEW050 BKN100 FM251400 18015G25KT P6SM SCT080 BECMG 2516/2518 18022G32KT RMK FCST BASED ON AUTO OBS. NXT FCST BY 251800Z CYPL 251338Z 2514/2602 20015G25KT P6SM FEW040 BECMG 2600/2602 19012KT RMK FCST BASED ON AUTO OBS. NXT FCST BY 252000Z CYPQ 251339Z 2514/2602 VRB03KT P6SM SKC FM251800 12008KT P6SM FEW040 BECMG 2522/2524 VRB03KT RMK FCST BASED ON AUTO OBS. NXT FCST BY 252000Z CYPR 251238Z 2513/2601 VRB03KT P6SM SCT008 BKN015 TEMPO 2513/2518 2SM -SHRA BR BKN008 OVC015 PROB30 2513/2518 1SM BR BKN005 FM251800 16006KT P6SM SCT040 BKN080 TEMPO 2518/2601 P6SM -SHRA SCT012 BKN030 RMK FCST BASED ON AUTO OBS. NXT FCST BY 251900Z CYPX 251138Z 2512/2524 14012KT P6SM SCT015 BKN040 TEMPO 2512/2524 P6SM -RA BKN015 OVC100 BECMG 2516/2518 20020G30KT RMK FCST BASED ON AUTO OBS. NXT FCST BY 251800Z CYPY 251138Z 2512/2524 VRB03KT P6SM SCT040 BKN100 TEMPO 2512/2515 2SM BR PROB30 2512/2514 1/2SM FG VV002 RMK FCST BASED ON AUTO OBS. NXT FCST BY 251800Z CYQA 251339Z 2514/2602 14003KT P6SM FEW250 BECMG 2514/2516 14006KT BECMG 2523/2601 VRB03KT RMK FCST BASED ON AUTO OBS. NXT FCST BY 252000Z CYQB 251138Z 2512/2612 03005KT P6SM FEW240 FM251400 09006KT P6SM SKC BECMG 2522/2524 02006KT RMK NXT FCST BY 251800Z CYQD 251240Z 2513/2601 32005KT 1/2SM -SHRA FG VCTS BKN002 OVC080CB TEMPO 2513/2514 2SM BR SCT002 BKN005 OVC080 BECMG 2514/2516 P6SM NSW SCT005 OVC015 FM251600 36008KT P6SM SCT008 OVC015 TEMPO 2516/2521 5SM -SHRA BR OVC008 FM252100 36008KT P6SM OVC025 TEMPO 2521/2601 P6SM -SHRA SCT008 OVC015 RMK FCST BASED ON AUTO OBS. NXT FCST BY 251900Z CYQF 251138Z 2512/2524 28005KT P6SM FEW040 BKN080 PROB30 2512/2514 1/2SM FG VV002 FM251500 32010KT P6SM BKN040 FM252100 32012KT P6SM BKN060 TEMPO 2521/2524 P6SM -SHRA VCTS BKN040CB RMK NXT FCST BY 251800Z CYQG 251138Z 2512/2612 08006KT P6SM FEW040 FM251600 11012KT P6SM FEW040 BECMG 2520/2522 11010G20KT BECMG 2602/2604 13010KT RMK FCST BASED ON AUTO OBS. NXT FCST BY 251800Z CYQH 251138Z 2512/2524 VRB03KT P6SM SCT040 BKN060 OVC120 TEMPO 2512/2514 P6SM -SHRA OVC020 BECMG 2512/2514 27008G18KT FM251400 27008G28KT P6SM BKN040 TEMPO 2514/2524 P6SM -SHRA BKN040 RMK NXT FCST BY 251800Z CYQI 251138Z 2512/2524 VRB03KT P6SM SKC FM251700 VRB03KT P6SM FEW050 RMK NXT FCST BY 251800Z CYQK 251338Z 2514/2602 17012G22KT P6SM SCT050 BKN190 FM251500 18015G25KT P6SM BKN050 TEMPO 2515/2522 P6SM -SHRA BECMG 2600/2602 18012KT RMK NXT FCST BY 252000Z CYQL 251138Z 2512/2524 24006KT P6SM FEW080 SCT200 FM251500 24006KT P6SM BKN080 OVC200 FM251800 26010KT P6SM -SHRA SCT030 BKN060 OVC120 PROB40 2518/2524 VRB15G25KT 2SM TSRA OVC030CB RMK FCST BASED ON AUTO OBS. NXT FCST BY 251800Z CYQM 251138Z 2512/2612 VRB03KT P6SM FEW025 BECMG 2513/2515 03007KT BECMG 2522/2524 VRB03KT FM260800 VRB03KT 6SM BR SCT003 PROB30 2608/2612 1SM BR BKN002 RMK NXT FCST BY 251800Z CYQQ 251139Z 2512/2612 31008KT P6SM SKC BECMG 2517/2519 35010KT FM260900 31008KT P6SM FEW012 RMK NXT FCST BY 251800Z CYQR 251159Z 2512/2612 28008KT P6SM SCT005 BKN025 OVC100 TEMPO 2512/2515 5SM -SHRA BR VCTS BKN005 OVC020CB BECMG 2512/2514 32012KT FM251500 32015KT P6SM BKN025 OVC080 TEMPO 2515/2520 P6SM -SHRA SCT008 OVC020 FM252000 32012KT P6SM FEW020 BKN040 TEMPO 2522/2603 P6SM -SHRA VCTS SCT020 OVC040CB FM260700 32012KT P6SM SCT040 RMK NXT FCST BY 251800Z CYQT 251338Z 2514/2602 VRB03KT P6SM FEW030 BKN050 BECMG 2515/2517 16010KT FM251800 15012KT P6SM SCT030 BECMG 2523/2601 10006KT RMK NXT FCST BY 252000Z CYQU 251426Z 2514/2601 27008KT WS004/27040KT P6SM SCT060 BKN200 FM251600 28020G30KT P6SM SCT040 FM251800 28020G30KT P6SM BKN040 RMK NXT FCST BY 251900Z CYQV 251159Z 2512/2524 20008KT P6SM FEW008 SCT070 TEMPO 2512/2515 2SM BR BKN008 BKN070 BECMG 2513/2515 30008KT FM251500 30008KT P6SM SCT008 BKN025 OVC080 TEMPO 2515/2520 5SM -SHRA BR VCTS BKN008 OVC020 FM252000 31012G22KT P6SM BKN025 TEMPO 2520/2524 P6SM -SHRA BKN020 RMK FCST BASED ON AUTO OBS. NXT FCST BY 251800Z CYQW 251159Z 2512/2524 30008KT P6SM FEW060 SCT140 BECMG 2515/2517 30012G22KT SCT040 FM252000 30015G25KT P6SM VCSH BKN040 RMK FCST BASED ON AUTO OBS. NXT FCST BY 251800Z CYQX 251139Z 2512/2612 25010KT P6SM FEW220 FM251800 26015KT P6SM SCT050 FM260000 28008KT P6SM SKC RMK NXT FCST BY 251800Z CYQY 251138Z 2512/2524 VRB03KT P6SM BKN060 BECMG 2512/2514 04006KT FM252000 09007KT P6SM SCT030 RMK NXT FCST BY 251800Z CYQZ 251152Z 2512/2524 VRB03KT P6SM FEW006 BKN070 TEMPO 2512/2514 1SM BR BKN006 FM251400 31006KT P6SM BKN050 BECMG 2519/2521 33010KT RMK FCST BASED ON AUTO OBS. NXT FCST BY 251900Z CYRB 251317Z 2513/2612 15012KT 1/4SM -DZ FG VV002 TEMPO 2513/2518 P6SM NSW SCT003 OVC010 BECMG 2516/2518 27015KT FM252100 28015KT P6SM SCT015 FM260300 25015KT 2SM -RASN BR OVC006 RMK NXT FCST BY 251800Z CYRJ 251338Z 2514/2602 VRB03KT P6SM SKC BECMG 2516/2518 07005KT FM260000 VRB03KT P6SM SKC RMK NXT FCST BY 252000Z CYRL 251338Z 2514/2602 19012KT P6SM SKC FM251500 19012G22KT P6SM FEW040 BKN120 FM251800 20015G25KT P6SM FEW040 BKN080 TEMPO 2518/2602 P6SM -SHRA SCT040 OVC080 BECMG 2600/2602 20010KT RMK NXT FCST BY 252000Z CYRQ 251339Z 2514/2602 06006KT P6SM SKC BECMG 2516/2518 12006KT BECMG 2522/2524 VRB03KT RMK FCST BASED ON AUTO OBS. NXT FCST BY 252000Z CYRT 251138Z 2512/2524 09015KT 2SM -RA BR BKN005 OVC010 TEMPO 2512/2516 P6SM -RA OVC010 FM251600 02015KT P6SM SCT005 OVC015 RMK NXT FCST BY 251800Z CYSB 251340Z 2514/2602 08005KT P6SM SKC FM251800 16008KT P6SM FEW050 RMK NXT FCST BY 252000Z CYSC 251038Z 2511/2523 VRB03KT P6SM SKC RMK FCST BASED ON AUTO OBS. NXT FCST BY 251800Z CYSF 251207Z 2512/2524 30005KT P6SM -SHRA OVC060 TEMPO 2512/2516 2SM -SHRA VCTS BR BKN005 OVC060CB FM251600 34006KT P6SM -SHRA OVC040 PROB40 2516/2524 VRB15G25KT 2SM TSRA OVC020CB RMK FCST BASED ON AUTO OBS. NXT FCST BY 251800Z CYSJ 251138Z 2512/2524 03007KT P6SM SKC FM251700 09007KT P6SM FEW050 RMK NXT FCST BY 251800Z CYSM 251138Z 2512/2524 35005KT P6SM SCT050 BKN100 RMK NXT FCST BY 251800Z CYSN 251238Z 2513/2601 11005KT P6SM FEW020 FM251700 05008KT P6SM SCT040 RMK NXT FCST BY 252000Z CYSP 251338Z 2514/2521 18007KT P6SM FEW008 PROB30 2514/2515 BKN008 RMK NXT FCST WILL BE ISSUED AT 261345Z CYTE 251351Z 2513/2601 10012KT P6SM SCT004 BKN150 TEMPO 2513/2519 2SM -RA BR BKN004 FM251900 10015KT P6SM SCT015 BKN080 TEMPO 2519/2524 5SM -RA BR BKN015 OVC060 BECMG 2522/2524 10020KT FM260000 10020KT P6SM -RA OVC015 TEMPO 2600/2601 2SM -RA BR OVC008 RMK FCST BASED ON AUTO OBS. NXT FCST BY 251900Z CYTH 251240Z 2513/2601 36006KT P6SM FEW004 BKN120 TEMPO 2513/2515 2SM BR BKN004 OVC120 FM251500 36010KT P6SM FEW012 BKN060 TEMPO 2515/2601 5SM -SHRA BR BKN012 OVC060 RMK NXT FCST BY 251900Z CYTL 251338Z 2514/2602 21012G22KT P6SM FEW060 FM260000 20012KT P6SM BKN060 RMK FCST BASED ON AUTO OBS. NXT FCST BY 252000Z CYTQ 251338Z 2514/2521 28010KT P6SM BKN040 BECMG 2515/2517 24012G22KT RMK NXT FCST WILL BE ISSUED AT 261345Z CYTR 251130Z 2512/2612 VRB03KT P6SM FEW250 BECMG 2518/2520 18005KT SCT040 FM260000 VRB03KT P6SM FEW060 PROB30 2608/2612 1SM BR RMK NXT FCST BY 251800Z CYTS 251340Z 2514/2602 VRB03KT P6SM FEW200 BECMG 2515/2517 18009KT RMK NXT FCST BY 252000Z CYTZ 251339Z 2514/2614 07010KT P6SM SCT025 BKN030 FM251700 08013KT P6SM FEW040 BECMG 2606/2608 09008KT RMK FCST BASED ON AUTO OBS. NXT FCST BY 252000Z CYUL 251138Z 2512/2612 04007KT P6SM SKC FM251500 06008KT P6SM FEW050 BECMG 2516/2518 11012KT BECMG 2522/2524 06008KT FM260800 05006KT P6SM FEW006 PROB30 2608/2612 2SM BR RMK NXT FCST BY 251500Z CYUX 251238Z 2513/2601 15012KT P6SM FEW150 FEW250 RMK FCST BASED ON AUTO OBS. NXT FCST BY 251900Z CYUY 251143Z 2512/2524 VRB03KT P6SM FEW200 BECMG 2516/2518 19008KT RMK NXT FCST BY 251800Z CYVC 251240Z 2513/2601 27005KT 1/2SM FG VV002 BECMG 2513/2515 P6SM NSW SCT020 FM251500 28008KT P6SM SCT020 TEMPO 2515/2519 P6SM -SHRA BKN020 FM251900 28010KT P6SM BKN030 TEMPO 2519/2601 P6SM -SHRA PROB30 2519/2601 VRB15G25KT 4SM TSRA BR BKN020CB RMK NXT FCST BY 251900Z CYVM 251238Z 2513/2601 04010KT P6SM SCT015 BKN050 TEMPO 2513/2516 P6SM -RA BKN015 OVC050 FM251600 02010KT P6SM FEW015 BECMG 2522/2524 20010KT RMK FCST BASED ON AUTO OBS. NXT FCST BY 251900Z CYVO 251143Z 2512/2524 VRB03KT P6SM SKC BECMG 2516/2518 18008KT RMK NXT FCST BY 251800Z CYVP 251138Z 2512/2524 24005KT P6SM BKN050 BECMG 2513/2515 26012KT FM251700 25012KT P6SM SCT100 RMK NXT FCST BY 251800Z CYVQ 251138Z 2512/2524 VRB03KT P6SM FEW080 TEMPO 2512/2515 1/4SM FZFG FM251500 VRB03KT P6SM FEW100 BECMG 2515/2517 14006KT RMK NXT FCST BY 251800Z CYVR 251202Z 2512/2618 28015KT P6SM SCT020 SCT040 BKN060 TEMPO 2512/2518 SCT008 BKN015 BECMG 2512/2514 28015G25KT FM251800 29015KT P6SM SCT025 TEMPO 2518/2520 BKN020 FM252100 29012KT P6SM SKC BECMG 2601/2603 18006KT BECMG 2604/2606 10006KT FM260900 09006KT P6SM SCT020 TEMPO 2609/2617 BKN020 BECMG 2613/2615 34006KT FM261700 28012KT P6SM SCT020 RMK NXT FCST BY 251500Z CYVT 251338Z 2514/2602 VRB03KT P6SM FEW100 FEW250 PROB40 2514/2516 3/4SM BR FM251800 29008KT P6SM FEW040 FM252000 31006KT P6SM -SHRA FEW012 BKN040 PROB30 2520/2602 3SM TSRA SCT012 BKN030CB RMK NXT FCST BY 251900Z CYVV 251339Z 2514/2523 12003KT P6SM FEW250 BECMG 2515/2517 11010KT RMK NXT FCST BY 252000Z CYWA 251130Z 2512/2524 VRB03KT P6SM SKC BECMG 2516/2518 12008KT RMK FCST BASED ON AUTO OBS. FCST BASED ON OBS OBTAINED FM OTHER SOURCES. NXT FCST BY 251800Z CYWE 251238Z 2513/2601 04006KT P6SM SKC TEMPO 2513/2515 5SM BR FM251500 05006KT P6SM FEW040 TEMPO 2515/2601 BKN040 RMK FCST BASED ON AUTO OBS. NXT FCST BY 251900Z CYWG 251159Z 2512/2612 18015G25KT P6SM -SHRA FEW020 BKN040 OVC070 TEMPO 2512/2518 5SM -SHRA BR BKN020 OVC040 FM251800 18015G25KT P6SM VCSH BKN040 BKN080 FM252300 18012G22KT P6SM SCT015 OVC030 TEMPO 2523/2606 P6SM -SHRA BKN015 OVC030 PROB30 2523/2606 VRB20G30KT 3SM TSRA BKN008 OVC015CB FM260600 22010KT P6SM SCT008 OVC020 TEMPO 2606/2612 4SM -DZ BR OVC008 RMK NXT FCST BY 251800Z CYWH 251410Z 2514/2602 25008KT P6SM BKN050 FM251700 22008KT P6SM SCT050 TEMPO 2517/2521 BKN050 FM252100 20010KT P6SM FEW070 RMK NXT FCST BY 251800Z CYWK 251339Z 2514/2602 26010KT P6SM BKN130 FM251600 28010KT P6SM SKC BECMG 2600/2602 28006KT RMK NXT FCST BY 252000Z CYWL 251238Z 2513/2601 VRB03KT P6SM SCT050 BKN100 TEMPO 2513/2516 P6SM -SHRA BKN040 BECMG 2514/2516 30008KT FM251600 30008KT P6SM SCT060 TEMPO 2516/2601 BKN040 RMK NXT FCST BY 251900Z CYXC 251238Z 2513/2601 VRB03KT P6SM SCT090 BKN150 TEMPO 2513/2514 BKN070 BKN120 FM251400 VRB03KT P6SM BKN070 TEMPO 2514/2522 P6SM -SHRA PROB30 2514/2522 VRB15G25KT 3SM TSRA BR SCT020 OVC060CB FM252200 28010KT P6SM SCT070 RMK NXT FCST BY 251900Z CYXE 251159Z 2512/2612 31008KT P6SM SCT050 BKN120 TEMPO 2512/2515 5SM -SHRA BR VCTS SCT020 BKN050CB OVC120 FM251500 31010KT P6SM VCSH FEW020 BKN060 FM251800 31012KT P6SM BKN060 TEMPO 2518/2522 P6SM -SHRA VCTS BKN040CB FM252200 32015KT P6SM VCSH BKN060 BECMG 2602/2604 30010KT FM261000 30010KT P6SM OVC030 TEMPO 2610/2612 P6SM -SHRA OVC020 RMK NXT FCST BY 251800Z CYXH 251138Z 2512/2524 27006KT P6SM SCT020 PROB30 2512/2514 1/2SM FG FM252100 32012KT P6SM -SHRA BKN060 PROB30 2521/2524 VRB25G35KT 4SM TSRA OVC040CB RMK FCST BASED ON AUTO OBS. NXT FCST BY 251800Z CYXJ 251238Z 2513/2601 24012KT P6SM FEW020 SCT200 FM251500 27015KT P6SM BKN040 RMK NXT FCST BY 251900Z CYXL 251338Z 2514/2602 18012G22KT P6SM FEW040 FM251600 20012G22KT P6SM SCT050 BECMG 2600/2602 18010KT RMK NXT FCST BY 252000Z CYXR 251142Z 2512/2524 32005KT 1/2SM FG SCT001 BECMG 2512/2514 P6SM NSW SKC FM251800 18008KT P6SM FEW050 RMK FCST BASED ON AUTO OBS. NXT FCST BY 251800Z CYXS 251238Z 2513/2601 24006KT P6SM BKN060 BECMG 2517/2519 26012KT RMK FCST BASED ON AUTO OBS. NXT FCST BY 251900Z CYXT 251238Z 2513/2601 17010KT P6SM SCT012 BKN060 TEMPO 2513/2519 5SM -SHRA BR BKN012 PROB30 2513/2516 2SM -RA BR OVC006 FM251900 18010KT P6SM FEW030 BKN050 TEMPO 2519/2601 4SM -SHRA BR OVC030 BECMG 2522/2524 22012KT RMK NXT FCST BY 251900Z CYXU 251138Z 2512/2612 07006KT P6SM SCT030 FM251600 12010KT P6SM SCT040 FM260100 09008KT P6SM SKC RMK NXT FCST BY 251800Z CYXX 251138Z 2512/2612 VRB03KT P6SM SCT030 SCT060 BKN100 TEMPO 2512/2516 5SM -SHRA BR SCT008 BKN020 FM251600 19010KT P6SM SCT012 OVC025 TEMPO 2516/2520 P6SM -SHRA SCT008 BKN012 FM252000 21010G20KT P6SM BKN030 BECMG 2521/2523 SCT030 FM260200 25006KT P6SM SKC BECMG 2604/2606 VRB03KT RMK NXT FCST BY 251800Z CYXY 251138Z 2512/2612 18008KT P6SM FEW010 BKN050 TEMPO 2512/2516 3SM -SHRA BR SCT005 OVC010 PROB30 2512/2515 1/2SM FG FM251600 16008KT P6SM FEW020 BKN050 TEMPO 2516/2521 P6SM -SHRA BKN020 BKN040 FM252100 17006KT P6SM BKN040 TEMPO 2521/2524 P6SM -SHRA BKN030 FM260000 16008KT P6SM SCT040 RMK NXT FCST BY 251800Z CYXZ 251240Z 2513/2524 VRB03KT P6SM SKC BECMG 2514/2516 22008KT RMK NXT FCST BY 252000Z CYYB 251340Z 2514/2602 16008KT P6SM SKC BECMG 2520/2522 24005KT RMK NXT FCST BY 252000Z CYYC 251138Z 2512/2612 30006KT P6SM SCT120 PROB30 2512/2514 1SM BR FM251600 34008KT P6SM SCT040 BKN080 FM252100 36010KT P6SM -SHRA BKN060 PROB30 2521/2604 VRB15G25KT 4SM TSRA OVC040CB FM260400 34008KT P6SM BKN040 FM261000 30006KT P6SM SCT060 PROB30 2610/2612 2SM BR RMK NXT FCST BY 251500Z CYYD 251338Z 2514/2602 VRB03KT P6SM BKN060 FM251800 33008KT P6SM BKN040 RMK FCST BASED ON AUTO OBS. NXT FCST BY 251900Z CYYE 251238Z 2513/2601 VRB03KT P6SM SCT060 BKN120 TEMPO 2513/2516 P6SM -SHRA BKN060 OVC120 FM251600 24008KT P6SM BKN060 BECMG 2517/2519 30012KT RMK NXT FCST BY 251900Z CYYF 251238Z 2513/2601 VRB03KT P6SM SCT040 BKN070 FM251500 35010KT P6SM OVC050 TEMPO 2515/2520 P6SM -SHRA OVC040 FM252000 36012KT P6SM BKN080 TEMPO 2520/2601 P6SM -SHRA RMK NXT FCST BY 251900Z CYYG 251138Z 2512/2524 01005KT P6SM FEW030 FM251400 03007KT P6SM FEW040 RMK NXT FCST BY 251800Z CYYH 251138Z 2512/2524 FCST NOT AVBL DUE NO OBS RMK NXT FCST BY 251800Z CYYJ 251138Z 2512/2612 28006KT P6SM SCT015 BKN040 BKN150 TEMPO 2512/2515 BKN015 BECMG 2516/2518 12010KT FM251800 12010KT P6SM SCT030 TEMPO 2518/2602 BKN030 FM260200 VRB03KT P6SM SCT060 TEMPO 2602/2612 BKN040 RMK NXT FCST BY 251800Z CYYL 251240Z 2513/2601 VRB03KT P6SM FEW005 SCT020 OVC100 TEMPO 2513/2515 2SM BR SCT005 BKN020 OVC100 FM251500 34006KT P6SM FEW020 SCT060 TEMPO 2515/2518 BKN020 BKN060 RMK FCST BASED ON AUTO OBS. NXT FCST BY 251900Z CYYN 251409Z 2514/2524 28012KT P6SM OVC006 TEMPO 2514/2516 SCT006 BKN040 FM251600 32015KT P6SM SCT015 BKN040 TEMPO 2516/2519 P6SM -SHRA BKN015 BKN040 FM252200 31015KT P6SM BKN060 TEMPO 2522/2524 P6SM -SHRA VCTS BKN040CB RMK FCST BASED ON AUTO OBS. NXT FCST BY 251800Z CYYQ 251243Z 2512/2612 34012KT 2SM -DZ BR OVC005 TEMPO 2512/2517 P6SM NSW OVC010 FM251700 34010KT P6SM -DZ OVC008 TEMPO 2517/2520 P6SM NSW OVC020 FM252000 36010KT P6SM SCT008 BKN025 OVC160 TEMPO 2520/2604 BKN008 OVC015 FM260400 04010KT 2SM -DZ BR OVC005 TEMPO 2604/2612 P6SM NSW OVC008 PROB30 2606/2612 1/2SM -DZ FG OVC002 RMK NXT FCST BY 251800Z CYYR 251130Z 2512/2612 27015KT P6SM SCT100 BKN260 FM251500 28012KT P6SM SCT040 FM260300 25005KT P6SM SKC RMK NXT FCST BY 251800Z CYYT 251139Z 2512/2612 27008KT P6SM FEW025 FM251600 VRB03KT P6SM FEW040 BECMG 2522/2524 26007KT RMK NXT FCST BY 251800Z CYYU 251340Z 2514/2602 20005KT P6SM SKC BECMG 2514/2516 20010KT RMK NXT FCST BY 252000Z CYYY 251338Z 2514/2602 23005KT P6SM SKC BECMG 2515/2517 34008KT BECMG 2520/2522 VRB03KT RMK NXT FCST BY 252000Z CYYZ 251138Z 2512/2618 07010KT P6SM FEW025 FM251400 12012KT P6SM SCT040 FM260000 09010KT P6SM FEW040 FM261400 15013KT P6SM FEW050 RMK NXT FCST BY 251500Z CYZE 251338Z 2514/2522 13005KT P6SM SKC BECMG 2514/2516 17010KT RMK FCST BASED ON AUTO OBS. NXT FCST BY 252000Z CYZF 251138Z 2512/2612 03005KT P6SM FEW050 TEMPO 2512/2514 4SM BR FM251400 04005KT P6SM SCT060 TEMPO 2514/2524 P6SM -SHRA BKN060 FM260000 05006KT P6SM BKN060 RMK NXT FCST BY 251800Z CYZG 251338Z 2514/2521 FCST NOT AVBL DUE NO OBS RMK NXT FCST WILL BE ISSUED AT 261345Z CYZH 251238Z 2513/2601 28006KT P6SM FEW060 FM251800 28015G25KT P6SM BKN040 RMK FCST BASED ON AUTO OBS. NXT FCST BY 251900Z CYZP 251238Z 2513/2601 24008KT P6SM SCT025 BKN060 TEMPO 2513/2601 P6SM -SHRA BKN020 BECMG 2519/2521 23010KT RMK FCST BASED ON AUTO OBS. NXT FCST BY 251900Z CYZR 251339Z 2514/2602 12012KT P6SM FEW030 BECMG 2600/2602 13008KT RMK FCST BASED ON AUTO OBS. NXT FCST BY 252000Z CYZS 251238Z 2513/2601 10012KT P6SM -RA SCT050 BKN090 TEMPO 2513/2518 5SM -RA BR BKN050 OVC090 BECMG 2513/2515 09020KT FM251800 09020KT P6SM -RA OVC015 TEMPO 2518/2601 2SM -RA BR OVC008 BECMG 2522/2524 04020KT RMK NXT FCST BY 251900Z CYZT 251238Z 2513/2601 VRB03KT P6SM SCT015 BKN025 TEMPO 2513/2515 5SM -SHRA BR SCT008 BKN015 FM251500 29008KT P6SM SCT008 OVC015 TEMPO 2515/2517 6SM -SHRA BR SCT015 BKN025 FM251700 34008KT P6SM BKN015 BECMG 2517/2519 35012KT SKC RMK NXT FCST BY 251900Z CYZU 251410Z 2514/2523 28006KT P6SM SCT140 SCT220 BECMG 2516/2518 29012KT FM251800 29012KT P6SM SCT020 BKN040 TEMPO 2518/2521 5SM -SHRA BR BKN020 OVC030 FM252100 30012KT P6SM -SHRA BKN040 RMK NXT FCST BY 251900Z CYZV 251138Z 2512/2612 VRB03KT P6SM SKC BECMG 2515/2517 20010KT BECMG 2522/2524 21005KT FM260300 VRB03KT P6SM SKC RMK NXT FCST BY 251800Z CYZX 251135Z 2512/2612 VRB03KT P6SM SKC BECMG 2513/2515 05008KT BECMG 2516/2518 05012KT FM260000 VRB03KT P6SM BKN250 FM261000 VRB03KT P6SM OVC180 RMK NXT FCST BY 251800Z CYZY 250638Z 2507/2509 VRB03KT P6SM FEW040 BKN070 TEMPO 2507/2509 P6SM -SHRA BKN030 RMK FCST BASED ON AUTO OBS. NXT FCST WILL BE ISSUED AT 251445Z CZBF 251338Z 2514/2602 VRB03KT P6SM SKC BECMG 2515/2517 06006KT BECMG 2522/2524 VRB03KT RMK FCST BASED ON AUTO OBS. NXT FCST BY 252000Z CZMD 250938Z 2510/2522 20010G20KT P6SM SCT070 FM251800 20015G25KT P6SM SCT040 BKN100 RMK FCST BASED ON AUTO OBS. NXT FCST BY 251600Z CZMT 251410Z 2514/2524 19006KT P6SM SCT020 BKN030 OVC080 TEMPO 2514/2521 4SM -SHRA BR FEW008 OVC020 FM252100 32005KT P6SM FEW006 OVC015 TEMPO 2521/2524 4SM -SHRA BR OVC006 RMK NXT FCST BY 251900Z CZSJ 250938Z 2510/2522 19012KT P6SM SCT080 BKN100 TEMPO 2510/2515 BKN080 FM251500 20012G22KT P6SM OVC040 BECMG 2516/2518 20015G25KT RMK FCST BASED ON AUTO OBS. NXT FCST BY 251600Z CZUM 251339Z 2514/2602 30008KT P6SM SCT100 FM251800 31010KT P6SM SKC BECMG 2522/2524 VRB03KT RMK FCST BASED ON AUTO OBS. NXT FCST BY 252000Z CZVL 251138Z 2512/2524 26006KT P6SM SCT080 TEMPO 2512/2515 2SM BR PROB30 2512/2514 1/2SM FG VV002 FM251500 28010KT P6SM BKN040 BECMG 2516/2518 30015KT FM252000 30012G22KT P6SM BKN060 TEMPO 2522/2524 P6SM VCTS BKN040CB RMK FCST BASED ON AUTO OBS. NXT FCST BY 251800Z DAAE 251100Z 2512/2612 05012KT 8000 FEW016 TEMPO 2512/2521 FEW020TCU FEW023CB PROB40 TEMPO 2512/2518 06015G25KT 5000 TSRA FEW020CB PROB30 TEMPO 2512/2516 3000 -SHRA FEW016CB BECMG 2520/2523 32008KT BECMG 2606/2609 10012KT DAAG 251100Z 2512/2612 06012KT 9999 FEW020 BKN086 PROB40 TEMPO 2512/2515 06015G25KT FEW020TCU FEW026CB PROB40 TEMPO 2518/2523 5000 -DZ BKN015 BECMG 2520/2524 VRB02KT PROB30 TEMPO 2603/2608 4000 BR BKN015 BECMG 2608/2612 06012KT DAAJ 251100Z 2512/2612 22008KT 9999 FEW040 PROB30 2513/2518 4000 HZ FEW040CB PROB40 TEMPO 2520/2601 18015G25KT 3000 DRSA DAAS 251100Z 2512/2612 16008KT 9999 SCT030 TEMPO 2512/2521 FEW020TCU FEW026CB PROB40 TEMPO 2512/2518 5000 -TSRA FEW023CB DAAT 251100Z 2512/2612 14008KT 9999 SCT046 PROB30 TEMPO 2512/2518 4000 HZ PROB40 TEMPO 2513/2520 16015G30KT 5000 -TSRA SCT033TCU FEW040CB DAAV 251100Z 2512/2612 02010KT 8000 FEW020 PROB40 TEMPO 2512/2521 5000 -TSRA BKN020 FEW023CB BECMG 2521/2524 20006KT BECMG 2609/2612 02012KT DABB 251100Z 2512/2612 06012KT 9999 FEW023 SCT100 TEMPO 2512/2520 FEW023TCU FEW026CB PROB40 TEMPO 2512/2518 5000 -TSRA FEW023CB BECMG 2520/2522 31008KT PROB30 TEMPO 2602/2608 3000 -DZBR BKN015 FEW026TCU DABC 251100Z 2512/2612 02010KT 9999 FEW023 SCT030 TEMPO 2512/2521 FEW023TCU FEW26CB PROB40 TEMPO 2512/2519 5000 -TSRA FEW023CB BECMG 2521/2524 VRB02KT PROB40 TEMPO 2604/2610 3000 BR BKN015 DABS 251100Z 2512/2612 30008KT 9999 SCT040 PROB30 TEMPO 2512/2520 FEW026TCU FEW030CB PROB30 TEMPO 2512/2519 5000 -TSRA FEW026CB PROB30 TEMPO 2602/2608 3000 BR BKN015 BECMG 2608/2610 03012KT DABT 251100Z 2512/2612 05010KT 9999 SCT030 TEMPO 2512/2520 FEW026TCU FEW030CB PROB40 TEMPO 2512/2518 5000 -TSRA FEW023CB PROB30 TEMPO 2514/2518 3000 -SHRA FEW026CB BECMG 2520/2522 20008KT DAOB 251100Z 2512/2612 VRB02KT CAVOK BECMG 2513/2515 32012KT BECMG 2520/2524 VRB02KT BECMG 2608/2612 04012KT DAOI 251100Z 2512/2612 02011KT CAVOK BECMG 2521/2524 VRB02KT TEMPO 2603/2609 8000 SCT023 BECMG 2610/2612 9999 FEW030 SCT100 DAON 251100Z 2512/2612 34014KT CAVOK BECMG 2521/2524 VRB02KT 9999 FEW020 PROB30 TEMPO 2600/2604 4000 BR SCT013 BECMG 2606/2610 FEW030 SCT100 PROB40 TEMPO 2608/2612 02012G22KT -TS FEW030CB DAOO 251100Z 2512/2612 35012KT 9999 SCT026 BECMG 2522/2524 08006KT BKN010 PROB40 TEMPO 2600/2604 4000 BR BECMG 2610/2412 02012KT SCT026 SCT100 DAUA 251100Z 2512/2612 14008KT CAVOK PROB30 2514/2520 4000 HZ DAUB 251100Z 2512/2612 14014KT 9999 FEW040 PROB40 2512/2518 14024KT PROB30 TEMPO 2512/2516 14025G35KT FEW023TCU PROB30 TEMPO 2512/2520 FEW026CB DAUG 251100Z 2512/2612 36008KT 9999 FEW046 PROB30 TEMPO 2513/2518 36018KT 5000 DRSA DAUH 251100Z 2512/2612 15012KT 9999 SCT040 PROB40 2514/2520 4000 HZ FEW040TCU BECMG 2522/2602 VRB02KT BECMG 2609/2612 32010KT DAUI 251100Z 2512/2612 14008KT 8000 NSC PROB40 2513/2519 4000 HZ BECMG 2609/2612 22014KT DAUZ 251100Z 2512/2612 06008KT CAVOK PROB30 TEMPO 2514/2517 02015G25KT 4000 DRSA PROB30 TEMPO 2608/2611 12015G25KT 4000 DRSA DBBB 251100Z 2512/2618 24012KT 9999 SCT012 PROB30 TEMPO 2604/2610 BKN010 DFFD 251100Z 2512/2618 22008KT 9999 SCT020 TEMPO 2512/2522 4000 TS SHRA SCT020 SCT033CB TEMPO 2605/2610 BKN010 DFOO 251100Z 2512/2612 22008KT 9999 SCT016 TEMPO 2512/2522 4000 TS SHRA BKN016 SCT030CB TEMPO 2605/2610 4000 BR BKN010 DGAA 251130Z 2512/2618 21012KT 8000 BKN011 BKN016 BECMG 2518/2520 FEW012 PROB30 2600/2602 7000 -RA BKN008 BECMG 2606/2608 27010KT 5000 BR BKN014 DGSI 250500Z 2506/2606 23010KT 9999 BKN010 TEMPO 2506/2510 5000 -RA OVC008 BECMG 2511/2513 SCT015 DIAP 251100Z 2512/2618 21010KT 9999 SCT012 BKN025 TEMPO 2605/2609 BKN012 DIBK 251100Z 2512/2612 22010KT 9999 BKN013 TEMPO 2522/2604 4000 RA BKN013 DIYO 251100Z 2512/2612 22010KT 9999 BKN013 TEMPO 2522/2604 4000 RA BKN013 DNAA 251100Z 2512/2618 26006KT 9999 BKN010 PROB30 TEMPO 2514/2520 08013KT 5000 -TSRA BKN008 FEW018CB BECMG 2520/2522 VRB02KT SCT010 DNIL 251100Z 2512/2618 23005KT 9999 SCT011 TEMPO 2512/2518 5000 -TSRA BKN007 BECMG 2510/2512 16010KT DNJO 251100Z 2512/2618 30011KT 9999 BKN007 PROB30 TEMPO 2512/2517 07013KT 5000 -TSRA BKN005 FEW015CB BECMG 2517/2520 13005KT SCT006 DNKA 251100Z 2512/2618 23007KT 9999 BKN010 PROB30 TEMPO 2515/2520 07014KT 5000 -TSRA BKN008 FEW018CB BECMG 2520/2522 17005KT FEW010 DNMM 251100Z 2512/2618 23010KT 9999 BKN012 TEMPO 2512/2517 BKN012 FEW020CB PROB30 2512/2515 5000 -RA BKN009 FEW019CB BECMG 2517/2519 VRB02KT FEW009 DNMN 251100Z 2512/2618 21013KT 9999 BKN010 PROB30 TEMPO 2516/2522 02014KT 5000 -TSRA BKN007 BECMG 2521/2523 13005KT SCT010 DRRN 251100Z 2512/2618 20010KT 9999 BKN016 PROB30 2512/2516 4000 TSSHRA BKN013 FEW016CB PROB30 2522/2604 VRB25KT 2000 BLDU TSRA BKN013 FEW016CB DRZA 251100Z 2512/2612 24010KT 9999 BKN040 PROB40 2512/2516 VRB25KT 4000 BLDU TSRA PROB30 2518/2524 04015G35KT 4000 SQ BLDU TSRA DRZR 251100Z 2512/2612 24010KT BKN030 PROB30 2412/2414 4000 TSSHRA PROB30 2518/2524 08015G35KT 2500 SQ BLDU TSRA DTMB 251100Z 2512/2612 05010KT 9999 FEW030 PROB30 TEMPO 2514/2518 -TSRA FEW026CB BECMG 2518/2520 06005KT DTNH 251100Z 2512/2612 09012KT 9999 SCT040 PROB30 TEMPO 2514/2518 -TSRA FEW026CB BECMG 2518/2520 07005KT DTTA 251100Z 2512/2612 01008KT 9999 SCT030TCU PROB40 TEMPO 2512/2520 -TSRA FEW026CB BECMG 2512/2514 06010KT DTTJ 251100Z 2512/2612 09013KT 9999 FEW020 DTTX 251100Z 2512/2612 11010KT 9999 FEW033 BECMG 2522/2524 09005KT DTTZ 251100Z 2512/2612 10015KT 9999 SCT026 SCT030 DXNG 251100Z 2512/2612 20010KT 9999 BKN008 PROB30 TEMPO 2518/2521 TS BKN008 FEW016CB DXXX 251100Z 2512/2618 24012KT 9999 SCT012 EBBR 251115Z 2512/2618 VRB03KT CAVOK= EDDF 251100Z 2512/2618 09004KT CAVOK PROB30 TEMPO 2514/2518 TSRA BKN050CB PROB30 TEMPO 2603/2606 2000 BCFG TEMPO 2613/2617 TSRA BKN040CB EBCI 251115Z 2512/2618 VRB03KT CAVOK EBLG 251115Z 2512/2618 VRB03KT CAVOK= EDLP 251100Z 2512/2612 09006KT CAVOK BECMG 2512/2515 03005KT PROB30 TEMPO 2516/2520 4000 TSRA BKN035CB BECMG 2518/2521 14004KT BECMG 2606/2609 08006KT EBOS 251115Z 2512/2618 03006KT CAVOK EDDB 251100Z 2512/2612 12011KT CAVOK BECMG 2516/2519 09006KT EDDC 251100Z 2512/2612 10011KT 9999 FEW045 PROB30 TEMPO 2513/2518 13015G25KT 4500 TSRA BKN025CB BECMG 2516/2519 12006KT EDDE 251100Z 2512/2612 08006KT CAVOK PROB30 TEMPO 2514/2520 TSRA BKN030CB BECMG 2519/2521 19004KT PROB30 TEMPO 2601/2607 2000 BCFG BECMG 2606/2608 07005KT EDDF 251349Z 2513/2618 23006KT CAVOK PROB30 TEMPO 2514/2518 TSRA BKN050CB BECMG 2517/2520 05004KT PROB30 TEMPO 2603/2606 2000 BCFG TEMPO 2613/2617 TSRA BKN040CB EDDG 251100Z 2512/2612 VRB03KT CAVOK TEMPO 2512/2518 05005KT PROB30 TEMPO 2603/2605 3000 BCFG BECMG 2608/2611 06006KT EDDH 251100Z 2512/2618 07007KT CAVOK PROB30 TEMPO 2516/2519 05012KT TEMPO 2522/2606 VRB03KT EDDK 251100Z 2512/2618 VRB03KT CAVOK TEMPO 2512/2519 36005KT BECMG 2610/2613 04005KT EDDL 251100Z 2512/2618 VRB03KT CAVOK TEMPO 2512/2520 35005KT BECMG 2609/2612 03006KT EDDM 251100Z 2512/2618 VRB03KT 9999 FEW030 PROB40 TEMPO 2515/2520 36015KT 4000 TSRA SCT015 BKN025CB BECMG 2600/2603 2000 BCFG TEMPO 2603/2607 0500 FG BECMG 2607/2608 4000 BR BKN005 BECMG 2608/2610 9999 SCT025 PROB30 TEMPO 2615/2618 30015KT TSRA SCT015 BKN025CB EDDN 251248Z 2512/2612 VRB03KT 9999 SCT040 PROB40 TEMPO 2513/2520 01015KT 4000 TSRA SCT020 BKN030CB PROB40 TEMPO 2603/2607 2000 BCFG EDDP 251100Z 2512/2612 09007KT CAVOK PROB30 TEMPO 2514/2519 TSRA BKN040CB PROB30 TEMPO 2604/2606 4000 BR EDDR 251100Z 2512/2612 02004KT CAVOK EDDS 251100Z 2512/2612 04003KT 9999 FEW040 PROB30 TEMPO 2518/2522 TSRA BKN050CB EDDT 251100Z 2512/2612 12011KT CAVOK BECMG 2516/2519 09006KT EDDV 251100Z 2512/2612 08007KT CAVOK PROB30 TEMPO 2516/2522 13015G30KT TSRA BKN035CB TEMPO 2522/2606 VRB03KT EDDW 251100Z 2512/2612 08007KT CAVOK EDFH 251414Z 2514/2612 VRB03KT CAVOK PROB30 TEMPO 2514/2518 TSRA BKN035CB EDLP 251100Z 2512/2612 09006KT CAVOK BECMG 2512/2515 03005KT PROB30 TEMPO 2516/2520 4000 TSRA BKN035CB BECMG 2518/2521 14004KT BECMG 2606/2609 08006KT EDLV 251100Z 2512/2612 VRB03KT CAVOK TEMPO 2512/2516 36005KT PROB30 TEMPO 2603/2606 3000 BCFG TEMPO 2609/2612 03005KT EDLW 251100Z 2512/2612 VRB03KT CAVOK TEMPO 2512/2520 04005KT BECMG 2608/2611 04006KT EDNY 251100Z 2512/2612 24005KT 9000 NSC BECMG 2516/2519 04003KT PROB40 TEMPO 2603/2607 1200 BCFG BECMG 2609/2611 24005KT EDSB 251100Z 2512/2612 36004KT 9999 FEW040 PROB30 TEMPO 2602/2607 2000 BCFG EEEI 251130Z 2512/2612 22006KT 9999 FEW030 PROB40 TEMPO 2603/2606 3000 BCFG SCT003 EETN 251105Z 2512/2612 29008KT CAVOK BECMG 2517/2519 22010KT PROB30 TEMPO 2602/2605 3000 BR EFHK 251128Z 2512/2612 21009KT 9999 FEW030 BKN200 PROB30 2602/2605 3000 BR BKN005 EFJY 251134Z 2512/2612 20008KT 9999 FEW040 BKN100 PROB30 2520/2522 SHRA FEW055CB BECMG 2606/2608 28010KT EFKU 251131Z 2512/2612 19006KT 9999 FEW030 BKN070 TEMPO 2520/2524 SHRA SCT030CB BECMG 2600/2602 26010KT TEMPO 2600/2606 BKN008 EFOU 251349Z 2513/2612 18009KT 9999 -RA BKN020 TEMPO 2513/2515 4000 +SHRA SCT030CB BKN050 TEMPO 2515/2520 2500 +SHRA BKN005 BKN020CB PROB30 2515/2520 TS TEMPO 2520/2523 BKN004 BECMG 2600/2602 28015KT EFRO 251131Z 2512/2612 19014KT 9999 -RA FEW002 SCT005 BKN012 TEMPO 2512/2515 3000 RA BKN005 FEW040CB BECMG 2515/2517 BKN004 TEMPO 2515/2521 1000 SHRA BKN001 SCT030CB TEMPO 2521/2524 0800 DZRA VV001 BECMG 2600/2602 27010KT FEW004 BKN020 PROB30 2602/2607 7000 -SHRADZ BKN005 SCT030TCU TEMPO 2607/2612 SCT020TCU EFTP 251134Z 2512/2612 21009KT CAVOK TEMPO 2600/2605 6000 BKN005 BECMG 2610/2612 27010KT EFTU 251128Z 2512/2612 22008KT CAVOK PROB30 2600/2605 1500 BR EFVA 251134Z 2512/2612 20009KT CAVOK PROB30 TEMPO 2512/2516 20015G26KT FEW080CB TEMPO 2516/2520 7000 SHRA SCT050CB TEMPO 2520/2523 5000 BR BKN005 BECMG 2606/2608 27010KT EGAA 251139Z 2512/2612 VRB03KT 9999 FEW025 BECMG 2522/2601 BKN012 BECMG 2601/2604 BKN007 PROB30 2604/2607 7000 BKN003 BECMG 2607/2610 FEW020 EGBB 251056Z 2512/2612 20005KT 9999 FEW040 TEMPO 2602/2610 BKN009 PROB40 TEMPO 2602/2608 1500 BR BKN004 EGCC 251102Z 2512/2618 14008KT CAVOK BECMG 2515/2518 30010KT BECMG 2601/2604 BKN020 TEMPO 2603/2608 BKN005 BECMG 2604/2607 VRB02KT PROB30 TEMPO 2604/2608 4000 BR BKN002 BECMG 2609/2612 NSC EGCN 251102Z 2512/2612 13004KT CAVOK PROB40 2604/2609 6000= EGGP 251102Z 2512/2612 15005KT CAVOK BECMG 2514/2517 31010KT TEMPO 2602/2610 BKN008 BECMG 2604/2606 VRB02KT PROB30 TEMPO 2604/2608 4000 BR BKN004 EGFF 251056Z 2512/2612 26008KT 9999 FEW045 TEMPO 2600/2610 BKN009 PROB40 TEMPO 2600/2608 1500 BR BKN004 EGGD 251053Z 2512/2612 21007KT CAVOK BECMG 2512/2515 27010KT BECMG 2521/2524 6000 BKN003 BECMG 2600/2603 0300 FG BKN000 TEMPO 2600/2606 VRB03KT PROB30 TEMPO 2603/2608 1500 BR BECMG 2608/2611 9999 NSW FEW008 EGGP 251343Z 2513/2612 26009KT CAVOK BECMG 2514/2517 32010KT TEMPO 2602/2610 BKN008 BECMG 2604/2606 VRB02KT PROB30 TEMPO 2604/2608 4000 BR BKN004 EGGW 251053Z 2512/2612 VRB05KT CAVOK BECMG 2523/2602 8000 PROB30 2602/2608 4000 BR BECMG 2608/2611 CAVOK EGKK 251051Z 2512/2618 18005KT CAVOK BECMG 2522/2601 6000 PROB40 TEMPO 2601/2607 3000 MIFG BR BECMG 2607/2610 CAVOK EGLL 251224Z 2512/2618 19010KT CAVOK BECMG 2518/2521 VRB03KT BECMG 2523/2602 7000 PROB40 2603/2608 4000 HZ BECMG 2608/2610 CAVOK EGNM 251053Z 2512/2612 VRB05KT CAVOK PROB40 TEMPO 2514/2518 22010KT BECMG 2518/2521 27010KT TEMPO 2600/2608 6000 PROB30 2604/2608 2000 BR BKN001 EGNT 251102Z 2512/2612 11005KT CAVOK TEMPO 2521/2608 7000 BECMG 2600/2603 27010KT PROB30 TEMPO 2603/2608 2000 BR BKN002 EGNX 251056Z 2512/2612 20005KT 9999 FEW040 TEMPO 2602/2610 BKN009 PROB30 TEMPO 2602/2608 3000 BR BKN004 EGPD 251055Z 2512/2612 14007KT CAVOK BECMG 2519/2522 6000 TEMPO 2600/2607 4000 BR PROB30 2603/2607 0300 FG VV/// BECMG 2607/2610 21010KT CAVOK EGPF 251055Z 2512/2612 07005KT CAVOK BECMG 2514/2517 21010KT BECMG 2521/2524 BKN008 PROB30 2522/2607 VRB03KT 6000 BKN004 BECMG 2607/2610 SCT020 EGPH 251055Z 2512/2612 05005KT CAVOK TEMPO 2519/2609 6000 BECMG 2520/2523 24010KT PROB40 TEMPO 2603/2609 BKN006 EGPK 251055Z 2512/2612 10005KT CAVOK BECMG 2512/2515 25010KT BECMG 2521/2524 VRB04KT BKN007 PROB40 2522/2608 6000 BKN004 BECMG 2607/2610 27010KT SCT025 EGQS 251338Z 2515/2609 09008KT CAVOK PROB30 TEMPO 2601/2607 6000 BR EGSS 251053Z 2512/2618 VRB05KT CAVOK BECMG 2600/2603 8000 PROB30 2602/2608 4000 BR BECMG 2608/2611 CAVOK EGUN 251208Z 2512/2618 16009KT 9999 FEW100 QNH2998INS TX31/2512Z TN14/2604Z EGVN 251332Z 2515/2615 16008KT CAVOK BECMG 2601/2604 4500 BR PROB40 2604/2607 0400 FG VV/// BECMG 2607/2610 9999 NSW FEW015 PROB40 TEMPO 2607/2609 SCT008 EGWU 251324Z 2515/2609 20008KT CAVOK PROB40 2602/2609 4000 HZ EGXC 251336Z 2515/2609 14007KT CAVOK PROB30 2603/2608 7000 HZ= EGXW 251317Z 2515/2609 15007KT CAVOK PROB30 2604/2607 6000 HZ EGYP 251350Z 2515/2609 24008KT 9999 FEW007 PROB30 TEMPO 2515/2518 SCT007 PROB40 TEMPO 2522/2609 2000 -DZ BKN003 EHAM 251100Z 2512/2618 10007KT CAVOK EHBK 251101Z 2512/2618 VRB03KT CAVOK EHEH 251106Z 2512/2618 10005KT CAVOK BECMG 2516/2519 VRB03KT EHGG 251101Z 2512/2618 11005KT CAVOK PROB30 TEMPO 2601/2605 7000 MIFG EHKD 251209Z 2513/2601 04005KT CAVOK EHLW 251207Z 2513/2601 07006KT CAVOK EHRD 251100Z 2512/2618 09005KT CAVOK EHVK 251205Z 2513/2601 VRB03KT CAVOK EICK 251100Z 2512/2612 31012KT 9999 FEW017 SCT030 BECMG 2516/2518 34011KT BECMG 2520/2523 31007KT BECMG 2600/2602 4000 BR BECMG 2602/2605 28005KT TEMPO 2604/2607 2500 BKN007 PROB30 TEMPO 2604/2607 0700 FG BKN002 BECMG 2606/2608 VRB03KT 9999 NSW BECMG 2608/2610 22007KT EIDW 251410Z 2514/2612 22006KT 9999 FEW012 BKN022 BECMG 2515/2517 VRB03KT BECMG 2518/2520 27007KT TEMPO 2604/2607 4000 BR BKN008 PROB40 TEMPO 2607/2610 BKN010 EIKN 251100Z 2512/2612 33008KT 9999 SCT008 BKN030 TEMPO 2512/2515 BKN008 PROB40 TEMPO 2516/2518 BKN010 BECMG 2518/2520 VRB03KT BKN012 BECMG 2522/2601 20005KT PROB40 TEMPO 2522/2606 3000 BR BKN007 BECMG 2606/2608 20010KT FEW012 BKN020 EINN 251412Z 2514/2612 25012KT 9999 FEW015 BKN028 BECMG 2515/2518 28010KT BECMG 2518/2520 29005KT BECMG 2520/2523 24006KT TEMPO 2522/2602 4000 BR BKN010 BECMG 2523/2602 18005KT TEMPO 2602/2608 15005KT PROB30 TEMPO 2602/2606 4000 BR BECMG 2610/2612 23006KT EKAH 251100Z 2512/2612 10005KT 9999 FEW040 PROB40 2603/2605 0200 FG VV002 EKBI 251100Z 2512/2612 12006KT 9999 FEW040 EKCH 251100Z 2512/2612 12008KT CAVOK EKKA 251402Z 2515/2615 11008KT 9999 FEW050 PROB40 2603/2605 0700 BCFG EKSP 251402Z 2515/2615 10008KT 9999 FEW050 EKYT 251402Z 2515/2615 12008KT 9999 FEW050 PROB40 2602/2606 0300 BCFG ELLX 251100Z 2512/2618 VRB03KT CAVOK TEMPO 2521/2606 05006KT ENAN 251100Z 2512/2612 18012KT 9999 FEW004 BKN030 TEMPO 2512/2612 SHRA BKN008 TEMPO 2512/2518 BKN020CB BECMG 2520/2522 25015KT ENBO 251342Z 2513/2612 18008KT 9999 FEW005 BKN020 BECMG 2513/2515 22020KT TEMPO 2513/2602 23030G40KT 3000 SHRA BKN012TCU TEMPO 2602/2609 BKN012 ENBR 251100Z 2512/2612 18012KT 9999 FEW020 SCT030 ENDU 251100Z 2512/2612 20008KT 9999 -RA FEW005 BKN050 TEMPO 2512/2524 SHRA BKN020CB TEMPO 2600/2612 SHRA BKN014TCU ENGC 251100Z 2512/2612 21015KT 8000 FEW005 BKN080 PROB40 2512/2612 0100 FG VV001 BECMG 2521/2523 18025KT ENGM 251100Z 2512/2612 20010KT 9999 FEW030 SCT180 PROB40 2522/2608 0500 FG VV001 ENNA 251100Z 2512/2612 18018KT 9999 FEW010 BKN020 TEMPO 2512/2612 BKN012 BECMG 2515/2518 18008KT TEMPO 2518/2606 RA ENOA 251100Z 2512/2612 21015KT 0100 FG VV001 PROB40 TEMPO 2512/2612 6000 FEW004 SCT080 BECMG 2600/2603 18025KT ENOL 251100Z 2512/2612 23008KT 9999 FEW012 BKN040 TEMPO 2512/2514 25020G30KT 4000 SHRA BKN008 SCT020CB PROB40 2521/2602 4000 DZ BKN008 BECMG 2603/2606 13010KT ENRY 251100Z 2512/2612 19008KT 9999 FEW040 PROB40 2520/2608 0500 FG VV001 ENSB 251100Z 2512/2612 12008KT 9999 FEW015 BKN025 TEMPO 2512/2609 -RA BKN012 ENTC 251100Z 2512/2612 03005KT 9999 SCT040 TEMPO 2512/2518 SCT020CB TEMPO 2512/2524 SHRA BKN012 BECMG 2513/2515 20012KT TEMPO 2600/2612 BKN008 ENTO 251100Z 2512/2612 18008KT 9999 FEW040 PROB40 2519/2608 0500 FG VV001 ENVA 251249Z 2512/2612 27012KT 9999 FEW010 BKN070 PROB40 2512/2521 -RADZ BKN012 BECMG 2515/2517 VRB06KT ENZV 251100Z 2512/2612 16012KT CAVOK EPBY 251130Z 2512/2612 11013KT CAVOK BECMG 2517/2520 09003KT BECMG 2607/2610 10013KT EPGD 251401Z 2514/2612 08014KT CAVOK BECMG 2518/2521 VRB03KT BECMG 2607/2610 10012KT EPKK 251130Z 2512/2612 06010KT CAVOK BECMG 2517/2519 VRB02KT TEMPO 2610/2612 SCT040CB EPKT 251130Z 2512/2612 11010KT CAVOK BECMG 2515/2518 VRB02KT BECMG 2609/2611 17010KT EPLL 251130Z 2512/2612 10010KT CAVOK EPMO 251130Z 2512/2612 09008KT CAVOK EPPO 251130Z 2512/2612 11008KT CAVOK EPRZ 251130Z 2512/2612 10010KT CAVOK BECMG 2517/2519 VRB02KT EPSC 251130Z 2512/2612 10013KT CAVOK BECMG 2518/2521 09003KT BECMG 2607/2610 11013KT EPWA 251130Z 2512/2612 10008KT CAVOK EPWR 251130Z 2512/2612 11008KT CAVOK ESGG 251130Z 2512/2612 18005KT CAVOK= ESKN 251130Z 2512/2612 15009KT 9999 FEW025 ESKN 251130Z 2512/2612 15009KT 9999 FEW025 ESMS 251101Z 2512/2612 12006KT CAVOK PROB40 2603/2605 3000 BR ESSA 251130Z 2512/2612 17009KT CAVOK PROB40 2602/2605 2500 BR ETAD 251000Z 2510/2616 VRB06KT 9999 FEW050 QNH3011INS BECMG 2513/2514 07006KT 9999 SCT060 QNH3006INS TX29/2514Z TN17/2604Z ETAR 251019Z 2510/2616 VRB06KT 9999 SKC QNH3008INS BECMG 2512/2513 03009KT 9999 SCT050 QNH3006INS TEMPO 2515/2517 02010G15KT BECMG 2518/2519 VRB06KT 9999 SCT060 QNH3005INS TX31/2515Z TN08/2603Z ETIC 251415Z 2514/2620 12008KT 9999 VCTS SCT050CB QNH3008INS TEMPO 2514/2518 8000 -TSRA BKN040CB BECMG 2519/2520 VRB06KT 9999 NSW FEW040 SCT050 QNH3011INS BECMG 2610/2611 10008KT 9000 -SHRA BKN040 QNH3007INS TEMPO 2610/2616 8000 -TSRA BKN020CB TX30/2514Z TN13/2604Z ETNW 251012Z 2511/2611 07007KT 9999 NSW SKC PROB30 2513/2520 VRB15G30KT 3000 TSRA SCT030 BKN060CB BY ETGL EVLA 251403Z 2515/2615 28007KT 9999 SCT040 BECMG 2518/2520 VRB02KT TEMPO 2519/2604 0600 FG VV001 BECMG 2611/2613 27007KT EVRA 251401Z 2515/2615 16005KT 9999 SCT040 TEMPO 2523/2604 0600 FG BKN002 EYKA 251100Z 2512/2612 VRB05KT 9000 NSC TEMPO 2600/2606 1500 MIFG BR SCT005 EYPA 251100Z 2512/2612 VRB05KT 9000 NSC TEMPO 2519/2606 0600 FG VV002 TEMPO 2606/2608 BKN005 EYVI 251102Z 2512/2612 VRB05KT 9000 SCT040 BECMG 2517/2518 NSC PROB40 TEMPO 2600/2606 3000 MIFG BR TEMPO 2609/2612 SCT035 FABL 251000Z 2512/2612 VRB03KT CAVOK TX27/2513Z TN03/2604Z= FACT 251000Z 2512/2615 35016KT 9999 FEW008 BKN025 TX19/2512Z TN09/2605Z PROB40 TEMPO 2512/2518 4500 -RA BKN008 BECMG 2516/2518 21012KT FM260000 VRB03KT 9999 BKN030 BECMG 2608/2610 27012KT FACT 251000Z 2512/2615 35016KT 9999 FEW008 BKN025 TX19/2512Z TN09/2605Z PROB40 TEMPO 2512/2518 4500 -RA BKN008 BECMG 2516/2518 21012KT FM260000 VRB03KT 9999 BKN030 BECMG 2608/2610 27012KT FAGG 251356Z 2512/2612 22015KT 9999 SCT008 BKN012 TX24/2512Z TN09/2606Z PROB40 TEMPO 2516/2602 4500 -RA BKN008 FALA 251000Z 2512/2612 VRB03KT CAVOK TX27/2612Z TN08/2604Z FALE 251000Z 2512/2618 15005KT CAVOK TX33/2512Z TN14/2604Z BECMG 2513/2515 19012KT FM252000 20005KT 9999 SCT030 BECMG 2610/2612 08010KT SCT025 BKN040 BECMG 2616/2618 34004KT FAOR 251000Z 2512/2618 25008KT CAVOK TX25/2613Z TN11/2604Z BECMG 2512/2514 VRB03KT BECMG 2606/2608 25008KT BECMG 2612/2614 VRB03KT FAPE 251000Z 2512/2612 24019KT CAVOK TX21/2512Z TN09/2604Z TEMPO 2512/2515 23022G32KT BECMG 2515/2517 BKN022 BECMG 2519/2521 26010KT PROB30 TEMPO 2608/2610 6000 SHRA FEW020TCU BECMG 2610/2612 23019KT FAUP 251000Z 2512/2612 34008KT CAVOK TX30/2513Z TN11/2605Z FBSK 250900Z 2512/2618 08005KT CAVOK FCBB 251100Z 2512/2618 25004KT 6000 FEW010 BKN018 PROB30 2515/2518 4000 HZ PROB40 2605/2609 4000 BR FCPP 251100Z 2512/2612 20004KT 8000 FEW014 BKN024 PROB40 2605/2609 4000 BR FEFF 251100Z 2512/2618 22004KT 9999 SCT020 FEW033CB PROB30 TEMPO 2514/2518 TS BECMG 2518/2519 BKN010 BECMG 2520/2522 NSC FGBT 251100Z 2512/2612 20008KT 9999 SCT010 TEMPO 2512/2518 BKN010 FEW018CB PROB30 TEMPO 2600/2608 TS BKN010 FEW016CB FGSL 251100Z 2512/2618 24008KT 9999 SCT010 TEMPO 2512/2518 BKN010 BECMG 2600/2602 BKN010 PROB30 TEMPO 2604/2610 4000 RADZ SCT006 BKN008 FIMP 251110Z 2512/2618 14010G25KT 8000 -SHRA FEW010 BKN015 TEMPO 2606/2618 9999 SCT016 FIMR 251115Z 2512/2606 14018G35KT 9999 SCT018 PROB30 TEMPO 2518/2606 7000 -SHRA BKN016 BKN050 FJDG 250900Z 2509/2615 18010KT 9999 FEW020 FEW250 QNH2984INS TX30/2606Z TN27/2519Z FKKD 251100Z 2512/2618 24005KT 9999 FEW005 BKN013 FEW016CB PROB30 TEMPO 2522/2608 2000 RADZ FKKL 251100Z 2512/2524 26008KT 9999 FEW040 PROB30 2516/2518 TS BKN035 FEW040CB FKKR 251100Z 2512/2524 26008KT 9999 SCT016 PROB30 2516/2518 TS BKN016 FEW020CB FKYS 251100Z 2512/2612 26005KT 9999 BKN016 PROB30 2516/2520 TS BKN016 FEW020CB BECMG 2520/2522 BKN006 BECMG 2606/2610 BKN016 FLCP 250400Z 2506/2612 15010KT 9000 NSC BECMG 2510/2514 14005G15KT 9999 FEW040 FM251800 15005KT CAVOK BECMG 2608/2612 14010KT 9000 SCT030 FLHN 250400Z 2506/2612 10010KT 9000 NSC FM251400 VRB03KT CAVOK FLJK 250400Z 2506/2612 10010KT 9000 NSC BECMG 2507/2511 09010KT 9000 SCT030 FM251400 13005KT CAVOK FLKK 250400Z 2506/2612 10010KT 9000 NSC BECMG 2507/2511 09010KT 9000 SCT030 FM251400 13005KT CAVOK FLKS 250400Z 2506/2612 10005KT 9000 NSC BECMG 2509/2512 10005G15KT 9999 SCT035 FM251500 09005KT CAVOK BECMG 2609/2612 12010KT 9000 SCT030 FLMF 250400Z 2506/2612 15010KT 9000 NSC BECMG 2510/2514 14005G15KT 9999 FEW040 FM251800 15005KT CAVOK BECMG 2608/2612 14010KT 9000 SCT030 FLRZ 250400Z 2506/2612 10010KT 9000 NSC BECMG 2507/2511 09010KT 9000 SCT030 FM251400 13005KT CAVOK FLSK 250400Z 2506/2612 09010KT 7000 NSC BECMG 2510/2514 16005KT 9000 NSC FM251600 VRB02KT CAVOK BECMG 2609/2612 07005KT 8000 SCT030 FLSW 250400Z 2506/2612 10010KT 9000 NSC FM251400 13005KT CAVOK BECMG 2610/2612 08005KT 9000 SCT035 FMCH 251100Z 2512/2618 20013KT 9999 FEW020 SCT030 BECMG 2515/2517 10003G13KT BECMG 2605/2607 19010KT FMCZ 251100Z 2512/2612 15010KT 9999 FEW023 TEMPO 2518/2601 VRB03KT FMEE 251100Z 2512/2618 10021KT 9999 FEW060 TEMPO 2512/2516 11020G30KT BECMG 2516/2518 17005KT BECMG 2604/2606 10015KT BECMG 2616/2618 16010KT FMMI 251100Z 2512/2618 14009KT 9999 SCT020 FMMS 251100Z 2512/2612 18015KT 9999 SCT017 BKN040 PROB40 TEMPO 2518/2606 4500 SHRA FMMT 251100Z 2512/2612 18010KT 9999 SCT017 BKN033 PROB40 TEMPO 2512/2516 4500 SHRA TEMPO 2518/2606 4000 SHRA FMNA 251100Z 2512/2612 14015G25KT 9999 SCT020 FMNM 251100Z 2512/2612 12008KT 9999 FEW023= FMMT 251100Z 2512/2612 18010KT 9999 SCT017 BKN033 PROB40 TEMPO 2512/2516 4500 SHRA TEMPO 2518/2606 4000 SHRA FMNN 251100Z 2512/2612 26010KT 9999 SCT020 SCT040 BECMG 2518/2521 00000KT PROB30 TEMPO 2600/2605 4500 RA FMSD 251100Z 2512/2612 08015KT 9999 SCT020 SCT033 FMST 251100Z 2512/2612 22012KT 9999 FEW023 BECMG 2518/2521 10008KT FNBG 251100Z 2512/2524 29007KT 9000 NSC PROB30 TEMPO 2519/2524 CAVOK FNCA 251100Z 2512/2524 22006KT 7000 SCT020 TEMPO 2517/2523 6000 FEW016 BKN025 FNCT 251100Z 2512/2524 30007KT 9999 NSC BECMG 2522/2524 VRB02KT CAVOK FNDU 251100Z 2512/2524 VRB02KT 6000 NSC TEMPO 2519/2524 34007KT FNGI 251100Z 2512/2524 07008KT CAVOK FNHU 251100Z 2512/2524 VRB02KT CAVOK TEMPO 2519/2524 12004KT FNKU 251100Z 2512/2524 09004KT CAVOK PROB30 TEMPO 2517/2523 VRB02KT FNLU 251100Z 2512/2618 29010KT 9000 NSC BECMG 2522/2524 20007KT CAVOK TEMPO 2601/2607 14004KT 7000 SCT015 BECMG 2610/2612 31003KT 8000 SCT018 FEW020 FNMA 251100Z 2512/2524 VRB03KT 8000 NSC BECMG 2522/2524 28006KT FNME 251100Z 2512/2524 10004KT CAVOK FNMO 251100Z 2512/2524 31011KT 9000 FEW015 PROB30 TEMPO 2519/2524 VRB03KT FNSA 251100Z 2512/2524 VRB03KT 8000 NSC BECMG 2522/2524 18005KT CAVOK FNSO 251100Z 2512/2524 23006KT 7000 SCT010 BKN025 FNUB 251100Z 2512/2524 06006KT CAVOK TEMPO 2519/2524 24003KT FNUE 251100Z 2512/2524 09004KT CAVOK PROB30 TEMPO 2519/2524 15005KT FOOG 251050Z 2512/2612 20010KT 9999 SCT010 BKN030 PROB40 TEMPO 2514/2518 4000 DZRA BKN010 OVC028 FOOL 251048Z 2512/2618 20007KT 9999 FEW012 BKN033 PROB30 TEMPO 2512/2516 4500 DZRA TEMPO 2615/2618 3000 RA BKN008 OVC030 FQBR 251000Z 2512/2618 12010KT 9999 FEW020 TX28/2513Z TN18/2603Z BECMG 2600/2602 VRB03KT PROB30 TEMPO 2603/2605 5000 BR FEW015 BECMG 2606/2608 03010KT 9999 SCT020 BECMG 2612/2614 09012KT FQCH 251000Z 2512/2612 09010KT 9999 SCT018 TX26/2513Z TN16/2603Z BECMG 2518/2520 05006KT BECMG 2606/2608 09010KT FEW020 FQIN 251000Z 2512/2612 05010KT 9999 FEW025 TX28/2513Z TN20/2603Z FQLC 251000Z 2512/2612 09012KT 9999 SCT018 TX24/2513Z TN15/2603Z BECMG 2518/2520 28008KT PROB30 TEMPO 2601/2605 5000 BR FEW010 BECMG 2606/2608 15010KT 9999 SCT020 FQMA 251000Z 2512/2618 02012KT CAVOK TX34/2513Z TN17/2603Z BECMG 2600/2602 32008KT BECMG 2612/2614 09010KT FQNC 251000Z 2512/2612 17010G20KT 9999 SCT020 TX29/2513Z TN19/2603Z BECMG 2518/2520 22010KT BECMG 2606/2608 17014KT FQNP 251000Z 2512/2618 17010KT 9999 FEW025 TX30/2513Z TN18/2603Z BECMG 2518/2520 21008KT PROB30 TEMPO 2601/2605 5000 BR FEW012 FM260800 19012KT 9999 SCT020 FQPB 251000Z 2512/2612 17010G20KT 9999 FEW020 TX29/2513Z TN21/2603Z BECMG 2518/2520 23010KT BECMG 2606/2608 16010KT FQQL 251000Z 2512/2612 15012KT 9999 SCT020 TX29/2513Z TN18/2603Z BECMG 2600/2602 29006KT BECMG 2606/2608 15010KT FQTT 251000Z 2512/2612 15012KT 9999 SCT020 TX32/2513Z TN20/2603Z BECMG 2518/2520 19008KT BECMG 2606/2608 VRB03KT FQVL 251000Z 2512/2612 09012KT 9999 FEW020 TX26/2513Z TN17/2603Z BECMG 2600/2602 35008KT BECMG 2606/2608 08012KT FSIA 251101Z 2512/2612 14015G25KT 9999 SCT021 PROB40 TEMPO 2522/2602 -S FTTJ 251100Z 2512/2618 22080KT 9999 SCT026 FEW050CB TEMPO 2513/2522 3000 TSRA PROB30 TEMPO 2611/2618 4000 TSRA FWKI 251000Z 2512/2618 09010KT 9999 BKN025 BECMG 2512/2514 FEW030 FM251500 08006KT CAVOK BECMG 2607/2609 08010KT 9999 FEW025 FM261400 10006KT CAVOK FYKT 251000Z 2512/2612 30005KT CAVOK BECMG 2520/2522 20005KT FYWB 251000Z 2512/2612 32007KT CAVOK BECMG 2513/2515 21015KT BECMG 2519/2521 15006KT FYWH 251000Z 2512/2612 05004KT CAVOK BECMG 2519/2521 29005KT BECMG 2605/2607 04016KT FZAA 251100Z 2512/2618 28010KT 6000 BKN018 BECMG 2516/2518 20004KT SCT016 BECMG 2604/2606 3000 BR FM 261000 32010KT 7000 NSW NSC FZIC 251100Z 2512/2618 28008KT 6000 TSRA SCT010 FEW028CB BECMG 2514/2516 VRB03KT NSW FEW014 BECMG 2603/2605 0800 FG OVC002 FM 260700 18006KT 6000 NSW BKN010 BECMG 2610/2612 SCT022 FEW030CB FZNA 251100Z 2512/2618 23008KT 7000 SCT020 FEW024 PROB30 2512/2516 -TSRA BECMG 2520/2522 SCT014 BECMG 2604/2606 06004KT 5000 HZ FEW012 GABS 251130Z 2512/2618 24010KT 9999 SCT020 PROB40 TEMPO 2515/2522 VRB15G35KT 4000 TSRA BKN020 FEW026CB PROB40 TEMPO 2602/2608 08015G35KT 3000 TS SHRA BKN020 SCT026CB GAGO 251130Z 2512/2612 19010KT 9999 SCT026 TEMPO 2513/2520 08018G35KT 3000 TSRA BKN026 SCT033CB GBYD 251130Z 2512/2618 23010KT 9999 SCT013 TEMPO 2516/2522 4000 TSRA BKN010 FEW020CB GCFV 251400Z 2515/2615 05013KT 9000 FEW018 TX27/2611Z TN22/2605Z PROB30 TEMPO 2515/2521 TSRA FEW120CB PROB30 TEMPO 2515/2521 4900 HZ GCGM 251400Z 2515/2615 VRB05KT CAVOK TX34/2515Z TN24/2605Z= GCHI 251400Z 2515/2615 34018KT 9999 FEW025 TX28/2515Z TN23/2605Z PROB40 TEMPO 2515/2521 34018G30KT GCLA 251400Z 2515/2615 03013KT 9999 FEW020 TX30/2515Z TN22/2605Z GCLP 251400Z 2515/2615 36022KT 9999 FEW020 TX30/2515Z TN23/2605Z PROB30 TEMPO 2515/2521 TSRA FEW120CB PROB30 TEMPO 2515/2521 4900 HZ GCRR 251400Z 2515/2615 36015KT 9999 FEW015 TX31/2614Z TN23/2605Z PROB30 TEMPO 2515/2521 36025G35KT TSRA FEW120CB PROB30 TEMPO 2515/2521 4900 HZ GCTS 251400Z 2515/2615 08027KT CAVOK TX33/2515Z TN24/2605Z PROB40 2519/2608 05014KT GCXO 251400Z 2515/2615 12011KT CAVOK TX32/2515Z TN18/2605Z PROB40 2518/2607 28007KT PROB30 TEMPO 2518/2607 4900 BCFG SCT001 GEML 251400Z 2515/2615 09008KT 9999 SCT015 SCT020 TX29/2614Z TN24/2604Z TEMPO 2520/2609 BKN010 GFLL 251100Z 2512/2618 28010KT 9999 BKN010 FEW027CB FM251200Z 24007KT 8000 TSRA BKN010 FEW025CB BECMG 2520/2622 26009KT 9999 BKN011 FEW027CB TEMPO 2601/2605 21006KT 7000 RA BKN009 FEW026CB BECMG 2614/2616 27008KT 9999 BKN012 GLRB 251000Z 2512/2618 23010KT 9000 BKN015 BECMG 2512/2514 22011KT TEMPO 2514/2518 23010KT 8000 RA BKN012 FEW025CB GMAD 251100Z 2512/2618 26010KT 8000 FEW026 BKN080 BECMG 2517/2519 18008KT GMAG 251100Z 2512/2618 VRB02KT 5000 NSC= GMFF 251100Z 2512/2618 04005KT FEW030 PROB30 2513/2517 32010KT FEW030 FEW033CB BECMG 2520/2523 CAVOK GMFF 251100Z 2512/2618 04005KT FEW030 PROB30 2513/2517 32010KT FEW030 FEW033CB BECMG 2520/2523 CAVOK GMFK 251100Z 2512/2618 20008KT 9999 FEW033 SCT100 TEMPO 2514/2519 24020G35KT TS SCT033TCU FEW040CB BECMG 2520/2524 36014KT GMFM 250500Z 2506/2612 12006KT CAVOK BECMG 2512/2516 30010KT FEW023 BECMG 2520/2524 VRB02KT CAVOK GMFO 251100Z 2512/2618 36013KT CAVOK TEMPO 2521/2609 20005KT GMME 251100Z 2512/2618 32010KT 9999 SCT020 TEMPO 2600/2508 26006KT 5000 BKN008 SCT015 GMMH 251100Z 2512/2618 29004KT 3000 BR OVC012 GMMI 251100Z 2512/2618 28006KT 8000 NSC GMML 251100Z 2512/2618 04018KT 8000 NSC GMMN 251100Z 2512/2618 36013KT CAVOK BECMG 2521/2523 03005KT TEMPO 2602/2608 BKN010 BECMG 2611/2613 35014KT GMMW 251100Z 2512/2618 05011KT 9999 SCT020 GMMX 251100Z 2512/2618 24006KT 8000 SCT033 SCT100 TEMPO 2514/2520 16016G30KT 3000 TSRA DU SCT033 FEW040CB GMMZ 251100Z 2512/2618 14003KT 9999 SCT040 FEW050CB TEMPO 2514/2520 34017KT 8000 TSRA BKN040 FEW050CB GMTA 251100Z 2512/2618 32008KT CAVOK GMTT 251100Z 2512/2618 08018KT CAVOK BECMG 2609/2613 22009KT SCT010 GOBD 251130Z 2512/2618 24008KT 9999 SCT013 PROB30 TEMPO 2600/2606 4000 TSRA BKN010 FEW020CB GOGS 251130Z 2512/2618 23008KT 8000 TS SCT013 FEW020CB TEMPO 2516/2522 4000 TSRA BKN010 FEW020CB BECMG 2600/2602 NSW SCT013 GOOY 251130Z 2512/2618 24008KT 9999 SCT013 PROB30 TEMPO 2601/2607 4000 TSRA BKN010 FEW020CB GOSS 251130Z 2512/2618 27008KT 9999 SCT013 GQNO 251100Z 2512/2618 28010KT 8000 BKN013 GQPP 251100Z 2512/2612 29010KT 7000 SCT006 BECMG 2600/2603 BKN006 GVAC 251100Z 2512/2618 23006KT 9999 BKN014 PROB30 TEMPO 2514/2518 VRB06KT -DZ SCT014TCU BKN016 GVBA 251100Z 2512/2618 20006KT 9999 BKN015 PROB30 TEMPO 2514/2518 VRB04KT -DZ SCT013TCU BKN015 GVNP 251100Z 2512/2618 30006KT 9999 BKN016 PROB30 TEMPO 2514/2518 VRB06KT -RA SCT014TCU BKN018 GVSV 251100Z 2512/2618 12006KT 9999 SCT016 BKN020 PROB30 TEMPO 2512/2520 VRB06KT 8000 -RA SCT014TCU BKN018 HAAB 250930Z 2512/2618 15006KT 9999 BKN025 BKN080 BECMG 250930Z 36004KT 8000 TSRA BECMG 2606/2615 22008KT 8000 TSRA HADR 250930Z 2512/2618 18008KT 9999 BKN030 SCT080 TEMPO 2520/2821 9000 -TSRA HBBA 251100Z 2512/2518 18010G25KT 7000 BKN100 BECMG2517/2519 00000KT 9000 SCT080 BECMG2603/2605 36003KT CAVOK BECMG2604/2607 5000 HZ NSC BECMG2608/2609 18010G30KT 9000 BKN100 HDAM 251100Z 2512/2612 27010KT 8000 HZ SKC BECMG 2515/2518 VRB05KT SKC BECMG 2600/2606 00000KT SCT133 HEAL 251100Z 2512/2618 34010KT 9999 SCT020 HEAR 251100Z 2512/2618 34008KT CAVOK BECMG 2518/2520 VRB03KT BECMG 2609/2611 35008KT HEAT 251100Z 2512/2618 33010G20KT CAVOK HEAX 251100Z 2512/2618 32010KT 9999 SCT020 HEBA 251100Z 2512/2618 33011KT 9999 SCT020 HEBL 251100Z 2512/2618 35012KT CAVOK HECA 251100Z 2512/2618 30008KT 6000 NSC TEMPO 2512/2515 VRB03KT 4000 HZ NSC BECMG 2520/2522 02006KT TEMPO 2600/2606 VRB03KT 4000 BR NSC HEGN 251100Z 2512/2618 36008G18KT CAVOK TEMPO 2516/2521 VRB03KT HELX 251100Z 2512/2618 32008KT CAVOK HEMA 251100Z 2512/2618 01010G20KT CAVOK TEMPO 2516/2524 VRB03KT HEMM 251100Z 2512/2618 34010KT 9999 SCT020 HEOW 251100Z 2512/2612 34010G20KT CAVOK HEPS 251100Z 2512/2618 35009KT 9999 FEW025 PROB30 TEMPO 2600/2606 VRB03KT 4000 BR NSC HESC 251100Z 2512/2618 01010KT CAVOK HESG 251100Z 2512/2618 34010G20KT CAVOK HESH 251100Z 2512/2618 02012KT CAVOK HESN 251100Z 2512/2618 36010KT CAVOK HETB 251100Z 2512/2618 03012KT CAVOK HETR 251100Z 2512/2618 30008G20KT CAVOK HKEL 251100Z 2512/2612 VRB07KT 9999 FEW021CB BKN022 TEMPO 2512/2518 -TSRA FEW019CB SCT020 BKN080 BECMG 2520/2523 NSW FEW018 BKN080 BECMG 2608/2611 FEW021CB SCT022 HKJK 251100Z 2512/2618 09010KT 9999 BKN027 BECMG 2520/2523 VRB05KT SCT020 TEMPO 2600/2606 20005KT FEW008 BKN016 BECMG 2608/2611 15010KT BKN025 HKKI 251100Z 2512/2612 22010KT 9999 FEW026CB BKN080 TEMPO 2512/2518 -TSRA FEW022CB SCT023 BKN080 BECMG 2520/2523 06005KT NSW FEW019 BKN080 BECMG 2608/2611 22010KT FEW026CB BKN080 HKML 251100Z 2512/2612 18010G20KT 9999 SCT024 BECMG 2518/2521 18010KT FEW020 TEMPO 2600/2606 22005KT -SHRA SCT018 BKN080 HKMO 251100Z 2512/2618 18010KT 9999 SCT025 BECMG 2518/2521 22005KT FEW021 TEMPO 2600/2606 -SHRA SCT019 BKN080 HLGD 251100Z 2512/2612 VRB02KT 8000 FEW025 BECMG 2516/2518 02012KT BECMG 2600/2602 VRB02KT HLGT 251100Z 2512/2612 VRB02KT CAVOK BECMG 2602/2604 22010KT BROB30 TEMPO 2606/2612 3000 BLDU HLKF 251100Z 2512/2612 33012KT CAVOK BECMG 2600/2602 VRB02KT HLLB 251100Z 2512/2612 36014KT 8000 FEW020 BECMG 2604/2606 02010KT HLLM 251100Z 2512/2612 08012KT 8000 NSC= HLMS 251100Z 2512/2612 VRB02KT8000 FEW025 BECMG 2516/2518 06010KT BECMG 2600/2602 VRB02KT HLLQ 251100Z 2512/2612 VRB02KT 8000 SCT023 PROB30 TEMPO 2602/2606 4000 BR NSC HLLS 250500Z 2506/2606NIL HLLT 250500Z 2506/2606NIL= HLMS 250500Z 2506/2606 VRB02KT 8000 FEW025 BECMG 2512/2514 03012KT CAVOK BECMG 2600/2602 VRB02KT 8000 SCT025 HLON 251100Z 2512/2612 36012KT CAVOK BECMG 2522/2524 06008KT HLTD 251100Z 2512/2612 VRB02KT CAVOK BECMG 2516/2518 06012KT HLTQ 251100Z 2512/2612 VRB02KT 9999 FEW025 BECMG 2517/2519 36014KT BECMG 2600/2602 VRB02KT HLUB 251100Z 2512/2612 VRB02KT CAVOK HRYR 251100Z 2512/2618 34008KT 9999 BKN025 BKN100 BECMG 2514/2517 24005KT FEW023CB BKN025 FM 252000 32003KT SCT025 BKN100 BECMG 2602/2605 00000KT 8000 TEMPO 2609/2612 16010KT 9999 BKN025 HSKA 251100Z 2512/2618 VRB03KT 9999 SCT140 TEMPO 2512/2515 18006KT 9999 SCT040 SCT140 TEMPO 2516/2521 6000 TSRA FEW045CB BKN140 HSOB 251100Z 2512/2618 21008G18KT CAVOK TEMPO 2512/2515 9999 FEW040 SCT140 TEMPO 2515/2521 6000 TSRA FEW045CB BKN140 HSPN 251100Z 2512/2618 32008KT 8000 BECMG 2512/2514 05012G22KT HSSS 251100Z 2512/2618 21008G18KT CAVOK TEMPO 2512/2516 9999 FEW040 FEW140 HTDA 250500Z 2506/2612 15015KT 9999 BKN020 HTKJ 250500Z 2506/2606 09005KT 9999 BKN025 BECMG 2511/2514 12015KT BECMG 2520/2523 09005KT HUEN 251100Z 2512/2618 20009KT 9999 FEW022 FEW024CB BECMG 2521/2524 36006KT FEW020 FEW022CB TEMPO 2602/2607 VRB11KT 8000 -TSRA SCT018 FEW020CB BKN100 FM261700 22007KT 9999 FEW021 FEW023CB HUSO 251100Z 2512/2612 08006KT 9999 SCT022 FEW024CB FM 251600 12006KT 9000 -TSRA SCT020 FEW022CB BECMG 2601/2606 35003KT 9999 FEW019 FM 260900 13006KT SCT021 FEW023CB KABE 251258Z 2513/2612 06010KT P6SM SCT060 FM251800 06012KT P6SM BKN050 FM260000 07005KT P6SM SCT050 KABI 251120Z 2512/2612 15010KT P6SM SKC FM251600 20011G17KT P6SM SKC KABQ 251121Z 2512/2612 13005KT P6SM FEW250 FM251900 29010G18KT P6SM FEW250 FM260200 30007KT P6SM SCT200 KABR 251422Z 2514/2612 17013G20KT P6SM OVC006 FM251900 17014G20KT P6SM BKN020 FM260200 16012G18KT P6SM VCTS OVC030CB FM260600 16006KT P6SM BKN022 KABY 251327Z 2513/2612 05009KT 2SM BR BKN003 FM251500 07005KT P6SM BKN025 OVC100 FM252000 07008KT P6SM BKN040 BKN100 PROB30 2600/2604 5SM -TSRA BKN035CB FM260900 08008KT P6SM SCT009 BKN015 KACK 251311Z 2513/2612 06015G25KT P6SM SCT015 BKN060 FM251600 05018G26KT P6SM BKN025 FM252300 06016G26KT P6SM SCT025 FM260200 05014G24KT P6SM SCT015 KACT 251130Z 2512/2612 14006KT P6SM SCT250 KACV 251136Z 2512/2612 18003KT 1/2SM FG OVC002 FM251600 27005KT 4SM BR OVC005 FM252000 28008KT P6SM SKC FM260700 14004KT 3SM BR OVC004 KACY 251120Z 2512/2612 02008KT P6SM BKN070 FM251500 05012G21KT P6SM BKN050 KADF 251120Z 2512/2612 10003KT P6SM VCSH SCT010 BKN050 TEMPO 2512/2516 -RA BKN008 FM251600 15007KT P6SM VCTS SCT025 BKN040CB TEMPO 2518/2522 5SM -TSRA BR BKN025CB FM260300 13005KT P6SM SCT008 OVC040 KADW 250900Z 2509/2615 03005KT 9999 SCT080 QNH3018INS BECMG 2514/2515 04010G20KT 9999 FEW100 QNH3018INS BECMG 2520/2521 03008KT 9999 SKC QNH3018INS BECMG 2611/2612 04010G20KT 9999 SCT050 QNH3018INS TX24/2520Z TN19/2611Z KAEG 251121Z 2512/2612 30005KT P6SM FEW250 FM251800 29013G23KT P6SM FEW250 FM260300 31010KT P6SM SCT200 KAEX 251126Z 2512/2612 12005KT P6SM VCSH SCT020 OVC120 TEMPO 2512/2516 4SM -SHRA BR BKN020 FM251600 15008KT P6SM VCTS SCT020 BKN030CB FM251900 16009KT 6SM -SHRA BR VCTS SCT025 BKN035CB FM260000 14005KT P6SM SCT007 OVC020 KAFW 251130Z 2512/2612 14007KT P6SM SCT250 KAGC 251135Z 2512/2612 VRB03KT P6SM SKC FM251400 10008KT P6SM SKC KAGS 251126Z 2512/2612 04008KT P6SM OVC015 FM251600 05010KT P6SM BKN025 FM260000 05005KT P6SM BKN035 KAHN 251130Z 2512/2612 06010KT P6SM VCSH OVC012 FM251600 06008KT P6SM OVC015 FM251900 07006KT P6SM BKN025 FM252000 07006KT P6SM BKN035 FM260900 07006KT P6SM BKN018 KAIA 251157Z 2512/2612 16011KT 5SM BR OVC003 FM251500 22012KT P6SM SKC FM251900 30013G21KT P6SM SKC FM260100 05008KT P6SM SKC KALB 251132Z 2512/2612 02005KT P6SM BKN050 FM252200 10005KT P6SM SKC KALI 251323Z 2513/2612 16006KT P6SM SCT030 FM252000 14011KT P6SM BKN060 TEMPO 2521/2524 4SM TSRA BKN050CB FM260200 16009KT P6SM SCT050 KALO 251120Z 2512/2612 13010KT P6SM SCT040 BKN060 OVC120 FM260800 14008KT P6SM SCT012 BKN018 OVC030 KALS 251125Z 2512/2612 VRB06KT P6SM SKC FM252100 30012G22KT P6SM FEW100 FM260300 29008KT P6SM SKC KALW 251426Z 2514/2612 19010KT P6SM OVC060 FM251600 24012G19KT P6SM SKC FM260100 25007KT P6SM SKC FM260400 16008KT P6SM SKC KAMA 251126Z 2511/2612 17011KT P6SM SKC WS020/24045KT FM251700 29007KT P6SM SKC FM260600 15007KT P6SM SKC KANB 251304Z 2513/2612 06007KT P6SM SHRA OVC010 FM251700 08008KT P6SM VCSH BKN030 FM252100 10007KT P6SM VCTS OVC030CB FM260100 11005KT P6SM VCSH OVC030 FM260400 12005KT P6SM OVC030 KAND 251400Z 2514/2612 06009KT P6SM BKN020 OVC050 FM251700 06009KT P6SM BKN027 FM252100 07009KT P6SM BKN035 FM260300 06009KT P6SM OVC030 KAOO 251133Z 2512/2612 06004KT P6SM SCT070 FM251500 10007KT P6SM BKN040 FM252200 08004KT P6SM SKC FM261000 09005KT 5SM BR BKN012 KAPA 251120Z 2512/2612 19006KT P6SM SCT200 FM251500 26010KT P6SM SCT200 FM251900 34012KT P6SM FEW120 FM260200 22008KT P6SM FEW120 FM261000 31010KT P6SM SKC KAPF 251135Z 2512/2612 VRB05KT P6SM VCSH SCT025 BKN070 FM251700 25010KT P6SM VCTS SCT025CB BKN070 BKN250 FM252300 VRB03KT P6SM FEW030 SCT080 BKN250 KAPN 251140Z 2512/2612 00000KT P6SM SKC FM251400 14005KT P6SM SKC FM251900 13010G18KT P6SM FEW250 FM252100 12009KT P6SM FEW250 FM260400 12005KT P6SM FEW250 FM261000 13005KT P6SM BKN035 KARA 251126Z 2512/2612 12008KT P6SM -SHRA SCT015 BKN025 FM251500 15010KT 4SM -SHRA BR VCTS SCT012 OVC025CB TEMPO 2515/2519 VRB10G20KT 2SM SHRA OVC012 FM260100 17006KT P6SM VCSH SCT025 OVC150 KART 251120Z 2512/2612 08003KT P6SM SKC FM251300 08005KT P6SM SCT035 FM260100 12003KT P6SM SKC KASD 251139Z 2512/2612 VRB03KT P6SM VCSH SCT030 BKN100 FM251600 19005KT P6SM SCT025 OVC050 TEMPO 2518/2522 4SM TSRA BKN025CB BKN030 FM252200 17005KT 5SM -SHRA VCTS SCT030CB OVC045 FM260300 00000KT 6SM -SHRA VCTS SCT025CB OVC030 KASE 251120Z 2512/2612 18006KT P6SM FEW250 FM251800 34010G24KT P6SM FEW100 FEW250 FM252000 28011G26KT P6SM FEW120 FEW250 FM260300 20007KT P6SM FEW120 FEW250 KASN 251304Z 2513/2612 06006KT P6SM SHRA BKN015 TEMPO 2513/2514 SCT010 FM251700 08008KT P6SM VCSH BKN030 FM252100 10007KT P6SM VCTS OVC030CB FM260100 11005KT P6SM VCSH OVC030 FM260400 12004KT P6SM OVC030 KAST 251158Z 2512/2612 VRB03KT P6SM BKN013 FM252000 32010G18KT P6SM SCT012 FM260300 33008KT P6SM OVC011 KATL 251339Z 2514/2618 09014KT P6SM VCSH OVC010 FM251600 09008KT P6SM OVC015 FM252000 09009KT P6SM SCT025 BKN035 FM260600 10008KT P6SM VCSH OVC015 FM260900 09008KT P6SM VCSH OVC009 KATW 251121Z 2512/2612 12003KT P6SM SCT060 FM251400 15008KT P6SM SCT070 FM251800 14010G15KT P6SM SCT070 FM252300 12007KT P6SM SCT040 BKN080 FM260900 13005KT P6SM BKN045 KATY 251301Z 2513/2612 16014G21KT P6SM VCSH OVC007 FM251900 17015G22KT P6SM OVC020 FM260400 16008KT P6SM VCTS OVC018CB FM260800 22007KT P6SM BKN013 KAUG 251120Z 2512/2612 02005KT 6SM BR SKC FM251300 06007KT P6SM FEW050 KAUS 251408Z 2514/2618 19004KT 3SM BR OVC004 FM251500 18004KT P6SM SCT006 BKN012 FM251700 21004KT P6SM SCT015 OVC120 FM252000 18008KT P6SM SCT070 FM260800 18004KT P6SM SCT015 BKN150 KAUW 251121Z 2512/2612 12003KT P6SM BKN050 FM251400 14009KT P6SM SCT030 SCT150 FM251700 15009G16KT P6SM SCT050 FM252300 13007KT P6SM BKN070 FM260600 13005KT P6SM BKN040 KAVL 251129Z 2512/2612 VRB03KT P6SM OVC012 FM251400 14004KT P6SM BKN011 FM251700 12006KT P6SM BKN022 FM251900 13007KT P6SM BKN035 FM260300 18004KT P6SM OVC027 KAVP 251137Z 2512/2612 09003KT P6SM SCT060 FM251400 05006KT P6SM SCT060 FM260000 10003KT P6SM SKC KAXN 251132Z 2512/2612 15014G22KT P6SM SCT050 OVC100 FM251600 15016G25KT P6SM VCSH SCT020 OVC035 FM251800 16016G25KT 4SM -SHRA BR SCT012 OVC025 FM252200 15016G26KT P6SM VCSH OVC012 FM260300 16012G20KT 6SM SHRA BR SCT007 OVC050 PROB30 2603/2608 4SM TSRA OVC007CB FM260800 18008KT 5SM SHRA BR OVC005 KAZO 251140Z 2512/2612 VRB03KT P6SM SKC FM251700 12007KT P6SM SCT120 FM260000 12004KT P6SM BKN250 KBAD 251000Z 2509/2608 18010KT 9999 OVC012 QNH2986INS TEMPO 2511/2513 OVC008 BECMG 2514/2515 16005KT 9999 BKN025 QNH2985INS BECMG 2517/2518 18010KT 9999 VCTS BKN030CB QNH2977INS BECMG 2523/2524 18010KT 9999 NSW SCT050 QNH2979INS BECMG 2608/2609 18010KT 9999 BKN015 QNH2980INS TX33/2522Z TN22/2511Z KBAF 251311Z 2513/2612 03008KT P6SM SCT025 BKN050 FM251400 05008KT P6SM SCT050 FM252300 07010KT P6SM FEW050 FM260200 04005KT P6SM SKC FM260800 01004KT P6SM SKC FM261000 01004KT P6SM FEW040 KBAM 251134Z 2512/2612 VRB05KT P6SM SKC FM251900 26014G24KT P6SM SKC FM260200 VRB06KT P6SM SKC NOT SKED KBBD 251352Z 2514/2612 12004KT P6SM FEW005 FM251500 19007KT P6SM SKC KBBG 251332Z 2514/2612 11006KT 1SM BR OVC003 TEMPO 2514/2515 3/4SM BR OVC002 FM251500 14005KT 6SM BR SCT004 OVC010 FM251800 14005KT 6SM -SHRA BKN030 TEMPO 2518/2522 4SM TSRA BR OVC025CB FM260300 VRB03KT P6SM SCT090 PROB30 2603/2604 4SM TSRA BR BKN090CB KBCB 251121Z 2512/2612 VRB03KT P6SM SCT025 FM251400 09006KT P6SM BKN060 FM252100 10007KT P6SM SCT120 FM260400 VRB03KT P6SM BKN060 FM260800 VRB03KT P6SM BKN006 KBCE 251120Z 2512/2612 26007KT 5SM FU SKC FM251500 26007KT P6SM SKC FM251900 27012G20KT P6SM SKC FM260300 27006KT P6SM SKC KBDL 251311Z 2513/2618 03010KT P6SM SCT025 BKN050 FM251900 05012G20KT P6SM SCT050 FM252100 08010KT P6SM SCT040 FM260100 05005KT P6SM FEW040 FM260900 01004KT P6SM FEW040 KBDN 251120Z 2512/2612 22004KT P6SM SKC FM251700 31007KT P6SM SKC FM252000 34013G21KT P6SM SKC FM260300 VRB04KT P6SM SKC KBDR 251120Z 2512/2612 04011KT P6SM SCT025 SCT060 FM251400 06014G20KT P6SM SCT025 BKN060 FM260000 06011KT P6SM SCT025 SCT060 FM260600 04010KT P6SM BKN025 KBED 251311Z 2513/2612 04010G18KT P6SM SCT020 FM251700 05012G20KT P6SM SCT030 FM260200 04004KT P6SM SKC FM260900 01004KT P6SM FEW025 KBFD 251133Z 2512/2612 VRB05KT P6SM SKC FM251300 12007KT P6SM SKC FM251600 13008KT P6SM SCT035 FM252200 12006KT P6SM SKC FM261000 11006KT P6SM SCT004 KBFF 251157Z 2512/2612 12008KT 1/2SM FG OVC002 FM251500 30013G21KT P6SM SKC FM260100 05008KT P6SM SKC KBFI 251256Z 2513/2612 VRB03KT P6SM OVC025 FM251900 23005KT P6SM BKN050 FM260000 30004KT P6SM SCT050 SCT250 FM260600 VRB03KT P6SM FEW250 KBFL 251120Z 2512/2612 VRB06KT P6SM SKC KBFM 251139Z 2512/2612 29003KT P6SM FEW035 BKN120 BKN250 FM251500 11005KT P6SM VCSH SCT040 BKN250 FM251800 18007KT P6SM VCTS SCT040CB SCT060 BKN250 TEMPO 2518/2522 27004KT 5SM TSRA OVC030CB FM260600 06003KT P6SM VCTS OVC040CB KBGM 251137Z 2512/2612 06004KT P6SM BKN045 FM251400 10008KT P6SM BKN050 FM260300 12004KT P6SM SKC KBGR 251120Z 2512/2612 04003KT P6SM SKC FM252000 08004KT P6SM SKC FM260600 00000KT 6SM MIFG FEW100 KBHB 251120Z 2512/2612 05005KT P6SM SKC FM251700 09006KT P6SM SKC FM252300 00000KT P6SM SKC FM260500 00000KT 6SM MIFG SKC KBHM 251305Z 2513/2612 10006KT P6SM VCSH OVC015 TEMPO 2513/2514 OVC010 FM251700 12007KT P6SM VCSH BKN030 FM252100 13008KT P6SM VCTS OVC030CB FM260100 14005KT P6SM VCSH OVC030 FM260400 14005KT P6SM OVC030 KBIF 251400Z 2514/2620 27009KT 9999 FEW020 QNH2996INS BECMG 2520/2521 30012G18KT 9999 FEW120 QNH2990INS BECMG 2602/2603 VRB06KT 9999 SKC QNH2993INS BECMG 2617/2618 29012KT 9999 SKC QNH2989INS TX37/2521Z TN24/2514Z KBIH 251120Z 2512/2612 33006KT P6SM FEW250 FM252100 16008KT P6SM SKC FM260600 33006KT P6SM SKC KBIL 251122Z 2512/2612 27008KT P6SM SCT120 FM251600 32011KT P6SM SCT090 BKN150 FM252200 36012G20KT P6SM VCTS BKN070CB FM260200 32010KT P6SM VCSH BKN060 FM260700 28009KT P6SM FEW080 KBIS 251120Z 2512/2612 10007KT P6SM OVC011 FM251700 19012KT P6SM SCT020 BKN080 FM252000 22007KT P6SM VCTS FEW040CB SCT120 FM252300 23007KT P6SM -SHRA VCTS SCT035CB BKN080 TEMPO 2523/2602 VRB25G40KT 4SM +TSRA BKN035CB FM260400 VRB04KT P6SM FEW035 FEW250 KBIX 251000Z 2510/2616 VRB06KT 9999 BKN130 QNH2991INS TEMPO 2521/2602 VRB15G25KT 3200 TSRA BKN020CB BECMG 2602/2603 VRB06KT 9999 BKN020 QNH2991INS BECMG 2610/2611 VRB06KT 8000 -SHRA BKN030 QNH2987INS TX29/2521Z TN25/2608Z KBJC 251120Z 2512/2612 27006KT P6SM SCT200 FM251600 29014G22KT P6SM FEW120 FM261000 33016G24KT P6SM SKC KBJI 251143Z 2512/2612 16010KT P6SM BKN200 FM252000 17014KT P6SM VCSH OVC035 FM252200 16014KT P6SM VCTS OVC025CB FM260400 16010KT 6SM SHRA BR OVC009 KBKE 251124Z 2512/2612 24006KT P6SM SKC FM251500 31008KT P6SM SCT250 FM252200 32015G25KT P6SM SCT250 FM260400 32007KT P6SM SCT250 KBKF 250900Z 2509/2615 21006KT 9999 SKC QNH3000INS BECMG 2516/2517 33009KT 9999 FEW140 QNH2996INS BECMG 2520/2521 33012G18KT 9999 SCT130 QNH2991INS BECMG 2601/2602 19009KT 9999 SCT130 QNH2993INS BECMG 2604/2605 24006KT 9999 SKC QNH2995INS TX34/2521Z TN16/2512Z KBKW 251120Z 2512/2612 12009KT P6SM SCT250 FM251600 12010KT P6SM SCT070 FM261000 13010KT P6SM BKN100 KBLF 251340Z 2514/2612 12008G16KT P6SM BKN015 FM260600 13008KT P6SM BKN040 FM260900 12008KT P6SM BKN022 KBLH 251130Z 2512/2612 18008KT P6SM SCT050 FM251800 17012G18KT P6SM FEW060 SCT250 FM260200 22014KT P6SM FEW100 BKN250 FM260900 18008KT P6SM FEW120 BKN250 KBLI 251121Z 2512/2612 18007KT P6SM BKN030 OVC050 FM251900 17008KT P6SM BKN050 FM252200 18007KT P6SM SCT250 FM260600 17003KT P6SM FEW250 KBLV 250800Z 2508/2614 VRB06KT 8000 -SHRA BKN030 QNH3001INS BECMG 2512/2513 08006KT 9999 NSW SCT030 BKN050 QNH2990INS BECMG 2605/2606 VRB06KT 9999 BKN006 QNH2987INS TX26/2520Z TN18/2511Z KBMG 251131Z 2512/2612 08006KT P6SM SCT250 FM251900 11007KT P6SM SCT035 OVC080 FM260800 13006KT P6SM BKN015 FM261000 13006KT 6SM -SHRA BR OVC010 LTD TO CLD VIS AND WIND TIL 251300 KBMI 251128Z 2512/2612 10008KT P6SM BKN120 FM260400 10006KT P6SM VCSH OVC070 FM260600 11006KT P6SM VCTS OVC030CB KBNA 251400Z 2514/2612 16006KT P6SM SCT015 BKN020 BKN250 FM251600 17007KT P6SM VCSH OVC025 FM251800 17007KT P6SM -SHRA VCTS OVC015CB FM260000 15005KT 4SM -TSRA OVC007CB KBNO 251124Z 2512/2612 VRB06KT P6SM SKC FM252000 25014G22KT P6SM SCT250 FM260300 31010KT P6SM SCT250 KBOI 251124Z 2512/2612 VRB05KT P6SM SKC FM251900 31015G25KT P6SM SCT250 FM260400 32008KT P6SM SCT250 KBOS 251311Z 2513/2618 04012G22KT P6SM VCSH BKN030 FM251600 06016G24KT P6SM SCT030 FM251800 07012KT P6SM SCT035 FM260900 03010KT P6SM FEW025 FM261500 05010G17KT P6SM SCT030 KBPI 251139Z 2512/2612 26007KT P6SM SKC FM251700 31018G26KT P6SM SKC FM252100 30024G32KT P6SM FEW200 FM260300 33014G22KT P6SM SKC FM260600 36011KT P6SM SKC KBPK 251401Z 2514/2612 13005KT 5SM BR OVC005 TEMPO 2514/2516 P6SM NSW SCT005 OVC012 FM251600 15008KT P6SM VCTS SCT015 OVC030CB TEMPO 2516/2520 5SM TSRA BR OVC015CB FM260300 14007KT P6SM VCFG SCT008 OVC040 KBPT 251126Z 2512/2612 18006KT P6SM VCSH SCT030 OVC090 FM251700 19008KT P6SM -SHRA VCTS SCT025 BKN035CB FM260000 20005KT P6SM VCSH SCT025 BKN250 KBRD 251125Z 2512/2612 16010KT P6SM SCT045 BKN150 FM251600 16013G21KT P6SM SCT050 BKN150 FM252100 16013G22KT P6SM VCSH SCT025 OVC050 FM252300 16010G17KT 6SM -SHRA OVC025 FM260100 16009G15KT 5SM -SHRA BR OVC017 KBRL 251138Z 2512/2612 10007KT P6SM BKN100 FM251700 12008KT P6SM SCT030 BKN060 FM260600 11006KT P6SM OVC030 KBRO 251129Z 2512/2612 15008KT P6SM SCT035 SCT120 FM251400 16016G22KT P6SM VCTS BKN040CB FM260300 14007KT P6SM BKN250 KBTL 251140Z 2512/2612 08005KT P6SM SKC FM251700 11010KT P6SM SCT120 FM260000 12007KT P6SM BKN250 KBTM 251120Z 2512/2612 33005KT P6SM FEW250 FM251900 31013G20KT P6SM SCT250 FM260500 32010KT P6SM SKC KBTR 251139Z 2512/2612 15005KT P6SM VCSH SCT030 OVC090 FM251700 16007KT 6SM -SHRA SCT020 OVC045 TEMPO 2517/2521 3SM TSRA BKN020CB FM252100 18007KT 4SM -SHRA BR VCTS SCT015CB OVC025 FM260300 VRB03KT 5SM -SHRA BR VCTS SCT010CB OVC015 FM260800 00000KT P6SM -SHRA VCTS SCT008CB OVC020 KBTV 251130Z 2512/2612 00000KT P6SM SKC FM251700 06007KT P6SM FEW040 FM251900 04007KT P6SM SKC KBUF 251120Z 2512/2612 10004KT P6SM SKC FM251600 09008KT P6SM SCT040 FM252300 11005KT P6SM SKC KBUR 251133Z 2512/2612 VRB03KT P6SM SKC FM252000 17009KT P6SM SKC FM260300 12007KT P6SM SKC FM260700 VRB03KT P6SM SKC KBVI 251135Z 2512/2612 09003KT P6SM SKC FM251400 12008KT P6SM SKC KBVO 251131Z 2512/2612 05007KT P6SM OVC009 TEMPO 2512/2516 VRB15G30KT 2SM TSRA OVC007CB FM251800 17006KT P6SM BKN025 FM252200 16005KT P6SM BKN040 FM260900 VRB03KT 4SM BR SCT010 KBWG 251120Z 2512/2612 VRB04KT P6SM SCT030 OVC120 FM251400 13006KT P6SM SCT025 OVC050 FM251700 16006KT P6SM VCSH SCT025 OVC040 TEMPO 2520/2524 3SM -TSRA BKN025CB FM260000 16006KT P6SM VCSH SCT015 BKN022 FM260600 18008KT P6SM VCSH SCT008 BKN013 KBWI 251131Z 2512/2618 04008KT P6SM SCT060 FM251500 07010G17KT P6SM SCT050 FM252300 08008KT P6SM FEW050 SCT250 FM260500 05005KT P6SM BKN200 KBYI 251120Z 2512/2612 24006KT P6SM SKC FM251500 25010G20KT P6SM SKC FM251900 27017G27KT P6SM SKC FM260400 24009KT P6SM SKC KBZN 251120Z 2512/2618 VRB06KT P6SM FEW100 FM252000 30012G20KT P6SM FEW080 SCT250 TEMPO 2522/2524 BKN080 FM260100 33009KT P6SM BKN080 FM260400 VRB06KT P6SM FEW080 SCT250 KCAE 251126Z 2512/2612 04007KT P6SM SCT015 OVC025 TEMPO 2512/2515 BKN015 FM260000 05008KT P6SM BKN035 KCAK 251126Z 2512/2612 08005KT P6SM SKC FM251500 12010KT P6SM FEW040 KCAR 251120Z 2512/2612 VRB03KT P6SM SKC FM260600 00000KT 6SM MIFG FEW090 KCDC 251120Z 2512/2612 15007KT P6SM SKC FM251800 22012G20KT P6SM SKC FM260300 18008KT P6SM SKC KCDR 251120Z 2512/2612 22004KT P6SM SKC FM251800 33012KT P6SM SKC FM260100 03007KT P6SM SKC FM260900 34011KT P6SM OVC040 KCDS 251128Z 2512/2612 18011KT P6SM SCT250 KCEC 251215Z 2512/2612 36005KT 6SM BR OVC002 FM251900 30007KT 6SM BR SCT003 FM252100 31010KT P6SM SKC FM260300 17007KT P6SM SKC KCEF 251000Z 2510/2616 04006KT 9999 BKN025 BKN045 QNH3027INS BECMG 2512/2513 04010G15KT 9999 SCT045 QNH3022INS BECMG 2600/2601 03006KT 9999 SKC QNH3027INS BECMG 2613/2614 04012KT 9999 SCT040 QNH3027INS TX25/2520Z TN09/2610Z KCGI 251138Z 2512/2612 VRB04KT P6SM VCSH SCT035 OVC050 TEMPO 2512/2515 -SHRA BKN035 FM251500 VRB05KT P6SM SCT025 OVC035 FM252000 VRB06KT 4SM -SHRA OVC030 FM260200 14004KT P6SM VCSH OVC027 FM260600 16005KT 3SM BR MIFG VCSH OVC008 KCHA 251120Z 2512/2612 VRB03KT P6SM BKN030 FM252100 15006KT P6SM VCTS SCT030CB BKN040 FM260300 13005KT P6SM VCSH BKN030 KCHO 251131Z 2512/2612 06009KT P6SM FEW060 FM251900 06007KT P6SM SCT050 FM260200 VRB03KT P6SM SCT045 BKN250 KCHS 251335Z 2514/2612 03011G16KT P6SM OVC012 FM251900 03010KT P6SM SCT015 OVC035 KCID 251138Z 2512/2612 10007KT P6SM SCT045 BKN120 FM251700 12009KT P6SM SCT030 BKN060 FM260800 10007KT P6SM BKN030 OVC080 KCKB 251120Z 2512/2612 VRB03KT P6SM FEW200 FM251800 10007KT P6SM FEW060 KCKV 251140Z 2512/2612 07003KT P6SM BKN250 FM251400 13005KT P6SM OVC050 FM251600 15005KT P6SM VCSH OVC025 FM251800 15006KT P6SM -SHRA VCTS OVC015CB FM260000 15005KT 4SM -TSRA OVC007CB KCLE 251126Z 2512/2618 11008KT P6SM SKC FM251900 06010G18KT P6SM FEW050 FM260100 13011KT P6SM SKC FM261400 15013KT P6SM SCT120 BKN250 KCLL 251120Z 2512/2612 00000KT P6SM BKN110 FM251500 24005KT P6SM SCT040 SCT100 FM251700 21008KT P6SM VCTS SCT040CB SCT070 FM252200 15005KT P6SM SCT090 FM260900 VRB04KT P6SM FEW015 FEW040 KCLM 251121Z 2512/2612 24006KT P6SM SCT025 OVC035 FM251300 27007KT P6SM OVC025 FM251900 34008KT P6SM SCT040 SCT250 FM260000 29008KT P6SM FEW250 KCLT 251358Z 2514/2618 03012KT P6SM SCT020 OVC050 TEMPO 2514/2516 BKN020 FM251700 04009KT P6SM SCT024 BKN050 FM252000 05007KT P6SM SCT035 BKN050 KCMA 251133Z 2512/2612 VRB03KT P6SM SKC FM251900 23008KT P6SM SKC FM260300 VRB03KT P6SM SKC KCMH 251123Z 2512/2612 08008KT P6SM FEW250 FM251500 10009KT P6SM FEW050 SCT250 FM260000 11009KT P6SM BKN250 KCMI 251128Z 2512/2612 10007KT P6SM BKN120 FM260800 11006KT P6SM VCTS OVC030CB KCMX 251136Z 2512/2612 19006KT P6SM SCT050 FM251700 15009KT P6SM SCT250 FM252100 12009KT P6SM SCT200 KCNM 251121Z 2512/2612 20010KT P6SM SCT300 FM251600 30011KT P6SM SCT300 KCNU 251134Z 2512/2612 VRB05KT P6SM -RA VCTS SCT025 OVC080CB TEMPO 2512/2516 4SM -SHRA OVC080 FM251600 VRB03KT P6SM -SHRA VCTS OVC015CB TEMPO 2516/2519 4SM TSRA BKN008 OVC040CB FM252000 VRB04KT P6SM VCSH OVC050 FM252200 VRB05KT P6SM BKN050 FM260500 14006KT P6SM SCT070 FM260800 15007KT P6SM OVC015 KCNY 251120Z 2512/2612 24003KT P6SM SKC FM260100 27010G15KT P6SM SKC FM260300 30007KT P6SM SKC FM260500 27005KT P6SM SKC KCOD 251139Z 2512/2612 28005KT P6SM SKC FM251600 36008KT P6SM SKC FM251900 34010G18KT P6SM FEW200 FM252200 34014G23KT P6SM SCT120 FM260600 34008KT P6SM SCT200 LTD TO CLD VIS AND WIND KCOE 251120Z 2512/2612 18007KT P6SM SCT150 FM251500 20008KT P6SM SCT040 BKN120 FM251800 24011G18KT P6SM SCT070 FM260200 24009KT P6SM SCT070 FM260600 12003KT P6SM SKC KCOF 251000Z 2510/2616 31007KT 9999 SCT018 QNH2992INS BECMG 2602/2603 07006KT 9999 SCT020 SCT150 QNH2987INS TX32/2518Z TN27/2510Z KCON 251331Z 2514/2612 07003KT P6SM BKN025 FM251500 05008G15KT P6SM SCT035 FM252300 08004KT P6SM SKC KCOS 251125Z 2512/2612 36007KT P6SM SKC FM251500 30010KT P6SM FEW200 FM252000 31013G25KT P6SM FEW100 FM260200 33010KT P6SM SKC KCOT 251120Z 2512/2612 13005KT P6SM SCT040 BKN090 FM260400 15010KT P6SM SCT090 KCOU 251129Z 2512/2612 10006KT P6SM VCSH OVC025 FM252000 10008KT P6SM VCTS OVC025CB FM260200 11007KT P6SM VCSH OVC015 FM260600 VRB04KT P6SM BKN015 KCPR 251139Z 2512/2612 24010KT P6SM SKC FM251600 28010KT P6SM SKC FM252000 28018G26KT P6SM SKC FM260130 31010G15KT P6SM FEW200 FM260600 02010KT P6SM SCT050 KCPS 251129Z 2512/2612 09005KT P6SM VCSH OVC100 FM252000 10007KT P6SM VCTS OVC050CB FM260400 12005KT P6SM VCSH OVC025 FM260900 15005KT P6SM OVC018 KCRE 251319Z 2513/2612 01010KT P6SM OVC009 FM251500 03010KT P6SM OVC015 FM251800 04011G17KT P6SM BKN025 FM260100 03010KT P6SM BKN035 KCRG 251408Z 2514/2612 04010KT P6SM VCSH SCT015 SCT025 BKN035 TEMPO 2514/2516 BKN025 FM252300 04006KT P6SM SCT025 BKN250 FM260200 03003KT P6SM SCT030 BKN250 KCRP 251120Z 2512/2612 16005KT P6SM SCT050 TEMPO 2512/2513 5SM BR FM251800 16012KT P6SM BKN050 OVC250 PROB30 2521/2524 4SM TSRA BR BKN050CB FM260800 18009KT P6SM SCT050 KCRQ 251127Z 2512/2612 VRB03KT P6SM SKC FM251900 25008KT P6SM SCT100 FM260200 VRB05KT P6SM FEW008 SCT150 FM261000 VRB04KT 4SM BR BKN006 KCRW 251136Z 2512/2612 06004KT 4SM BR SCT001 FM251230 09004KT P6SM FEW200 FM251800 10006KT P6SM SCT060 FM260800 11005KT 4SM BR BKN100 KCSG 251130Z 2512/2612 08007KT P6SM VCSH BKN008 FM251700 09007KT P6SM BKN012 FM252200 09006KT P6SM VCSH BKN035 FM260900 09006KT P6SM VCSH BKN009 KCSM 251120Z 2512/2612 16015KT P6SM VCSH SCT150 BKN250 TEMPO 2512/2515 SHRA FM251500 16013G20KT P6SM SCT060 SCT250 KCSV 251402Z 2514/2612 VRB04KT P6SM OVC003 FM251600 16006KT P6SM OVC025 FM251800 16005KT P6SM VCSH OVC050 FM252200 16004KT P6SM -SHRA VCTS OVC050CB FM260000 14003KT 4SM -TSRA OVC025CB FM260900 16006KT 2SM -TSRA OVC015CB KCTB 251120Z 2512/2612 33008KT P6SM FEW060 BKN080 FM251800 30009KT P6SM VCTS SCT040CB BKN060 TEMPO 2518/2522 4SM -TSRA BKN030CB FM252200 33014G23KT P6SM VCSH SCT030 BKN060 FM260100 30009KT P6SM FEW040 SCT200 KCUB 251126Z 2512/2612 04007KT P6SM SCT015 OVC025 TEMPO 2512/2515 BKN015 FM252300 02006KT P6SM BKN035 KCVG 251123Z 2512/2618 08008KT P6SM SCT250 FM251800 08010KT P6SM FEW050 BKN250 FM260400 10007KT P6SM SCT050 OVC250 FM261000 12006KT P6SM -SHRA SCT025 OVC050 FM261200 14005KT 5SM SHRA BKN012 OVC025 TEMPO 2612/2616 4SM SHRA OVC008 KCVS 251000Z 2510/2616 20008KT 9999 SKC QNH2996INS BECMG 2514/2515 28010G15KT 9999 SKC QNH2981INS BECMG 2522/2523 VRB06KT 9999 SKC QNH2978INS BECMG 2605/2606 22010KT 9999 SKC QNH2984INS TX38/2522Z TN19/2513Z KCWA 251121Z 2512/2612 12003KT P6SM BKN050 FM251400 14009KT P6SM SCT030 SCT150 FM251700 15009G16KT P6SM SCT050 FM252300 13007KT P6SM BKN070 FM260600 13005KT P6SM BKN040 KCXO 251420Z 2514/2612 VRB03KT P6SM -RA FEW007 BKN010 OVC015 FM251500 21005KT P6SM SCT040 BKN100 FM252100 18007KT P6SM VCTS SCT040CB SCT080 FM260000 VRB04KT P6SM SCT250 FM261000 00000KT P6SM SCT010 KCXP 251120Z 2512/2612 VRB03KT P6SM SKC FM251800 24008KT P6SM SKC FM252100 26011G19KT P6SM SCT250 FM260600 VRB04KT P6SM SKC KCYS 251120Z 2512/2612 28008KT P6SM SCT250 FM251500 30018G25KT P6SM SKC FM260100 29011KT P6SM SKC KDAB 251420Z 2514/2612 03010KT P6SM VCSH BKN020 FM251600 04010KT P6SM SCT030 FM260000 04006KT P6SM FEW035 FEW250 KDAG 251120Z 2512/2612 26008KT P6SM FEW250 FM251600 32008KT P6SM FEW250 FM260200 25011KT P6SM SKC KDAL 251130Z 2512/2612 14007KT P6SM SCT250 KDAN 251341Z 2514/2612 04004KT P6SM FEW035 BKN070 FM251500 04008G16KT P6SM BKN050 FM260000 07005KT P6SM BKN090 FM260400 04004KT P6SM BKN080 KDAY 251123Z 2512/2612 08008KT P6SM FEW250 FM251500 09010KT P6SM FEW050 SCT250 FM260000 10008KT P6SM BKN250 FM260600 12007KT P6SM OVC250 FM261000 13006KT P6SM SCT050 OVC250 KDBQ 251138Z 2512/2612 10007KT P6SM SCT050 BKN200 FM251700 13010KT P6SM SCT030 BKN080 FM260800 12008KT P6SM OVC040 KDCA 251131Z 2512/2618 04010KT P6SM BKN080 FM251500 05010G16KT P6SM SCT050 FM252300 07008KT P6SM FEW040 SCT250 FM260300 03008KT P6SM BKN200 KDDC 251141Z 2512/2612 13010KT P6SM BKN006 FM251500 15011KT P6SM BKN012 FM251600 15011KT P6SM BKN250 FM260600 15010KT P6SM SCT016 FM261000 18010KT P6SM BKN016 KDEC 251128Z 2512/2612 11007KT P6SM BKN100 FM260600 10006KT P6SM VCTS OVC030CB KDEN 251409Z 2514/2618 23009KT P6SM FEW140 SCT200 FM251600 28012KT P6SM SCT200 FM251900 32014G20KT P6SM FEW120 FM260000 28012KT P6SM FEW120 FM260300 19012KT P6SM FEW200 FM260900 32012KT P6SM SKC FM261200 04014G20KT P6SM SCT030 KDET 251132Z 2512/2612 06006KT P6SM FEW040 SCT200 FM251500 11010KT P6SM SCT045 FM260000 12007KT P6SM SCT200 KDFW 251130Z 2512/2618 14007KT P6SM SCT250 FM261500 18015KT P6SM FEW250 KDHN 251320Z 2513/2612 10005KT 2SM BR BKN004 TEMPO 2513/2515 3/4SM BR OVC002 FM251500 08007KT P6SM BKN015 FM251700 11010KT P6SM BKN025 FM252100 09007KT 5SM -TSRA BKN035CB BKN100 FM260300 10003KT P6SM SCT035 BKN100 FM261000 10007KT P6SM SCT009 KDHT 251120Z 2512/2612 34005KT P6SM SKC FM260100 14010KT P6SM SKC KDIJ 251120Z 2512/2612 19007KT P6SM FEW110 FM251900 22010G20KT P6SM SCT110 FM260300 18007KT P6SM SKC LTD TO CLD VIS AND WIND KDIK 251120Z 2512/2612 19007KT P6SM SKC FM251500 27008KT P6SM FEW080 SCT250 FM251800 27010KT P6SM VCTS FEW060CB SCT180 FM252000 28011G20KT P6SM SCT050 BKN200 FM252300 30012G20KT P6SM FEW070 SCT250 KDLH 251224Z 2512/2612 15009KT P6SM BKN045 FM251500 16012G20KT P6SM BKN050 BKN150 FM260000 14008KT P6SM BKN050 FM260400 14008KT P6SM VCSH BKN025 OVC050 FM260600 14009KT 6SM -SHRA BR OVC010 FM261000 12011KT 5SM -SHRA BR OVC006 KDLS 251120Z 2512/2612 30011G18KT P6SM SKC FM251700 30019G26KT P6SM SKC FM260400 31010G17KT P6SM SKC FM260700 31007KT P6SM SKC KDMA 251403Z 2514/2620 VRB06KT 9999 SCT080 QNH3010INS BECMG 2516/2517 32008KT 9999 FEW100 QNH2996INS TEMPO 2522/2601 32012G18KT BECMG 2602/2603 16008KT 9999 FEW140 QNH2998INS BECMG 2610/2611 VRB06KT 9999 FEW110 QNH2998INS BECMG 2616/2617 31006KT 9999 SKC QNH2999INS TX34/2524Z TN22/2612Z KDMN 251120Z 2512/2612 24007KT P6SM FEW250 FM251600 27010G17KT P6SM FEW090 FM260600 26008KT P6SM SKC KDNL 251126Z 2512/2612 04010KT P6SM OVC008 FM251430 04010KT P6SM BKN015 OVC025 FM251800 05010KT P6SM BKN025 FM260000 05008KT P6SM BKN035 KDOV 250800Z 2508/2614 06009KT 9999 SCT050 QNH3017INS BECMG 2513/2514 05012G20KT 9999 BKN040 QNH3020INS BECMG 2602/2603 05012G20KT 9999 BKN020 QNH3018INS BECMG 2609/2610 04015G25KT 9999 BKN015 OVC030 QNH3014INS TX25/2520Z TN15/2510Z KDPA 251132Z 2512/2612 10007KT P6SM FEW045 SCT250 FM251700 11011KT P6SM FEW050 BKN200 FM260700 11006KT P6SM VCSH BKN050 PROB30 2608/2612 5SM -SHRA KDRO 251120Z 2512/2612 09006KT P6SM SKC FM252000 27010G20KT P6SM FEW150 FEW250 FM260100 27009KT P6SM SKC FM260700 00000KT P6SM SKC KDRT 251337Z 2514/2612 11009KT P6SM BKN007 FM251500 13008KT P6SM BKN020 FM251700 15007KT P6SM SCT050 FM260300 11008KT P6SM SKC KDSM 251120Z 2512/2612 12009KT P6SM SCT030 OVC045 FM251800 13010KT P6SM BKN025 OVC035 FM260600 14007KT P6SM SCT008 BKN013 OVC020 KDTW 251132Z 2512/2618 06006KT P6SM FEW040 SCT200 FM251500 11010KT P6SM SCT045 FM260000 12007KT P6SM SCT200 FM261400 14011KT P6SM BKN050 BKN200 KDUG 251317Z 2513/2612 16005KT P6SM FEW080 BKN250 FM251800 30006KT P6SM SCT080 SCT250 FM260700 04005KT P6SM SKC KDUJ 251135Z 2512/2612 07004KT P6SM SKC FM251500 11009KT P6SM SKC KDVL 251143Z 2512/2612 16012KT P6SM -RA OVC010 FM251400 18013KT P6SM VCSH BKN025 FM252300 17012KT 6SM SHRA BR OVC040 FM260800 27009KT P6SM SCT090 KDVT 251130Z 2512/2612 25008KT P6SM FEW060 SCT150 TEMPO 2514/2518 SCT060 SCT150 FM252200 25011G18KT P6SM FEW080 SCT150 FM260600 24007KT P6SM FEW080 SCT250 KDYS 251410Z 2514/2620 15009KT 9999 FEW080 QNH2983INS BECMG 2515/2516 17010G18KT 9999 FEW080 QNH2969INS BECMG 2600/2601 15012KT 9999 SKC QNH2969INS BECMG 2604/2605 17012G18KT 9999 SKC QNH2969INS TX39/2522Z TN25/2612Z KEAR 251122Z 2512/2612 13008KT P6SM OVC008 FM251500 15009KT P6SM OVC015 FM252100 15010KT P6SM BKN035 FM260300 15010KT P6SM OVC006 KEAT 251120Z 2512/2612 30011KT P6SM SCT150 FM251400 30014G20KT P6SM SKC FM260600 31010KT P6SM SKC KEAU 251132Z 2512/2612 12006KT P6SM SCT070 BKN150 FM251500 14011KT P6SM SCT035 BKN150 FM260100 15008KT P6SM SCT035 BKN060 FM260500 15005KT P6SM -SHRA OVC050 FM260800 15005KT P6SM OVC040 KECG 251159Z 2512/2612 01011KT P6SM OVC035 FM251500 02015G23KT P6SM SCT025 BKN040 FM252300 03011KT P6SM SCT070 FM260800 01009KT P6SM SCT050 KECP 251224Z 2512/2612 08010KT P6SM SCT025 FM252300 09007KT 5SM -TSRA BKN035CB BKN100 FM260300 10003KT P6SM SCT035 BKN100 FM261000 10007KT P6SM SCT009 KEED 251120Z 2512/2612 21009KT P6SM FEW250 KEET 251409Z 2514/2612 07005KT P6SM VCSH BKN030 TEMPO 2514/2516 OVC010 FM251700 10007KT P6SM VCSH BKN030 FM252100 12008KT P6SM VCTS OVC030CB FM260100 13004KT P6SM VCSH OVC030 FM260400 13003KT P6SM OVC030 KEFD 251200Z 2512/2618 18006KT 9999 SCT010 QNH2985INS BECMG 2515/2516 VRB06KT 8000 -SHRA SCT030 QNH2975INS TEMPO 2518/2524 16010G15KT 6000 -TSRA BKN020CB BECMG 2523/2524 18006KT 9999 NSW SCT040 QNH2975INS BECMG 2605/2606 19009KT 9999 SCT015 QNH2977INS BECMG 2614/2615 20006KT 9999 SKC QNH2980INS TX35/2521Z TN24/2611Z KEGE 251120Z 2512/2612 08003KT P6SM FEW250 FM251700 26008KT P6SM SCT250 FM251830 26010G24KT P6SM SCT250 FM260200 26009KT P6SM FEW120 FEW250 FM260600 08004KT P6SM SKC KEKN 251120Z 2512/2612 VRB03KT P6SM FEW030 FM251800 12008KT P6SM FEW050 FM260700 18003KT 2SM BR OVC100 FM260900 17003KT 1/2SM FG OVC003 KEKO 251134Z 2512/2612 VRB03KT P6SM SKC FM251800 27020G30KT P6SM SKC FM260300 34008KT P6SM SKC FM260600 VRB05KT P6SM SKC KEKS 251120Z 2512/2612 VRB06KT P6SM SCT120 FM251900 32012G20KT P6SM FEW080 SCT250 TEMPO 2520/2524 BKN080 FM260100 33009KT P6SM BKN080 FM260400 36007KT P6SM SCT250 KELD 251142Z 2512/2612 08004KT P6SM BKN060 TEMPO 2512/2514 BKN015 FM251400 15004KT P6SM OVC015 FM252000 16006KT P6SM VCTS BKN050CB FM260000 12005KT P6SM BKN100 FM260300 12004KT P6SM OVC025 FM260600 13003KT 4SM BR OVC007 KELM 251412Z 2514/2612 00000KT P6SM SCT004 FM251500 08006KT P6SM SCT050 FM252300 09002KT P6SM SCT050 FM260700 VRB03KT 3SM BR FEW020 TEMPO 2609/2612 2SM BR SCT003 KELP 251120Z 2512/2612 22012G20KT P6SM FEW250 FM251700 26010G16KT P6SM FEW090 FM260900 25011KT P6SM SKC KELY 251134Z 2512/2612 18010KT P6SM FEW250 FM251900 26012G20KT P6SM SKC FM260200 26009KT P6SM SKC FM260600 18009KT P6SM SKC KEND 251120Z 2511/2616 14012KT 9999 BKN007 QNH2981INS BECMG 2512/2513 16012KT 8000 -SHRA SCT010 BKN030 QNH2981INS TEMPO 2513/2515 VRB25G35KT 4800 TSRA BKN010CB OVC030 BECMG 2515/2516 18015G20KT 9999 NSW SCT020 QNH2984INS BECMG 2523/2524 16012KT 9999 FEW070 QNH2970INS TX34/2522Z TN21/2512Z LAST NO AMDS AFT 2511 NEXT 2518 KENV 251120Z 2512/2612 30007KT P6SM SKC FM251800 30018G28KT P6SM SKC FM260900 32006KT P6SM SKC KENW 251136Z 2512/2612 13005KT P6SM FEW040 BKN200 FM251500 12010KT P6SM SCT050 BKN250 FM260000 10007KT P6SM BKN200 FM260200 12007KT P6SM BKN120 FM260700 13007KT P6SM OVC060 KERI 251126Z 2512/2612 14007KT P6SM SKC FM251700 07010G18KT P6SM SKC FM260200 14010G18KT P6SM FEW250 KEUG 251129Z 2512/2612 34005KT P6SM SCT025 BKN035 FM251300 VRB03KT P6SM SCT015 OVC025 FM251900 02008KT P6SM SKC FM252000 02012G20KT P6SM SKC FM260400 02006KT P6SM SKC KEUL 251124Z 2512/2612 30010KT P6SM SKC FM251800 31015G25KT P6SM SCT250 FM260300 32006KT P6SM SCT250 KEVV 251138Z 2512/2612 VRB05KT P6SM SCT050 BKN090 FM252100 VRB06KT P6SM VCSH SCT035 OVC060 FM260100 13005KT 4SM -SHRA SCT015 BKN030 FM260500 14005KT P6SM VCSH SCT015 OVC030 FM260700 15004KT 6SM -SHRA BR VCTS OVC018CB FM260900 15005KT 6SM -SHRA BR VCTS OVC009CB KEVW 251120Z 2512/2612 22008KT P6SM SKC FM251500 22012G20KT P6SM SKC FM251900 25024G34KT P6SM SKC FM260300 29010KT P6SM SKC KEWN 251307Z 2513/2612 03011KT P6SM BKN020 TEMPO 2513/2514 BKN009 FM251800 03014G23KT P6SM SCT025 BKN040 FM252300 03010KT P6SM BKN040 KEWR 251303Z 2513/2618 03011KT P6SM SCT025 SCT060 TEMPO 2513/2515 BKN025 FM251500 06012G19KT P6SM SCT025 BKN060 FM260000 05010KT P6SM SCT025 SCT060 FM260800 04009KT P6SM BKN025 FM261300 04010KT P6SM SCT025 SCT050 KEYW 251132Z 2512/2612 23009KT P6SM VCSH SCT020 SCT050 FM260100 20006KT P6SM FEW025 KFAR 251428Z 2514/2612 15014G22KT P6SM VCSH BKN040 TEMPO 2514/2516 BKN030 FM260200 17009KT P6SM VCTS OVC015CB FM260600 17012KT P6SM -RA OVC025 FM261000 19009KT P6SM BKN035 KFAT 251120Z 2512/2612 VRB06KT P6SM SKC KFAY 251419Z 2514/2612 01008KT P6SM BKN008 OVC025 FM251600 03009KT P6SM BKN015 FM252100 03010KT P6SM BKN040 FM260000 02007KT P6SM SCT250 KFBG 251216Z 2512/2615 01006KT 9999 BKN005 OVC012 QNH3008INS BECMG 2512/2513 04009KT 9999 BKN006 OVC020 QNH3004INS BECMG 2516/2517 06006KT 9999 BKN020 OVC050 QNH3002INS BECMG 2517/2518 04009KT 9999 SCT020 BKN050 QNH3000INS BECMG 2605/2606 03006KT 9999 SCT015 OVC050 QNH3003INS TX27/2518Z TN19/2512Z KFCS 251300Z 2513/2619 19009KT 9999 SKC QNH3007INS BECMG 2517/2518 32009KT 9999 FEW100 QNH2999INS BECMG 2520/2521 28010G20KT 9999 SCT130 QNH2995INS BECMG 2600/2601 30006KT 9999 FEW120 QNH2996INS BECMG 2608/2609 35009KT 9999 SKC QNH3002INS TX35/2521Z TN12/2613Z KFDY 251126Z 2512/2612 08005KT P6SM SKC FM251800 11010KT P6SM FEW040 TEMPO 2519/2521 SCT040 FM260600 12008KT P6SM BKN250 KFFO 251100Z 2511/2617 07006KT 9999 FEW030 QNH3015INS BECMG 2514/2515 12015KT 9999 FEW040 QNH3002INS BECMG 2522/2523 12006KT 9999 BKN040 QNH3001INS BECMG 2608/2609 12006KT 9999 BKN020 540209 QNH3000INS TX25/2521Z TN14/2512Z KFKL 251135Z 2512/2612 VRB02KT 1/2SM FG OVC001 FM251230 11009KT P6SM SKC KFLG 251120Z 2512/2612 25005KT P6SM SKC FM251700 29010G16KT P6SM SCT070 FM260200 VRB06KT P6SM SKC KFLL 251135Z 2512/2618 21004KT P6SM FEW025 FEW080 FEW250 FM251500 24008KT P6SM VCSH SCT025 SCT070 FM251700 17010KT P6SM VCTS SCT025CB BKN070 BKN250 FM260000 24006KT P6SM FEW030 SCT080 BKN250 FM261500 20008KT P6SM VCSH SCT030 SCT070 KFLO 251120Z 2512/2612 03009KT P6SM OVC014 FM251600 04010KT P6SM BKN015 FM252000 04009KT P6SM BKN025 KFMH 251311Z 2513/2612 06012G20KT P6SM SCT015 BKN020 FM260100 05010G20KT P6SM SCT015 FM260500 05010KT P6SM BKN020 KFMN 251121Z 2512/2612 05005KT P6SM FEW250 FM251900 27015G25KT P6SM FEW250 FM260200 30006KT P6SM SKC KFMY 251250Z 2513/2612 VRB04KT P6SM SCT015 FM251800 28007KT P6SM VCTS SCT050CB BKN100 FM260100 VRB05KT P6SM SCT030 SCT250 FM260900 VRB03KT P6SM SCT015 KFNT 251132Z 2512/2612 07006KT P6SM SCT040 SCT200 TEMPO 2512/2514 BKN040 FM251500 11010KT P6SM SCT035 FM260000 12007KT P6SM SCT200 KFOD 251120Z 2512/2612 12008KT P6SM SCT040 OVC060 FM251800 14010KT P6SM SCT025 BKN035 FM260600 15009KT P6SM SCT008 BKN013 OVC020 KFOE 251250Z 2513/2612 11007KT P6SM VCSH BKN005 FM251600 13007KT P6SM BKN012 FM251800 14007KT P6SM BKN025 FM260800 15005KT P6SM BKN010 KFPR 251134Z 2512/2612 31003KT P6SM FEW020 FEW250 FM251600 08009KT P6SM VCSH SCT035 SCT200 FM260000 VRB03KT P6SM FEW040 FEW250 KFSD 251127Z 2512/2612 15011G17KT P6SM -SHRA SCT025 OVC080 TEMPO 2514/2517 4SM SHRA OVC027 FM251700 16013G21KT P6SM OVC016 FM252300 15013G19KT P6SM OVC025 FM260400 16010KT P6SM OVC011 PROB30 2607/2609 4SM TSRA BKN008CB FM260900 18008KT 6SM SHRA OVC008 KFSM 251131Z 2512/2612 08007KT P6SM OVC008 FM251600 12005KT P6SM OVC015 TEMPO 2519/2523 4SM -TSRA OVC008CB FM252300 08005KT P6SM BKN025 KFST 251121Z 2512/2612 21010KT P6SM SCT300 FM251500 28010KT P6SM SCT300 FM260100 17011KT P6SM SCT300 KFTK 250900Z 2509/2615 06006KT 9999 FEW030 SCT150 QNH3004INS BECMG 2511/2512 09006KT 9999 BKN025 OVC040 QNH3000INS BECMG 2518/2519 12009KT 6000 -SHRA BKN015 OVC025 QNH2998INS TEMPO 2521/2524 15015G25KT 4800 -TSRA OVC020CB BECMG 2523/2524 16009KT 9999 NSW BKN020 QNH2996INS BECMG 2605/2606 18009KT 9999 -SHRA SCT010 OVC015 QNH2995INS BECMG 2611/2612 18009KT 9999 -SHRA BKN010 OVC015 QNH2995INS TX26/2520Z TN16/2511Z KFTW 251130Z 2512/2612 14007KT P6SM SCT250 KFTY 251130Z 2512/2612 08010KT P6SM VCSH OVC012 FM251600 09008KT P6SM OVC015 FM252000 09007KT P6SM SCT025 BKN035 FM260500 09008KT P6SM VCSH BKN025 FM260900 09007KT P6SM VCSH OVC009 KFVE 251120Z 2512/2612 VRB03KT P6SM SKC FM260600 00000KT 6SM MIFG FEW080 KFWA 251120Z 2512/2612 07006KT P6SM SCT250 FM251500 10010KT P6SM SCT050 BKN250 FM260000 09010KT P6SM BKN150 KFXE 251135Z 2512/2612 22004KT P6SM FEW025 FEW250 FM251500 23007KT P6SM VCSH SCT025 SCT070 FM251700 19009KT P6SM VCTS SCT025CB BKN070 BKN250 FM260000 24005KT P6SM FEW030 SCT080 BKN250 KFYV 251131Z 2512/2612 VRB03KT P6SM OVC012 FM251700 16005KT P6SM VCTS OVC025CB TEMPO 2518/2522 4SM -TSRA OVC012CB FM260000 14006KT P6SM BKN035 FM260600 VRB03KT 3SM BR BKN012 KGBD 251134Z 2512/2612 VRB05KT P6SM VCTS SCT005 OVC040CB TEMPO 2512/2513 1SM +TSRA OVC005CB FM251300 VRB04KT P6SM SCT006 OVC025 TEMPO 2513/2516 BKN008 FM251600 17007KT P6SM BKN025 FM251800 15010KT P6SM BKN035 FM252100 17008KT P6SM SCT120 KGCC 251122Z 2512/2612 VRB05KT P6SM BKN250 FM251400 33012KT P6SM SCT100 FM252200 02012KT P6SM BKN050 FM260100 35013KT P6SM -SHRA OVC050 KGCK 251401Z 2514/2612 12009KT 1/2SM FG BKN002 FM251600 15009KT P6SM BKN005 FM251800 15009KT P6SM SCT250 FM252100 18009KT P6SM SKC FM260600 15009KT P6SM SCT003 KGCN 251120Z 2512/2612 VRB04KT P6SM SKC FM251700 27008G15KT P6SM SKC FM260200 VRB06KT P6SM SKC KGDV 251121Z 2512/2612 VRB04KT P6SM SCT100 FM251600 28011KT P6SM SCT100 FM252200 30015G23KT P6SM VCSH SCT100 KGEG 251120Z 2512/2612 22010KT P6SM FEW150 SCT200 FM251800 25013G18KT P6SM SCT070 FM260200 27008KT P6SM FEW070 FM260800 26004KT P6SM SKC KGFA 251102Z 2511/2617 VRB06KT 9999 SCT100 QNH2990INS TEMPO 2518/2524 26015G25KT 8000 -SHRA VCTS BKN020CB TX24/2518Z TN08/2512Z KGFK 251143Z 2512/2612 16013KT P6SM -RA SCT060 BKN150 FM251900 17015G24KT P6SM OVC025 FM260200 17014G22KT P6SM VCTS BKN015CB FM260500 17010KT P6SM OVC025 KGFL 251132Z 2512/2612 05005KT P6SM SCT050 FM252200 08005KT P6SM SKC FM260500 00000KT 2SM BR SKC KGGG 251140Z 2512/2612 08005KT P6SM OVC009 TEMPO 2512/2514 6SM BR OVC015 FM251400 VRB04KT P6SM OVC025 FM251800 15006KT P6SM BKN050 FM252100 12005KT P6SM VCTS BKN050CB FM260000 14005KT P6SM BKN250 FM260900 12002KT 5SM BR SCT250 KGGW 251121Z 2512/2612 27007KT P6SM SCT100 FM251500 30012KT P6SM SCT200 FM260000 32009KT P6SM VCTS BKN090CB KGJT 251120Z 2512/2612 07006KT P6SM SKC FM251400 11006KT P6SM SKC FM251900 26010G22KT P6SM FEW250 FM260100 26009KT P6SM SKC FM260600 11005KT P6SM SKC KGKY 251130Z 2512/2612 14007KT P6SM SCT250 KGLD 251135Z 2512/2612 17007KT 1/4SM FG VV002 TEMPO 2513/2515 2SM BR OVC005 FM251600 18007KT P6SM SCT030 FM252100 15010KT P6SM SCT250 FM260800 20010KT P6SM SCT015 FM261000 26009KT P6SM FEW100 SCT200 KGLH 251120Z 2512/2612 00000KT P6SM OVC110 FM251800 16005KT P6SM VCTS BKN035 BKN050CB FM260100 11007KT 6SM -RA OVC025 FM260400 13007KT P6SM OVC025 FM260600 16003KT P6SM OVC007 KGLS 251120Z 2512/2612 VRB04KT P6SM SCT025 FM251700 18006KT P6SM VCTS SCT030CB BKN090 TEMPO 2517/2520 4SM SHRA BR OVC030 FM252000 19012KT P6SM VCTS SCT030CB BKN250 FM260000 20012KT P6SM BKN200 KGMU 251232Z 2513/2612 04009KT P6SM BKN027 OVC040 FM251600 05010KT P6SM BKN022 FM252200 06010KT P6SM BKN035 FM260100 05009KT P6SM SCT027 OVC045 KGNV 251120Z 2512/2612 02005KT P6SM SCT003 SCT015 TEMPO 2512/2514 BKN015 FM251700 06007KT P6SM VCTS BKN025CB FM252300 04006KT P6SM SCT025 BKN250 FM260300 05003KT P6SM SCT030 BKN250 KGON 251120Z 2512/2612 04011KT P6SM SCT020 BKN060 FM251400 06014G21KT P6SM SCT025 BKN060 TEMPO 2516/2520 BKN025 BKN060 FM260000 05012KT P6SM SCT020 SCT060 FM260500 04011KT P6SM BKN015 KGPI 251120Z 2512/2612 VRB04KT P6SM FEW250 FM251600 16008KT P6SM BKN150 FM252100 22009G17KT P6SM BKN100 FM252300 23009KT P6SM BKN100 KGPT 251139Z 2512/2612 VRB03KT P6SM -RA SCT030 BKN100 FM251500 16005KT P6SM VCSH SCT030 BKN100 FM260000 19006KT P6SM -SHRA VCTS SCT025CB OVC090 FM260800 19004KT P6SM -SHRA VCTS OVC030CB KGRB 251121Z 2512/2612 13003KT P6SM SCT060 FM251400 15008KT P6SM SCT070 FM251800 14010G15KT P6SM SCT070 FM260000 12007KT P6SM SCT040 BKN150 FM260900 13004KT P6SM BKN060 KGRF 2513/2619 VRB06KT 9999 OVC015 QNH3008INS BECMG 2520/2521 24009KT 9999 SCT050 QNH3019INS BECMG 2603/2604 33006KT 9999 FEW040 QNH3021INS TX22/2600Z TN14/2513Z KGRI 251122Z 2512/2612 14008KT P6SM OVC005 FM251600 15010KT P6SM OVC015 FM252200 15010KT P6SM BKN035 FM260300 15010KT P6SM OVC006 KGRK 250800Z 2508/2614 18006KT 9999 FEW030 SCT050 QNH2985INS TEMPO 2511/2513 BKN014 BECMG 2517/2518 19006KT 9999 SKC QNH2973INS TX37/2521Z TN24/2511Z KGRR 251140Z 2512/2612 08005KT P6SM SKC FM251700 11008KT P6SM BKN120 FM260000 10007KT P6SM BKN250 KGSO 251120Z 2512/2612 05005KT P6SM SCT009 OVC050 FM251500 06007KT P6SM BKN050 FM252100 05004KT P6SM SCT035 SCT250 KGSP 251230Z 2513/2612 03007KT P6SM BKN028 OVC040 FM251600 05009KT P6SM OVC022 FM251900 05009KT P6SM SCT027 BKN035 KGTF 251120Z 2512/2612 32007KT P6SM SCT100 SCT200 FM251900 28013G22KT P6SM VCSH SCT070 BKN100 PROB30 2521/2601 6SM -TSRA BKN035CB FM260100 33011G21KT P6SM FEW040 BKN100 FM260900 27007KT P6SM FEW060 SCT250 KGTR 251324Z 2513/2612 13007KT P6SM BKN006 OVC025 FM251600 13007KT P6SM VCSH SCT015 BKN035 FM252000 14006KT P6SM SHRA FEW025 BKN040 FM260100 11007KT 6SM -RA BR OVC015 FM260900 14007KT 4SM -RA BR OVC007 KGUC 251120Z 2512/2612 00000KT P6SM FEW250 FM251800 27008KT P6SM FEW120 FEW200 FM252000 28011G22KT P6SM FEW150 FEW200 FM260200 28008KT P6SM SKC FM260600 32005KT P6SM SKC KGUP 251121Z 2512/2612 VRB03KT P6SM FEW250 FM251800 26011G19KT P6SM FEW250 FM260200 23006KT P6SM SKC KGUS 251100Z 2511/2617 08006KT 9999 SKC QNH3013INS BECMG 2514/2515 11012KT 9999 FEW200 QNH2999INS BECMG 2522/2523 11006KT 9999 BKN040 QNH2996INS BECMG 2605/2606 12006KT 9999 BKN025 QNH2993INS TX25/2518Z TN12/2512Z KGUY 251120Z 2512/2612 20005KT P6SM SKC KGWO 251120Z 2512/2612 00000KT P6SM FEW005 FEW110 FM251400 13004KT P6SM OVC100 FM251800 16005KT P6SM VCTS BKN035 BKN050CB FM260100 11007KT 6SM -RA OVC025 FM260400 13007KT P6SM OVC025 FM260600 16003KT P6SM OVC007 KGYY 251132Z 2512/2612 11007KT P6SM SCT250 FM251600 10010KT P6SM FEW050 BKN200 FM260700 13008KT P6SM VCSH BKN050 PROB30 2608/2612 5SM -SHRA KHBG 251120Z 2512/2612 00000KT P6SM SCT120 FM251500 16005KT P6SM VCSH SCT015 BKN025 FM251800 17006KT P6SM VCTS BKN035 BKN050CB FM260100 11007KT 6SM -RA OVC020 FM260400 13007KT P6SM OVC015 FM260900 16003KT 4SM -RA BR OVC007 KHCR 251120Z 2512/2612 VRB04KT P6SM SKC FM251900 25012G20KT P6SM SKC FM260300 VRB04KT P6SM SKC KHDC 251139Z 2512/2612 00000KT P6SM SCT035 BKN090 TEMPO 2515/2517 4SM SHRA BKN025 FM251700 17005KT P6SM -SHRA SCT025 OVC080 TEMPO 2517/2521 4SM TSRA BKN025CB FM252100 17006KT 6SM -SHRA VCTS SCT020CB OVC035 FM260300 00000KT P6SM -SHRA VCTS SCT020CB OVC025 KHDN 251120Z 2512/2612 09010KT P6SM BKN250 FM251600 27008KT P6SM FEW150 BKN250 FM251800 27012G25KT P6SM FEW150 BKN250 FM260300 11005KT P6SM FEW150 FEW250 KHIB 251125Z 2512/2612 15008KT P6SM BKN045 FM251600 17011G20KT P6SM BKN045 BKN080 FM260100 15008KT P6SM VCSH SCT030 BKN050 FM260300 15008KT 6SM -SHRA BKN040 FM260600 14007KT 5SM -SHRA BR OVC006 KHIE 251129Z 2511/2612 00000KT 6SM BR SCT001 FM251230 08005KT P6SM SCT050 FM260900 00000KT 1/4SM FG BKN001 KHIF 251302Z 2513/2619 11012G18KT 9999 SKC QNH3003INS BECMG 2518/2519 11012KT 9999 SKC QNH3006INS BECMG 2523/2524 20009KT 9999 FEW130 QNH3004INS BECMG 2612/2613 12006KT 9999 SKC QNH3007INS TX32/2523Z TN15/2612Z KHIO 251129Z 2512/2612 29003KT P6SM SKC FM251400 VRB02KT P6SM SCT015 FM251800 05005KT P6SM SKC FM252300 33009KT P6SM SKC FM260600 29003KT P6SM SKC KHKS 251120Z 2512/2612 00000KT P6SM SCT045 SCT090 FM251500 13006KT P6SM VCSH SCT015 BKN025 FM251800 14006KT P6SM VCTS BKN035 BKN050CB FM260100 11007KT 6SM -RA OVC050 FM260300 15005KT P6SM OVC015 FM260900 14005KT 4SM -RA OVC007 KHKY 251129Z 2512/2612 01005KT P6SM OVC035 FM251400 04007KT P6SM SCT018 BKN022 FM251900 06006KT P6SM BKN035 FM261000 04005KT P6SM OVC030 KHLG 251135Z 2512/2612 10009KT P6SM SKC KHLN 251120Z 2512/2612 VRB06KT P6SM SCT100 FM251800 28011G21KT P6SM FEW080 SCT150 FM252000 29014G23KT P6SM VCSH BKN080 FM260200 32011KT P6SM FEW080 SCT250 KHNB 251120Z 2512/2612 06005KT P6SM SCT250 FM251400 09007KT P6SM FEW050 BKN200 FM251800 11006KT P6SM SCT040 BKN080 PROB30 2522/2604 4SM -SHRA SCT025 BKN040 FM260400 13005KT P6SM VCSH SCT015 BKN040 PROB30 2606/2612 4SM -TSRA BKN015CB KHND 251120Z 2512/2612 18009KT P6SM FEW250 FM252000 20010G18KT P6SM SKC FM260300 18010KT P6SM SKC NOT SKED KHOB 251121Z 2512/2612 22007KT P6SM SCT300 FM251600 28011KT P6SM SCT300 KHON 251346Z 2514/2612 16013G19KT P6SM OVC008 FM251530 16014G21KT P6SM OVC013 FM252100 17012G20KT P6SM BKN030 PROB30 2603/2605 4SM TSRA OVC015CB FM260500 15008KT 6SM -SHRA BR OVC019 FM260800 18005KT P6SM BKN012 KHOP 250800Z 2508/2614 06006KT 9999 SCT030 BKN120 QNH3001INS BECMG 2511/2512 08006KT 9999 SCT020 BKN040 OVC100 QNH3000INS BECMG 2517/2518 15006KT 6000 -SHRA OVC020 QNH2998INS TEMPO 2518/2522 15012G18KT 4800 -TSRA BKN012CB OVC020 BECMG 2602/2603 15009KT 9999 NSW BKN010 OVC020 QNH2998INS BECMG 2605/2606 16009KT 9999 -SHRA BKN010 OVC015 QNH2997INS TX25/2519Z TN19/2511Z KHOT 251120Z 2512/2612 10003KT P6SM VCSH SCT010 BKN050 TEMPO 2512/2516 -RA BKN008 FM251600 15007KT P6SM VCTS SCT025 BKN040CB TEMPO 2518/2522 5SM -TSRA BR BKN025CB FM260300 13005KT P6SM SCT008 OVC040 KHOU 251120Z 2512/2612 18003KT P6SM FEW015 BKN250 FM251600 18003KT P6SM VCSH SCT020 BKN250 FM251800 17009KT P6SM VCTS SCT040CB BKN250 TEMPO 2518/2521 4SM SHRA OVC040 FM260000 18006KT P6SM BKN200 FM260500 VRB03KT P6SM SCT009 KHPN 251120Z 2512/2612 03007KT P6SM SCT060 FM251500 06011G19KT P6SM SCT030 BKN060 FM252300 06009KT P6SM SCT025 SCT060 FM260300 03007KT P6SM SCT025 NOT SKED KHQM 251121Z 2512/2612 30007KT P6SM FEW025 FM251400 30005KT P6SM OVC015 FM251900 24012KT P6SM OVC035 FM260000 27009KT P6SM SCT250 FM260600 28004KT P6SM BKN025 KHRL 251129Z 2512/2612 15009KT P6SM SCT035 FM251900 14013G19KT P6SM VCSH BKN050 TEMPO 2519/2523 4SM -TSRA BKN040CB FM260300 15008KT P6SM BKN250 KHRO 251400Z 2514/2612 09005KT 1/4SM FG VV002 TEMPO 2514/2516 2SM BR SCT005 BKN015 FM251600 15009KT P6SM VCTS SCT015 OVC030CB TEMPO 2516/2518 5SM TSRA BR OVC015CB FM260300 14007KT 5SM BR VCFG SCT008 OVC040 KHRT 251007Z 2510/2616 31004KT 9999 FEW200 QNH2993INS BECMG 2516/2517 18012KT 9999 VCTS SCT040CB SCT200 QNH2992INS TEMPO 2518/2521 29010G20KT 8000 -TSRA BKN050CB BKN240 BECMG 2521/2522 19009KT 9999 NSW SCT045 SCT200 QNH2995INS TX31/2519Z TN24/2511Z KHST 251005Z 2510/2614 18006KT 9999 VCTS FEW020CB SCT200 QNH2984INS TEMPO 2510/2512 VRB10G15KT 6000 -TSRA BKN015CB BECMG 2515/2516 21009KT 9999 VCTS SCT030CB SCT200 QNH2981INS TEMPO 2518/2523 VRB12G18KT 8000 -TSRA BKN030CB BECMG 2523/2524 24006KT 9999 NSW SCT020 SCT200 QNH2992INS BECMG 2611/2612 25009KT 9999 SCT030 SCT200 QNH2994INS TX32/2518Z TN24/2511Z KHSV 251337Z 2514/2612 12004KT P6SM VCSH BKN060 OVC150 TEMPO 2514/2515 BKN008 FM251500 14008G16KT P6SM BKN025 BKN060 OVC120 TEMPO 2521/2524 5SM SHRA SCT005 OVC015 FM260200 14008KT P6SM SCT005 BKN015 FM260400 14008KT P6SM RA BKN005 OVC015 KHTS 251120Z 2512/2612 VRB03KT P6SM FEW250 FM251800 10007KT P6SM SCT050 FM260900 12005KT P6SM BKN100 KHUF 251131Z 2512/2612 08006KT P6SM BKN250 FM260500 11006KT P6SM VCSH BKN070 FM260800 12006KT 6SM SHRA BR BKN015 KHUL 251120Z 2512/2612 VRB03KT P6SM SKC FM251600 08003KT P6SM SKC FM260600 00000KT 6SM MIFG SKC KHUM 251139Z 2512/2612 VRB03KT P6SM VCSH SCT020 OVC070 FM251500 20005KT P6SM -SHRA SCT020 OVC045 TEMPO 2515/2519 4SM TSRA BKN020CB FM252100 17007KT P6SM -SHRA VCTS SCT025CB OVC060 FM260000 20005KT 5SM -SHRA VCTS SCT020CB OVC035 FM260300 VRB04KT P6SM -SHRA VCTS SCT020CB OVC060 KHUT 251134Z 2512/2612 24005KT P6SM VCTS SCT008 OVC050CB TEMPO 2512/2514 2SM +TSRA BKN008 OVC050CB FM251500 19010KT P6SM VCSH SCT008 OVC035 FM251700 15007KT P6SM BKN060 FM252300 16007KT P6SM SCT080 FM261100 17010KT P6SM SCT015 KHVR 251120Z 2512/2612 VRB06KT P6SM FEW060 FEW250 FM251800 30008KT P6SM VCSH FEW050 BKN100 FM252100 31011G20KT P6SM VCTS SCT050CB BKN080 PROB30 2521/2601 4SM -TSRA BKN035CB FM260100 34008KT P6SM VCSH FEW040 SCT080 FM260500 VRB05KT P6SM FEW040 SCT100 KHYA 251311Z 2513/2612 06010G20KT P6SM SCT015 BKN020 FM260000 06013G21KT P6SM SCT015 FM260300 05010KT P6SM SCT020 FM260500 05010KT P6SM BKN015 FM261000 04010G22KT P6SM BKN020 KHYR 251125Z 2512/2612 15008G15KT P6SM SCT050 BKN150 FM251900 17010G19KT P6SM BKN040 FM260100 16008KT P6SM BKN080 FM260500 16007KT P6SM VCSH BKN025 OVC040 KHYS 251141Z 2512/2612 12009KT P6SM OVC006 FM251400 15009KT P6SM OVC027 FM252000 17011KT P6SM SCT045 FM260200 14009KT P6SM FEW200 FM261000 16009KT P6SM BKN016 KIAD 251131Z 2512/2618 03008KT P6SM BKN070 FM251500 05009KT P6SM SCT050 FM252300 07008KT P6SM FEW050 SCT250 FM260200 06004KT P6SM SCT250 KIAG 251120Z 2512/2612 10004KT P6SM SKC FM251600 08008KT P6SM SCT040 FM252300 11006KT P6SM SKC KIAH 251120Z 2512/2618 00000KT P6SM FEW015 BKN050 BKN250 FM251700 VRB04KT P6SM VCSH BKN050 BKN100 FM252200 16009KT 6SM SHRA VCTS BKN040CB FM260100 17006KT P6SM SCT015 SCT250 FM261500 21009KT P6SM SCT025 KICT 251134Z 2512/2612 15005KT 5SM -SHRA VCTS SCT015 OVC050CB TEMPO 2513/2515 2SM TSRA OVC015CB FM251600 VRB04KT P6SM VCSH SCT008 OVC050 FM251800 14006KT P6SM BKN060 FM252300 15007KT P6SM SCT090 FM261000 15010KT P6SM SCT015 KIDA 251120Z 2512/2612 22010KT P6SM SKC FM251600 21014G24KT P6SM SKC FM251900 22023G33KT P6SM SKC FM260400 VRB06KT P6SM SKC KIFP 251120Z 2512/2612 18009KT P6SM FEW250 KILG 251324Z 2513/2612 03011KT P6SM SCT025 TEMPO 2513/2516 BKN025 FM251600 06013KT P6SM BKN060 FM260400 04009KT P6SM BKN060 KILM 251120Z 2512/2612 36007KT P6SM OVC012 FM251600 03012G20KT P6SM OVC025 FM260100 03010KT P6SM BKN030 KILN 251123Z 2512/2612 08008KT P6SM FEW250 FM251500 09010KT P6SM FEW050 SCT250 FM260000 10008KT P6SM BKN250 FM260400 12007KT P6SM OVC250 FM260800 13006KT P6SM SCT050 OVC250 KIND 251421Z 2514/2618 08007KT P6SM BKN250 FM251700 11009KT P6SM SCT035 BKN200 FM260800 12006KT 6SM -SHRA BR OVC060 FM261100 13007KT 6SM SHRA BR OVC015 KINK 251121Z 2512/2612 14011KT P6SM SCT300 FM251500 27011KT P6SM SCT300 FM260300 20010KT P6SM SCT300 KINL 251202Z 2512/2612 15008KT P6SM SCT045 FM251500 18012G20KT P6SM BKN045 FM252200 17012G20KT P6SM VCSH BKN060 FM260100 16009KT 6SM -SHRA SCT025 OVC040 FM260400 16008KT 6SM -SHRA OVC025 FM260700 14008KT 5SM -SHRA BR OVC009 KINT 251120Z 2512/2612 02005KT P6SM SCT012 BKN050 FM251500 06007KT P6SM BKN050 FM252100 05004KT P6SM SCT050 SCT250 KINW 251120Z 2512/2612 VRB06KT P6SM SKC FM252100 25010G18KT P6SM SKC FM260400 25010KT P6SM SKC KIPL 251130Z 2512/2612 12010KT P6SM FEW250 FM251400 12010KT P6SM FEW030 SCT060 SCT250 FM251900 14012KT P6SM FEW060 SCT250 FM260300 15008KT P6SM FEW080 BKN250 KIPT 251133Z 2512/2612 25004KT P6SM SKC FM251600 10007KT P6SM BKN050 FM260000 09006KT P6SM SKC FM261100 VRB05KT 5SM BR BKN004 KISM 251401Z 2514/2612 01007KT P6SM BKN020 FM251600 03008KT P6SM SCT035 FM251900 06008KT P6SM VCSH SCT050 SCT200 FM260100 08004KT P6SM FEW050 FEW250 KISN 251226Z 2512/2612 24006KT P6SM VCTS OVC100CB FM251500 26006KT P6SM FEW035 SCT120 FM252300 31013G21KT P6SM FEW060 SCT250 FM260700 31006KT P6SM FEW030 SCT250 KISO 251134Z 2512/2612 03007KT P6SM -DZ OVC007 FM251300 03010KT P6SM OVC020 FM251700 04012G19KT P6SM SCT025 BKN040 FM252300 04009KT P6SM BKN040 LTD TO CLD VIS AND WIND KISP 251120Z 2512/2612 04011KT P6SM SCT020 SCT060 FM251400 06014G20KT P6SM SCT025 BKN060 FM260000 04011KT P6SM SCT025 SCT060 FM260700 04010KT P6SM BKN020 KITH 251137Z 2512/2612 10003KT P6SM SCT050 FM251500 14007KT P6SM BKN045 FM260200 11003KT P6SM SKC KIWA 251308Z 2513/2612 VRB05KT P6SM SCT050 SCT120 FM251700 29008KT P6SM FEW050 FEW150 FM260700 16005KT P6SM FEW080 SCT250 KIWD 251136Z 2512/2612 17008KT P6SM BKN200 FM260200 16007KT P6SM BKN090 FM260900 16012G19KT P6SM BKN100 KIXD 251120Z 2512/2612 13011KT P6SM VCSH OVC008 TEMPO 2513/2517 5SM -TSRA OVC005CB FM251700 12008KT P6SM VCTS OVC012CB FM252300 11006KT P6SM OVC025 FM260600 15006KT 6SM BR OVC015 KJAC 251139Z 2512/2612 20010KT P6SM SKC FM251600 22014G20KT P6SM SKC FM252100 24020G30KT P6SM FEW200 FM260600 33013G20KT P6SM SKC FM260900 01010KT P6SM SKC LTD TO CLD VIS AND WIND KJAN 251120Z 2512/2612 00000KT P6SM BKN110 FM251500 13006KT P6SM VCSH SCT015 BKN025 FM251800 14006KT P6SM VCTS BKN035 BKN050CB FM260100 11007KT 6SM -RA OVC050 FM260300 15005KT P6SM OVC015 FM260900 14005KT 4SM -RA OVC007 KJAX 251408Z 2514/2612 04010KT P6SM VCSH SCT015 BKN020 BKN040 TEMPO 2514/2516 5SM SHRA BKN015 FM252300 04006KT P6SM SCT025 BKN250 FM260200 03003KT P6SM SCT030 BKN250 KJBR 251413Z 2514/2612 10005KT P6SM VCSH SCT005 BKN035 TEMPO 2516/2519 5SM -SHRA BKN025 BKN050 FM251900 12005KT P6SM VCTS BKN035CB TEMPO 2520/2523 VRB10KT 4SM TSRA OVC025CB FM260200 14007KT P6SM VCSH BKN040 FM260600 16004KT P6SM VCSH SCT010 BKN020 KJCT 251120Z 2512/2612 00000KT P6SM SCT010 FM251500 20006KT P6SM SKC KJER 251124Z 2512/2612 23006KT P6SM SKC FM251800 26020G30KT P6SM SCT250 FM260300 25010KT P6SM SCT250 KJFK 251315Z 2513/2618 04011G17KT P6SM SCT020 SCT060 TEMPO 2513/2515 BKN025 FM251500 05013G20KT P6SM SCT025 BKN060 FM260000 05011KT P6SM SCT025 SCT060 FM260800 04011KT P6SM BKN020 FM261300 04012KT P6SM SCT020 SCT050 KJHW 251120Z 2512/2612 11005KT P6SM SCT025 FM251400 12006KT P6SM SCT035 FM260000 12005KT P6SM SKC KJKL 251137Z 2512/2612 VRB06KT P6SM SCT045 BKN150 FM260900 VRB03KT P6SM SCT035 OVC050 KJLN 251334Z 2514/2612 16008KT P6SM VCTS BKN007 OVC015CB TEMPO 2514/2517 4SM -TSRA FM251800 18007KT 6SM -SHRA OVC030 TEMPO 2518/2521 4SM TSRA BR OVC015CB FM252100 21006KT 6SM SHRA BR BKN060 FM260100 19005KT P6SM SCT090 KJMS 251202Z 2512/2612 18009KT P6SM VCTS OVC009CB TEMPO 2513/2515 -TSRA SCT009 BKN015CB FM251500 18014KT P6SM OVC015 FM252000 18012G20KT P6SM SCT020 BKN024 FM252200 18011G19KT P6SM VCTS SCT025CB BKN040 FM260200 22008KT 6SM SHRA BR VCTS SCT026CB OVC090 TEMPO 2602/2605 VRB25G40KT 3SM +TSRA BKN025CB OVC080 FM260800 28006KT P6SM FEW024 SCT120 KJST 251133Z 2512/2612 07005KT P6SM SKC FM251600 12008G15KT P6SM SCT035 FM252300 11007KT P6SM SKC FM261100 12006KT 5SM BR BKN009 KJXN 251140Z 2512/2612 VRB03KT P6SM SKC FM251700 11010KT P6SM SCT120 FM260000 12006KT P6SM SKC KLAF 251131Z 2512/2612 08006KT P6SM BKN250 FM251700 10009KT P6SM SCT035 FM261000 11006KT 6SM -SHRA BR BKN050 LTD TO CLD VIS AND WIND TIL 251300 KLAL 251127Z 2512/2612 VRB04KT P6SM SCT025 FM251800 06005KT P6SM VCTS SCT050CB BKN100 FM260100 07005KT P6SM SCT030 SCT250 FM260600 VRB03KT P6SM FEW015 SCT030 KLAN 251311Z 2513/2612 07005KT P6SM SCT040 TEMPO 2513/2517 BKN040 FM251700 11009KT P6SM SCT040 BKN250 FM260000 11006KT P6SM BKN120 KLAR 251120Z 2512/2612 27009KT P6SM SCT250 FM251500 28023G32KT P6SM SCT250 FM260100 28019KT P6SM SKC KLAS 251120Z 2512/2618 17008KT P6SM FEW250 FM251400 09007KT P6SM SKC FM252200 19011KT P6SM SKC FM261100 VRB05KT P6SM SKC KLAW 251120Z 2512/2612 07007KT P6SM BKN250 FM251500 15012KT P6SM SCT050 BKN250 FM260000 12008KT P6SM SCT250 KLAX 251133Z 2512/2618 VRB03KT P6SM FEW007 FM251800 25012KT P6SM SKC FM260300 25007KT P6SM SKC FM260900 VRB03KT P6SM OVC007 FM261700 25007KT P6SM SKC KLBB 251128Z 2512/2612 19011KT P6SM FEW250 FM251500 22011KT P6SM SKC KLBE 251135Z 2512/2612 VRB03KT P6SM SKC FM251400 11009G18KT P6SM SKC KLBF 251133Z 2512/2612 15007KT 2SM BR OVC003 FM251300 15008KT 5SM BR OVC004 FM251800 16009KT P6SM OVC012 FM260800 12006KT P6SM BKN035 WS020/21030KT FM260900 08006KT P6SM BKN023 KLBL 251141Z 2512/2612 14008KT P6SM FEW250 FM251700 11006KT P6SM SKC FM260500 14009KT P6SM SCT150 FM260900 17007KT P6SM SCT150 FM261100 20007KT P6SM SCT150 KLBT 251120Z 2512/2612 02009KT P6SM OVC010 FM251600 04010KT P6SM OVC015 FM251800 04010KT P6SM BKN025 FM252200 04009KT P6SM BKN035 NOT SKED KLBX 251120Z 2512/2612 00000KT P6SM SCT025 BKN035 OVC250 FM251800 22007KT P6SM VCTS BKN040CB TEMPO 2518/2521 4SM SHRA OVC040 FM260000 18009KT P6SM BKN250 FM260400 VRB04KT P6SM SCT025 KLCH 251126Z 2512/2612 VRB05KT 6SM -SHRA BR VCTS SCT015 BKN030CB TEMPO 2513/2517 VRB10G20KT 2SM SHRA BKN015 FM251700 19008KT 5SM -SHRA BR VCTS SCT025 BKN040CB FM260000 18005KT P6SM VCSH SCT020 OVC200 KLCK 251123Z 2512/2612 08008KT P6SM FEW250 FM251500 10009KT P6SM FEW050 SCT250 FM260000 11009KT P6SM BKN250 KLEB 251120Z 2512/2612 00000KT 6SM BR SCT002 FM251230 03004KT P6SM SCT050 FM261000 00000KT 1/4SM FG OVC001 KLEE 251402Z 2514/2612 02007KT P6SM BKN020 FM251600 03009KT P6SM SCT035 FM251900 05008KT P6SM VCSH SCT050 SCT200 FM260100 06005KT P6SM FEW050 FEW250 KLEX 251120Z 2512/2612 08008KT P6SM SCT045 BKN250 FM251400 10008KT P6SM FEW060 BKN250 FM252100 11008KT P6SM SCT050 BKN200 PROB30 2601/2606 4SM -SHRA BKN030 FM260600 14008KT P6SM VCSH SCT015 BKN025 KLFI 251340Z 2513/2615 04012G20KT 9999 BKN030 BKN080 QNH3009INS TEMPO 2513/2516 05015G25KT BECMG 2520/2521 05012KT 9999 SCT050 QNH3006INS BECMG 2611/2612 04012G20KT 9999 BKN015 BKN050 QNH3001INS TX25/2519Z TN23/2513Z KLFK 251258Z 2513/2612 15005KT P6SM -RA SCT005 BKN010 OVC025 TEMPO 2513/2515 5SM -SHRA BR BKN005 FM251500 17005KT P6SM OVC015 FM251800 16004KT P6SM BKN035 FM252100 16006KT P6SM VCTS BKN050CB FM260000 13005KT P6SM BKN250 FM260900 13002KT 4SM BR SCT250 KLFT 251126Z 2512/2612 12005KT P6SM VCSH SCT005 OVC025 FM251500 13007KT 4SM -SHRA BR VCTS SCT012 OVC025CB TEMPO 2515/2519 VRB10G20KT 2SM SHRA OVC012 FM260100 21005KT P6SM VCSH SCT025 OVC150 KLGA 251120Z 2512/2618 04013G18KT P6SM FEW025 SCT060 FM251500 05013G20KT P6SM SCT025 BKN060 FM260000 05011KT P6SM SCT025 SCT060 FM260800 04011KT P6SM BKN025 FM261300 04012KT P6SM SCT025 SCT050 KLGB 251133Z 2512/2612 VRB03KT P6SM SKC FM251900 18008KT P6SM SKC FM252300 30008KT P6SM SKC FM260400 VRB03KT P6SM SKC FM260900 VRB03KT P6SM OVC007 KLGU 251120Z 2512/2612 VRB04KT P6SM SKC FM251800 29014G24KT P6SM SKC FM260300 VRB04KT P6SM SKC KLIT 251120Z 2512/2612 13005KT P6SM VCSH BKN008 OVC015 TEMPO 2512/2516 SCT008 BKN025 OVC050 FM251600 15007KT P6SM VCTS SCT025 OVC040CB TEMPO 2518/2522 5SM -TSRA BR BKN025CB FM260300 13005KT P6SM VCFG SCT008 OVC050 KLLQ 251120Z 2512/2612 VRB05KT P6SM VCSH SCT008 OVC050 TEMPO 2512/2516 BKN005 FM251700 15007KT P6SM VCTS SCT025 OVC040CB TEMPO 2520/2524 5SM -TSRA BR BKN025CB FM260500 13005KT P6SM VCSH SCT008 OVC050 KLMT 251120Z 2512/2612 VRB04KT P6SM SKC FM252100 30008G15KT P6SM SKC FM260000 31013G20KT P6SM SKC FM260300 34008KT P6SM SKC FM260600 VRB03KT P6SM SKC KLND 251139Z 2512/2612 24010KT P6SM SKC FM251700 28015G25KT P6SM SKC FM260600 28012G18KT P6SM SKC FM260800 28006KT P6SM SKC FM261100 VRB04KT P6SM SKC KLNK 251135Z 2512/2612 13007KT P6SM OVC015 FM252000 15010KT P6SM BKN025 FM252200 14010KT P6SM BKN045 FM260300 13011KT P6SM BKN015 FM260700 15008KT P6SM OVC008 PROB30 2610/2612 4SM TSRA BR OVC005CB KLNS 251133Z 2512/2612 08003KT P6SM SKC FM251600 08008KT P6SM SCT050 FM260000 07006KT P6SM SKC FM261100 08005KT 5SM BR SKC KLOZ 251137Z 2512/2612 VRB06KT P6SM SCT035 BKN090 FM260200 VRB03KT P6SM VCSH SCT030 OVC060 FM260900 VRB04KT 6SM -SHRA BR SCT015 OVC030 KLRD 251120Z 2512/2612 14007KT P6SM SCT050 FM260300 14010KT P6SM SCT100 KLRF 251321Z 2513/2613 06005KT 9999 OVC004 QNH2993INS BECMG 2514/2515 13006KT 9999 SCT010 BKN030 QNH2985INS TEMPO 2519/2523 VRB10G15KT 8000 -TSRA BKN030CB BECMG 2523/2524 16004KT 9999 BKN010 OVC030 QNH2984INS TX30/2521Z TN24/2513Z KLRU 251120Z 2512/2612 26009G15KT P6SM FEW250 FM251600 27009G22KT P6SM FEW080 FM260600 26011KT P6SM SKC KLSE 251120Z 2512/2612 12007KT P6SM OVC050 FM251500 14012KT P6SM SCT050 BKN200 FM251800 14013KT P6SM BKN045 FM260000 12007KT P6SM BKN080 KLSV 250700Z 2507/2613 VRB06KT 9999 SKC QNH2990INS BECMG 2519/2520 15010G16KT 9999 SKC QNH2991INS BECMG 2601/2602 VRB06KT 9999 SKC QNH2984INS TX39/2523Z TN28/2512Z KLUK 251123Z 2512/2612 08007KT P6SM SCT250 FM251800 09009KT P6SM FEW050 BKN250 FM260400 10004KT P6SM SCT050 OVC250 FM261000 12003KT P6SM -SHRA SCT028 OVC050 KLVK 251121Z 2512/2612 30005KT P6SM SKC FM252100 29012KT P6SM SKC FM260300 29008KT P6SM SKC FM260800 30005KT P6SM SKC KLVM 251122Z 2512/2612 28007KT P6SM FEW100 FM251700 28012G20KT P6SM SCT080 BKN120 FM252100 29018G26KT P6SM VCSH BKN080 FM260300 29010KT P6SM SCT080 KLVS 251121Z 2512/2612 01006KT P6SM SCT200 FM251900 28012G20KT P6SM SCT200 FM260300 30009KT P6SM FEW200 KLWB 251121Z 2512/2612 03004KT 2SM BR BKN020 TEMPO 2512/2513 1/2SM FG OVC001 FM251330 03005KT P6SM SCT020 FM251900 11006KT P6SM BKN050 FM260700 10005KT 2SM BR BKN010 KLWS 251120Z 2512/2612 25004KT P6SM FEW070 SCT150 FM251800 30011G17KT P6SM SCT070 FM260300 28006KT P6SM SKC FM260600 VRB03KT P6SM SKC KLWT 251120Z 2512/2612 29007KT P6SM SCT100 FM251900 30011G20KT P6SM FEW060 SCT150 FM252200 32012G22KT P6SM VCTS SCT060CB BKN100 PROB30 2522/2602 4SM -TSRA BKN030CB FM260200 31011KT P6SM VCSH SCT025 BKN090 FM260500 29007KT P6SM FEW025 SCT100 KLYH 251338Z 2514/2612 03008G16KT P6SM BKN060 FM251800 06009KT P6SM BKN040 FM260300 VRB03KT P6SM SCT090 FM260800 04005KT P6SM BKN030 KMAF 251121Z 2512/2612 19011KT P6SM SCT300 FM251500 24011KT P6SM SCT300 FM260200 19011KT P6SM SCT300 KMBG 251120Z 2512/2612 16013KT P6SM BKN012 FM251800 17010KT P6SM SCT040 FM252200 16010KT P6SM VCTS BKN040CB FM260200 35005KT P6SM SCT100 KMBL 251140Z 2512/2612 11005KT P6SM SKC FM251700 14007KT P6SM SCT040 FM260500 13006KT P6SM BKN040 KMBS 251132Z 2512/2612 07006KT P6SM SCT040 SCT200 FM251500 11010KT P6SM SCT035 FM260000 12007KT P6SM SCT200 KMCB 251139Z 2512/2612 17005KT P6SM VCSH SCT040 BKN100 FM252000 17006KT 4SM -SHRA VCTS SCT020CB OVC035 FM260200 00000KT 5SM -SHRA VCTS OVC010CB FM260600 00000KT 3SM -SHRA BR VCTS SCT008CB OVC015 KMCC 251129Z 2512/2612 16007KT P6SM SKC FM251900 22008KT P6SM SKC FM260300 17007KT P6SM SKC KMCE 251120Z 2512/2612 VRB06KT P6SM SKC KMCF 250900Z 2509/2615 VRB06KT 9999 FEW030 QNH2988INS BECMG 2515/2516 08009KT 9999 SCT050 QNH2987INS TEMPO 2520/2523 VRB10G15KT 9999 VCTS SCT050CB BKN100 BECMG 2600/2601 VRB06KT 9999 BKN050 QNH2989INS BECMG 2614/2615 07009KT 9999 SCT030 BKN100 QNH2994INS TX31/2520Z TN24/2509Z KMCI 251429Z 2514/2612 09011KT P6SM -SHRA OVC018 TEMPO 2514/2518 2SM -TSRA OVC012CB FM251800 12008KT P6SM VCTS OVC012CB FM252300 11006KT P6SM OVC025 FM260600 15006KT 6SM BR OVC015 KMCK 251135Z 2512/2612 14008KT P6SM OVC015 FM251500 14009KT P6SM OVC007 FM251800 16009KT P6SM SCT008 BKN015 FM252100 15009KT P6SM BKN030 FM260000 14010KT P6SM SCT100 FM260800 16008KT P6SM BKN015 FM261000 26010KT P6SM BKN025 KMCN 251402Z 2514/2612 07008KT P6SM VCSH OVC008 FM251600 07006KT P6SM OVC015 FM252000 07006KT P6SM BKN035 FM260700 08005KT P6SM VCSH BKN020 KMCO 251358Z 2514/2618 02009KT P6SM BKN020 FM251700 03009KT P6SM SCT035 FM251900 05009KT P6SM VCSH SCT050 SCT200 FM260100 06003KT P6SM FEW050 FEW250 FM261400 10005KT P6SM SCT025 SCT250 KMCW 251120Z 2512/2612 13008KT P6SM SCT040 BKN070 OVC120 FM251900 14011KT P6SM SCT030 OVC040 FM260800 15009KT P6SM SCT010 BKN015 OVC025 KMDT 251133Z 2512/2612 08003KT P6SM SCT070 FM251600 10008KT P6SM SCT050 FM260000 09006KT P6SM SKC KMDW 251132Z 2512/2618 11008KT P6SM FEW045 BKN250 FM251600 09012KT P6SM FEW050 BKN200 FM260700 12008KT P6SM VCSH BKN050 PROB30 2608/2614 5SM -SHRA FM261400 16009KT P6SM BKN020 KMEI 251120Z 2512/2612 00000KT P6SM SKC FM251500 16005KT P6SM VCSH SCT015 BKN025 FM251800 17006KT P6SM VCTS BKN035 BKN050CB FM260100 11007KT 6SM -RA OVC020 FM260400 13007KT P6SM OVC015 FM260900 16003KT 4SM -RA BR OVC007 KMEM 251354Z 2514/2618 11003KT P6SM BKN035 OVC150 FM251600 12005KT P6SM VCSH SCT020 BKN035 FM251900 14007KT P6SM VCTS FEW035CB BKN060 FM260200 13008KT P6SM VCSH SCT015 BKN025 OVC080 FM260700 16007KT 6SM -SHRA SCT008 BKN015 TEMPO 2609/2613 BKN008 FM261500 17008KT P6SM VCSH SCT010 BKN025 KMER 251120Z 2512/2612 VRB06KT P6SM SKC NOT SKED KMEV 251120Z 2512/2612 10005KT P6SM SKC FM251800 28008KT P6SM SKC FM252100 28011G19KT P6SM SCT250 FM260500 VRB04KT P6SM SKC KMFD 251126Z 2512/2612 09004KT P6SM SKC FM251600 11010KT P6SM SCT035 TEMPO 2517/2520 BKN035 FM261000 13010KT P6SM BKN250 KMFE 251129Z 2512/2612 16005KT P6SM SCT040 BKN120 OVC250 FM251400 17009KT P6SM SCT040 SCT120 FM252000 14013G19KT P6SM VCSH BKN050 TEMPO 2520/2524 4SM -TSRA BKN040CB FM260300 15010KT P6SM BKN250 KMFR 251120Z 2512/2612 VRB03KT P6SM SKC FM260000 31008G14KT P6SM SKC FM260300 35006KT P6SM SKC FM260500 VRB03KT P6SM SKC KMGE 251303Z 2513/2619 08010G15KT 9999 VCSH OVC011 QNH3005INS BECMG 2520/2521 09009KT 9999 VCSH BKN010 OVC020 QNH3003INS BECMG 2522/2523 10006KT 9999 NSW BKN020 OVC050 QNH3005INS BECMG 2604/2605 10008KT 9999 BKN015 OVC050 QNH3007INS BECMG 2608/2609 09010KT 8000 -RA BR OVC007 QNH3007INS BECMG 2614/2615 10010KT 9999 VCSH OVC010 QNH3007INS TX25/2521Z TN18/2611Z KMGM 251411Z 2514/2612 08007KT P6SM SCT060 TEMPO 2514/2515 BKN010 FM251700 10007KT P6SM VCSH BKN040 FM252100 11007KT P6SM VCTS OVC030CB FM260100 12005KT P6SM VCSH OVC030 FM260400 13002KT P6SM OVC030 KMGW 251135Z 2512/2612 VRB03KT P6SM SKC FM251400 09009KT P6SM SKC KMHK 251138Z 2512/2612 07005KT P6SM VCSH BKN008 FM251600 13006KT P6SM BKN015 FM251800 15005KT P6SM BKN022 FM252300 12006KT P6SM BKN040 FM260300 13006KT P6SM BKN025 FM260600 15006KT P6SM BKN010 KMHR 251129Z 2512/2612 VRB05KT P6SM SKC FM251900 22010KT P6SM SKC FM260400 17005KT P6SM SKC KMHT 251330Z 2514/2612 06007KT P6SM SCT017 BKN030 FM251500 04008G16KT P6SM SCT035 FM252300 08006KT P6SM SKC KMIA 251135Z 2512/2618 21006KT P6SM VCSH FEW025 FEW250 FM251600 19009KT P6SM VCTS SCT025CB BKN070 BKN250 FM260000 24005KT P6SM FEW030 SCT080 BKN250 FM261500 19007KT P6SM VCSH SCT030 SCT070 KMIV 251349Z 2514/2612 04011KT P6SM BKN070 TEMPO 2514/2516 BKN025 FM251600 06010G18KT P6SM BKN050 KMKC 251120Z 2512/2612 12011KT P6SM VCSH OVC018 TEMPO 2514/2518 6SM -TSRA OVC009CB FM251800 12008KT P6SM VCTS OVC012CB FM252300 11006KT P6SM OVC025 FM260600 15006KT 6SM BR OVC015 KMKE 251225Z 2512/2618 16007KT P6SM SCT028 BKN250 TEMPO 2512/2514 BKN028 FM251500 14011KT P6SM SCT035 BKN250 FM260500 14009KT P6SM BKN100 FM261000 14009KT P6SM OVC050 FM261300 14009KT P6SM BKN035 FM261500 14011KT P6SM BKN020 KMKG 251140Z 2512/2612 09005KT P6SM SKC FM251800 12010KT P6SM SCT120 FM260100 12006KT P6SM SKC KMKL 251420Z 2514/2612 12003KT P6SM VCSH FEW010 BKN090 FM251600 13004KT P6SM VCSH BKN025 FM251900 14004KT P6SM VCTS FEW035CB BKN040 TEMPO 2522/2524 VRB10KT 4SM TSRA OVC035CB FM260200 16003KT P6SM VCSH SCT020 BKN060 FM260600 18005KT 6SM -SHRA BKN015 KMKT 251132Z 2512/2612 14010KT P6SM OVC100 FM251500 15013G20KT P6SM SCT040 BKN080 FM252000 15013KT P6SM VCSH SCT020 OVC035 PROB30 2521/2603 -SHRA FM260600 16010KT P6SM OVC020 FM261000 17008KT 6SM -SHRA BR OVC015 KMLB 251134Z 2512/2612 VRB02KT P6SM FEW020 FEW200 FM251400 01006KT P6SM SCT020 SCT200 FM251800 07010KT P6SM SCT030 SCT250 FM260000 06005KT P6SM FEW040 FEW250 KMLC 251131Z 2512/2612 14005KT P6SM VCSH SCT015 BKN250 TEMPO 2512/2516 BKN015 FM251900 16005KT P6SM VCTS BKN035CB TEMPO 2519/2523 4SM -TSRA OVC015CB FM260000 13005KT P6SM SCT050 KMLI 251138Z 2512/2612 09006KT P6SM BKN250 FM251700 12009KT P6SM SCT050 BKN080 FM260800 11007KT P6SM BKN030 OVC050 KMLS 251122Z 2512/2612 25007KT P6SM FEW080 FM251600 31014G21KT P6SM FEW090 BKN120 FM260000 34013KT P6SM VCTS BKN070CB FM260400 31011KT P6SM VCSH BKN060 KMLU 251140Z 2512/2612 VRB03KT P6SM VCSH FEW045 OVC060 TEMPO 2512/2515 5SM -SHRA BR BKN015 FM251800 16006KT P6SM VCTS BKN050CB FM260000 15005KT P6SM -SHRA OVC025 FM260300 14004KT P6SM OVC007 FM260600 18003KT 4SM -SHRA BR OVC004 KMMH 251120Z 2512/2612 VRB03KT P6SM SKC FM252000 26009G17KT P6SM SCT250 FM260300 VRB03KT P6SM SKC KMMT 250700Z 2507/2613 03012KT 9999 BKN010 QNH3007INS BECMG 2516/2517 03012KT 9999 FEW009 QNH3003INS BECMG 2605/2606 04006KT 9999 SCT010 OVC030 QNH3002INS BECMG 2612/2613 05006KT 9999 FEW020 BKN040 QNH3002INS TX27/2520Z TN18/2511Z KMOB 251139Z 2512/2612 00000KT P6SM FEW035 BKN120 BKN250 FM251500 15005KT P6SM VCSH SCT040 BKN250 FM251800 18009KT P6SM VCTS SCT040CB SCT060 BKN250 TEMPO 2518/2522 5SM TSRA BKN030CB FM260300 12003KT P6SM VCTS OVC040CB KMOD 251129Z 2512/2612 34005KT P6SM SKC FM251800 33008KT P6SM SKC FM260600 34005KT P6SM SKC KMOT 251120Z 2512/2612 13003KT P6SM BKN013 FM251800 22007KT P6SM VCTS FEW050CB SCT200 TEMPO 2519/2521 4SM TSRA BR BKN045CB FM252300 27009KT P6SM -SHRA VCTS SCT028CB BKN200 FM260400 30008KT P6SM FEW022 FEW250 FM261100 28013G21KT P6SM BKN150 KMPV 251307Z 2513/2612 00000KT 1/4SM FG VV001 FM251345 05004KT P6SM SCT028 FM251800 11005KT P6SM FEW200 FM260500 VRB04KT 1SM BR BKN001 KMQY 251401Z 2514/2612 16003KT P6SM BKN020 FM251600 17006KT P6SM OVC025 FM251800 16006KT P6SM VCSH OVC025 FM252000 17006KT P6SM -SHRA VCTS OVC015CB FM260000 15006KT 4SM -TSRA OVC007CB KMRB 251131Z 2512/2612 VRB03KT P6SM OVC060 FM251500 07008KT P6SM SCT050 FM260000 VRB03KT P6SM FEW050 FM260700 VRB03KT 5SM BR OVC025 KMRY 251121Z 2512/2612 VRB03KT 5SM BR OVC004 TEMPO 2512/2516 1SM BR VV002 FM251700 29004KT P6SM BKN010 FM251800 29008KT P6SM FEW010 FM260300 25005KT P6SM OVC008 FM260700 VRB04KT 4SM BR OVC005 KMSL 251144Z 2512/2612 12004KT P6SM VCSH BKN060 OVC150 TEMPO 2512/2515 BKN015 FM251500 14008G16KT P6SM BKN025 BKN060 OVC120 PROB30 2521/2524 5SM SHRA SCT005 OVC015 FM260200 14008KT P6SM SCT005 BKN015 FM260400 14008KT P6SM RA BKN005 OVC015 KMSN 251136Z 2512/2612 VRB03KT P6SM SCT050 BKN250 FM251400 13006KT P6SM SCT050 BKN250 FM260500 VRB04KT P6SM BKN120 FM260900 VRB04KT P6SM OVC035 KMSO 251120Z 2512/2612 33004KT P6SM SKC FM251900 28012G20KT P6SM SCT250 FM252100 30024G32KT P6SM BKN100 FM260200 31011G18KT P6SM SCT250 FM260300 31005KT P6SM FEW250 KMSP 251132Z 2512/2618 13009KT P6SM SCT060 BKN200 FM251500 14010G19KT P6SM SCT040 BKN100 FM252100 14010G17KT P6SM SCT025 OVC040 PROB30 2522/2604 -SHRA FM260600 15008KT P6SM OVC022 FM261000 17006KT 6SM SHRA BR OVC014 FM261300 17006KT 5SM SHRA BR OVC008 KMSS 251243Z 2513/2612 05005KT P6SM FEW060 KMSY 251139Z 2512/2618 19005KT P6SM -RA SCT030 OVC090 TEMPO 2515/2519 4SM TSRA BKN025CB FM251900 18007KT 6SM -SHRA SCT020 OVC040 TEMPO 2519/2521 4SM TSRA BKN020CB FM260100 VRB04KT P6SM -SHRA VCTS SCT020CB OVC030 KMTC 250900Z 2509/2615 04009KT 9999 SKC QNH3022INS BECMG 2514/2515 12009KT 9999 FEW040 QNH3008INS BECMG 2614/2615 14012G18KT 9999 BKN040 QNH3007INS TX21/2521Z TN12/2509Z LAST NO AMDS AFT 2509 NEXT 2511 KMTH 251132Z 2512/2612 23008KT P6SM VCSH SCT020 SCT050 FM260100 21005KT P6SM FEW025 KMTJ 251120Z 2512/2612 15008KT P6SM SKC FM251800 34005KT P6SM SKC FM252000 28010G21KT P6SM FEW250 FM260300 14005KT P6SM SKC KMTN 251131Z 2512/2612 VRB03KT P6SM SCT060 FM251500 04010G16KT P6SM SCT050 FM252300 07007KT P6SM FEW045 SCT250 FM260500 04005KT P6SM BKN200 KMTW 251121Z 2512/2612 13003KT P6SM SCT200 FM251500 15008KT P6SM SCT090 FM251900 14010G15KT P6SM SCT120 FM252200 13005KT P6SM SCT040 BKN080 FM260800 13007KT P6SM BKN050 KMVN 251405Z 2514/2612 08005KT P6SM VCSH SCT050 BKN100 FM251800 VRB06KT P6SM VCSH SCT025 OVC035 FM260000 VRB04KT 4SM -SHRA SCT015 OVC030 FM260600 VRB03KT P6SM VCSH OVC016 FM260800 VRB04KT 4SM BR MIFG VCSH OVC008 FM261100 VRB05KT 4SM BR MIFG VCSH BKN005 KMWH 251120Z 2512/2612 26006KT P6SM FEW150 FM251700 28010G16KT P6SM SKC FM260400 30007KT P6SM SKC KMXF 251250Z 2512/2617 VRB06KT 9999 BKN010 QNH2997INS BECMG 2517/2518 10006KT 9999 VCSH BKN025 QNH2991INS BECMG 2519/2520 10006KT 8000 -SHRA BKN025 QNH2992INS TEMPO 2521/2524 10010G20KT 4800 -TSRA BKN020CB BECMG 2605/2606 12006KT 9999 VCSH BKN015 QNH2993INS TEMPO 2608/2614 BKN008 BECMG 2614/2615 15006KT 9000 -SHRA BKN015 QNH2995INS TX28/2520Z TN23/2608Z KMYL 251124Z 2512/2612 VRB03KT P6SM SCT250 FM251900 26015G23KT P6SM SCT250 FM260300 33005KT P6SM SCT250 KMYR 251120Z 2512/2612 35010KT P6SM BKN012 FM251600 03011KT P6SM OVC015 FM251800 03012G17KT P6SM BKN025 FM260100 02010KT P6SM BKN035 KNBG 2507/2607 VRB06KT 9999 FEW030 FEW120 QNH2990INS BECMG 2513/2515 18010KT 6000 SHRA VCTS BKN020CB BKN160 BKN250 QNH2993INS TEMPO 2516/2520 VRB20G30KT 1600 TSRA BR BKN020CB BKN100 OVC200 FM252000 21007KT 9000 SHRA BR BKN020 OVC110 QNH2986INS TEMPO 2520/2600 VRB20G30KT 1600 TSRA BR BKN020CB BKN100 OVC200 FM260300 VRB06KT 8000 BR BKN020 OVC060 QNH2985INS BECMG 2604/2606 VRB06KT NSW FEW020 BKN040 OVC100 QNH2982INS AUTOMATED SENSOR METWATCH 2507 TIL 2514 T22/2511Z T29/2520Z FN00204 KNCA 2509/2609 03010KT 9999 BKN007 OVC015 QNH3000INS BECMG 2513/2515 04012G20KT FEW008 BKN015 OVC025 QNH2998INS BECMG 2600/2602 04008G15KT 9999 SCT015 BKN025 OVC040 QNH2999INS T27/2518Z T20/2609Z KNEW 251139Z 2512/2612 21007KT P6SM -RA SCT025 BKN090 TEMPO 2518/2520 4SM TSRA BKN025CB FM252000 18010KT P6SM -SHRA SCT030 OVC040 TEMPO 2520/2521 4SM TSRA BKN030CB FM252100 18010KT 5SM -SHRA VCTS SCT030CB OVC050 FM260100 20007KT P6SM -SHRA VCTS SCT025CB OVC060 FM261100 18005KT P6SM -SHRA VCTS SCT020CB OVC025 KNFG 2509/2609 VRB05KT 9999 OVC008 QNH2993INS TEMPO 2509/2515 8000 BR OVC005 BECMG 2516/2518 VRB05KT 9999 FEW010 QNH2995INS FM251830 21008KT 9999 SKC QNH2988INS BECMG 2603/2605 VRB05KT 9999 BKN015 QNH2988INS AUTOMATED SENSOR METWATCH 2509 TIL 2615 T19/2510Z T28/2521Z KNFW 2507/2607 VRB06KT 9999 FEW050 FEW250 QNH2980INS FM252000 15010KT 9999 VCTS FEW020 SCT050CB QNH2978INS BECMG 2516/2518 15010KT 9999 NSW FEW250 QNH2973INS AUTOMATED SENSOR METWATCH 2507 TIL 2513 T25/2512Z T37/2521Z FN00204 KNGP 2507/2607 16010KT 9999 FEW015 FEW040 QNH2980INS FM251400 20010KT 9999 FEW020 SCT50 BKN250 QNH2980INS FM251800 17012G18KT 9999 VCTS FEW040CB SCT100 BKN250 QNH2974INS TEMPO 2518/2600 VRB20G30KT 6000 TSRA BKN030CB OVC080 FM260100 17010G15KT 9999 FEW020 SCT050 QNH2970INS AUTOMATED SENSOR METWATCH 2507 TIL 2611 T27/2511Z T34/2520Z FN00204 KNGU 2507/2607 06016G23KT 9999 FEW030 SCT045 BKN060 OVC100 QNH3006INS BECMG 2514/2516 03016G22KT 9999 VCSH FEW035 BKN050 OVC070 QNH3002INS TEMPO 2518/2522 8000 -RA SCT010 BKN020 BKN040 OVC060 BECMG 2523/2601 05012KT 9999 NSW SCT060 SCT250 QNH3007INS T20/2510Z T26/2520Z FN00194 KNHK 2507/2607 06008KT 9999 FEW030 FEW250 QNH3012INS BECMG 2514/2516 04013KT 9999 VCSH SCT030 BKN050 BKN100 QNH3013INS BECMG 2523/2601 06012KT 9999 NSW SCT020 SCT200 QNH3009INS AUTOMATED SENSOR METWATCH 2507 TIL 2511 T11/2511Z T24/2521Z FN00194 KNIP 2507/2607 VRB06KT FEW010 SCT040 SCT250 QNH2988INS TEMPO 2510/2513 BKN010 BECMG 2515/2516 04010KT 9999 VCTS SCT010CB BKN040 BKN120 QNH2986INS TEMPO 2515/2520 VRB15G25KT 4800 TSRA SCT010CB BKN020 OVC040 BECMG 2604/2606 VRB06KT 9999 NSW SCT020 SCT120 BKN160 QNH2995INS T26/2509Z T32/2520Z FN00194 KNKT 2509/2609 03010KT 9999 BKN007 OVC015 QNH3000INS BECMG 2513/2515 04012G20KT FEW008 BKN015 OVC025 QNH2998INS BECMG 2600/2602 04008G15KT 9999 SCT015 BKN025 OVC040 QNH2999INS T27/2518Z T20/2609Z KNKX 2509/2609 VRB05KT 9999 SCT008 QNH2993INS TEMPO 2509/2515 6000 BR OVC008 FM251730 29008KT 9999 SKC QNH2988INS BECMG 2603/2605 VRB05KT 9999 SCT015 QNH2989INS T20/2512Z T31/2521Z 0905 KNMM 2507/2607 VRB04KT 4800 BR FEW010 SCT030 BKN140 QNH2990INS TEMPO 2507/2513 400 FG VV001 FM251800 17010KT 9999 VCTS FEW040CB SCT140 QNH2987INS TEMPO 2519/2600 VRB15G25KT 6000 TSRA BKN030CB OVC080 FM260100 VRB06KT 8000 -SHRA BR OVC030 QNH2987INS TEMPO 2604/2607 1600 SHRA BR AUTOMATED SENSOR METWATCH 2507 TIL 2520 T22/2511Z T32/2521Z 0721 FN00204 KNPA 2507/2607 VRB05KT 9999 FEW020 SCT250 QNH2985INS BECMG 2513/2515 VRB05KT 9999 FEW040 SCT250 QNH2988INS BECMG 2518/2520 19010KT 9999 VCTS FEW040 SCT160CB SCT250 QNH2980INS BECMG 2600/2602 VRB05KT FEW020 SCT090 BKN120 QNH2987INS AUTOMATED SENSOR METWATCH 2507 TIL 2612 T25/2511Z T32/2518Z 0724 FN00204 KNQI 2507/2607 19008KT 9999 FEW015 FEW040 QNH2980INS FM251300 19010KT 9999 FEW015 SCT040 BKN250 QNH2977INS FM251500 15010G15KT 9999 VCTS FEW030CB SCT100 BKN280 QNH2972INS TEMPO 2518/2600 VRB20G30KT 6000 TSRA BKN025CB OVC080 FM260100 15010G15KT 9999 FEW020 SCT050 QNH2970INS BECMG 2604/2606 16010KT 9999 SKC QNH2970INS AUTOMATED SENSOR METWATCH 2507 TIL 2520 T26/2512Z T37/2521Z FN00204 KNQX 2507/2607 VRB06KT 9999 FEW020 SCT040 SCT250 QNH2989INS BECMG 2509/2511 22008KT 9999 VCTS SCT030CB SCT080 SCT250 QNH2986INS TEMPO 2511/2516 VRB15G25KT 6000 TSRA SCT010CB BKN030 BKN060 OVC100 BECMG 2520/2522 24008KT 9999 NSW SCT030 SCT250 QNH2988INS AUTOMATED SENSOR METWATCH 2507 TIL 2510 T28/2511Z T32/2519Z FN00194 KNRB 2507/2607 VRB06KT SCT010 SCT030 SCT250 QNH2988INS TEMPO 2509/2512 BKN020 BECMG 2514/2516 04012KT 9999 VCTS SCT010CB BKN035 BKN060 OVC180 QNH2986INS TEMPO 2517/2520 VRB15G25KT 4800 TSRA SCT010CB BKN020 OVC050 BECMG 2604/2606 05010KT 9999 NSW SCT020 SCT120 BKN160 QNH2996INS AUTOMATED SENSOR METWATCH 2507 TIL 2511 T26/2510Z T30/2520Z FN00194 KNSE 2507/2607 VRB05KT 8000 BR FEW060 SCT250 QNH2990INS BECMG 2518/2520 19010KT 9999 VCTS SCT050CB BKN250 QNH2984INS BECMG 2600/2602 VRB05KT 4800 BR FEW020 BKN130 QNH2988INS AUTOMATED SENSOR METWATCH 2507 TIL 2612 T23/2509Z T32/2518Z 0724 FN00204 KNTD 2507/2607 VRB06KT 9999 FEW280 QNH2984INS FM250900 VRB06KT 6000 BR OVC008 QNH2986INS TEMPO 2509/2515 3200 BR FM251800 25009KT 9999 FEW012 FEW280 QNH2990INS AUTOMATED SENSOR METWATCH 2507 TIL 2513 T15/2511Z T24/2521Z FS30144 KNTU 2507/2607 06010G18KT 9999 SCT010 BKN040 OVC050 QNH3007INS BECMG 2513/2515 04014G22KT FEW020 SCT040 BKN050 OVC080 QNH3005INS BECMG 2517/2518 9999 VCSH SCT010 BKN060 OVC080 QNH3004INS TEMPO 2518/2521 8000 -RA SCT010 BKN020 OVC035 BECMG 2523/2601 05012KT 9999 NSW SCT060 BKN100 BKN250 QNH3009INS T21/2510Z T26/2520Z FN00194 KNUW 2507/2607 26010G18KT 9999 FEW011 FEW060 SCT160 QNH3004INS BECMG 2512/2513 VRB06KT 9999 FEW040 BKN060 BKN150 QNH3012INS TEMPO 2513/2519 23008KT 8000 BR BKN025 OVC050 T13/2514Z T17/2522Z FS30149 KNXP 2509/2609 28005KT 9999 SKC QNH2992INS TEMPO 2517/2523 14007KT FM260030 22010KT 9999 SKC QNH2991INS AUTOMATED SENSOR METWATCH 2509 TIL 2515 T26/2513Z T39/2522Z KNYL 2509/2609 15010KT 9999 FEW100 SCT150 QNH2986INS TEMPO 2513/2517 16015G20KT SCT020 BECMG 2518/2520 20010KT 9999 FEW200 QNH2975INS AUTOMATED SENSOR METWATCH 2509 TIL 2615 T29/2514Z T39/2522Z KNZY 2507/2607 VRB06KT 9999 FEW012 QNH2993INS TEMPO 2510/2516 BKN010 FM252100 29006G15KT 9999 FEW012 QNH2992INS T17/2513Z T23/2521Z FS30149 KOAJ 251134Z 2512/2612 02008KT P6SM -DZ OVC007 FM251330 03010KT P6SM OVC020 FM251800 03013G20KT P6SM SCT025 BKN040 FM260000 03008KT P6SM BKN040 LTD TO CLD VIS AND WIND KOAK 251156Z 2512/2618 VRB05KT P6SM BKN007 TEMPO 2512/2513 SCT007 FM251700 27006KT P6SM FEW008 FM252100 30014KT P6SM FEW011 FM260300 29008KT P6SM SCT008 FM260900 29006KT P6SM BKN008 FM261600 VRB04KT P6SM FEW010 KOFF 251000Z 2510/2616 13008KT 9999 OVC035 QNH2969INS BECMG 2614/2615 18015G25KT 3200 -TSRA OVC020CB QNH2968INS TX22/2602Z TN18/2512Z KOFK 251401Z 2514/2612 14009KT P6SM OVC012 FM251900 16011KT P6SM BKN020 FM260100 15012KT P6SM BKN050 FM260600 15012KT P6SM OVC008 PROB30 2609/2612 4SM TSRA BR OVC005CB KOGB 251126Z 2512/2612 04009KT P6SM BKN015 OVC025 FM251600 04010KT P6SM BKN025 FM252200 05008KT P6SM BKN035 KOGD 251120Z 2512/2612 17010KT P6SM SKC FM251800 27012G20KT P6SM SKC FM260300 32010KT P6SM SKC KOKC 251244Z 2513/2612 17014KT P6SM TSRA SCT015 BKN040CB TEMPO 2513/2516 VRB25G35KT 2SM TSRA BKN015CB FM251700 15012KT P6SM SCT035 BKN250 FM260000 16008KT P6SM SKC KOLF 251121Z 2512/2612 VRB05KT P6SM VCSH SCT100 FM251900 29015G23KT P6SM SCT180 FM260100 VRB05KT P6SM VCTS BKN090CB KOLM 251121Z 2512/2612 19005KT P6SM OVC035 FM251300 22004KT P6SM OVC020 FM251900 29005KT P6SM BKN050 FM260200 35005KT P6SM SCT050 SCT250 FM260400 VRB03KT P6SM FEW250 KOLS 251318Z 2513/2612 VRB03KT P6SM FEW060 BKN250 FM252200 31006KT P6SM VCSH SCT060 BKN250 FM260200 05005KT P6SM SCT070 SCT250 KOMA 251254Z 2513/2612 13008KT P6SM OVC035 TEMPO 2513/2515 P6SM BKN025 FM252100 14010KT P6SM BKN045 FM260000 14012KT P6SM BKN025 FM260400 14011KT P6SM BKN010 PROB30 2610/2611 4SM TSRA BR OVC005CB FM261100 14008KT 6SM -SHRA BR OVC008 PROB30 2611/2612 4SM TS BR OVC005CB KONP 251129Z 2512/2612 00000KT 6SM BCFG BR FEW001 FM251600 35007KT P6SM SCT007 FM251900 35015G25KT P6SM FEW005 FM260300 36006KT 5SM BR SKC KONT 251127Z 2512/2618 VRB05KT P6SM FEW250 FM252100 25011G18KT P6SM SCT100 SCT250 FM260500 25006KT P6SM SCT100 KOPF 251135Z 2512/2612 21006KT P6SM FEW025 FEW250 FM251600 20009KT P6SM VCTS SCT030CB BKN070 BKN250 FM260000 22005KT P6SM FEW030 SCT080 BKN250 KORD 251132Z 2512/2618 11008KT P6SM FEW045 BKN250 FM251600 09012KT P6SM FEW050 BKN200 FM260700 12008KT P6SM VCSH BKN050 PROB30 2608/2614 5SM -SHRA FM261400 16009KT P6SM BKN020 KORF 251120Z 2512/2612 04015G23KT P6SM BKN050 FM252300 04014G21KT P6SM SCT070 FM260900 02013G20KT P6SM SCT040 KORH 251311Z 2513/2612 05010G20KT P6SM BKN015 FM251500 04010G20KT P6SM BKN025 FM251700 06012G22KT P6SM SCT035 FM260000 07010KT P6SM SKC FM260200 04008KT P6SM SKC FM260800 03006KT P6SM SCT030 KOTH 251330Z 2514/2612 VRB03KT 4SM BR BKN003 FM251800 35013G20KT P6SM SKC FM252000 36023G30KT P6SM SKC FM260500 01014G22KT P6SM SKC FM260900 01008KT P6SM SKC KOTM 251120Z 2512/2612 11009KT P6SM SCT040 BKN070 OVC120 FM260600 13006KT P6SM SCT008 BKN013 OVC020 KOUN 251244Z 2513/2612 17014KT P6SM TSRA SCT015 BKN040CB TEMPO 2513/2517 VRB20G35KT 2SM TSRA BKN015CB FM251700 15012KT P6SM SCT035 BKN250 FM260000 16008KT P6SM SKC KOWB 251138Z 2512/2612 VRB05KT P6SM SCT050 BKN090 FM252000 13005KT P6SM VCSH SCT035 OVC060 FM260000 14004KT 4SM -SHRA SCT015 BKN030 FM260600 15005KT P6SM VCSH SCT015 OVC030 FM260800 15006KT 6SM -SHRA BR VCTS OVC019CB FM261000 15007KT 6SM -SHRA BR VCTS OVC009CB KOXR 251206Z 2512/2612 VRB03KT P6SM SCT004 FM251700 26010KT P6SM SKC FM260300 VRB03KT P6SM SKC FM260900 VRB03KT P6SM OVC005 KPAE 251121Z 2512/2612 VRB04KT P6SM OVC025 FM251900 30005KT P6SM BKN050 FM252300 33005KT P6SM SCT050 SCT250 FM260400 36003KT P6SM FEW250 KPAH 251138Z 2512/2612 VRB03KT P6SM VCSH SCT035 OVC050 TEMPO 2512/2516 -SHRA BKN035 FM252000 VRB06KT 4SM -SHRA OVC030 FM252300 VRB03KT 6SM BR VCTS OVC050CB FM260400 VRB04KT 6SM BR VCTS OVC030CB FM260600 15005KT P6SM OVC013 FM260800 16005KT 4SM MIFG VCSH OVC008 KPBF 251120Z 2512/2612 VRB05KT P6SM VCSH SCT008 OVC050 TEMPO 2512/2516 BKN002 FM251700 15007KT P6SM VCTS SCT025 OVC040CB TEMPO 2519/2523 5SM -TSRA BR BKN025CB FM260500 13005KT P6SM VCFG SCT008 OVC050 KPBG 251225Z 2512/2612 00000KT P6SM OVC007 TEMPO 2512/2513 2SM BR OVC004 FM251330 08009KT P6SM SKC FM260000 02003KT P6SM SKC KPBI 251135Z 2512/2612 22005KT P6SM FEW030 FEW250 FM251700 16009KT P6SM VCTS SCT025CB BKN070 BKN250 FM252300 24005KT P6SM FEW030 SCT080 BKN250 KPDK 251402Z 2514/2612 08007KT P6SM VCSH OVC014 FM251600 08008KT P6SM OVC015 FM251900 09007KT P6SM SCT025 BKN035 FM260600 09007KT P6SM VCSH OVC030 FM261000 09007KT P6SM VCSH OVC010 KPDT 251120Z 2512/2612 23010KT P6SM SKC FM251500 28014G20KT P6SM SKC FM260100 28008KT P6SM SKC FM260800 15006KT P6SM SKC KPDX 251129Z 2512/2612 33004KT P6SM FEW015 SCT025 SCT050 FM251300 VRB03KT P6SM BKN015 FM251800 33005KT P6SM FEW020 FM252100 32009KT P6SM SKC FM260600 33004KT P6SM SKC KPEQ 251121Z 2512/2612 26010KT P6SM SCT300 FM260300 20007KT P6SM SCT300 KPGA 251120Z 2512/2612 VRB05KT P6SM SKC FM252200 26008G16KT P6SM SKC FM260300 VRB05KT P6SM SKC KPGD 251247Z 2513/2612 VRB04KT P6SM FEW015 SCT030 FM251800 28006KT P6SM VCTS SCT050CB BKN100 FM260100 VRB05KT P6SM SCT030 SCT250 FM260900 15003KT P6SM SCT020 SCT100 KPGV 251134Z 2512/2612 02008KT P6SM -DZ OVC007 FM251300 03010KT P6SM BKN020 FM251600 04012G19KT P6SM SCT025 BKN040 FM260000 04008KT P6SM BKN040 LTD TO CLD VIS AND WIND KPHF 251120Z 2512/2612 04012KT P6SM BKN060 FM252200 05012KT P6SM SCT070 FM260800 03010KT P6SM BKN035 KPHL 251321Z 2513/2618 04011G20KT P6SM SCT025 TEMPO 2514/2516 BKN025 FM251600 06014G22KT P6SM BKN060 FM260400 05008KT P6SM BKN060 KPHX 251130Z 2512/2618 29006KT P6SM FEW050 SCT150 SCT250 TEMPO 2514/2518 SCT050 FM252200 29012KT P6SM FEW080 SCT150 FM260300 28014G20KT P6SM FEW150 SCT250 FM261000 28006KT P6SM FEW080 SCT250 KPIA 251128Z 2512/2612 10008KT P6SM BKN100 FM260600 10005KT P6SM VCTS OVC030CB KPIB 251120Z 2512/2612 00000KT P6SM FEW040 SCT110 FM251500 16005KT P6SM VCSH SCT015 BKN025 FM251800 17006KT P6SM VCTS BKN035 BKN050CB FM260100 11007KT 6SM -RA OVC020 FM260400 13007KT P6SM OVC015 FM260900 16003KT 4SM -RA BR OVC007 KPIE 251127Z 2512/2612 05006KT P6SM FEW030 SCT250 FM251900 32007KT P6SM SCT035 BKN100 FM260300 36007KT P6SM SCT030 SCT250 FM260900 09004KT P6SM SCT025 BKN100 KPIH 251120Z 2512/2612 21011KT P6SM SKC FM251500 23014G24KT P6SM SKC FM251900 25023G33KT P6SM SKC FM260400 22008KT P6SM SKC KPIR 251421Z 2514/2612 15013KT P6SM SCT015 TEMPO 2514/2516 BKN019 FM252300 13011KT P6SM VCTS BKN040CB FM260300 30007KT P6SM SCT100 KPIT 251135Z 2512/2618 07003KT P6SM SCT250 FM251400 10008KT P6SM SCT250 FM261400 14006KT P6SM SCT250 KPKB 251120Z 2512/2612 VRB03KT P6SM FEW250 FM251800 09006KT P6SM FEW050 FM260500 11005KT P6SM FEW250 KPLN 251140Z 2512/2612 VRB03KT P6SM SKC FM251700 12007KT P6SM FEW040 FM252300 13007KT P6SM SCT250 FM260600 VRB04KT P6SM SCT035 FM261100 13005KT P6SM BKN040 KPMD 251133Z 2512/2612 22008KT P6SM SKC FM251400 VRB03KT P6SM SKC FM251800 25010KT P6SM SKC FM252000 25015G23KT P6SM SKC FM260300 25012KT P6SM SKC FM260900 23006KT P6SM SKC KPNA 251139Z 2512/2612 29006KT P6SM SKC FM251800 28020G32KT P6SM SKC FM260200 29010KT P6SM SKC LTD TO CLD VIS AND WIND KPNC 251120Z 2512/2612 12013KT P6SM -TSRA SCT025 OVC070CB TEMPO 2512/2514 VRB25G35KT 2SM TSRA BKN015CB OVC040 FM251700 15011KT P6SM BKN035 KPNE 251320Z 2513/2612 03012KT P6SM SCT070 TEMPO 2513/2515 BKN020 FM251600 07012KT P6SM BKN070 FM260400 04009KT P6SM BKN070 KPNS 251139Z 2512/2612 01004KT P6SM FEW035 BKN120 BKN250 FM251500 14006KT P6SM VCSH SCT040 BKN250 FM251800 19010KT P6SM VCTS SCT040CB BKN250 TEMPO 2518/2522 20004KT 5SM TSRA OVC030CB FM260600 05003KT P6SM VCTS BKN040CB OVC250 KPOB 251220Z 2512/2615 01006KT 9999 BKN007 OVC010 QNH3008INS TEMPO 2512/2515 BKN012 OVC030 BECMG 2514/2515 02006KT 9999 FEW007 SCT015 BKN030 QNH3008INS BECMG 2519/2520 04009KT 9999 FEW015 SCT050 SCT250 QNH3007INS BECMG 2605/2606 03006KT 9999 SCT015 OVC050 QNH3007INS TX27/2518Z TN18/2512Z KPOE 251320Z 2513/2614 14009KT 8000 -SHRA BKN004 BKN020 QNH2989INS TEMPO 2513/2515 SCT004 BKN015 BECMG 2514/2515 14009KT 8000 -SHRA BKN015 OVC025 QNH2980INS TEMPO 2517/2521 VRB12G18KT 6000 -TSRA BKN012CB BECMG 2520/2521 15009KT 9999 NSW SCT015 OVC020 QNH2981INS BECMG 2602/2603 15006KT 9999 SCT006 OVC015 QNH2982INS TEMPO 2603/2609 BKN006 TX30/2517Z TN23/2612Z KPOU 251132Z 2512/2612 03006KT P6SM SCT060 FM252200 07005KT P6SM SKC KPQI 251120Z 2512/2612 VRB03KT P6SM SKC FM260500 00000KT 6SM MIFG FEW100 KPRB 251133Z 2512/2612 VRB03KT P6SM SKC FM251800 21006KT P6SM SKC FM252200 21015KT P6SM SKC FM260400 30008KT P6SM SKC FM260900 VRB03KT P6SM SKC KPRC 251120Z 2512/2612 23007KT P6SM FEW200 FM252000 29010G18KT P6SM FEW090 FM260200 23007KT P6SM FEW200 KPSC 251120Z 2512/2612 26008KT P6SM SKC FM260000 31008KT P6SM SKC FM260600 VRB04KT P6SM SKC KPSF 251132Z 2512/2612 06006KT P6SM SCT040 FM252200 10006KT P6SM SKC KPSM 251330Z 2514/2612 04010KT P6SM BKN018 FM251500 06010G19KT P6SM SCT020 SCT060 FM252300 06006KT P6SM SKC KPSP 251127Z 2512/2612 VRB05KT P6SM SKC FM251800 11008KT P6SM FEW040 SCT100 FM260300 32007KT P6SM SCT100 KPTK 251132Z 2512/2612 07006KT P6SM SCT040 SCT200 TEMPO 2512/2514 BKN040 FM251500 11010KT P6SM SCT045 FM260000 12007KT P6SM SCT200 KPUB 251125Z 2512/2612 28007KT P6SM SKC FM251700 30012G22KT P6SM FEW200 FM252200 08010KT P6SM FEW110 FM260400 32008KT P6SM SKC KPUW 251120Z 2512/2612 25009KT P6SM FEW060 FM251500 26013G20KT P6SM SCT050 FM260200 27006KT P6SM SKC FM260800 VRB02KT P6SM SKC KPVD 251311Z 2513/2612 02011G20KT P6SM VCSH SCT045 FM251400 02012G22KT P6SM VCSH BKN030 FM251700 05012G22KT P6SM BKN035 FM252200 06012G20KT P6SM SCT040 FM260500 03007KT P6SM BKN015 KPVU 251120Z 2512/2612 VRB04KT P6SM SKC FM251800 26012G20KT P6SM SKC FM260300 32010KT P6SM SKC KPVW 251128Z 2512/2612 21008KT P6SM FEW250 FM251500 24011KT P6SM SKC KPWM 251120Z 2512/2612 03005KT P6SM SKC FM251300 08010G17KT P6SM SCT060 FM260000 08004KT P6SM SKC KPWT 251121Z 2512/2612 VRB03KT P6SM OVC015 FM252100 19004KT P6SM BKN050 FM260100 VRB03KT P6SM SCT250 KQD3 251128Z 2511/2617 30015G20KT 8000 HZ FEW100 QNH2961INS BECMG 2515/2516 VRB06KT 9999 NSW FEW080 SCT140 QNH2960INS BECMG 2604/2605 25015G25KT 4800 HZ SCT140 QNH2964INS BECMG 2610/2611 30012G18KT 8000 HZ SCT100 QNH2964INS TX43/2513Z TN34/2603Z KQN3 250910Z 2509/2615 20010G15KT 9999 VCSH SCT035 SCT150 QNH2992INS BECMG 2511/2512 21012G18KT 9999 VCTS BKN030CB QNH2990INS BECMG 2519/2520 VRB06KT 9999 NSW SCT030 BKN100 QNH2989INS BECMG 2609/2610 21010G15KT 9999 SCT030 QNH2985INS TEMPO 2612/2615 22015G25KT 4800 TSRA BKN030CB TX34/2514Z TN25/2605Z KQRH 251411Z 2514/2617 31009KT 9999 FEW100 QNH2960INS BECMG 2515/2516 VRB06KT 9999 FEW080 SCT140 QNH2959INS BECMG 2604/2605 25010G25KT 4800 HZ SCT140 QNH2964INS BECMG 2610/2611 30012G18KT 8000 HZ SCT100 QNH2963INS TX43/2613Z TN34/2603Z KRAP 251122Z 2512/2612 20006KT P6SM SCT120 BKN250 TEMPO 2512/2513 32016G26KT FM251600 35013KT P6SM SCT060 BKN120 FM260300 34018G28KT P6SM -SHRA OVC100 KRBG 251120Z 2512/2612 VRB03KT P6SM SCT015 OVC030 FM251800 01007KT P6SM FEW030 FM252000 01010G16KT P6SM SKC FM260000 01015G21KT P6SM SKC FM260300 01006KT P6SM SKC KRBL 251129Z 2512/2612 VRB03KT P6SM SKC FM252100 16009KT P6SM SKC FM260300 VRB04KT P6SM SKC KRDD 251129Z 2512/2612 VRB03KT P6SM SKC FM252100 19008KT P6SM SKC FM260300 VRB05KT P6SM SKC KRDG 251120Z 2512/2612 03008KT P6SM SCT060 FM251800 07008KT P6SM BKN050 KRDM 251120Z 2512/2612 18005KT P6SM SKC FM251700 32008KT P6SM SKC FM252000 34014G22KT P6SM SKC FM260300 VRB05KT P6SM SKC KRDR 251340Z 2513/2616 18012G18KT 9999 -RA OVC018 510202 QNH2978INS BECMG 2519/2520 18012G18KT 9000 -SHRA OVC020 QNH2968INS BECMG 2605/2606 20009KT 9999 NSW OVC008 QNH2968INS BECMG 2612/2613 30006KT 9999 FEW010 BKN100 QNH2970INS WND 30012KT AFT 2615 TX23/2521Z TN15/2609Z KRDU 251416Z 2514/2612 03009KT P6SM BKN040 FM252100 05009KT P6SM SCT040 FM260000 07005KT P6SM SCT250 KRFD 251132Z 2512/2612 10007KT P6SM SCT045 BKN250 FM251600 13012KT P6SM SCT050 BKN120 FM260100 11007KT P6SM BKN050 FM261100 13007KT P6SM VCSH OVC015 KRHI 251121Z 2512/2612 11003KT P6SM BKN040 FM251400 16009KT P6SM SCT030 SCT200 FM251800 15010KT P6SM BKN035 FM252300 15006KT P6SM BKN070 FM260700 15005KT P6SM BKN035 KRIC 251120Z 2512/2612 03007KT P6SM SCT100 FM251500 05010KT P6SM SCT050 FM260800 02005KT P6SM BKN035 KRIL 251120Z 2512/2612 00000KT P6SM SKC FM251900 26011G22KT P6SM FEW250 FM260200 27008KT P6SM FEW150 FEW250 FM260600 00000KT P6SM SKC KRIV 251200Z 2512/2618 VRB04KT 9999 FEW250 QNH2997INS BECMG 2519/2520 31009KT 9999 FEW120 SCT250 QNH2991INS TEMPO 2520/2602 31012G20KT BECMG 2604/2605 VRB04KT 9999 SCT250 QNH2995INS TX37/2522Z TN16/2513Z KRIW 251139Z 2512/2612 29010KT P6SM SKC FM251430 VRB05KT P6SM SKC FM251900 29020G30KT P6SM SKC FM260130 31010KT P6SM SKC FM260500 01010KT P6SM SKC KRKD 251120Z 2512/2612 08009KT P6SM FEW050 FM260000 05003KT P6SM SKC KRKS 251139Z 2512/2612 20007KT P6SM SKC FM251600 27017G24KT P6SM SKC FM251800 27028G40KT P6SM SKC FM260200 28012KT P6SM SKC FM260600 22007KT P6SM SKC KRME 251137Z 2512/2612 11003KT P6SM SKC FM251400 11007KT P6SM BKN050 FM260000 11003KT P6SM SKC KRNH 251132Z 2512/2612 14007KT P6SM SCT070 BKN200 FM251600 15010G18KT P6SM SCT035 BKN100 FM252200 15012KT P6SM SCT025 SCT040 BKN080 PROB30 2522/2604 -SHRA OVC035 FM260500 16005KT P6SM VCSH OVC025 FM261000 15006KT 6SM -SHRA BR OVC015 KRNO 251120Z 2512/2612 VRB04KT P6SM SKC FM251800 27007KT P6SM SKC FM252100 30012G20KT P6SM SKC FM260700 30005KT P6SM SKC KROA 251121Z 2512/2612 02008KT P6SM SCT025 BKN035 FM251700 09007KT P6SM BKN070 FM260300 VRB03KT P6SM BKN050 FM260800 VRB03KT P6SM BKN025 KROC 251120Z 2512/2612 VRB03KT P6SM SKC FM251500 09006KT P6SM SCT040 FM251800 07008KT P6SM BKN040 FM260000 11006KT P6SM SKC KROG 251131Z 2512/2612 11007KT P6SM OVC012 FM251700 15007KT P6SM VCTS OVC025CB TEMPO 2518/2522 4SM -TSRA OVC012CB FM260000 14006KT P6SM BKN035 FM260600 VRB03KT 3SM BR BKN012 KROW 251121Z 2512/2612 23006KT P6SM FEW250 FM251900 32011G19KT P6SM FEW250 FM260200 29009KT P6SM FEW250 KRSL 251134Z 2512/2612 22007KT P6SM VCTS SCT006 OVC040CB TEMPO 2512/2514 OVC006CB FM251400 17006KT P6SM SCT006 OVC035 TEMPO 2514/2516 BKN008 FM252000 17007KT P6SM BKN050 FM252200 16006KT P6SM SCT060 KRST 251120Z 2512/2612 13009KT P6SM SCT050 OVC150 FM251600 15013G21KT P6SM BKN045 OVC090 FM260000 15010KT P6SM OVC040 KRSW 251249Z 2513/2612 VRB03KT P6SM SCT006 SCT015 FM251500 VRB03KT P6SM SCT020 FM251800 29006KT P6SM VCTS SCT050CB BKN100 FM260100 VRB05KT P6SM SCT030 SCT250 FM260900 VRB03KT P6SM SCT015 KRUT 251130Z 2512/2612 VRB04KT P6SM BKN030 FM251300 10005KT P6SM SCT080 FM251700 06008KT P6SM SKC KRVS 251131Z 2512/2612 16007KT P6SM BKN010 TEMPO 2514/2518 VRB15G30KT 2SM TSRA OVC007CB FM252000 18007KT P6SM BKN025 FM252200 15005KT P6SM BKN040 KRWF 251132Z 2512/2612 15011KT P6SM BKN060 OVC200 FM251400 15013G22KT P6SM VCSH SCT035 OVC060 FM251800 15013G22KT 6SM -SHRA OVC040 FM252300 15013G20KT P6SM OVC050 FM260500 16010KT 6SM SHRA BR OVC012 PROB30 2605/2609 4SM TSRA OVC007CB KRWI 251423Z 2514/2612 02008KT P6SM BKN050 FM260000 07005KT P6SM SCT250 TEMPO 2610/2612 01004KT 4SM BR OVC009 KRWL 251120Z 2512/2612 25004KT P6SM BKN250 FM251500 27025G33KT P6SM SCT250 FM260400 28013KT P6SM SKC KRYY 251130Z 2512/2612 09009KT P6SM VCSH OVC012 FM251600 10009KT P6SM OVC015 FM252000 10007KT P6SM VCSH SCT020 BKN035 FM260400 10008KT P6SM VCSH OVC030 FM260900 10008KT P6SM VCSH OVC009 KSAC 251129Z 2512/2612 VRB05KT P6SM SKC FM251900 22010KT P6SM SKC FM260400 17005KT P6SM SKC KSAF 251121Z 2512/2612 01007KT P6SM FEW250 FM251900 28012G20KT P6SM SCT200 FM260200 32008KT P6SM FEW250 KSAN 251127Z 2512/2618 VRB05KT P6SM SKC TEMPO 2512/2516 BKN010 FM251900 28009KT P6SM SCT100 FM260200 VRB05KT P6SM FEW008 SCT150 FM261000 VRB03KT P6SM BKN008 FM261600 VRB04KT P6SM SCT010 KSAT 251355Z 2514/2618 17006KT P6SM BKN012 OVC025 FM251500 17006KT P6SM BKN025 FM251700 19008KT P6SM SCT070 FM260900 17008KT P6SM SCT015 KSAV 251120Z 2512/2612 02010KT P6SM OVC006 FM251400 02010KT P6SM OVC015 FM251900 03008KT P6SM SCT015 OVC035 KSAW 251136Z 2512/2612 VRB03KT P6SM SCT050 FM251400 18007KT P6SM SCT200 FM251700 16012G18KT P6SM SCT200 FM260200 VRB03KT P6SM SCT200 FM261100 16006KT P6SM BKN120 KSBA 251414Z 2514/2612 00000KT 1SM BR OVC002 FM251600 VRB03KT 5SM BR OVC006 FM251800 16006KT P6SM SKC FM252000 24008KT P6SM SKC FM260200 VRB03KT P6SM SKC KSBD 251127Z 2512/2612 VRB04KT P6SM SKC FM252000 25010KT P6SM SCT100 FM260400 VRB05KT P6SM SCT100 KSBN 251120Z 2512/2612 09006KT P6SM SCT250 FM251500 12010KT P6SM SCT050 BKN250 FM260000 11008KT P6SM OVC100 KSBP 251133Z 2512/2612 VRB03KT P6SM SKC FM251700 30006KT P6SM SKC FM252000 30012KT P6SM SKC FM260300 30006KT P6SM SKC FM260800 VRB03KT P6SM BKN007 KSBY 251120Z 2512/2612 02005KT P6SM SKC FM251500 04012G18KT P6SM BKN050 FM260700 03008KT P6SM BKN035 KSCK 251129Z 2512/2612 VRB04KT P6SM SKC FM251800 31007KT P6SM SKC FM260600 VRB04KT P6SM SKC KSDF 251120Z 2512/2618 VRB06KT P6SM BKN250 FM251500 10007KT P6SM SCT045 BKN150 PROB30 2523/2605 4SM -SHRA BKN030 FM260500 14006KT P6SM VCSH SCT015 BKN030 PROB30 2610/2615 3SM -TSRA BKN015CB FM261500 16010KT 5SM -SHRA BR SCT008 BKN015 KSDL 251130Z 2512/2612 24006KT P6SM FEW050 SCT100 SCT150 TEMPO 2514/2518 SCT050 FM260500 VRB05KT P6SM FEW080 SCT250 KSDY 251121Z 2512/2612 VRB05KT P6SM VCSH BKN100 FM251600 26010KT P6SM SCT100 FM252100 29015G23KT P6SM SCT180 KSEA 251121Z 2512/2618 08007KT P6SM FEW025 OVC050 FM251400 15006KT P6SM OVC025 FM251900 23007KT P6SM BKN050 FM260000 33005KT P6SM SCT050 SCT250 FM260600 03005KT P6SM FEW250 KSEZ 251120Z 2512/2612 VRB05KT P6SM SKC FM252100 27009G15KT P6SM FEW080 FM260200 VRB05KT P6SM SKC KSFB 251359Z 2514/2612 01008KT P6SM BKN020 FM251600 03009KT P6SM SCT035 FM251900 06009KT P6SM VCSH SCT050 SCT200 FM260000 04004KT P6SM FEW050 FEW250 KSFF 251120Z 2512/2612 23008KT P6SM FEW150 SCT200 FM251800 25010G16KT P6SM SCT070 FM260200 27006KT P6SM FEW070 FM260600 VRB02KT P6SM SKC KSFO 251121Z 2512/2618 29007KT P6SM FEW005 TEMPO 2512/2516 BKN006 FM251600 33005KT P6SM FEW010 FM252100 30015KT P6SM FEW010 FM260400 29008KT P6SM FEW008 FM261000 29005KT P6SM SCT007 FM261600 VRB05KT P6SM FEW010 KSGF 251257Z 2513/2612 15009KT P6SM OVC006 FM251500 15009KT P6SM -SHRA BKN015 TEMPO 2518/2522 4SM TSRA BR OVC025CB FM260800 16007KT P6SM SCT027 KSGJ 251408Z 2514/2612 04011KT P6SM VCSH SCT015 BKN020 TEMPO 2514/2516 BKN015 FM252300 05008KT P6SM SCT025 BKN250 KSGR 251120Z 2512/2612 18003KT P6SM SCT012 FM251500 18004KT P6SM VCSH SCT030 FM251800 18009KT P6SM VCTS SCT040CB BKN250 TEMPO 2518/2521 4SM SHRA OVC040 FM260000 17007KT P6SM BKN250 FM260500 VRB03KT P6SM SCT013 KSGU 251120Z 2512/2612 VRB04KT P6SM SKC FM252100 26012G20KT P6SM SKC FM260300 15008KT P6SM SKC KSHR 251122Z 2512/2612 31009KT P6SM FEW100 FM252100 VRB05G15KT P6SM VCTS SCT070CB BKN100 FM260000 34012KT P6SM -SHRA VCTS BKN060CB FM260400 31010KT P6SM VCSH BKN060 FM260700 30012KT P6SM BKN080 KSHV 251140Z 2512/2612 14005KT P6SM VCSH OVC010 TEMPO 2512/2515 5SM -SHRA BR BKN007 FM251500 17005KT P6SM VCSH SCT010 OVC015 FM251800 16006KT P6SM VCTS BKN035CB FM260000 14005KT P6SM FEW050 SCT250 FM260600 15003KT P6SM OVC015 FM260900 17003KT 4SM BR OVC015 KSJC 251121Z 2512/2612 33005KT P6SM FEW007 TEMPO 2512/2515 BKN007 FM251900 32012KT P6SM SKC FM260300 30008KT P6SM SKC FM260800 33005KT P6SM SKC KSJS 251137Z 2512/2612 VRB04KT P6SM FEW040 SCT200 FM252100 VRB04KT P6SM SCT040 BKN200 FM261000 VRB05KT P6SM SCT035 BKN080 BKN250 KSJT 251120Z 2512/2612 20009KT P6SM SKC KSKA 251103Z 2511/2617 20009KT 9999 SCT150 QNH2989INS BECMG 2518/2519 25010G15KT 9999 FEW080 FEW150 QNH2998INS WND VRB06KT AFT 2604 TX25/2600Z TN12/2513Z KSKF 251242Z 2512/2616 VRB06KT 6000 BR SCT003 OVC006 QNH2982INS TEMPO 2512/2515 OVC007 3200 BR BECMG 2514/2515 17008KT 9999 NSW FEW040 SCT250 QNH2974INS BECMG 2609/2610 16006KT 9999 FEW010 QNH2980INS TX37/2520Z TN26/2512Z KSLC 251120Z 2512/2618 13010KT P6SM SKC FM251500 16012G20KT P6SM SKC FM251900 33016G26KT P6SM SKC FM260300 33009KT P6SM SKC KSLE 251129Z 2512/2612 35003KT P6SM FEW015 FM251700 36008KT P6SM SKC FM252000 01011G18KT P6SM SKC FM260400 01006KT P6SM SKC KSLI 251301Z 2513/2619 VRB06KT 9999 SCT020 QNH2993INS TEMPO 2513/2516 6000 BR BKN015 BECMG 2520/2521 23009KT 9999 FEW020 QNH2988INS BECMG 2607/2608 VRB06KT 8000 BR BKN015 QNH2989INS TEMPO 2612/2615 4800 BR BKN009 BECMG 2617/2618 22009KT 9999 NSW SCT020 QNH2984INS TX29/2522Z TN18/2513Z KSLK 251221Z 2512/2612 00000KT P6SM SCT002 FM251600 06006KT P6SM SKC FM260600 00000KT 1SM BR BKN001 KSLN 251134Z 2512/2612 VRB03KT P6SM VCTS BKN005 OVC060CB TEMPO 2512/2515 OVC008CB FM251600 VRB05KT P6SM BKN035 FM252300 14006KT P6SM SCT060 FM261100 17010KT P6SM SCT015 KSME 251137Z 2512/2612 VRB03KT P6SM SCT045 BKN150 FM251900 VRB04KT P6SM VCSH SCT035 OVC090 FM260600 VRB04KT 6SM -SHRA BR SCT025 OVC035 FM260800 VRB04KT 5SM -SHRA BR SCT015 OVC025 KSMF 251129Z 2512/2612 17006KT P6SM SKC FM251900 21008KT P6SM SKC FM260300 17006KT P6SM SKC KSMN 251120Z 2512/2612 35006KT P6SM SKC FM251900 31015G20KT P6SM SKC FM260300 01010KT P6SM SKC KSMO 251133Z 2512/2612 VRB03KT P6SM SKC FM251700 24008KT P6SM SKC FM260300 VRB03KT P6SM SKC FM260900 VRB03KT P6SM OVC007 KSMX 251133Z 2512/2612 VRB03KT P6SM SKC FM251700 31006KT P6SM SKC FM251900 30012KT P6SM SKC FM260300 30006KT 5SM BR BKN007 FM260900 VRB03KT 1SM BR OVC003 KSNA 251127Z 2512/2612 VRB03KT P6SM SKC FM252000 22009KT P6SM SCT150 FM260200 VRB05KT P6SM FEW008 SCT100 FM260700 VRB04KT 6SM BR BKN008 KSNS 251145Z 2512/2612 VRB04KT 4SM BR OVC004 TEMPO 2513/2516 1SM BR VV002 FM251700 29007KT P6SM BKN010 FM251800 29012KT P6SM FEW012 FM260300 29008KT P6SM OVC008 FM260700 VRB04KT 5SM BR OVC005 KSNY 251422Z 2514/2612 VRB03KT 6SM BR SCT001 TEMPO 2514/2516 1/4SM FG OVC001 FM251600 27011KT P6SM SKC FM251800 32014G22KT P6SM SKC FM260100 15008KT P6SM BKN250 KSOA 251120Z 2512/2612 VRB03KT P6SM SKC FM251500 20007KT P6SM SKC NOT SKED KSPI 251128Z 2512/2612 10006KT P6SM VCSH OVC090 FM251800 10007KT P6SM BKN080 FM260400 10005KT P6SM VCTS OVC030CB KSPS 251120Z 2512/2612 12007KT P6SM BKN250 FM251400 16012G19KT P6SM SCT050 BKN250 FM260000 12010KT P6SM SCT250 KSRQ 251127Z 2512/2612 05004KT P6SM SCT020 SCT100 FM251900 31007KT P6SM SCT040 BKN100 FM260100 VRB05KT P6SM SCT030 SCT250 FM260900 VRB03KT P6SM SCT020 BKN100 KSSF 251407Z 2514/2612 14003KT 4SM BR OVC006 FM251500 14004KT P6SM BKN015 FM251700 15005KT P6SM SCT015 SCT070 FM251900 18007KT P6SM SCT070 FM260000 14006KT P6SM SKC KSSI 251408Z 2514/2612 04010KT P6SM VCSH SCT015 BKN035 FM252300 04008KT P6SM SCT025 BKN250 KSTC 251132Z 2512/2612 14008KT P6SM SCT040 BKN200 FM251400 15010G19KT P6SM SCT040 BKN100 FM251900 15012G21KT P6SM VCSH OVC040 FM252200 15011G19KT 4SM -SHRA BR OVC025 FM260100 15010G18KT P6SM VCSH SCT014 OVC020 FM260600 16008KT 6SM SHRA BR OVC010 KSTJ 251120Z 2512/2612 10011KT P6SM VCSH OVC018 TEMPO 2514/2518 5SM -TSRA OVC009CB FM251800 12008KT P6SM VCTS OVC012CB FM252300 11006KT P6SM OVC025 FM260600 15005KT 6SM BR OVC015 KSTL 251421Z 2514/2618 11007KT P6SM VCSH OVC035 TEMPO 2514/2516 4SM -SHRA OVC025 FM252000 10007KT P6SM VCTS OVC050CB FM260400 12005KT P6SM VCSH OVC025 FM260900 15005KT P6SM OVC018 KSTS 251121Z 2512/2612 VRB03KT 4SM BR OVC004 TEMPO 2512/2516 1/2SM FG VV002 FM251700 19011KT P6SM SKC FM260400 19005KT P6SM SKC FM260700 VRB04KT 5SM BR OVC007 KSUA 251134Z 2512/2612 VRB04KT P6SM SCT020 SCT250 FM251600 07008KT P6SM VCTS SCT035CB SCT200 FM252200 10007KT P6SM SCT040 SCT120 BKN250 KSUN 251120Z 2512/2618 32007KT P6SM SKC FM251900 20012G22KT P6SM SKC FM252300 26012G22KT P6SM SKC FM260300 32008KT P6SM SKC LTD TO CLD VIS AND WIND TIL 251300 KSUS 251419Z 2514/2612 11007KT P6SM -SHRA OVC025 TEMPO 2514/2516 4SM -SHRA FM252000 10007KT P6SM VCTS OVC050CB FM260400 12005KT P6SM VCSH OVC025 FM260800 15005KT P6SM OVC018 KSUU 251100Z 2511/2617 23015G25KT 9999 SKC QNH2990INS BECMG 2514/2515 23012KT 9999 SKC QNH2987INS BECMG 2602/2603 23015G25KT 9999 SKC QNH2986INS TX37/2523Z TN16/2513Z KSUX 251127Z 2512/2612 13008KT P6SM VCSH SCT025 OVC040 FM251500 14010G15KT P6SM OVC026 FM252100 15012G17KT P6SM BKN035 FM260200 14011KT P6SM OVC020 FM260900 16007KT P6SM -SHRA OVC008 KSVN 251200Z 2512/2618 03006KT 9999 OVC004 QNH2994INS TEMPO 2512/2514 OVC007 BECMG 2514/2515 03009KT 9999 SCT007 BKN010 OVC020 QNH3000INS BECMG 2517/2518 05009KT 9999 SCT020 BKN070 BKN200 QNH2997INS BECMG 2522/2523 05006KT 9999 SCT030 SCT070 SCT200 QNH3001INS BECMG 2612/2613 05009KT 9999 SCT020 SCT100 SCT200 QNH3004INS TX30/2521Z TN22/2611Z KSWF 251120Z 2512/2618 04005KT P6SM SCT035 BKN060 FM251500 06008KT P6SM SCT035 BKN060 FM251800 08009KT P6SM FEW035 BKN060 FM260100 VRB04KT P6SM FEW025 SCT060 FM261300 07006KT P6SM SCT050 NOT SKED KSYM 251137Z 2512/2612 VRB06KT P6SM FEW120 FEW250 FM252300 VRB05KT P6SM SCT045 BKN200 FM260800 VRB05KT P6SM SCT035 BKN080 OVC250 KSYR 251137Z 2512/2612 08002KT P6SM SCT200 FM251400 08006KT P6SM BKN050 FM260000 10003KT P6SM SKC KSZL 251100Z 2511/2617 10009KT 9999 BKN015 QNH2990INS BECMG 2518/2519 10009KT 8000 -SHRA BKN020 QNH2990INS TEMPO 2522/2602 6000 -TSRA BKN010CB BECMG 2602/2603 10009KT 9999 NSW BKN020 QNH2987INS TX23/2520Z TN18/2611Z KTCC 251121Z 2512/2612 25009KT P6SM SKC FM251600 34009KT P6SM FEW250 FM260100 VRB06KT P6SM SCT250 KTCL 251410Z 2514/2612 00000KT P6SM BKN030 TEMPO 2514/2515 SCT015 FM251700 14006KT P6SM VCSH BKN030 FM252000 14006KT P6SM VCTS OVC030CB FM260100 13004KT P6SM VCSH OVC030 FM260400 13002KT P6SM OVC030 KTCM 251300Z 2513/2619 VRB06KT 9999 OVC013 QNH3010INS TEMPO 2513/2518 BKN009 BECMG 2518/2519 01006KT 9999 SCT030 QNH3015INS TX26/2600Z TN14/2513Z KTCS 251120Z 2512/2612 30011KT P6SM FEW250 FM251400 32007G16KT P6SM FEW080 FM260600 31011KT P6SM SKC KTEB 251120Z 2512/2618 03008KT P6SM FEW025 SCT060 FM251600 06010G17KT P6SM SCT025 BKN060 FM260000 05007KT P6SM SCT025 SCT060 FM260800 04005KT P6SM BKN025 FM261300 05007KT P6SM SCT025 SCT050 KTEX 251120Z 2512/2612 12004KT P6SM SKC FM251900 28010G18KT P6SM FEW120 FEW250 FM260300 12005KT P6SM SKC KTIK 250900Z 2509/2615 13009KT 9000 -SHRA SCT010 BKN020 QNH2985INS TEMPO 2509/2510 VRB15G25KT 8000 -TSRA BKN010CB OVC020 BECMG 2510/2511 15012KT 9999 NSW BKN010 BKN030 QNH2974INS BECMG 2514/2515 15012G18KT 9999 SCT020 QNH2976INS BECMG 2602/2603 14009KT 9999 SCT050 QNH2976INS BECMG 2612/2613 17009KT 8000 BR SKC QNH2974INS TX32/2522Z TN21/2512Z KTIX 251403Z 2514/2612 02007KT P6SM BKN020 FM251600 04009KT P6SM SCT030 SCT200 FM260000 05005KT P6SM FEW035 FEW250 KTLH 251328Z 2513/2612 07006KT P6SM SCT010 TEMPO 2513/2515 BKN007 FM251900 13008KT 5SM -TSRA BKN040CB OVC100 FM252300 09005KT P6SM SCT040 BKN100 FM261000 10004KT P6SM SCT015 KTMB 251135Z 2512/2612 20007KT P6SM VCSH FEW020 FEW035 FM251500 19009KT P6SM VCTS SCT025CB BKN070 BKN250 FM252200 26007KT P6SM SCT030 BKN080 BKN250 FM260100 VRB03KT P6SM FEW030 BKN250 KTOI 251411Z 2514/2612 09002KT P6SM SCT060 TEMPO 2514/2516 OVC006 FM251700 10006KT P6SM VCSH BKN040 FM252100 11006KT P6SM VCTS OVC030CB FM260100 12004KT P6SM VCSH OVC030 FM260400 13002KT P6SM OVC030 KTOL 251126Z 2512/2612 08004KT P6SM SKC FM251800 10011KT P6SM FEW045 TEMPO 2519/2522 SCT045 FM260600 12010KT P6SM BKN250 KTOP 251251Z 2513/2612 11007KT P6SM VCSH BKN008 FM251600 12007KT P6SM BKN012 FM251800 14007KT P6SM BKN025 FM260800 15005KT P6SM BKN012 KTPA 251127Z 2512/2618 04005KT P6SM FEW030 SCT250 FM252000 26007KT P6SM BKN040 BKN100 FM252300 32007KT P6SM SCT040 BKN100 FM260100 VRB05KT P6SM SCT030 SCT100 BKN250 FM261500 20006KT P6SM SCT030 BKN100 KTPH 251134Z 2512/2612 01005KT P6SM SKC FM251900 28010G17KT P6SM SKC FM260200 32012KT P6SM SKC FM260500 01007KT P6SM SKC KTRI 251120Z 2512/2612 04003KT P6SM BKN040 FM251700 10005KT P6SM BKN050 KTRK 251120Z 2512/2612 VRB03KT P6SM SKC FM251800 23006KT P6SM SKC FM252000 26011G18KT P6SM SKC FM260400 VRB03KT P6SM SKC KTRM 251127Z 2512/2612 VRB05KT P6SM FEW030 FM251730 14010G18KT P6SM SCT100 FM260200 VRB05KT P6SM SCT100 KTTD 251129Z 2512/2612 VRB03KT P6SM SCT015 BKN050 FM251300 00000KT P6SM OVC015 FM251900 28004KT P6SM FEW025 FM252100 32005KT P6SM SKC FM260400 VRB02KT P6SM SKC KTTN 251319Z 2513/2612 03008KT P6SM SCT070 TEMPO 2513/2515 BKN025 FM251700 08010KT P6SM BKN060 FM260600 05007KT P6SM BKN060 KTUL 251131Z 2512/2612 14012KT P6SM BKN012 TEMPO 2514/2518 VRB15G30KT 2SM TSRA OVC007CB FM252000 18007KT P6SM BKN025 FM252200 15006KT P6SM BKN040 KTUP 251404Z 2514/2612 VRB03KT P6SM -SHRA SCT006 BKN050 FM251500 12005KT P6SM VCSH FEW010 SCT025 TEMPO 2515/2517 BKN025 FM251900 13007KT P6SM VCTS SCT035CB BKN040 TEMPO 2520/2523 VRB10KT 4SM TSRA SCT010 BKN035CB FM260100 15004KT P6SM VCSH FEW007 BKN020 FM260400 16008KT 6SM -SHRA BKN015 KTUS 251317Z 2513/2612 19005KT P6SM FEW080 BKN250 FM251800 31006KT P6SM FEW120 SCT250 FM260400 24005KT P6SM SKC FM260800 16005KT P6SM SKC KTVC 251140Z 2512/2612 00000KT P6SM SKC FM251400 15005KT P6SM SKC FM251700 14007KT P6SM FEW040 FM260100 14006KT P6SM SCT040 FM260700 14005KT P6SM BKN040 KTVF 251143Z 2512/2612 16013KT P6SM OVC120 FM251400 17014KT P6SM VCSH OVC029 FM252000 17016KT P6SM VCTS OVC016CB FM260500 20009KT 6SM -SHRA BR OVC008 KTVL 251120Z 2512/2612 VRB03KT P6SM SKC FM251800 16007KT P6SM SKC FM252100 20009G16KT P6SM SKC FM260300 VRB03KT P6SM SKC KTWF 251124Z 2512/2612 21015KT P6SM SKC FM251900 28020G30KT P6SM SCT250 FM260300 25012KT P6SM SCT250 FM260500 21014KT P6SM SCT250 KTXK 251258Z 2513/2612 12004KT P6SM SCT007 OVC014 FM251500 14004KT P6SM OVC025 FM252000 16006KT P6SM VCTS BKN040CB FM260000 14004KT P6SM BKN250 FM260600 14004KT 5SM BR OVC007 FM260900 16003KT 2SM BR SCT250 KTYR 251140Z 2512/2612 12005KT P6SM BKN009 TEMPO 2512/2514 6SM BR OVC015 FM251400 VRB04KT P6SM OVC025 TEMPO 2516/2518 BKN035 FM251800 15006KT P6SM BKN040 FM260000 14005KT P6SM BKN250 KTYS 251300Z 2513/2612 04006KT P6SM SCT030 BKN050 OVC080 FM252100 12006KT P6SM VCTS SCT030CB BKN050 FM260300 VRB03KT P6SM BKN030 KUAO 251129Z 2512/2612 35006KT P6SM SCT050 FM251400 VRB03KT P6SM BKN015 FM251700 VRB03KT P6SM FEW020 FM252200 35008KT P6SM SKC FM260600 02003KT P6SM SKC KUES 251136Z 2512/2612 VRB03KT P6SM SCT050 BKN250 FM251500 13008KT P6SM SCT050 BKN250 FM260000 11006KT P6SM SCT200 FM261000 VRB04KT P6SM OVC045 KUIN 251129Z 2512/2612 10006KT P6SM BKN060 FM260500 11006KT P6SM OVC025 FM260800 12005KT P6SM OVC015 KUKI 251136Z 2512/2612 00000KT P6SM SKC FM252100 13007KT P6SM SKC FM260000 23009KT P6SM SKC KUNV 251133Z 2512/2612 06004KT P6SM SCT070 FM251500 10007KT P6SM BKN040 FM252200 08004KT P6SM SKC FM261000 09005KT 5SM BR BKN015 KUTS 251120Z 2512/2612 19003KT P6SM SCT250 FM251800 18007KT P6SM VCTS SCT040CB BKN060 FM260000 14005KT P6SM SCT200 FM261000 VRB03KT P6SM SCT010 KVCT 251120Z 2512/2612 19004KT P6SM SCT020 BKN100 TEMPO 2512/2514 3SM BR BKN040 FM252100 17010KT P6SM SCT050 BKN250 PROB30 2521/2524 4SM TSRA BR BKN050CB KVEL 251120Z 2512/2612 29003KT P6SM SKC FM252000 26014G27KT P6SM SKC FM260200 27009KT P6SM SKC FM260400 31005KT P6SM SKC KVGT 251120Z 2512/2612 VRB05KT P6SM FEW250 FM251600 12008KT P6SM SKC FM252200 20011KT P6SM SKC FM260700 VRB05KT P6SM SKC KVIS 251120Z 2512/2612 VRB05KT P6SM SKC KVLD 251225Z 2512/2612 VRB03KT 5SM BR BKN003 FM251400 VRB04KT P6SM BKN015 FM251600 07006KT P6SM BKN040 OVC100 FM252200 06005KT P6SM VCTS BKN040CB FM260200 07005KT 5SM -TSRA BKN040CB FM260600 08003KT P6SM SCT009 BKN015 KVNY 251133Z 2512/2612 VRB03KT P6SM SKC FM252100 14008KT P6SM SKC FM260300 VRB03KT P6SM SKC KVOK 250900Z 2509/2615 15009KT 2400 BR SCT050 QNH3012INS TEMPO 2509/2511 0800 FG BECMG 2509/2511 15006KT 4800 BR SCT050 QNH3012INS BECMG 2511/2512 16012KT 9999 NSW BKN040 QNH3009INS BECMG 2514/2515 17012G18KT 9999 BKN030 QNH3001INS BECMG 2522/2523 17006KT 9999 BKN030 OVC100 QNH2991INS BECMG 2608/2609 14009KT 8000 -SHRA FEW010 OVC030 QNH2987INS TX23/2521Z TN07/2511Z KVPS 250900Z 2509/2615 32005KT 9999 FEW020 FEW200 QNH2992INS WND 06007KT AFT 2513 BECMG 2515/2516 18009KT 9999 FEW030 SCT200 QNH2995INS BECMG 2518/2519 20010KT 9999 -SHRA VCTS SCT045CB BKN100 BKN200 QNH2991INS BECMG 2521/2522 16007KT 9999 NSW FEW030 FEW120 BKN200 QNH2993INS BECMG 2612/2613 12008KT 9000 -SHRA BKN025 BKN140 BKN200 QNH2994INS TX33/2518Z TN23/2511Z KVQQ 251408Z 2514/2612 04008KT P6SM VCSH SCT015 BKN020 TEMPO 2514/2516 BKN015 FM252300 04005KT P6SM VCSH SCT025 BKN250 FM260100 03003KT P6SM SCT030 BKN250 KVRB 251134Z 2512/2612 32003KT P6SM FEW020 FEW200 FM251600 07009KT P6SM VCSH SCT035 SCT200 FM260000 05004KT P6SM FEW040 FEW250 KVTN 251133Z 2512/2612 16007KT P6SM BKN019 FM251800 18013KT P6SM SCT040 FM260200 17011KT P6SM VCTS SCT040CB FM260600 31005KT P6SM BKN080 FM260900 34011KT P6SM BKN050 KWJF 251133Z 2512/2612 22008KT P6SM SKC FM251400 VRB03KT P6SM SKC FM251800 25010KT P6SM SKC FM252000 25015G23KT P6SM SKC FM260300 25012KT P6SM SKC FM260900 23006KT P6SM SKC KWMC 251134Z 2512/2612 21006KT P6SM SKC FM252000 26014G24KT P6SM SKC FM260200 34009KT P6SM SKC FM260600 04008KT P6SM SKC KWRB 251332Z 2513/2619 05009KT 9999 OVC010 QNH3005INS BECMG 2515/2516 06012KT 9999 SCT009 QNH3003INS BECMG 2518/2519 06009KT 9999 VCSH OVC030 QNH2997INS BECMG 2606/2607 07006KT 9999 NSW BKN023 QNH2999INS BECMG 2617/2618 VRB06KT 9999 BKN030 QNH2998INS TX28/2519Z TN21/2513Z KWRI 251000Z 2510/2616 05006KT 9999 BKN070 QNH3018INS BECMG 2512/2513 06012G20KT 9999 BKN040 QNH3017INS BECMG 2522/2523 05006KT 9999 SCT020 QNH3016INS BECMG 2612/2613 05010G15KT 9999 SCT020 BKN050 QNH3015INS TX24/2519Z TN14/2510Z KWRL 251139Z 2512/2612 VRB05KT P6SM SKC FM251600 35008KT P6SM SKC FM252300 36016G23KT P6SM FEW200 FM260600 33008KT P6SM SCT200 KWWR 251201Z 2512/2612 18014KT P6SM SCT150 BKN250 TEMPO 2512/2514 BKN015 KWYS 251120Z 2512/2612 VRB06KT P6SM SCT120 FM251800 24012G20KT P6SM FEW100 SCT250 TEMPO 2520/2524 BKN090 FM260200 31011KT P6SM BKN090 FM260700 VRB06KT P6SM SCT250 KXNA 251131Z 2512/2612 18005KT P6SM OVC012 FM251700 16005KT P6SM VCTS OVC025CB TEMPO 2518/2522 4SM -TSRA OVC012CB FM260000 14006KT P6SM BKN035 FM260600 VRB03KT 3SM BR BKN012 KYIP 251132Z 2512/2612 06006KT P6SM FEW040 SCT200 FM251500 11010KT P6SM SCT045 FM260000 12007KT P6SM SCT200 KYKM 251120Z 2512/2612 31007KT P6SM SKC FM260100 33012G19KT P6SM SKC FM260800 32008G15KT P6SM SKC KYNG 251126Z 2512/2612 08006KT P6SM SKC FM251500 12010KT P6SM FEW040 KZZV 251135Z 2512/2612 VRB03KT P6SM SKC FM251400 10009KT P6SM SKC L 251040Z 2512/2612 20008KT CAVOK BECMG 2517/2520 SCT035 BECMG 2608/2610 CAVOK LATI 251100Z 2512/2612 35010KT 9999 FEW040CB SCT100 TX37/2611Z TN21/2603Z BECMG 2517/2519 VRB03KT NSC LBBG 251100Z 2512/2612 12012KT CAVOK BECMG 2518/2520 VRB04KT BECMG 2607/2609 08016KT LBGO 251100Z 2512/2612 10010KT 9999 FEW055 BECMG 2519/2521 VRB04KT BECMG 2610/2612 11010KT LBPD 251100Z 2512/2612 09010KT CAVOK BECMG 2518/2520 VRB04KT BECMG 2610/2612 08010KT LBPG 250500Z 2506/2518 VRB06KT 9999 SKC BECMG 2509/2511 12010KT SCT060 BY LBSA LBSF 251100Z 2512/2612 09012KT CAVOK BECMG 2519/2521 VRB04KT BECMG 2604/2606 09010KT LBWN 251100Z 2512/2612 12012KT CAVOK BECMG 2519/2521 VRB04KT BECMG 2607/2609 11012KT LCEN 251040Z 2512/2612 15012KT 9999 FEW030 BECMG 2518/2521 28012KT CAVOK LCLK 251130Z 2512/2612 21017KT 9999 FEW030 BECMG 2517/2519 31006KT PROB30 TEMPO 2522/2605 5000 BR BKN005 BECMG 2609/2612 21016KT LCPH 251130Z 2512/2612 28011KT 9999 FEW020 PROB30 TEMPO 2518/2605 5000 BR BKN005 BECMG 2520/2523 01007KT BECMG 2608/2612 27011KT LCRA 251306Z 2515/2609 26014KT 9999 FEW060 LDDU 251125Z 2512/2612 24006KT CAVOK TX31/2512Z TN24/2604Z PROB30 TEMPO 2512/2518 TSRA FEW050CB BECMG 2512/2514 29008KT BECMG 2515/2517 02015KT BECMG 2605/2607 VRB02KT LDLO 251125Z 2512/2612 30008KT CAVOK TX30/2513Z TN23/2603Z BECMG 2517/2519 06008KT BECMG 2609/2611 29006KT LDOS 251125Z 2512/2612 08008KT CAVOK TX29/2513Z TN20/2604Z PROB30 TEMPO 2513/2518 TSRA FEW040CB BKN045 PROB30 TEMPO 2600/2606 TSRA FEW040CB LDPL 251125Z 2512/2612 27009KT CAVOK TX31/2513Z TN21/2604Z BECMG 2516/2518 06007KT TEMPO 2600/2609 06014KT BECMG 2610/2612 24007KT LDRI 251125Z 2512/2612 04006KT CAVOK TX31/2513Z TN22/2604Z PROB30 TEMPO 2513/2518 32008KT TS FEW040CB SCT050 PROB30 TEMPO 2609/2612 TSRA FEW035CB SCT040 LDSP 251125Z 2512/2612 23009KT CAVOK TX32/2512Z TN23/2604Z PROB30 TEMPO 2512/2518 35015KT TSRA FEW050CB BECMG 2516/2518 VRB02KT LDZA 251125Z 2512/2612 05005KT 9999 FEW035 TX29/2513Z TN18/2604Z PROB30 TEMPO 2513/2522 TSRA FEW040CB BKN045 PROB30 TEMPO 2603/2606 TSRA FEW045CB LDZD 251125Z 2512/2612 30009KT CAVOK TX32/2513Z TN19/2603Z PROB30 TEMPO 2513/2518 TSRA FEW045CB SCT050 BECMG 2516/2518 07007KT BECMG 2610/2612 26008KT LEAL 251100Z 2512/2612 09010KT 9999 FEW020 TX30/2512Z TN23/2606Z BECMG 2519/2522 01005KT BECMG 2606/2608 08010KT TEMPO 2522/2608 BKN014 PROB30 TEMPO 2600/2612 3000 TSRA BKN014 FEW020CB LEAM 251400Z 2515/2615 10014KT 9999 FEW035 TX32/2515Z TN24/2606Z TEMPO 2515/2519 10015G26KT BECMG 2521/2601 01006KT LEAS 251400Z 2515/2615 09009KT 9999 BKN020 TX21/2515Z TN17/2606Z PROB40 TEMPO 2515/2521 3000 SHRA TS BKN010 SCT030TCU SCT040CB TEMPO 2518/2609 3000 BR BKN005 BKN010 PROB40 TEMPO 2603/2609 3000 SHRA TS BKN010 SCT030TCU SCT040CB LEBB 251100Z 2512/2612 36009KT 9999 BKN025 TX27/2514Z TN19/2606Z PROB40 TEMPO 2512/2524 SCT030TCU PROB40 TEMPO 2518/2609 BKN010 BKN014 LEBL 251100Z 2512/2612 20010KT 9999 FEW030 TX30/2512Z TN22/2605Z BECMG 2517/2519 VRB03KT BECMG 2610/2612 18012KT LEBZ 251100Z 2512/2612 26008KT 9999 FEW040 TX36/2515Z TN16/2606Z PROB40 TEMPO 2515/2520 SCT040CB LECH 251100Z 2512/2612 14010KT 9999 FEW030 TX28/2512Z TN19/2606Z BECMG 2517/2519 VRB03KT BECMG 2609/2611 14010KT LECO 251400Z 2515/2615 36012KT 9999 SCT025 TX25/2614Z TN16/2606Z PROB40 TEMPO 2515/2521 SCT040TCU BECMG 2518/2522 VRB03KT PROB40 TEMPO 2603/2608 3000 BR BKN012 BECMG 2609/2613 36012KT PROB40 TEMPO 2609/2615 SCT030TCU LEDA 251400Z 2515/2615 16008KT 9999 FEW050 TX33/2614Z TN19/2605Z TEMPO 2516/2519 16012G22KT BECMG 2519/2521 09005KT LEGE 251100Z 2512/2612 18010KT 9999 FEW040 TX34/2513Z TN17/2606Z BECMG 2518/2520 VRB03KT PROB40 TEMPO 2522/2607 3000 BR BKN010 BECMG 2610/2612 18010KT LEGR 251400Z 2515/2615 15012KT CAVOK TX34/2515Z TN18/2606Z PROB40 TEMPO 2515/2520 15016G26KT BECMG 2523/2602 VRB02KT BECMG 2611/2613 19010KT LEHC 251400Z 2515/2615 14007KT 9999 FEW050 TX30/2614Z TN19/2605Z TEMPO 2517/2520 15012G22KT LEIB 251400Z 2515/2615 09007KT 9999 FEW020 TX29/2612Z TN21/2605Z TEMPO 2522/2608 BKN014 LEJR 251100Z 2512/2612 VRB04KT CAVOK TX35/2514Z TN16/2606Z BECMG 2512/2514 16014KT PROB40 TEMPO 2514/2518 16015G25KT BECMG 2519/2522 VRB02KT BECMG 2608/2610 19010KT LELC 251100Z 2512/2612 07010KT 9999 SCT020 TX29/2512Z TN24/2606Z LELL 251400Z 2515/2615 14010KT 9999 FEW030 TX32/2613Z TN19/2605Z BECMG 2517/2519 VRB03KT BECMG 2610/2612 16010KT LEMD 251100Z 2512/2618 10007KT CAVOK TX35/2515Z TN17/2605Z BECMG 2512/2514 16010KT PROB30 TEMPO 2512/2517 17010G21KT PROB30 TEMPO 2518/2521 33010KT PROB40 TEMPO 2515/2521 FEW035TCU PROB30 TEMPO 2516/2521 3000 TS SHRA FEW035CB TEMPO 2601/2608 07008KT PROB40 TEMPO 2603/2609 SHRA SCT030TCU PROB40 TEMPO 2614/2618 SHRA SCT035TCU PROB40 TEMPO 2615/2618 VRB15G25KT 3000 TS SHRAGR SCT035CB LEMG 251100Z 2512/2612 12009KT 9999 SCT020 TX29/2514Z TN21/2606Z PROB30 TEMPO 2523/2607 BKN012 LEMH 251400Z 2515/2615 05007KT 9999 FEW020 TX29/2612Z TN21/2605Z PROB30 TEMPO 2522/2607 BKN014 LEMI 251100Z 2512/2612 09010KT 9999 SCT020 TX30/2513Z TN22/2606Z BECMG 2519/2521 03006KT PROB40 TEMPO 2521/2607 BKN014 BECMG 2606/2609 09011KT LEPA 251100Z 2512/2612 23012KT 9999 FEW020 TX32/2513Z TN20/2605Z PROB40 TEMPO 2513/2517 FEW040TCU BECMG 2518/2520 05005KT BECMG 2611/2612 23012KT LEPP 251400Z 2515/2615 VRB05KT 9999 FEW030 TX34/2615Z TN17/2522Z BECMG 2515/2518 36012KT PROB40 TEMPO 2515/2521 SCT030TCU BECMG 2521/2524 VRB03KT BECMG 2609/2613 16012KT LERS 251400Z 2515/2615 18008KT 9999 FEW030 TX30/2613Z TN19/2605Z BECMG 2517/2519 VRB03KT PROB30 TEMPO 2521/2607 BKN014 BECMG 2609/2611 16010KT LESA 251100Z 2512/2612 VRB05KT CAVOK TX30/2515Z TN11/2605Z TEMPO 2513/2612 34010KT SHRA FEW030TCU BKN040 PROB40 TEMPO 2514/2612 VRB15G25KT 3000 TS SHRA SCT025CB LESO 251100Z 2512/2612 36009KT 9999 BKN020 TX26/2514Z TN19/2606Z PROB40 TEMPO 2518/2609 BKN010 BKN014 LEST 251100Z 2512/2612 01009KT 9999 SCT015 TX25/2515Z TN16/2606Z TEMPO 2512/2524 SCT030TCU PROB40 TEMPO 2518/2609 3000 BR BKN005 BKN010 LESU 251400Z 2515/2615 21010KT 9999 SCT060 TX30/2614Z TN13/2605Z BECMG 2517/2519 VRB03KT BECMG 2610/2612 21010KT LETO 251100Z 2512/2612 10007KT CAVOK TX35/2515Z TN17/2605Z BECMG 2512/2514 16010KT PROB30 TEMPO 2512/2517 17010G21KT PROB30 TEMPO 2518/2521 33010KT PROB40 TEMPO 2515/2521 FEW035TCU PROB30 TEMPO 2516/2521 3000 TS SHRA FEW035CB TEMPO 2601/2608 07008KT PROB40 TEMPO 2603/2609 SHRA SCT035TCU LEVC 251100Z 2512/2612 11010KT 9999 FEW020 TX28/2512Z TN21/2606Z BECMG 2518/2520 VRB03KT PROB30 TEMPO 2600/2608 BKN014 PROB30 TEMPO 2603/2612 SCT020 FEW025CB BECMG 2610/2612 10010KT LEVD 251100Z 2512/2612 16010KT CAVOK TX32/2515Z TN18/2605Z TEMPO 2513/2612 36012KT SHRA FEW030TCU BKN040 PROB40 TEMPO 2514/2612 VRB15G27KT 3000 TS SHRA SCT025CB LEVT 251100Z 2512/2612 02009KT 9999 FEW030 TX30/2513Z TN16/2601Z TEMPO 2512/2524 SCT030TCU PROB40 TEMPO 2521/2606 BKN010 BKN014 LEVX 251100Z 2512/2612 27009KT 9999 FEW030 TX26/2514Z TN17/2606Z TEMPO 2512/2524 SCT030TCU PROB40 TEMPO 2609/2612 SHRA TS SCT030TCU SCT040CB LEXJ 251400Z 2515/2615 04005KT 9999 BKN020 TX25/2614Z TN18/2606Z PROB30 2515/2521 SHRA TS SCT030TCU SCT040CB PROB40 TEMPO 2518/2609 BKN012 LEZG 251100Z 2512/2612 10008KT 9999 FEW050 TX34/2514Z TN19/2606Z TEMPO 2516/2520 11014G24KT LEZL 251400Z 2515/2615 22010KT CAVOK TX35/2515Z TN21/2606Z BECMG 2521/2601 28004KT BECMG 2612/2614 22010KT PROB30 TEMPO 2612/2615 4000 SHRA SCT025 SCT035CB LFBD 251100Z 2512/2618 VRB03KT CAVOK TX32/2515Z TN19/2606Z TEMPO 2513/2518 30008KT LFBE 251100Z 2512/2612 VRB03KT CAVOK FM261000 18006KT CAVOK LFBG 250848Z 2508/2603 CNL LFBH 251100Z 2512/2612 30010KT CAVOK BECMG 2523/2601 36005KT LFBI 251100Z 2512/2612 27006KT CAVOK FM252000 35005KT CAVOK FM260900 10006KT CAVOK LFBL 251100Z 2512/2612 25005KT CAVOK LFBM 251400Z 2515/2615 13010KT CAVOK BECMG 2522/2524 BKN010 LFBO 251100Z 2512/2618 VRB03KT CAVOK BECMG 2610/2612 14010KT LFBP 251100Z 2512/2612 08005KT CAVOK TEMPO 2521/2523 27010KT BECMG 2521/2523 BKN010 BECMG 2523/2601 VRB02KT SCT010 PROB30 TEMPO 2600/2607 BKN010 LFBT 251100Z 2512/2612 07005KT CAVOK BECMG 2519/2521 VRB02KT TEMPO 2523/2602 27010KT PROB30 TEMPO 2600/2606 BKN013 LFBU 251100Z 2512/2612 25005KT CAVOK FM260800 13005KT CAVOK= LFOH 251100Z 2512/2612 VRB02KT CAVOK BECMG 2518/2520 3000 BR OVC004 BECMG 2608/2610 CAVOK LFBZ 251100Z 2512/2612 32010KT 9999 BKN020 BECMG 2512/2514 CAVOK BECMG 2518/2520 SCT010 PROB40 TEMPO 2518/2607 BKN010 BECMG 2609/2611 CAVOK LFCR 251100Z 2512/2612 32005KT CAVOK= LFLY 251100Z 2512/2612 04006KT CAVOK BECMG 2519/2522 VRB02KT LFJL 251100Z 2512/2612 30003KT CAVOK LFKB 250800Z 2509/2609 04010KT CAVOK TX30/2512Z TN20/2603Z TEMPO 2511/2516 FEW035CB BKN150 BECMG 2518/2520 23003KT BECMG 2606/2608 04010KT LFKC 250800Z 2509/2609 35010KT CAVOK TX29/2512Z TN19/2603Z TEMPO 2511/2516 FEW035CB BKN100 PROB40 TEMPO 2512/2515 TS SCT035CB BKN090 BECMG 2518/2520 18004KT BECMG 2607/2609 35010KT LFKF 250800Z 2509/2609 07005KT CAVOK BECMG 2509/2511 24010KT TEMPO 2511/2516 FEW035CB BKN100 PROB40 TEMPO 2512/2515 VRB10G20KT TS SCT035CB BKN080 BECMG 2516/2518 05010KT LFKJ 250800Z 2509/2609 22010KT CAVOK TEMPO 2510/2516 FEW030CB BKN100 PROB40 TEMPO 2513/2515 TS SCT035CB BKN080 BECMG 2518/2520 04003KT BECMG 2607/2609 22010KT LFKS 251400Z 2515/2615 13010KT 9999 FEW060CB BKN120 BECMG 2518/2520 27005KT CAVOK BECMG 2607/2609 12010KT LFLB 251100Z 2512/2612 36006KT CAVOK BECMG 2518/2521 VRB02KT BECMG 2609/2611 35005KT LFLC 250800Z 2509/2609 VRB03KT CAVOK TEMPO 2511/2519 05006KT LFLL 251100Z 2512/2618 02005KT CAVOK LFLP 250200Z 2503/2603 VRB02KT CAVOK TEMPO 2512/2518 36005KT LFLS 250800Z 2509/2609 09007KT CAVOK BECMG 2511/2514 02005KT BECMG 2518/2521 09005KT LFLX 251100Z 2512/2618 VRB03KT CAVOK BECMG 2520/2522 05006KT LFLY 251100Z 2512/2612 04006KT CAVOK BECMG 2519/2522 VRB02KT LFMD 251400Z 2515/2615 18008KT 9999 NSC BECMG 2518/2520 VRB04KT BECMG 2608/2610 18008KT LFMH 250800Z 2509/2609 VRB03KT CAVOK TEMPO 2515/2517 09005KT TEMPO 2600/2603 13005KT LFMI 251400Z 2515/2615 21012KT CAVOK BECMG 2518/2520 VRB02KT BKN013 PROB40 TEMPO 2523/2605 4000 BR SCT010 BECMG 2606/2608 CAVOK BECMG 2610/2612 21012KT LFMK 250800Z 2509/2609 27010KT CAVOK BECMG 2512/2514 VRB05KT BECMG 2601/2603 11010KT BECMG 2604/2607 BKN010 PROB30 TEMPO 2605/2608 4000 BR LFML 251400Z 2515/2621 26012KT CAVOK TX32/2613Z TN19/2605Z BECMG 2517/2519 VRB03KT PROB30 TEMPO 2522/2602 5000 BR SCT005 BECMG 2608/2610 26006KT TEMPO 2613/2615 20010KT BECMG 2616/2618 VRB03KT LFMN 251400Z 2515/2621 20010KT 9999 NSC BECMG 2518/2520 VRB04KT BECMG 2523/2601 35008KT BECMG 2608/2610 19010KT BECMG 2619/2621 VRB04KT LFMO 251400Z 2515/2615 VRB05KT CAVOK PROB40 TEMPO 2602/2607 3000 BR TEMPO 2612/2615 22015KT LFMP 250800Z 2509/2609 19004KT CAVOK BECMG 2510/2512 10010KT BECMG 2518/2520 VRB02KT PROB30 TEMPO 2523/2601 1200 BCFG BECMG 2601/2603 3000 BR OVC004 BECMG 2607/2609 4500 BR BKN006 LFMT 250800Z 2509/2609 10005KT CAVOK BECMG 2510/2512 16010KT BECMG 2520/2522 VRB04KT 4000 BR NSC PROB40 TEMPO 2522/2601 0800 BCFG BKN002 BECMG 2601/2603 2000 BR OVC005 BECMG 2607/2609 CAVOK LFMU 250800Z 2509/2609 27005KT CAVOK BECMG 2510/2512 16010KT BECMG 2519/2521 VRB03KT 4500 BR NSC TEMPO 2521/2606 2000 BR OVC004 BECMG 2606/2608 9999 NSW BKN007 LFMV 251400Z 2515/2615 VRB04KT CAVOK TEMPO 2516/2519 22011KT TEMPO 2602/2607 4000 BR SCT005 PROB30 TEMPO 2602/2605 0800 FG VV/// BECMG 2612/2614 22012KT LFOA 250800Z 2509/2609 VRB02KT CAVOK BECMG 2517/2519 06005KT LFOB 251313Z 2513/2612 VRB02KT CAVOK LFOE 251135Z 2511/2609 CNL LFOH 251100Z 2512/2612 VRB02KT CAVOK BECMG 2518/2520 3000 BR OVC004 BECMG 2608/2610 CAVOK LFOJ 250632Z 2506/2603 VRB02KT CAVOK LFOK 251420Z 2514/2612 VRB03KT CAVOK LFOP 251100Z 2509/2612 CNL LFOT 251100Z 2512/2612 VRB03KT CAVOK BECMG 2600/2602 06005KT LFPB 251100Z 2512/2612 03005KT CAVOK LFPG 251100Z 2512/2618 03005KT CAVOK TX32/2515Z TN18/2618Z= LFPO 251100Z 2512/2618 07005KT CAVOK LFPO 251100Z 2512/2618 07005KT CAVOK LFPV 251400Z 2515/2615 02004KT CAVOK LFQQ 251100Z 2512/2618 VRB03KT CAVOK TEMPO 2517/2518 32013KT LFRB 251333Z 2513/2618 30006KT 9999 BKN015 BECMG 2519/2522 3000 BR BKN005 TEMPO 2600/2606 0500 FG VV/// BECMG 2606/2609 9999 BKN013 BECMG 2609/2611 CAVOK BECMG 2612/2615 03010KT LFRD 251100Z 2512/2612 33010KT 9999 BKN012 BECMG 2512/2514 SCT015 BECMG 2517/2519 35005KT TEMPO 2518/2521 BKN005 BECMG 2521/2523 BKN005 TEMPO 2523/2608 3000 BR BKN003 BECMG 2608/2610 SCT012 BECMG 2610/2612 34010KT SCT012 LFRH 251428Z 2514/2612 13005KT 9999 FEW030 BECMG 2600/2602 03010KT LFRI 251100Z 2512/2612 27006KT CAVOK BECMG 2522/2524 01005KT LFRM 251100Z 2512/2612 VRB04KT CAVOK LFRN 251100Z 2512/2612 VRB05KT CAVOK BECMG 2515/2517 36010KT BECMG 2522/2524 35005KT BKN005 TEMPO 2600/2607 3000 BR BKN003 BECMG 2607/2609 CAVOK LFRQ 251100Z 2512/2612 33008KT 9999 SCT020 LFRS 251100Z 2512/2618 VRB05KT CAVOK LFRZ 251300Z 2513/2612 23009KT CAVOK BECMG 2523/2524 03008KT LFSB 251100Z 2512/2612 VRB04KT CAVOK= LFSI 250800Z 2509/2609 VRB02KT CAVOK LFST 251100Z 2512/2612 16004KT CAVOK PROB30 TEMPO 2603/2606 1500 BCFG LFTH 251400Z 2515/2615 21010KT CAVOK BECMG 2517/2519 VRB03KT BECMG 2522/2524 32005KT BECMG 2608/2610 14010KT BECMG 2612/2614 22010KT LFTW 250800Z 2509/2609 11004KT CAVOK BECMG 2511/2513 19010KT BECMG 2519/2521 VRB03KT BECMG 2522/2524 1500 BR NSC BECMG 2600/2602 3000 BR OVC004 BECMG 2607/2609 03006KT CAVOK LFVP 250800Z 2509/2518 06010KT CAVOK BECMG 2513/2515 VRB05KT LGAV 251100Z 2512/2612 01018KT 9999 FEW025 TEMPO 2512/2515 03020G30KT TEMPO 2606/2612 02016G26KT LGEL 251100Z 2512/2612 34012KT 9999 FEW025 TEMPO 2512/2518 34012G22KT TEMPO 2607/2612 34012G22KT LGIR 251100Z 2512/2612 31015KT 9999 FEW025 LGKO 251100Z 2512/2612 35012KT 9999 FEW025 TEMPO 2512/2520 33012G22KT BECMG 2522/2524 VRB05KT BECMG 2606/2608 31012KT LGKR 251100Z 2512/2612 34012KT 9999 FEW025 BECMG 2518/2520 VRB05KT LGKV 251100Z 2512/2612 05010KT CAVOK LGPZ 251100Z 2512/2612 30015KT 9999 FEW020 BECMG 2518/2520 07008KT LGRP 251100Z 2512/2612 24010KT 9999 FEW020 LGSA 251100Z 2512/2612 34010KT 9999 FEW018 BECMG 2518/2520 VRB05KT BECMG 2603/2605 28010KT LGSR 251100Z 2512/2612 34015KT 9999 FEW025 LGTS 251100Z 2512/2612 20010KT 9999 FEW030 BECMG 2518/2520 VRB03KT LHBP 251115Z 2512/2612 12008KT CAVOK TEMPO 2513/2521 SHRA TSRA SCT040CB SCT080 BECMG 2515/2518 VRB03KT TEMPO 2518/2524 02006KT TEMPO 2600/2612 VRB10G25KT 4000 SHRA TSRA FEW010 SCT030CB BKN060 LHPA 251115Z 2512/2612 06006KT CAVOK PROB40 TEMPO 2512/2516 8000 SHRA SCT040TCU SCT083 BKN200 TEMPO 2516/2602 VRB16G30KT 6000 SHRA TSRA SCT040CB SCT050TCU BKN083 BECMG 2518/2520 VRB03KT BECMG 2604/2607 09005KT LIBC 251100Z 2512/2612 01010KT CAVOK TEMPO 2513/2517 4000 TSRA BECMG 2518/2520 VRB04KT BECMG 2609/2611 01010KT LIBD 251100Z 2512/2612 34012KT 9999 SCT030 TEMPO 2513/2517 4000 SHRA BECMG 2518/2520 VRB05KT BECMG 2608/2610 02012KT LIBP 251100Z 2512/2612 04010KT 9999 SCT030 TEMPO 2513/2517 4000 SHRA BECMG 2517/2519 VRB04KT BECMG 2609/2611 04010KT LIBR 251100Z 2512/2612 33013KT CAVOK TEMPO 2513/2517 4000 SHRA BECMG 2518/2520 VRB05KT BECMG 2608/2610 33012KT LICA 251100Z 2512/2612 27012KT 9999 SCT020 TEMPO 2513/2517 4000 TSRA BECMG 2518/2520 VRB05KT BECMG 2608/2610 28012KT LICC 251100Z 2512/2612 08012KT CAVOK TEMPO 2513/2517 4000 TSRA BECMG 2518/2520 VRB05KT BECMG 2608/2610 08012KT LICD 251100Z 2512/2612 VRB06KT CAVOK LICJ 251100Z 2512/2612 04012KT CAVOK TEMPO 2513/2517 4000 TSRA BECMG 2518/2520 VRB05KT BECMG 2608/2610 04012KT LICR 251100Z 2512/2612 35013KT CAVOK TEMPO 2513/2517 4000 TSRA BECMG 2518/2520 VRB05KT BECMG 2608/2610 35012KT LIEA 251100Z 2512/2612 32010KT 9999 SCT030 BECMG 2518/2520 VRB05KT BECMG 2610/2612 24010KT LIEE 251100Z 2512/2612 16012KT 9999 SCT030 TEMPO 2513/2516 SHRA BECMG 2518/2520 VRB05KT LIEO 251100Z 2512/2612 04010KT 9999 SCT030 TEMPO 2512/2516 TSRA BECMG 2519/2521 VRB05KT BECMG 2610/2612 07010KT LIMC 251100Z 2512/2618 VRB05KT 9999 SCT060 LIME 251100Z 2512/2612 VRB05KT 9999 SCT050 PROB30 TEMPO 2515/2519 TSRA LIMF 251100Z 2512/2612 VRB05KT 9999 SCT030 LIMJ 251100Z 2512/2612 04006KT 9999 SCT030 LIMP 251100Z 2512/2612 VRB05KT 9999 SCT060 LIMZ 251100Z 2512/2612 VRB05KT CAVOK LIPB 251100Z 2512/2612 VRB05KT 9999 SCT020 TEMPO 2512/2521 4000 TSRA LIPE 251100Z 2512/2612 VRB05KT 9999 SCT040 PROB40 TEMPO 2515/2518 TSRA LIPH 251100Z 2512/2612 VRB05KT 9999 SCT030 TEMPO 2512/2518 TSRA LIPO 251100Z 2512/2612 VRB05KT 9999 SCT060 LIPQ 251100Z 2512/2612 VRB06KT 9999 SCT040 TEMPO 2516/2520 4000 TSRA LIPY 251100Z 2512/2612 01010KT 9999 SCT030 BECMG 2517/2519 VRB05KT BECMG 2608/2610 01010KT LIPZ 251100Z 2512/2618 20010KT 9999 SCT030 PROB40 TEMPO 2515/2518 TSRA BECMG 2518/2521 03008KT BECMG 2610/2612 16010KT LIRA 251100Z 2512/2612 24008KT 9999 SCT030 TEMPO 2512/2518 TSRA BECMG 2610/2612 23010KT LIRF 251300Z 2513/2618 25010KT 9999 SCT030 TEMPO 2513/2518 4000 TSRA BECMG 2517/2519 VRB05KT BECMG 2610/2612 24010KT LIRN 251100Z 2512/2612 23010KT 9999 SCT030 TEMPO 2512/2516 TSRA BECMG 2516/2518 VRB05KT BECMG 2610/2612 23010KT LIRP 251400Z 2512/2612 31010KT 9999 FEW040 TEMPO 2514/2516 5000 TSRA FEW020CB BKN030 BECMG 2517/2519 09004KT LIRQ 251100Z 2512/2612 04008KT 9999 SCT030 TEMPO 2512/2517 TSRA LIRZ 251100Z 2512/2612 02008KT 9999 SCT030 TEMPO 2512/2518 TSRA LJLJ 251400Z 2515/2615 12005KT 9999 FEW030 SCT250 PROB40 TEMPO 2515/2615 VRB15KT 7000 TSRA SCT030CB BKN060 BECMG 2518/2521 30003KT TEMPO 2600/2612 BKN040 LJMB 251400Z 2515/2615 01005KT 9999 FEW035 SCT250 TEMPO 2515/2615 BKN030 PROB40 TEMPO 2515/2615 7000 TSRA SCT033CB OVC060 LKCV 251100Z 2512/2612 11008KT CAVOK TEMPO 2512/2521 7000 SHRA BKN035TCU PROB30 TEMPO 2513/2520 15014G24KT 5000 TSRA BKN030CB BECMG 2519/2521 VRB02KT LKKB 251100Z 2512/2612 10006KT CAVOK TEMPO 2512/2521 12012KT 8000 SHRA SCT040TCU PROB30 TEMPO 2512/2519 15014G24KT 5000 TSRA BKN030CB BECMG 2521/2523 VRB02KT BECMG 2606/2608 06006KT LKKV 251100Z 2512/2618 10006KT CAVOK TEMPO 2512/2521 8000 SHRA SCT040TCU PROB30 TEMPO 2512/2519 4000 TSRA SCT025CB TEMPO 2600/2607 3000 BR SCT003 PROB30 TEMPO 2602/2606 1200 BR BKN003 TEMPO 2610/2618 8000 SHRA SCT040TCU PROB30 TEMPO 2612/2618 4000 TSRA SCT025CB LKMT 251100Z 2512/2618 03004KT CAVOK TEMPO 2512/2521 8000 SHRA SCT045TCU PROB30 TEMPO 2512/2519 4000 TSRA SCT035CB TEMPO 2610/2618 8000 SHRA SCT045TCU PROB30 TEMPO 2612/2618 4000 TSRA SCT035CB LKNA 251100Z 2512/2612 14006KT CAVOK TEMPO 2512/2606 7000 SHRA SCT035TCU PROB40 TEMPO 2513/2600 14016G26KT 5000 TSRA BKN020CB BECMG 2600/2602 03008KT BECMG 2606/2608 12008KT LKPD 251100Z 2512/2612 09008KT CAVOK TEMPO 2512/2516 12014KT TEMPO 2512/2519 7000 SHRA SCT030TCU SCT045 PROB30 TEMPO 2513/2518 15015G25KT 4000 TSRA SCT025CB BKN040 BECMG 2519/2521 10004KT LKPR 251100Z 2512/2618 11006KT CAVOK TEMPO 2512/2521 8000 SHRA SCT045TCU PROB30 TEMPO 2512/2519 4000 TSRA SCT035CB TEMPO 2602/2606 VRB02KT 3000 BR SCT006 TEMPO 2610/2618 8000 SHRA SCT045TCU PROB30 TEMPO 2612/2618 4000 TSRA SCT035CB LKTB 251100Z 2512/2618 09006KT CAVOK TEMPO 2512/2521 8000 SHRA SCT045TCU PROB30 TEMPO 2512/2519 4000 TSRA SCT035CB TEMPO 2602/2606 8000 SHRA SCT045TCU PROB30 TEMPO 2603/2606 4000 TSRA SCT035CB TEMPO 2610/2618 8000 SHRA SCT045TCU PROB30 TEMPO 2612/2618 4000 TSRA SCT035CB LLBG 251113Z 2512/2612 29010KT 9999 FEW030 BECMG 2515/2518 VRB04KT FEW020 PROB30 2600/2605 SCT015 BECMG 2606/2609 29010KT TX33/2611Z TN24/2603Z LLER 251109Z 2512/2612 01012KT CAVOK TEMPO 2512/2520 33012KT TX40/2513Z TN27/2603Z LLHA 251115Z 2512/2612 29010KT 9999 FEW025 BECMG 2516/2518 33005KT SCT018 TEMPO 2521/2606 VRB03KT BKN016 BECMG 2606/2608 29010KT FEW025 TX33/2610Z TN25/2603Z LLHZ 251111Z 2512/2612 29010KT 9999 FEW025 BECMG 2515/2517 VRB03KT FEW020 PROB30 2600/2605 SCT015 BECMG 2606/2608 29010KT 9999 FEW025 TX31/2611Z TN23/2603Z LLIB 251119Z 2512/2612 33013KT CAVOK BECMG 2517/2519 VRB04KT 8000 FEW015 PROB40 2523/2605 24005KT 6000 SCT010 BECMG 2606/2608 33013KT CAVOK TX36/2513Z TN21/2603Z LMML 251100Z 2512/2612 VRB05KT 9999 FEW030 LOWG 251418Z 2514/2612 VRB02KT 9999 FEW030 SCT050 BKN250 TX26/2514Z TN18/2602Z TEMPO 2514/2603 15008KT FEW050 FEW050CB BKN090 PROB40 TEMPO 2517/2524 VRB15G25KT 4000 TSRA SCT030CB BKN040 BECMG 2523/2602 FEW005 SCT011 BKN020 BECMG 2608/2610 14007KT FEW020 FEW030CB SCT040 PROB40 TEMPO 2610/2612 VRB10KT 4000 TSRA SCT030CB BKN040 LOWI 251115Z 2512/2612 08008KT 9999 SCT070 FEW070TCU BKN300 TX27/2513Z TN14/2604Z TEMPO 2512/2520 VRB15G25KT TS FEW070CB BKN100 PROB40 TEMPO 2512/2518 TSRA SCT070CB BKN080 BECMG 2518/2520 27003KT FEW010 BECMG 2610/2612 08008KT SCT060 LOWK 251115Z 2512/2612 VRB02KT 9999 FEW030 SCT100 TX24/2513Z TN18/2605Z TEMPO 2512/2520 FEW050CB BKN060 PROB40 TEMPO 2513/2518 VRB10G20KT TSRA TEMPO 2602/2607 3000 BR BKN008 LOWL 251115Z 2512/2612 09005KT 9999 FEW050 BKN300 TX28/2513Z TN18/2604Z TEMPO 2513/2519 FEW060CB BKN300 PROB30 TEMPO 2514/2518 SHRA BKN030 FEW032CB PROB30 2600/2606 VRB02KT 0300 FG BKN003 LOWS 251115Z 2512/2612 35006KT 9999 SCT045 BKN300 TX26/2612Z TN16/2604Z TEMPO 2512/2520 VRB15G25KT 4000 TSRA SCT040CB BKN100 BECMG 2518/2520 15006KT BECMG 2608/2610 35006KT FEW050 SCT300 TEMPO 2610/2612 04007KT LOWW 251415Z 2515/2621 13007KT 9999 FEW025 BKN250 TX26/2614Z TN19/2604Z PROB40 TEMPO 2518/2602 VRB15G25KT 4000 TSRA SCT020CB BKN030 PROB30 TEMPO 2604/2607 6000 BKN015 TEMPO 2610/2618 FEW040 FEW050CB BKN300 LPAZ 251100Z 2512/2618 09008KT 9999 SCT015 BKN045 BECMG 2521/2524 SCT012 BKN025 TEMPO 2600/2610 3000 DZRA BR SCT005 BKN010 BECMG 2610/2612 SCT015 SCT035 LPBJ 251103Z 2512/2612 30005KT CAVOK PROB30 TEMPO 2515/2612 VRB15G25KT 3000 TSRA SCT040CB LPFR 251100Z 2512/2612 15008KT CAVOK BECMG 2513/2515 24010KT TEMPO 2515/2612 9999 FEW030CB BECMG 2518/2520 30008KT BECMG 2600/2603 VRB03KT 9999 SCT015 PROB30 TEMPO 2603/2612 VRB10G20KT 5000 SHRA BKN012 FEW025CB LPLA 251103Z 2512/2612 09005KT 9999 FEW025 BKN035 LPMA 251100Z 2512/2612 01015KT 9999 SCT015 TEMPO 2512/2521 02023G35KT LPMR 251102Z 2512/2612 34008KT CAVOK BECMG 2517/2519 VRB02KT PROB40 2522/2609 0200 FG BKN002 LPMT 251102Z 2512/2612 34008KT CAVOK PROB30 TEMPO 2601/2606 3000 TSRA FEW040CB LPOV 251104Z 2512/2612 VRB05KT CAVOK PROB30 TEMPO 2512/2514 3000 BR BKN009 PROB40 2605/2612 0200 FG BKN002 LPPD 251100Z 2512/2612 03008KT 9999 SCT015 BKN035 TEMPO 2512/2524 3000 DZRA BR SCT005 BKN010 PROB40 2512/2517 12010KT BECMG 2606/2609 VRB05KT SCT018 SCT035 LPPR 251100Z 2512/2612 VRB03KT 9999 SCT012 BECMG 2512/2515 27010KT 9999 FEW020 TEMPO 2512/2612 FEW030CB BECMG 2517/2520 VRB05KT SCT012 BECMG 2607/2610 26010KT SCT020 LPPS 251100Z 2512/2618 03015KT 9999 SCT015 PROB30 TEMPO 2512/2520 02018G28KT PROB40 TEMPO 2600/2609 BKN012 LPPT 251100Z 2512/2618 30008KT 9999 FEW030 TEMPO 2512/2618 FEW035CB BECMG 2513/2516 33015KT BECMG 2522/2524 32008KT SCT015 BECMG 2608/2610 07007KT FEW030 BECMG 2614/2616 34013KT LQBK 251100Z 2512/2612 05005KT 9999 SCT040 TX29/2514Z TN17/2604Z PROB40 TEMPO 2514/2520 VRB20KT 5000 TSRA FEW033CB SCT040 PROB30 TEMPO 2603/2607 3000 BR BKN013 LQMO 251100Z 2512/2612 03005KT 9999 SCT040 TX35/2513Z TN20/2604Z PROB40 TEMPO 2512/2517 4000 TSRA FEW035CB SCT040 LQSA 251100Z 2512/2612 VRB02KT 9999 SCT050 TX28/2512Z TN16/2604Z TEMPO 2512/2518 VRB12KT TSRA FEW030CB BKN045 PROB40 2602/2606 3000 BR BKN005 LQTZ 251100Z 2512/2612 09005KT 9999 FEW045 TX31/2513Z TN15/2604Z PROB40 TEMPO 2513/2520 VRB20KT 3000 TSRA FEW035CB SCT045 PROB40 2602/2607 1000 BR BKN002 LRBO 251100Z 2512/2612 03020KT 9999 SCT050 SCT100 TEMPO 2513/2516 SCT040CB PROB40 TEMPO 2516/2519 6000 SHRA BKN20CB OVC050 BECMG 2519/2521 03010KT BKN080 LRBS 251100Z 2512/2612 06014KT CAVOK TEMPO 2512/2517 06017G27KT PROB30 TEMPO 2513/2517 5000 -TSRA SCT040CB LRCK 251100Z 2512/2612 07019KT CAVOK BECMG 2516/2518 07009KT LRCT 251100Z 2512/2612 11004KT 9999 FEW060 PROB30 TEMPO 2514/2518 VRB15KT 8000 SHRA SCT040CB BKN050 LROP 251100Z 2512/2612 07014KT CAVOK TEMPO 2512/2517 07017G27KT PROB30 TEMPO 2513/2517 5000 -TSRA SCT040CB LRSB 251100Z 2512/2612 12008KT CAVOK TEMPO 2512/2518 5000 -TSRA SCT040CB LRTR 251100Z 2512/2612 VRB04KT 9999 SCT045 TEMPO 2512/2516 SCT045CB PROB30 TEMPO 2512/2515 VRB15G25KT 5000 -TSRA LRTZ 251100Z 2512/2612 09014KT 9999 FEW200 BECMG 2516/2518 SKC LSGG 251125Z 2512/2618 VRB03KT CAVOK TX29/2515Z TN14/2605Z TX29/2615Z BECMG 2608/2610 06007KT 9999 FEW040 LSMA 250925Z 2510/2616 VRB03KT CAVOK TEMPO 2510/2515 9999 FEW050 PROB40 2602/2608 5000 MIFG NSC PROB30 2603/2607 2000 BCFG NSC TEMPO 2610/2615 9999 FEW050 LSMD 250925Z 2510/2616 VRB03KT CAVOK TEMPO 2510/2515 9999 FEW045 BECMG 2600/2602 3000 MIFG NSC PROB40 2602/2604 1500 BCFG PROB30 2604/2607 0600 PRFG BECMG 2606/2608 CAVOK LSME 250925Z 2510/2616 VRB03KT CAVOK TEMPO 2510/2515 9999 FEW045 BECMG 2600/2602 3000 MIFG NSC PROB40 2602/2604 1500 BCFG PROB30 2604/2607 0600 PRFG BECMG 2606/2608 CAVOK LSMM 250925Z 2510/2616 VRB03KT CAVOK TEMPO 2510/2515 9999 FEW060 PROB40 2602/2608 5000 MIFG NSC PROB30 2603/2607 2000 BCFG NSC TEMPO 2610/2615 9999 FEW060 LSMP 250925Z 2510/2616 VRB03KT CAVOK LSZH 251125Z 2512/2618 VRB03KT CAVOK TX28/2515Z TN12/2605Z TX29/2615Z PROB40 TEMPO 2512/2517 9999 FEW045 PROB40 2600/2608 3000 MIFG NSC PROB30 2602/2607 1500 BCFG PROB40 2612/2618 05005KT LTAC 251040Z 2512/2612 04012KT 9999 SCT040 BECMG 2515/2517 CAVOK BECMG 2518/2521 VRB02KT BECMG 2607/2609 04012KT SCT040 LTAG 251040Z 2512/2612 18012KT CAVOK BECMG 2515/2517 VRB02KT BECMG 2521/2523 SCT020= LTAP 251040Z 2512/2612 02018KT 9999 FEW040 BECMG 2517/2520 02008KT CAVOK BECMG 2603/2606 FEW040 BECMG 2607/2610 03018KT LTAI 251040Z 2512/2612 16012KT 9999 SCT030 BECMG 2516/2520 VRB02KT CAVOK BECMG 2606/2610 16012KT FEW030 LTAJ 251040Z 2512/2612 16007KT 9999 FEW040 BECMG 2514/2516 23012KT CAVOK BECMG 2516/2518 VRB02KT BECMG 2610/2612 22012KT LTAP 251040Z 2512/2612 02018KT 9999 FEW040 BECMG 2517/2520 02008KT CAVOK BECMG 2603/2606 FEW040 BECMG 2607/2610 03018KT LTAT 251040Z 2512/2612 VRB02KT 9999 SCT040 BECMG 2516/2518 CAVOK BECMG 2606/2608 FEW040 LTAU 251040Z 2512/2612 VRB02KT 9999 FEW040 BECMG 2515/2518 CAVOK PROB40 2516/2519 05012KT BECMG 2523/2602 SCT040 LTAZ 251040Z 2512/2612 03012KT 9999 FEW040 BECMG 2515/2518 03018G30KT CAVOK BECMG 2520/2522 VRB02KT BECMG 2600/2603 SCT040 LTBA 251040Z 2512/2618 03015KT CAVOK TEMPO 2513/2517 02018G28KT BECMG 2516/2519 SCT025 BECMG 2607/2610 04020G30KT CAVOK BECMG 2614/2617 03010KT SCT025 LTBJ 251040Z 2512/2612 35017G27KT 9999 FEW035 BECMG 2513/2515 CAVOK BECMG 2518/2521 35012KT BECMG 2609/2612 36015G25KT FEW035 LTBR 251040Z 2512/2612 35012KT 9999 FEW040 BECMG 2514/2518 VRB02KT CAVOK PROB30 2603/2606 4000 BR BECMG 2609/2612 36012KT SCT040 LTBS 251040Z 2512/2612 21012KT 9999 FEW030 BECMG 2516/2518 VRB02KT CAVOK BECMG 2606/2608 21012KT LTBU 251040Z 2512/2612 01016KT CAVOK BECMG 2517/2520 SCT030 BECMG 2606/2609 03020G30KT CAVOK LTCC 251040Z 2512/2612 VRB02KT CAVOK LTCE 251040Z 2512/2612 VRB02KT 9999 FEW040 BECMG 2512/2514 CAVOK LTCG 251040Z 2512/2612 30010KT 9999 SCT035 BKN100 TEMPO 2512/2516 -SHRA SCT008 FEW020CB BKN028 BECMG 2514/2517 22006KT TEMPO 2600/2604 -SHRA SCT008 BKN028 PROB30 2608/2612 30015G25KT -TSRA SCT008 FEW020CB BKN028 LTCJ 251040Z 2512/2612 32012KT CAVOK BECMG 2515/2518 04012KT LTCS 251040Z 2512/2612 VRB02KT 9999 FEW040 BECMG 2515/2517 CAVOK PROB40 TEMPO 2515/2519 23012KT BECMG 2602/2604 SCT040 BECMG 2610/2612 20012KT CAVOK LTFC 251254Z 2512/2612 03008KT 9999 SCT035 BECMG 2516/2520 CAVOK BECMG 2608/2612 FEW035= LTFE 251040Z 2512/2612 26014KT 9999 FEW035 BECMG 2514/2517 VRB02KT CAVOK BECMG 2608/2610 26014KT FEW035 LTFJ 251040Z 2512/2612 03017KT CAVOK BECMG 2516/2519 03007KT SCT016 TEMPO 2601/2605 4000 BR BKN008 BECMG 2607/2610 03017KT CAVOK LTFM 251040Z 2512/2618 03014KT 9999 FEW030 BECMG 2513/2515 CAVOK BECMG 2517/2520 SCT025 LUKK 251120Z 2512/2612 06009KT CAVOK TEMPO 2512/2519 SCT045CB LWOH 251130Z 2512/2612 15005KT 9999 FEW040 PROB40 TEMPO 2513/2519 VRB15KT TSRA SCT035CB BKN040 LWSK 251130Z 2512/2612 32006KT 9999 FEW050 PROB30 TEMPO 2514/2518 VRB15KT TSRA FEW035CB BKN040 LYBE 251100Z 2512/2612 11008KT 9999 SCT040 TX30/2513Z TN18/2604Z PROB40 TEMPO 2514/2519 VRB15KT 4000 TSRA SCT027CB SCT033 LYBT 251100Z 2512/2612 05006KT 9999 SCT040 TX30/2513Z TN18/2604Z PROB30 TEMPO 2514/2519 VRB20G30KT 3000 TSRA SCT027CB BKN033 LYKV 251100Z 2512/2612 14008KT 9999 SCT045 TX32/2513Z TN16/2604Z PROB40 TEMPO 2513/2518 VRB15KT 4000 TSRA SCT030CB SCT040 TEMPO 2604/2606 3000 BR LYNI 251100Z 2512/2612 07008KT 9999 SCT035 TX32/2513Z TN17/2604Z TEMPO 2513/2519 VRB15KT 5000 TSRA SCT027CB SCT033 LYPG 251100Z 2512/2612 21006KT 9999 SCT040 TX35/2514Z TN22/2604Z PROB40 TEMPO 2513/2519 TS FEW030CB SCT040 LYTV 251100Z 2512/2612 26007KT 9999 FEW040 TX35/2513Z TN19/2603Z PROB30 TEMPO 2512/2517 TS FEW027CB LYUZ 251100Z 2512/2612 06006KT 9999 SCT023 TX25/2513Z TN14/2604Z PROB40 TEMPO 2512/2517 2000 TSRA SCT015CB BKN020 LYVR 251100Z 2512/2612 15012KT CAVOK TX31/2513Z TN18/2604Z PROB30 TEMPO 2512/2518 VRB18KT 4000 TSRA SCT027CB SCT033 TEMPO 2518/2605 06008KT LZIB 251100Z 2512/2612 05005KT 9999 SCT045 TEMPO 2512/2602 SHRA SCT040CB SCT045 PROB40 TEMPO 2512/2519 05015KT 4000 TSRA PROB40 TEMPO 2519/2608 36015G25KT 3000 +TSRA BKN025CB LZKZ 251100Z 2512/2612 05006KT CAVOK PROB40 TEMPO 2516/2521 10015KT 9999 TSRA FEW035CB BKN050 BECMG 2522/2600 36004KT LZTT 251100Z 2512/2612 05005KT 9999 SCT050 TEMPO 2512/2520 4000 TSRA SCT040CB BKN050 PROB40 2603/2607 VRB02KT 2000 BCFG SCT003 SCT022 MBGT 251030Z 2512/2612 12010G20KT 9999 FEW020 BKN200 MBPV 251030Z 2512/2612 12010G20KT 9999 FEW020 BKN200 MDBH 251000Z 2512/2612 11006KT 9999 FEW016CB SCT018 SCT080 PROB30 2506/2512 8000 -TSRA FEW015CB BKN016 MDCY 251000Z 2512/2612 08005KT 9999 FEW016CB SCT016 PROB30 2512/2518 8000-TSRA FEW015CB SCT016 BKN070 BECMG 2514/2516 12010KT MDJB 251000Z 2512/2612 00000KT 9999 FEW018 SCT300 BECMG 2514/2516 04005KT TEMPO 2518/2522 7000-TSRA FEW014CB BKN016 SCT070 MDLR 251000Z 2512/2612 00000KT 9999 SCT016 PROB30 2514/2520 8000-TSRA FEW016CB BKN016 SCT070 BECMG 2516/2522 12012KT MDPC 251000Z 2512/2612 VRB02KT 9999 FEW016 PROB30 2512/2518 8000 SH SCT018 BECMG 2512/2515 09010KT MDPP 251000Z 2512/2612 00000KT 9999 SCT018 BKN300 BECMG 2515/2517 09015KT MDSD 251000Z 2512/2612 05006KT 9999 FEW016CB SCT016 SCT300 BECMG 2514/2516 12010KT PROB30 2516/2522 7000-TSRA FEW015CB BKN016 SCT070 MDST 251000Z 2512/2612 12008KT 9999 FEW016 SCT300 PROB30 2510/2512 5000 BR BKN015 MGGT 251100Z 2512/2612 02008KT 9999 FEW016 TX26/2520Z TN17/2512Z BECMG 2514/2516 VRB03KT FEW018 BECMG 2518/2520 18008KT SCT020 PROB30 TEMPO 2518/2524 8000 TSRA FEW025CB BECMG 2600/2602 VRB03KT SCT016 BKN080 TEMPO 2607/2612 BKN014 MGMM 251100Z 2512/2612 00000KT CAVOK TX36/2520Z TN23/2512Z BECMG 2515/2517 13008KT FEW020 BECMG 2518/2520 SCT030 BECMG 2600/2602 00000KT CAVOK BECMG 2610/2612 SCT012 MGPB 251100Z 2512/2612 00000KT 9999 SCT016 SCT080 TX32/2520Z TN22/2512Z PROB30 TEMPO 2512/2612 8000 TSRA FEW025CB BECMG 2514/2516 02008KT FEW018 BECMG 2518/2520 06008KT SCT020 BECMG 2600/2602 00000KT SCT016 MGSJ 251100Z 2512/2612 00000KT 9999 SCT016 TX33/2520Z TN23/2512Z BECMG 2515/2517 27006KT SCT018 TEMPO 2518/2603 8000 TSRA FEW025CB BECMG 2602/2604 00000KT SCT016 BKN080 BECMG 269/2612 TS FEW025CB MHLC 250425Z 2506/2606 15005KT 9999 SCT024 TX33/2520Z TN24/2512Z BECMG 2515/2517 35005KT FEW026 BECMG 2520/2522 8000 VCSH SCT026TCU SCT080 BECMG 2601/2603 9999 NSW SCT026 MHLM 250425Z 2506/2606 07006KT 9999 FEW026CB FEW028 TX35/2520Z TN25/2512Z BECMG 2514/2516 35004KT SCT028 BECMG 2521/2523 08007KT 8000 VCSH SCT028TCU SCT080 BECMG 2603/2605 9999 NSW FEW026 SCT070 MHRO 250425Z 2506/2606 09018KT 9999 SCT022 TX33/2518Z TN28/2512Z MHTG 250425Z 2506/2606 00000KT 9999 FEW010 SCT026 TX32/2520Z TN17/2512Z BECMG 2514/2516 04005KT SCT028 BECMG 2519/2521 11006KT FEW028CB SCT028TCU TEMPO 2523/2603 36004KT 6000 -TSRA SCT028CB SCT080 BECMG 2603/2605 8000 VCSH SCT026 SCT070 MKJP 251115Z 2512/2612 13024KT 9999 FEW022 FEW024CB BECMG 2603/2605 12010KT FEW022 MKJS 251115Z 2512/2612 14004KT 9999 FEW024 BECMG 2514/2516 06018KT PROB30 TEMPO 2519/2522 TS SCT020 FEW022CB BECMG 2602/2604 VRB03KT MMAA 251129Z 2512/2618 35005KT P6SM SCT015 SCT300 TX31/2518Z TN25/2512Z FM251600 23010KT P6SM SCT020 FM260300 36005KT P6SM SCT015 SCT300 FM261600 23010KT P6SM SCT015 SCT300 MMAN 250528Z 2506/2606 12005KT 5SM HZ BKN020 BKN080 TEMPO 2506/2508 4SM RA FM250900 13005KT P6SM SCT020 BKN080 FM251600 13010KT P6SM SCT020 SCT250 FM252200 13010KT P6SM SCT020CB BKN080 PROB40 2522/2602 5SM TSRA MMAS 250500Z 2506/2606 00000KT P6SM BKN040 TEMPO 2510/2514 5SM HZ BKN015 FM251600 20006KT P6SM SCT030 FM251900 22010KT P6SM BKN030 BKN200 BECMG 2520/2521 BKN030CB BKN080 BKN200 TEMPO 2521/2601 3SM TSRA FM260100 16006KT 5SM RA SCT030CB BKN080 MMBT 250440Z 2506/2606 00000KT P6SM SKC FM251800 23010KT P6SM SCT030 FM260200 30005KT P6SM SCT200 MMCB 250440Z 2506/2606 00000KT P6SM SCT250 FM251900 16010KT P6SM SCT020 BKN250 BECMG 2520/2521 SCT020CB BKN080 BKN250 FM260200 00000KT P6SM SCT080 BKN250 MMCE 251405Z 2514/2606 14015KT P6SM SKC BECMG 2601/2602 03010KT MMCL 250545Z 2506/2606 00000KT P6SM SCT250 FM251800 28010KT P6SM SCT020 FM260200 00000KT P6SM SCT250 MMCM 250520Z 2506/2606 12010KT P6SM SKC TEMPO 2510/2514 BKN015 FM251800 12010KT P6SM SCT020 BECMG 2601/2602 10005KT MMCN 251403Z 2514/2606 00000KT P6SM BKN200 FM251700 32010KT P6SM BKN200 FM260200 28005KT P6SM SCT200 MMCP 250520Z 2506/2606 12010KT P6SM SKC TEMPO 2510/2514 BKN015 FM251600 14010KT P6SM SCT300 BECMG 2520/2521 34015KT FM260200 04010KT P6SM SCT300 MMCS 250528Z 2506/2606 25005KT P6SM SCT100 FM251600 24010KT P6SM SCT250 FM260300 30005KT P6SM SCT100 MMCU 250528Z 2506/2606 24005KT P6SM SCT070 SCT250 FM251700 30010KT P6SM SCT020 FM260200 30005KT P6SM SCT080 BKN250 MMCV 251409Z 2514/2606 18010KT 5SM HZ SCT070 FM251600 14010KT P6SM SCT020 BECMG 2520/2521 SCT020CB BKN200 FM260000 14006KT P6SM SCT020 SCT200 MMCZ 251108Z 2512/2618 12005KT P6SM SCT015 SCT250 FM251600 12010KT P6SM SCT015 FM260200 12005KT P6SM SCT015 FM261500 12010KT P6SM SCT015 MMDO 251202Z 2512/2606 00000KT P6SM -RA OVC015 BECMG 2514/2515 P6SM BKN020 FM251600 33006KT P6SM SCT020 BKN200 FM251900 04010KT P6SM BKN030 BKN200 TEMPO 2521/2601 5SM TSRA BKN020CB OVC080 MMEP 251401Z 2514/2606 00000KT P6SM BKN080 OVC250 FM251700 34010KT P6SM SCT020 BKN250 FM251900 34010KT P6SM SCT020CB BKN080 BKN250 TEMPO 2520/2524 5SM TSRA MMGL 251313Z 2513/2618 00000KT 6SM -RA BKN010 OVC080 TX28/2522Z TN18/2513Z FM251500 00000KT 6SM HZ BKN020 BKN080 BECMG 2518/2519 18005KT SCT020 BKN080 FM252100 23012KT P6SM SCT025CB BKN080 TEMPO 2522/2602 5SM TSRA BKN025CB FM260300 00000KT P6SM SCT025 BKN080 TEMPO 2611/2613 3SM BR HZ BKN015 MMGM 250511Z 2506/2606 00000KT P6SM SCT150 FM251900 28010KT P6SM SCT150 BECMG 2601/2602 30005KT MMHO 250545Z 2506/2606 06005KT P6SM SCT080 BKN250 FM251600 16010KT P6SM SCT020 BKN250 FM260200 16005KT P6SM SCT020 BKN100 MMIA 250500Z 2506/2606 00000KT 6SM HZ SCT020 BKN200 TEMPO 2510/2514 3SM BR BKN015 FM251600 22006KT P6SM SCT020 BECMG 2519/2520 BKN020CB BKN120 BKN200 TEMPO 2521/2601 5SM TSRA MMIO 250528Z 2506/2606 36005KT P6SM SCT020 OVC080 TEMPO 2506/2508 5SM RA FM250900 35005KT P6SM SCT020 BKN200 TEMPO 2510/2514 2SM BR BKN010 FM251600 36010KT P6SM SCT020 TEMPO 2520/2524 BKN020 FM260200 36005KT P6SM SCT020 BKN250 MMLM 250511Z 2506/2606 00000KT P6SM SCT220 FM251800 30015KT P6SM SCT020 BKN220 FM260100 30006KT P6SM SCT220 MMLO 250500Z 2506/2606 00000KT P6SM SCT030 SCT250 TEMPO 2510/2514 4SM HZ BKN015 FM251800 30010KT P6SM SCT030 FM260200 30005KT P6SM BKN030 BKN250 MMLP 250545Z 2506/2606 18005KT P6SM SCT250 FM251600 16010KT P6SM SCT020 SCT250 FM260200 18005KT P6SM SCT250 MMLT 250511Z 2506/2606 14010KT P6SM SCT030 FM251500 14010KT P6SM SCT240 BECMG 2601/2602 28005KT MMMA 250533Z 2506/2606 14014KT 6SM HZ SCT015 SCT080 OVC200 TEMPO 2510/2514 4SM HZ BKN015 BKN200 FM251900 15015KT P6SM SCT020 BKN200 BECMG 2601/2602 15020KT MMMD 251108Z 2512/2618 08005KT P6SM SCT300 TX36/2520Z TN24/2512Z FM251600 12010KT P6SM SCT020 SCT300 TEMPO 2520/2524 BKN020 FM260200 08005KT P6SM SCT250 FM261600 12010KT P6SM SCT020 MMML 251409Z 2514/2606 09005KT P6SM BKN015 BECMG 2515/2516 SCT015 FM251800 15006KT P6SM SKC BECMG 2520/2521 13015KT FM260200 13010KT P6SM SKC MMMM 251121Z 2512/2618 08005KT P6SM SCT020 BKN250 FM251700 13010KT P6SM SCT020 FM252200 13010KT P6SM BKN020CB OVC080 TEMPO 2522/2602 2SM TSRA FM260200 13005KT P6SM SCT020 BKN080 TEMPO 2606/2610 5SM RA FM261600 13005KT P6SM SCT020 BKN100 MMMT 251407Z 2514/2606 00000KT P6SM OVC020 BECMG 2515/2516 SCT040 SCT250 FM251600 36010KT P6SM SCT040 SCT250 FM260300 00000KT P6SM SCT012 MMMX 251129Z 2512/2618 08005KT P6SM SCT020 BKN250 TX26/2521Z TN15/2612Z FM251800 13010KT P6SM SCT020 SCT250 FM252200 13010KT P6SM BKN020CB OVC080 TEMPO 2522/2602 3SM TSRA FM260200 13005KT P6SM SCT020 BKN250 FM261600 13005KT P6SM SCT020 MMMY 251131Z 2512/2618 30008KT 6SM HZ BKN080 TX33/2521Z TN23/2512Z FM251800 12010KT P6SM SCT020 FM252200 13012KT P6SM SCT020CB BKN080 PROB40 2522/2602 2SM TSRA BKN020CB FM260200 06005KT P6SM SCT020 BKN080 TEMPO 2610/2614 BKN015 FM261600 12010KT P6SM SCT020 SCT100 MMMZ 251327Z 2513/2618 05005KT P6SM -RA SCT025 BKN090 TX33/2521Z TN26/2513Z BECMG 2515/2516 P6SM FM251800 29005KT P6SM SCT025 BKN090 FM252100 31012KT P6SM SCT025CB BKN090 PROB40 2523/2603 5SM TSRA BKN025CB FM260400 00000KT P6SM SCT025 BKN090 PROB40 2604/2608 6SM -RA FM260900 00000KT P6SM SCT090 BKN240 MMNL 250533Z 2506/2606 12010KT P6SM SCT080 BKN200 TEMPO 2510/2514 5SM HZ BKN020 BKN200 FM251900 14010KT P6SM SCT200 BECMG 2601/2602 12006KT MMOX 250440Z 2506/2606 00000KT P6SM SCT120 FM251900 14010KT P6SM SCT030 BECMG 2520/2521 BKN030CB BKN120 TEMPO 2522/2602 4SM TSRA MMPA 251411Z 2514/2606 34008KT 4SM HZ BKN020 BKN280 FM251600 12010KT 6SM HZ SCT020 SCT280 FM260100 09005KT 5SM HZ BKN015 BKN250 MMPB 250440Z 2506/2606 17006KT P6SM SCT020 FM251900 20010KT P6SM SCT020CB BKN230 TEMPO 2521/2601 5SM TSRA BKN020CB OVC090 MMPN 250500Z 2506/2606 00000KT P6SM SCT020 BKN270 TEMPO 2510/2514 5SM HZ BKN015 FM251900 18010KT P6SM BKN030 TEMPO 2520/2524 VC TS BKN030 BKN080 FM260200 00000KT P6SM SCT030 BKN080 MMPQ 250520Z 2506/2606 09006KT 6SM HZ SCT030 FM251800 09010KT P6SM SCT020 BECMG 2601/2602 00000KT MMPR 251121Z 2512/2618 02005KT P6SM BKN020 BKN080 TX34/2521Z TN27/2512Z TEMPO 2512/2515 5SM RA FM251500 20010KT P6SM SCT020 SCT250 FM252200 23012KT P6SM BKN020CB OVC080 TEMPO 2523/2603 3SM TSRA FM260600 03005KT P6SM VC RA SCT020CB BKN100 TEMPO 2608/2612 3SM TSRA BKN020CB FM261500 23010KT P6SM SCT015 BKN100 MMPS 250440Z 2506/2606 00000KT P6SM SCT220 FM251800 24010KT P6SM SCT015 FM260200 29005KT P6SM SCT220 MMQT 250707Z 2507/2606 06012KT 4SM TSRA BKN015CB BKN120 OVC250 FM250800 06010KT 5SM RA SCT015CB OVC080 FM251000 00000KT 5SM HZ SCT015 OVC080 TEMPO 2510/2514 3SM BR BKN010 FM251600 26010KT P6SM SCT020 SCT250 BECMG 2521/2522 BKN020CB BKN100 BKN250 TEMPO 2523/2603 5SM TSRA MMRX 250533Z 2506/2606 14008KT 6SM HZ BKN070 TEMPO 2510/2514 4SM HZ BKN015 FM251900 16010KT P6SM SCT020 BKN200 BECMG 2520/2521 BKN020 BKN070 BKN200 TEMPO 2522/2602 5SM RA MMSD 251137Z 2512/2606 29005KT 3SM BR SKC BECMG 2515/2516 6SM HZ FM251800 20010KT P6SM SCT250 BECMG 2601/2602 00000KT MMSL 250511Z 2506/2606 00000KT P6SM SKC BECMG 2518/2519 16010KT FM260200 00000KT P6SM SKC MMSP 251320Z 2513/2618 00000KT 6SM HZ SCT080 BKN210 TX27/2521Z TN16/2513Z BECMG 2517/2518 36005KT SCT020 BKN210 FM252100 03012KT P6SM SCT030CB SCT080 BKN210 TEMPO 2522/2602 3SM TSRA OVC020CB FM260300 12005KT P6SM SCT020 BKN080 PROB40 2603/2307 5SM -RA FM260800 00000KT 6SM HZ SCT015 BKN080 TEMPO 2611/2615 3SM BR HZ BKN010 MMTC 250528Z 2506/2606 06005KT P6SM SCT020 SCT100 FM252000 06010KT P6SM SCT020 FM260200 03005KT P6SM SCT020 SCT100 MMTG 250451Z 2506/2606 30005KT P6SM SCT250 FM251600 30010KT P6SM SCT020 FM252200 30012KT P6SM SCT020CB BKN080 PROB40 2522/2602 5SM TSRA BKN020CB FM260200 30005KT P6SM SCT030 BKN250 MMTJ 251125Z 2512/2618 26005KT 6SM HZ SKC TX26/2520Z TN19/2612Z FM251500 30010KT P6SM SKC FM260200 30005KT P6SM SCT010 SCT100 TEMPO 2610/2614 BKN010 FM261500 30010KT P6SM SKC MMTM 251256Z 2513/2606 25005KT 6SM HZ SCT200 BECMG 2515/2516 16006KT SCT015 SCT200 FM252000 12015KT 6SM HZ SCT015 BKN200 BECMG 2601/2602 12006KT MMTO 251404Z 2513/2618 00000KT 1SM BR HZ OVC005 TX23/2520Z TN10/2612Z FM251600 00000KT 3SM BR HZ SCT005 BKN010 FM251700 25005KT 5SM HZ SCT015 SCT070 FM252000 29010KT 6SM HZ VC RA BKN015CB BKN070 TEMPO 2521/2601 3SM TSRA FM260300 00000KT 6SM HZ SCT015 BKN070 FM261000 00000KT 4SM HZ SCT010 TEMPO 2611/2615 2SM BR HZ BKN005 MMTP 251108Z 2512/2618 00000KT P6SM SCT030 SCT250 FM251800 24010KT P6SM SCT020 BKN250 FM260100 00000KT P6SM SCT020 BKN250 FM261700 24010KT P6SM SCT020 BKN250 MMUN 251108Z 2512/2618 12005KT P6SM SCT015 TX33/2520Z TN24/2512Z FM251600 12010KT P6SM SCT015 SCT250 FM260200 12005KT P6SM SCT015 FM261600 12010KT P6SM SCT015 MMVA 250520Z 2506/2606 00000KT P6SM SKC TEMPO 2510/2514 3SM BR BKN010 FM251800 09010KT P6SM SKC BECMG 2601/2602 03005KT MMVR 250538Z 2506/2606 00000KT 6SM HZ SCT015 SCT080 TX33/2519Z TN25/2512Z FM251700 08010KT P6SM SCT015 FM260200 08005KT 6SM HZ SCT015 SCT250 MMZC 251121Z 2512/2618 02005KT P6SM SCT030 BKN100 TX23/2521Z TN15/2512Z FM251600 03010KT P6SM SCT020 SCT250 FM252200 03010KT P6SM BKN020CB TEMPO 2523/2603 2SM TSRA FM260300 03005KT 5SM RA BKN030 OVC080 TEMPO 2604/2608 3SM TSRA BKN020CB FM260800 06005KT P6SM SCT030 BKN080 FM261600 06010KT P6SM SCT030 BKN250 MMZH 250440Z 2506/2606 00000KT P6SM SCT250 FM251800 20010KT P6SM SCT020 BKN250 FM260200 00000KT P6SM SCT250 MMZO 250513Z 2506/2606 03005KT P6SM SCT020 BKN250 FM251600 23010KT P6SM SCT020 SCT250 PROB40 2523/2603 3SM TSRA BKN020CB FM260300 03005KT P6SM SCT020 BKN250 MNMG 251010Z 2512/2612 12004KT 9999 FEW022 TEMPO 2515/2517 09008KT FEW023 SCT070 TEMPO 2518/2600 07014KT 8000 DZ/TSRA FEW020CB SCT021 MPDA 251100Z 2512/2524 18004KT 9999 SCT018 TEMPO 2516/2520 6000 TSRA FEW013CB BKN070 MPMG 251100Z 2512/2524 33006KT 9000 FEW015CB SCT080 PROB30 TEMPO 2513/2516 7000 TSRA FEW013CB BKN080 TEMPO 2517/2520 8000 RA SCT016 MPPA 251100Z 2512/2618 34006KT 9000 FEW015CB SCT080 PROB30 TEMPO 2513/2516 7000 TSRA FEW013CB BKN080 TEMPO 2517/2520 8000 RA SCT016 MPTO 251100Z 2512/2618 02006KT 9000 FEW015CB SCT080 PROB30 TEMPO 2513/2516 7000 TSRA FEW013CB BKN080 TEMPO 2517/2520 8000 RA SCT016 MRLB 251100Z 2512/2612 09010KT 9999 FEW040 TX34/2519Z TN22/2611Z TEMPO 2521/2601 27007KT 5000 TSRA FEW015CB BKN030 MRLM 251100Z 2512/2612 26005KT 9999 SCT020 TX30/2519Z TN23/2611Z TEMPO 2512/2514 RA BKN020 BECMG 2513/2516 05005KT BECMG 2600/2603 25005KT MROC 251100Z 2512/2612 07007KT 9999 FEW040 TX30/2519Z TN19/2610Z BECMG 2515/2518 25007KT TEMPO 2519/2523 TSRA FEW015CB BKN030 BECMG 2601/2604 05005KT MRPV 251100Z 2512/2612 09010KT 9999 FEW040 TX28/2518Z TN19/2610Z BECMG 2516/2519 27006KT TEMPO 2519/2523 TSRA FEW015CB BKN030 BECMG 2600/2603 09006KT MTCH 251234Z 2512/2612 VRB02KT 9000 FEW028 TEMPO 2515/2520 06010KT PROB30 TEMPO 2600/2605 4000 TSRA SCT026CB OVC035 BECMG 2606/2610 10005KT 9000 NSW FEW018 MTPP 251241Z 2512/2612 12008KT 9000 FEW024 BECMG 2518/2521 28010KT FEW030CB PROB30 TEMPO 2600/2605 4500 TSRA SCT026CB OVC040 BECMG 2606/2610 VRB02KT 9000 NSW FEW020 MUCC 251100Z 2512/2612 VRB03KT 9000 FEW020 BECMG 2515/2517 11008KT SCT020 TEMPO 2518/2524 VRB10KT 3000 TSRA SCT018CB BKN020 BECMG 2601/2603 VRB03KT FEW020 MUCF 251100Z 2512/2524 12005KT 9000 SCT020 BECMG 2515/2517 22010KT TEMPO 2518/2524 VRB10KT 3000 TSRA SCT018CB BKN020 MUCL 251100Z 2512/2524 17007KT 9000 SCT020 TEMPO 2518/2524 VRB10KT 3000 TSRA SCT018CB BKN020 MUCM 251100Z 2512/2612 VRB03KT 9000 FEW020 BECMG 2515/2517 17007KT SCT020 TEMPO 2521/2524 VRB10KT 3000 TSRA SCT018CB BKN020 BECMG 2601/2603 VRB03KT FEW020 MUCU 251100Z 2512/2612 VRB03KT 9000 FEW020 BECMG 2515/2517 19008KT SCT020 TEMPO 2520/2524 SCT020CB BECMG 2601/2603 VRB03KT FEW020 MUGM 2507/2607 VRB05KT 9999 FEW030 FEW280 QNH2993INS BECMG 2514/2515 13006KT FEW030 SCT250 QNH2991INS BECMG 2520/2521 18008KT FEW025 FEW250 QNH2989INS BECMG 2600/2601 VRB05KT FEW025 SCT250 QNH2987INS T26/2509Z T33/2520Z FN00194 MUHA 251100Z 2512/2612 VRB03KT 9000 FEW030 BECMG 2514/2516 20010KT TEMPO 2520/2524 VRB10KT 5000 SHRA BKN030 BECMG 2601/2603 VRB03KT MUHG 251100Z 2512/2612 VRB03KT 9000 FEW020 TEMPO 2512/2514 5000 BR BECMG 2515/2517 14008KT SCT020 TEMPO 2520/2524 VRB10KT 3000 TSRA SCT018CB BKN020 BECMG 2601/2603 VRB03KT FEW020 MUSC 251100Z 2512/2612 VRB03KT 9000 FEW020 BECMG 2515/2517 VRB05KT SCT020 TEMPO 2518/2524 VRB10KT 3000 TSRA SCT018CB BKN020 BECMG 2601/2603 VRB03KT FEW020 MUVR 251100Z 2512/2612 VRB03KT 9000 FEW020 BECMG 2515/2517 VRB05KT SCT020 TEMPO 2518/2524 VRB10KT 3000 TSRA SCT018CB BKN020 BECMG 2601/2603 VRB03KT FEW020 MWCB 251100Z 2512/2612 11008KT 9000 VCSH SCT018 TEMPO 2516/2522 9000 SHRA SCT016 MWCR 251100Z 2512/2612 11008KT 9000 VCSH SCT018 TEMPO 2516/2522 9000 SHRA SCT016 MYGF 251030Z 2512/2612 22010G20KT 8000 TSRA BKN016CB BKN030 BECMG 2520/2522 20010KT 9999 SCT015CB SCT020 PROB30 TEMPO 2600/2606 24015KT 9000 SHRA SCT016CB SCT030 MYNN 251030Z 2512/2612 21010KT FEW015CB SCT020 PROB30 TEMPO 2520/2606 21010G20KT 9000 SHRA SCT015CB MZBZ 251100Z 2512/2612 11007KT 9999 SCT024 NCRG 251110Z 2512/2612 31006KT 9999 SCT016 SCT050 PROB30 TEMPO 2515/2524 5000 SHRA BKN015 FM252000 20011KT 9999 SCT018 SCT040 NFFN 251103Z 2512/2612 12011KT 9999 SCT030 BKN050 NFNA 251103Z 2512/2612 13007KT 9999 FEW020 SCT045 NFTF 251103Z 2512/2612 16008KT 9999 SCT016 BKN040 NFTV 251104Z 2512/2612 18004KT 9999 SCT008 SCT016 BKN100 NGFU 251115Z 2512/2612 12006KT 9999 -SHRA SCT018 SCT100 PROB40 TEMPO 2512/2524 5000 TSRA BKN015 FEW017CB PROB40 TEMPO 2606/2612 5000 TSRA BKN015 FEW017CB NGTA 251114Z 2512/2612 13006KT 9999 FEW020 PROB40 TEMPO 2512/2524 5000 TSRA FEW017CB NIUE 250957Z 2509/2606 CNL NLWF 251100Z 2512/2612 11012KT 9999 BKN020 BKN040 TEMPO 2512/2612 4000 SHRA BKN014 SCT018TCU PROB30 TEMPO 2512/2518 2500 +SHRA BKN009 SCT015CB NLWW 251100Z 2512/2612 09012KT 9999 SCT020 PROB40 TEMPO 2512/2524 4000 SHRA BKN014 SCT018CB PROB40 TEMPO 2512/2520 1500 TSRA BKN009 BKN015CB NSFA 251106Z 2512/2612 10005KT 9999 SCT020 TEMPO 2512/2518 3000 TSRA BKN015 FEW017CB NSTU 251124Z 2512/2612 08012KT P6SM VCSH FEW018 SCT040 BKN100 NTAA 251100Z 2512/2618 VRB03KT 9999 FEW025 SCT050 NVSC 251000Z 2512/2612 11012KT 9999 SCT020 BKN040 INTER 2512/2518 9000 -SHRA BKN018 OVC038 BECMG 2521/2523 13012G22KT NVSG 251000Z 2512/2612 12012KT 9999 SCT020 BKN040 PROB30 INTER 2515/2518 9000 -SHRA BKN018 BECMG 2521/2523 13006G16KT NVSL 251000Z 2512/2612 12012KT 9999 FEW022 BKN040 PROB30 INTER 2512/2518 9000 -SHRA BKN018 NVSP 251000Z 2512/2612 12012KT 9999 SCT025 PROB30 INTER 2515/2518 9000 -SHRA BKN018 NVSS 251000Z 2512/2612 12012KT 9999 FEW030 BKN040 PROB40 INTER 2512/2518 9000 -SHRA BKN018 NVVA 251000Z 2512/2612 10012KT 9999 SCT022 BKN038 PROB30 INTER 2515/2518 9000 -SHRA BKN018 BECMG 2521/2523 10008G18KT NVVV 251000Z 2512/2612 12012KT 9999 SCT020 BKN038 PROB30 INTER 2515/2518 9000 -SHRA BKN018 BECMG 2521/2523 13008G18KT NVVW 251000Z 2512/2612 11012KT 9999 SCT020 BKN040 PROB30 INTER 2515/2518 9000 -SHRA BKN018 OVC038 BECMG 2521/2523 11007G17KT NWWD 251221Z 2512/2606 CNL NWWE 250841Z 2508/2606 CNL NWWK 251221Z 2512/2606 CNL NWWL 251100Z 2512/2612 09008KT 9999 FEW035 BKN050 NWWM 251100Z 2512/2612 08010KT 9999 FEW040 BKN055 NWWR 251100Z 2512/2612 14008KT 9999 FEW030 BKN045 TEMPO 2600/2606 SHRA FEW030TCU NWWU 251222Z 2512/2606 CNL NWWV 250841Z 2508/2606 CNL NWWW 251100Z 2512/2612 VRB02KT 9999 BKN050 BECMG 2522/2524 16012KT NZAA 251111Z 2512/2612 27015KT 9999 -SHRA FEW012 SCT030 BECMG 2522/2600 28020G30KT TEMPO 2522/2602 6000 SHRA BKN012 BECMG 2609/2611 27012KT NZCH 251118Z 2512/2612 02005KT 9999 FEW060 FM252100 22012KT 9999 -RA SCT035 FM260000 22015G25KT 9999 -RA BKN020 TEMPO 2600/2602 6000 SHRA BKN012 FM260500 22012KT 9999 SCT030 BECMG 2609/2611 VRB02KT NZFX 251241Z 2512/2609 12012KT 9999 FEW040 BKN100 QNH2901INS GRID29012KT BECMG 2513/2515 15025G40KT 1200 BLSN FEW000 SCT040 BKN100 520007 QNH2896INS BLSN FEW000 GRID32025G40KT BECMG 2517/2519 18030G50KT 0100 -SN BLSN BKN000 BKN040 570008 QNH2891INS BLSN BKN000 GRID35030G50KT BECMG 2520/2522 19040G60KT 0000 -SN BLSN VV002 570008 QNH2860INS GRID36040G60KT 251240 NZWN 251111Z 2512/2612 35015G25KT CAVOK FM251400 35020G35KT 9999 -SHRA FEW014 BKN025 TEMPO 2516/2519 6000 SHRA BKN014 BECMG 2604/2606 18015KT TEMPO 2604/2612 6000 SHRA BKN012 OAHR 251100Z 2512/2612 04012KT CAVOK TEMPO 2512/2515 03015G28KT BECMG 2521/2523 VRB03KT OAIX 250830Z 2508/2613 09006KT 9999 FEW060 SCT160 SCT200 QNH2981INS BECMG 2509/2510 35012KT 9999 FEW150 BKN200 QNH2981INS TEMPO 2510/2514 30020G30KT -TSRA FEW050 BKN100CB BKN200 BECMG 2605/2606 12006KT 9999 FEW150 FEW200 QNH2982INS TX33/2510Z TN18/2601Z OAJL 251201Z 2512/2614 13009KT 9000 -TSRA SCT100CB QNH2962INS TEMPO 2512/2515 13015G25KT BECMG 2514/2515 VRB06KT 9999 NSW FEW150 QNH2962INS BECMG 2610/2611 12009KT 9999 FEW150 QNH2988INS TX40/2512Z TN25/2601Z OAKB 251105Z 2512/2612 04012KT 9999 FEW050 SCT120 BECMG 2514/2516 VRB02KT CAVOK TEMPO 2600/2604 7000 BECMG 2606/2608 04012KT 9999 FEW050 SCT120 PROB30 TEMPO 2608/2612 35020G35KT 8000 VCTS SCT050CB BKN120 OAKN 250700Z 2507/2613 25009KT 8000 HZ SKC QNH2972INS TEMPO 2510/2514 28010G15KT 6000 BLDU BECMG 2513/2514 VRB06KT 8000 HZ SKC QNH2974INS BECMG 2607/2608 26009KT 9000 HZ SKC QNH2972INS TX38/2511Z TN20/2601Z OAMS 251120Z 2512/2612 21006KT 9999 NSW SKC BECMG 2601/2603 03006KT 9999 NSW FEW180 BECMG 2604/2606 22010KT 9999 NSW FEW180 OBBI 251100Z 2512/2618 04010KT CAVOK BECMG 2518/2520 VRB05KT PROB30 TEMPO 2600/2605 5000 HZ SCT010 OEAB 251100Z 2512/2618 23014KT 9999 SCT020 TEMPO 2512/2518 6000 TSRA BKN020 FEW025CB BECMG 2518/2520 33006KT OEAH 251100Z 2512/2618 07013KT 8000 NSC BECMG 2518/2520 26006KT OEAO 251100Z 2512/2618 26013KT 8000 SCT040 SCT100 TEMPO 2512/2518 4500 BLDU TS FEW035CB BECMG 2518/2520 30008KT OEBA 251100Z 2512/2618 29006G16KT 9999 SCT030 TEMPO 2512/2520 6000 TSRA FEW025CB BKN030 OEBH 251100Z 2512/2618 27011KT 9999 FEW030 BECMG 2518/2520 VRB03KT OEDF 250930Z 2512/2618 05010KT 8000 NSC BECMG 2516/2518 VRB03KT TEMPO 2601/2605 3000 BR BECMG 2607/2609 09008KT OEDR 250930Z 2512/2618 05010KT 8000 NSC BECMG 2516/2518 VRB03KT TEMPO 2601/2605 3000 BR BECMG 2607/2609 09008KT OEGN 251100Z 2512/2618 32014KT 9999 SCT030 SCT100 TEMPO 2512/2518 3000 BLDU TSRA FEW035CB BECMG 2520/2522 VRB03KT OEGS 251100Z 2512/2618 06006G16KT 9999 NSC OEGT 251100Z 2512/2618 32008G18KT 7000 FEW040 OEHL 251100Z 2512/2618 03012KT 8000 SCT040 BECMG 2518/2520 30008KT OEJN 251100Z 2512/2618 33014KT 9999 FEW040 SCT100 PROB30 TEMPO 2512/2518 4500 DU BLDU FEW035CB SCT040 BECMG 2518/2520 07008KT OEKJ 251100Z 2512/2618 07012KT 8000 NSC BECMG 2518/2520 VRB03KT OEKK 250500Z 2506/2520 02014KT 7000 NSC BECMG 2518/2520 VRB03KT OEKM 251100Z 2512/2618 23014KT 9999 SCT020 TEMPO 2512/2518 6000 TSRA BKN020 FEW025CB BECMG 2518/2520 33006KT OEMA 251100Z 2512/2618 27013KT 9999 FEW045 SCT080 TEMPO 2512/2518 4000 BLDU TSRA FEW040CB SCT045 BECMG 2518/2520 33008KT OENG 251100Z 2512/2618 35008KT 9999 SCT030 TEMPO 2513/2518 5000 DU BLDU FEW025CB BECMG 2516/2518 27008KT OEPA 251100Z 2512/2618 03012KT 8000 NSC BECMG 2516/2518 33006KT OERF 251100Z 2512/2618 04010KT 8000 NSC BECMG 2518/2520 18006KT OERK 251100Z 2512/2618 08012KT 9999 FEW040 BECMG 2518/2520 VRB03KT OERR 251100Z 2512/2618 23012KT 8000 NSC BECMG 2516/2518 33006KT OERY 251100Z 2512/2618 07012KT 8000 NSC BECMG 2518/2520 VRB03KT OESH 251100Z 2512/2618 06015KT 7000 FEW040 BECMG 2520/2522 12010KT OESK 251100Z 2512/2618 24013KT 8000 SCT040 PROB30 TEMPO 2512/2518 4000 BLDU FEW035CB BECMG 2520/2522 VRB03KT OETB 251100Z 2512/2618 23006G16KT 9999 SCT040 PROB30 TEMPO 2512/2518 4000 BLDU FEW035CB OETF 251100Z 2512/2618 30010G20KT 9999 SCT030 TEMPO 2512/2518 6000 TSRA FEW025CB OETR 251100Z 2512/2618 25013KT 8000 SCT040 BECMG 2518/2520 01010KT OEWD 251100Z 2512/2618 01014KT 7000 SCT030 PROB30 TEMPO 2512/2518 4000 BLDU FEW035CB BECMG 2520/2522 VRB03KT OEWJ 251100Z 2512/2618 33014KT 9999 FEW040 SCT100 BECMG 2518/2520 02008KT OEYN 251100Z 2512/2618 29010G20KT 8000 SCT040 SCT100 TEMPO 2512/2518 4500 BLDU TS FEW030CB BECMG 2520/2522 VRB03KT OIAA 251100Z 2512/2618 25008KT 7000 NSC TEMPO 2514/2520 18015G25KT PROB40 2515/2518 30014KT BECMG 2601/2602 3000 BR/HZ BECMG 2605/2606 7000 NSC TEMPO 2612/2618 18015G25KT OIAW 251100Z 2512/2618 30008KT 7000 NSC TEMPO 2512/2515 24016KT BECMG 2600/2601 3000 BR/HZ TEMPO 2601/2605 15015G25KT BECMG 2605/2606 6000 TEMPO 2606/2612 18015G25KT OIBK 251100Z 2512/2618 24006KT 5000 HZ FEW030 TEMPO 2512/2517 23016KT BECMG 2517/2518 5000 HZ/BR TEMPO 2520/2602 3000 BR TEMPO 2602/2606 10012KT OICI 251100Z 2512/2618 30010KT 7000 NSC TEMPO 2512/2515 30015G28KT FEW030TCU SCT100 PROB40 2512/2515 5000 SA/DU BECMG 2518/2520 04008KT BECMG 2608/2609 30010KT TEMPO 2609/2615 30015G30KT OIFM 251100Z 2512/2618 24008KT 8000 NSC TEMPO 2515/2518 05010KT BECMG 2602/2603 3000 HZ BECMG 2604/2606 8000 OIIE 251100Z 2512/2618 13008KT 9999 FEW040 TEMPO 2512/2515 14018KT FEW035TCU SCT100 BECMG 2515/2517 29010KT BECMG 2604/2606 14008KT OIII 251100Z 2512/2618 27008KT 9999 FEW040 TEMPO 2512/2516 21016KT FEW035CB SCT100 OIKB 251100Z 2512/2618 22006KT 7000 FEW025 TEMPO 2512/2515 19016KT BECMG 2516/2518 5000 BR/HZ 36008KT TEMPO 2521/2603 3000 BR TEMPO 2608/2614 19016KT BECMG 2616/2617 5000 HZ OIKK 251100Z 2512/2618 33008KT 8000 NSC TEMPO 2512/2515 33018KT TEMPO 2609/2615 33018KT OIMM 251100Z 2512/2618 13008KT 9000 NSC TEMPO 2512/2515 07016KT TEMPO 2609/2615 07014KT OISL 251100Z 2512/2618 30008KT 8000 NSC OISS 251100Z 2512/2618 15006KT CAVOK TEMPO 2612/2618 04016KT OITR 251100Z 2512/2618 28008KT 8000 FEW030CB SCT100 TEMPO 2512/2515 09012KT TSRA SCT030CB BKN100 BECMG 2516/2517 NSC TEMPO 2609/2615 09010KT FEW030CB SCT100 OITT 251100Z 2512/2618 15008KT 8000 FEW030 TEMPO 2512/2515 FEW035CB SCT100 BECMG 2516/2517 07014KT BECMG 2604/0606 27008KT TEMPO 2610/2614 FEW035TCU SCT100 OIZC 251100Z 2512/2618 14008KT 8000 NSC TEMPO 2512/2514 16014KT BECMG 2514/2516 5000 HZ/BR BKN035 TEMPO 2521/2603 3000 BR BECMG 2604/2606 7000 NSC OIZH 251100Z 2512/2618 32008KT 9000 NSC TEMPO 2512/2515 02014KT TEMPO 2609/2615 02012KT OJAI 251100Z 2512/2618 32012KT 6000 NSC OJAM 251100Z 2512/2618 32010KT 6000 NSC= OJAI 251100Z 2512/2618 32012KT 6000 NSC OJAQ 251100Z 2512/2618 36014KT CAVOK OKAS 250700Z 2507/2613 27006KT 9000 HZ SKC QNH2955INS BECMG 2606/2607 31010G15KT 9999 NSW SKC QNH2960INS TX48/2511Z TN28/2602Z OKBK 251045Z 2512/2618 14010KT 6000 SKC TEMPO 2518/2604 VRB03KT 3000 BR OLBA 250400Z 2506/2612 25013KT 8000 SCT025 TEMPO 2512/2603 5000 BR BECMG 2521/2524 VRB03KT BECMG 2608/2610 25010KT OMAA 251100Z 2512/2618 33014KT 8000 NSC BECMG 2516/2518 07006KT BECMG 2601/2603 15005KT BECMG 2607/2609 32014KT BECMG 2616/2618 05006KT OMAD 251100Z 2512/2618 32012KT 8000 NSC BECMG 2516/2518 07005KT BECMG 2601/2603 15004KT BECMG 2607/2609 32012KT BECMG 2616/2618 04005KT OMAL 251100Z 2512/2618 31012KT 8000 NSC PROB30 TEMPO 2512/2514 33025KT 4000 DU FEW045TCU BECMG 2517/2519 08005KT BECMG 2609/2611 32012KT PROB30 TEMPO 2611/2614 VRB15G30KT 3000 BLDU FEW045TCU OMDB 251053Z 2512/2618 33013KT CAVOK BECMG 2516/2518 08005KT BECMG 2607/2609 33014KT BECMG 2616/2618 03005KT OMDW 251053Z 2512/2618 34016KT 7000 NSC PROB30 TEMPO 2512/2514 3000 BLDU BECMG 2515/2517 08005KT PROB30 2522/2604 4000 HZ BECMG 2607/2609 33016KT PROB30 TEMPO 2609/2614 33018G28KT 3000 BLDU BECMG 2616/2618 03005KT OMFJ 251054Z 2512/2618 12006KT 7000 NSC BECMG 1215/1217 VRB03KY TEMPO 2522/2600 5000 HZ FEW018 BECMG 2604/2606 09008KT OMRK 251053Z 2512/2618 33013KT CAVOK BECMG 2514/2516 VRB02KT BECMG 2607/2609 34012KT BECMG 2615/2617 VRB02KT OMSJ 251053Z 2512/2618 33013KT CAVOK BECMG 2515/2517 10005KT BECMG 2607/2609 33014KT BECMG 2616/2618 03005KT OODQ 250500Z 2506/2606 21020KT 8000 NSC PROB30 TEMPO 2521/2603 4500 BR BKN020 OOMS 251100Z 2512/2618 07010KT 8000 NSC BECMG 2518/2520 20012KT BECMG 2606/2608 05010KT OOSA 251515Z 2512/2618 19009KT 9999 FEW020 BKN030 BECMG 2516/2518 VRB03KT 8000 FEW015 BKN025 TEMPO 2600/2604 5000 -DZ FEW010 BKN015 OVC020 BECMG 2605/2607 19010KT 9999 OOSH 251100Z 2512/2618 09010KT 8000 NSC BECMG 2515/2517 VRB02KT BECMG 2606/2608 06010KT OPGD 250930Z 2512/2612 21012KT 4000 HZ SCT020 TEMPO 2600/2604 VRB03KT 3000 FU BKN020 OPIS 250930Z 2512/2618 10010KT 5000 HZ FEW040 TEMPO 2510/2514 27010KT 6000 TEMPO 2519/2523 10020G30KT 2000 TSRA FEW030CB SCT040 OVC100 BECMG 2610/2612 27010KT 6000 BECMG 2615/2616 09008KT OPKC 250930Z 2512/2618 24010G20KT 6000 SCT025 TEMPO 2522/2602 26005G15KT 5000 FU BKN020 OPLA 250945Z 2512/2618 12006KT 4000 FU SCT040 SCT100 TX35/2610Z TN26/2600Z PROB30 TEMPO 2512/2515 03010G25KT 2000 -TSRA FEW030CB SCT040 BKN100 TEMPO 2608/2613 36015G35KT 1500 TSRA FEW030CB SCT040 BKN100 OPNH 250930Z 2512/2618 16008G18KT 5000 HZ NSC TEMPO 2600/2604 14010KT 4000 HZ NSC OPPS 250925Z 2512/2618 21015KT 4000 HZ SCT040 SCT100 BECMG 2517/2519 05015G25KT 4000 VCTS FEW030TCU/CB SCT040 BKN100 TEMPO 2521/2601 TSRA FEW030CB BECMG 2603/2605 13015KT 4000 HZ SCT040 SCT100 TEMPO 2615/2618 05015G25KT VCTS FEW030TCU/CB OPSK 250930Z 2512/2612 16005G15KT 5000 HZ NSC ORBD 251055Z 2511/2617 27008KT 9999 FEW210 QNH2955INS TEMPO 2511/2514 28010G15KT WND 260V340 BECMG 2604/2605 34009KT 9000 HZ SCT200 QNH2958INS TEMPO 2606/2613 32013G21KT TX48/2512Z TN28/2602Z ORBI 251100Z 2512/2612 29007KT 8000 NSC= ORNI 251100Z 2512/2612 07006KT 7000 NSC ORER 251100Z 2512/2612 VRB03KT 8000 NSC ORMM 250400Z 2506/2606 16006KT 7000 NSC TEMPO 2512/2522 VRB03KT ORNI 251100Z 2512/2612 07006KT 7000 NSC ORSU 251100Z 2512/2612 24010KT 9999 SCT045 BECMG 2519/2521 32008KT CAVOK BECMG 2607/2609 16006KT 9999 FEW034 SCT100 OTBD 251101Z 2512/2618 07009KT 7000 NSC TEMPO 2518/2523 VRB03KT OTBH 250800Z 2508/2614 06009KT 9000 HZ SKC QNH2962INS BECMG 2508/2509 08012KT 9000 HZ SKC QNH2957INS BECMG 2515/2516 08009KT 9000 HZ SKC QNH2958INS BECMG 2523/2524 VRB06KT 4800 BR SKC QNH2963INS BECMG 2604/2605 05009KT 9000 HZ SKC QNH2956INS BECMG 2611/2612 07012KT 9000 HZ SKC QNH2957INS TX44/2511Z TN31/2600Z OTHH 251100Z 2512/2618 07009KT 7000 NSC TEMPO 2518/2523 VRB03KT PAAQ 251137Z 2512/2612 VRB06KT P6SM BKN100 FM252200 16008KT P6SM VCSH SCT025 BKN050 PABE 251137Z 2512/2612 33005KT P6SM FEW015 BKN050 PABR 251139Z 2512/2612 33008KT P6SM -RA BKN013 OVC025 FM251600 28010KT P6SM -RA SCT007 OVC015 FM252200 28010KT P6SM OVC015 PABT 251139Z 2512/2612 15005KT P6SM FEW120 FM252100 22008KT P6SM SCT050 BKN100 BKN200 FM260800 18004KT P6SM SCT050 BKN100 PACD 251127Z 2512/2612 27009KT P6SM -SHRA BKN025 TEMPO 2512/2516 6SM -RA BKN015 OVC025 FM252000 30014KT P6SM VCSH SCT025 BKN035 PACV 251137Z 2512/2612 VRB05KT P6SM SCT020 BKN035 TEMPO 2512/2516 BKN020 FM252100 VRB03KT P6SM -SHRA SCT025 BKN035 FM260600 09004KT P6SM -RA SCT015 OVC025 PADL 251137Z 2512/2612 VRB05KT P6SM SCT100 PADQ 251137Z 2512/2612 VRB06KT P6SM SKC FM260600 36005KT P6SM -SHRA SCT015 OVC025 PADU 251127Z 2512/2612 30011KT P6SM VCSH SCT025 BKN035 TEMPO 2512/2516 30011G17KT 6SM -SHRA BKN025 PAED 251100Z 2511/2617 12006KT 9000 FU FEW050 SCT070 QNH2984INS BECMG 2520/2521 21006KT 9000 FU FEW050 SCT060 BKN070 QNH2992INS BECMG 2607/2608 12006KT 9999 NSW FEW040 SCT050 BKN070 600703 QNH2996INS TX20/2601Z TN07/2514Z PAEI 251200Z 2512/2618 16006KT 9999 FEW070 QNH2984INS BECMG 2522/2523 24006KT 9999 SCT050 BKN060 600602 QNH2987INS TX16/2601Z TN01/2512Z PAEN 251137Z 2512/2612 VRB04KT 5SM FU FEW001 BKN080 FM260000 18005KT 6SM FU SCT040 BKN100 PAFA 251139Z 2512/2618 04003KT P6SM BCFG SKC FM251800 VRB04KT P6SM FEW100 SCT200 FM252100 25008KT P6SM SCT050 SCT120 BKN200 FM260400 24003KT P6SM FEW050 SCT120 BKN200 PAGA 251139Z 2512/2612 25004KT P6SM SKC FM252200 26004KT P6SM SCT050 BKN100 FM260800 22004KT P6SM FEW050 SCT100 PAGK 251137Z 2512/2612 17011KT P6SM BKN100 PAGS 251121Z 2512/2612 VRB03KT P6SM -SHRA SCT025 BKN035 OVC045 FM251400 VRB03KT P6SM -SHRA BKN015 OVC030 FM251900 13005KT P6SM -SHRA BKN025 OVC040 LTD TO CLD VIS AND WIND PAGY 251132Z 2512/2612 VRB04KT P6SM VCSH BKN015 OVC025 FM251800 21011KT P6SM BKN050 OVC200 FM252300 21015G25KT P6SM OVC050 FM260500 21011KT P6SM BKN050 FM260800 21008KT 6SM BR BKN050 LTD TO CLD VIS AND WIND PAHN 251132Z 2512/2612 VRB04KT P6SM VCSH SCT008 OVC012 FM251700 11007KT P6SM OVC015 FM252100 12009KT P6SM OVC050 FM260800 10004KT 6SM BR BKN050 LTD TO CLD VIS AND WIND PAHO 251137Z 2512/2612 VRB05KT P6SM SKC FM252100 24010KT P6SM FEW150 FM260600 VRB04KT P6SM OVC100 PAIL 251137Z 2512/2612 VRB04KT P6SM FEW100 PAJN 251121Z 2512/2612 07005KT P6SM -SHRA SCT010 BKN035 OVC060 TEMPO 2512/2516 6SM +SHRA BR BKN025 OVC050 PAKN 251137Z 2512/2612 VRB03KT 2SM BR SCT002 TEMPO 2512/2516 1/2SM FG OVC002 FM251600 VRB03KT 5SM BR OVC006 FM251900 VRB05KT P6SM SCT025 BKN035 FM260100 26007KT 5SM RA VCTS SCT015 BKN025CB FM260600 VRB04KT 6SM -SHRA BR SCT015 BKN025 PAKT 251239Z 2513/2612 VRB05KT P6SM VCSH SCT025 BKN040 TEMPO 2513/2516 2SM SHRA BR BKN005 BKN025 FM251800 14009KT P6SM SCT025 BKN050 FM260600 16003KT 4SM BR BKN015 OVC035 FM261000 12008KT 4SM -RA BR OVC015 LTD TO CLD VIS AND WIND 2513/2515 PAKW 251239Z 2513/2612 VRB05KT P6SM VCSH SCT010 SCT025 OVC050 TEMPO 2513/2516 2SM SHRA BR BKN005 OVC025 FM251800 22007KT P6SM SCT020 BKN050 FM260600 00000KT 4SM BR SCT002 OVC006 LTD TO CLD VIS AND WIND PAMC 251139Z 2512/2612 00000KT P6SM VCFG SKC FM251800 VRB04KT P6SM FEW050 SCT100 SCT200 PANC 251343Z 2514/2618 19005KT 6SM FU BKN090 TEMPO 2514/2516 4SM FU FM251600 16006KT 3SM FU FEW003 OVC080 FM252100 16010KT 6SM FU VCSH FEW003 SCT050 OVC100 FM261600 VRB05KT P6SM BKN050 PAOM 251139Z 2512/2612 31004KT P6SM OVC015 FM251800 23008KT P6SM VCSH FEW060 SCT100 BKN200 FM260400 24010KT P6SM VCSH BKN015 OVC050 PAOR 251139Z 2512/2612 10003KT P6SM VCFG SKC FM252200 27004KT P6SM FEW005 SCT050 SCT100 PAOT 251139Z 2512/2612 34006KT P6SM VCSH OVC011 FM251600 22010KT P6SM SCT025 BKN035 OVC050 FM260200 25010KT P6SM SCT035 BKN050 PAPG 251121Z 2512/2612 00000KT P6SM -SHRA OVC025 FM252000 07004KT P6SM -SHRA SCT025 OVC035 FM260800 00000KT P6SM VCSH BKN025 OVC035 FM261100 00000KT P6SM VCSH BKN015 OVC025 LTD TO CLD VIS AND WIND 2512/2515 PAQT 251139Z 2512/2612 25010KT P6SM -RA FEW035 BKN040 OVC050 FM251600 26007KT P6SM -RA BKN015 OVC025 PASC 251322Z 2513/2612 25013KT P6SM -RA FEW016 BKN045 OVC060 FM252200 25010KT P6SM -RA BKN015 OVC025 PASD 251127Z 2512/2612 31008KT P6SM VCSH SCT025 BKN035 TEMPO 2512/2516 6SM -SHRA SCT015 BKN025 LTD TO CLD VIS AND WIND PASI 251132Z 2512/2612 21005KT 4SM BR OVC007 FM251700 21006KT P6SM BKN015 BKN040 FM251900 20007KT P6SM BKN050 FM260800 VRB04KT 4SM BR BKN015 PASN 251127Z 2512/2612 32009KT P6SM SCT025 BKN035 TEMPO 2512/2516 BKN025 FM260000 28014KT 4SM -SHRA BR SCT007 BKN015 PASY 251400Z 2514/2620 20006KT 9999 OVC020 QNH3025INS BECMG 2606/2607 29012G18KT 9999 OVC030 620703 QNH3010INS TX11/2601Z TN08/2515Z PATA 251139Z 2512/2612 35004KT P6SM BCFG SKC FM252000 VRB04KT P6SM SCT050 BKN100 FM260800 26005KT P6SM FEW050 SCT100 PATK 251137Z 2512/2612 VRB03KT P6SM SKC FM252100 18003KT 5SM FU VCSH BKN100 FM261000 19004KT P6SM BKN100 PAUN 251139Z 2512/2612 22007KT P6SM SKC FM251700 27008KT P6SM SCT035 BKN050 OVC100 PAVD 251137Z 2512/2612 VRB05KT P6SM BKN025 OVC035 FM252100 25007KT P6SM -SHRA SCT025 OVC050 FM260600 09004KT P6SM -RA BKN025 OVC050 PAWG 251121Z 2512/2612 08004KT P6SM -SHRA OVC025 FM252100 32004KT P6SM -SHRA SCT025 OVC040 FM261100 11005KT P6SM VCSH BKN025 OVC040 LTD TO CLD VIS AND WIND 2512/2515 PAYA 251121Z 2512/2612 VRB03KT P6SM VCSH BKN017 TEMPO 2513/2517 BKN009 FM252300 10006KT P6SM VCSH BKN020 OVC030 FM260200 00000KT P6SM VCSH BKN015 OVC025 FM260800 10005KT P6SM VCSH BKN008 OVC015 LTD TO CLD VIS AND WIND PGRO 250629Z 2506/2606 14012KT P6SM VCSH SCT015 SCT100 PGSN 251121Z 2512/2612 12010KT P6SM VCSH SCT020 SCT100 PGUA 251000Z 2510/2616 16015KT 9999 SCT015 BKN040 BKN180 QNH2976INS TEMPO 2510/2516 16015G20KT 8000 -SHRA BKN015 TX30/2602Z TN25/2519Z PGUM 251121Z 2512/2618 13007KT P6SM VCSH SCT018 SCT040 PGWT 250629Z 2506/2606 12008KT P6SM VCSH SCT016 SCT120 PHJR 251124Z 2512/2612 06005KT P6SM SCT045 FM252000 07010G17KT P6SM FEW035 SCT045 FM260500 06005KT P6SM SCT045 PHKO 251124Z 2512/2612 15006KT P6SM FEW030 BKN050 FM252000 28011KT P6SM FEW030 SCT060 FM260000 27008KT P6SM SCT030 BKN060 PHLI 251124Z 2512/2612 07014KT P6SM SCT025 FM252100 06016KT P6SM SCT025 BKN045 PHMK 251124Z 2512/2612 05009KT P6SM VCSH BKN025 BKN040 FM252100 05015G26KT P6SM FEW025 SCT045 FM260500 04009G18KT P6SM SCT025 SCT045 PHNG 2509/2609 08010KT 9999 SCT025 BKN050 QNH2992INS TEMPO 2509/2515 08010G20KT 8000 -SHRA BKN025 T26/2513Z T31/2523Z PHNL 251124Z 2512/2618 06009KT P6SM FEW025 SCT045 FM252100 06015G22KT P6SM FEW025 SCT045 FM260500 05011KT P6SM FEW025 SCT045 PHNY 251124Z 2512/2612 05010KT P6SM SCT025 TEMPO 2512/2516 BKN025 FM252000 04014G22KT P6SM SCT025 BKN045 FM260500 06010KT P6SM SCT020 PHOG 251124Z 2512/2612 06012G20KT P6SM FEW030 SCT040 FM252100 05020G32KT P6SM FEW030 SCT045 FM260500 07017G28KT P6SM FEW035 SCT050 LTD TO VIS AND WIND TIL 251600 PHTO 251124Z 2512/2612 23005KT P6SM VCSH BKN025 OVC040 FM252100 05010KT P6SM VCSH BKN030 OVC045 FM260500 12010KT P6SM VCSH FEW025 BKN035 BKN050 PKMJ 251121Z 2512/2612 10009KT P6SM VCSH SCT015 SCT050 BKN120 PKWA 251121Z 2512/2612 08010KT P6SM VCSH FEW020 SCT120 PLCH 251110Z 2512/2612 11007KT 9999 SCT020 PROB30 TEMPO 2518/2524 5000 TSRA BKN015 PMDY 251124Z 2512/2612 11006KT P6SM VCSH SCT045 PTKK 251121Z 2512/2612 VRB06KT P6SM VCSH SCT013 BKN120 PTPN 250629Z 2506/2606 02007KT P6SM VCSH SCT018 PTRO 251121Z 2512/2612 27012KT P6SM VCSH SCT016 BKN120 TEMPO 2513/2517 27015G25KT 3SM SHRA BKN016 PTYA 251121Z 2512/2612 24008KT P6SM VCSH SCT016 BKN130 PWAK 251400Z 2514/2620 07012KT 9999 SCT015 QNH2986INS TEMPO 2514/2520 08012G18KT 8000 -SHRA BKN015 TX32/2601Z TN27/2516Z FOR MIL USE ONLY RCFN 251100Z 2512/2612 20005KT 9999 FEW020 BKN050 TEMPO 2521/2603 15007KT 5000 SHRA SCT012 BKN017 BKN050 BECMG 2603/2605 14005KT BECMG 2609/2611 06005KT RCKH 251100Z 2512/2618 14011KT 9000 FEW012 BKN034 TEMPO 2512/2516 20005KT 3500 SHRA SCT010 BKN017 BKN035 TEMPO 2520/2524 21008G18KT 4000 SHRA SCT006 BKN014 BKN030 BECMG 2602/2604 20008KT TEMPO 2604/2610 13005KT BECMG 2610/2612 06005KT RCMQ 251100Z 2512/2612 20006KT 9999 FEW012 SCT030 BKN080 TX32/2606Z TN26/2521Z BECMG 2522/2601 FEW012 SCT060 BECMG 2602/2604 FEW012 BKN040 TEMPO 2605/2610 7000 RA FEW012 BKN020 BKN040 RCNN 251100Z 2512/2612 16006KT 9999 FEW012 BKN050 TX30/2606Z TN24/2520Z TEMPO 2607/2610 7000 -RA FEW010 BKN020 BKN040 RCSS 251100Z 2512/2612 09005KT 9999 FEW015 BKN040 TEMPO 2601/2605 30007KT TEMPO 2605/2609 10012KT TEMPO 2607/2612 4500 SHRA SCT008 FEW018TCU BKN020 BKN040 RCTP 251100Z 2512/2618 19005KT 9999 FEW015 BKN040 TEMPO 2512/2516 24007KT FEW010 BKN020 TEMPO 2517/2523 12007KT BECMG 2523/2601 02008KT TEMPO 2604/2608 34007KT TEMPO 2608/2612 13005KT 4500 SHRA SCT008 FEW015TCU BKN020 BKN040 BECMG 2612/2614 20005KT RJAA 251339Z 2513/2618 03006KT 9999 FEW010 BKN025 TEMPO 2518/2600 3000 SHRA BR FEW005 BKN008 BECMG 2603/2606 08012KT BECMG 2609/2612 01006KT RJAH 251108Z 2512/2618 04006KT 8000 -SHRA FEW008 BKN015 TEMPO 2512/2515 3000 TSRA BR FEW005 BKN008 FEW020CB TEMPO 2515/2518 3000 SHRA BR FEW005 BKN008 RJBB 251108Z 2512/2618 07006KT 9999 FEW025 BECMG 2603/2606 28007KT BECMG 2609/2612 05010KT RJCB 251106Z 2512/2618 04004KT 9999 FEW030 TEMPO 2516/2521 3000 BR FEW005 BKN008 BECMG 2603/2606 15006KT TEMPO 2609/2615 2000 BR FEW003 BKN006 TEMPO 2615/2618 1500 BR FEW002 BKN004 RJCC 251105Z 2512/2618 34005KT 9999 FEW008 SCT020 TEMPO 2518/2521 3000 BR FEW005 BKN008 BECMG 2603/2606 18006KT RJCH 251112Z 2512/2618 01005KT 9999 FEW020 SCT040 BECMG 2521/2523 19006KT BECMG 2606/2609 29008KT RJCK 251110Z 2512/2618 01006KT 9999 FEW005 BKN015 TEMPO 2514/2521 1500 BR FEW001 BKN003 BECMG 2521/2523 18011KT TEMPO 2609/2612 2000 BR FEW003 BKN005 BECMG 2612/2615 02003KT TEMPO 2612/2618 0700 FG VV001 RJCM 251115Z 2512/2618 36005KT 9999 FEW005 BKN015 TEMPO 2515/2518 4000 BR FEW005 BKN008 BECMG 2517/2519 21003KT TEMPO 2518/2521 3000 BR FEW003 BKN005 BECMG 2603/2606 04008KT BECMG 2609/2612 19006KT RJEC 251108Z 2512/2618 32005KT 9999 FEW008 BKN030 TEMPO 2516/2523 2000 BR FEW003 BKN006 BECMG 2609/2612 17005KT RJFF 251109Z 2512/2618 16008KT 9999 -RA FEW020 SCT045 TEMPO 2518/2600 4000 -RA BR RJFK 251105Z 2512/2618 34003KT 8000 -SHRA FEW005 SCT010 BKN015 TEMPO 2514/2516 4000 -SHRA BR FEW003 BKN008 BKN010 TEMPO 2516/2600 1500 TSRA BR FEW002 BKN005 BKN010 FEW020CB TEMPO 2600/2603 4000 -SHRA BR FEW003 BKN008 BKN010 RJFM 251105Z 2512/2618 32004KT 9000 -SHRA FEW005 SCT010 BKN020 TEMPO 2516/2600 3000 SHRA BR FEW002 SCT005 BKN008 BECMG 2517/2519 02005KT TEMPO 2600/2603 4000 -SHRA BR FEW002 SCT005 BKN008 BECMG 2612/2615 28005KT RJFO 251105Z 2512/2618 24004KT 9999 -RA FEW020 SCT050 TEMPO 2518/2522 4000 SHRA BR RJFR 251107Z 2512/2618 29004KT 9999 FEW020 BECMG 2517/2519 25005KT RJFS 251106Z 2512/2618 02003KT 7000 -SHRA FEW008 SCT015 BKN030 TEMPO 2515/2600 3000 SHRA BR BECMG 2517/2519 35005KT BECMG 2522/2600 02005KT TEMPO 2600/2603 4000 -SHRA BR RJFT 251106Z 2512/2618 05005KT 6000 -SHRA FEW004 SCT008 BKN010 TEMPO 2515/2600 1500 SHRA BR FEW001 BKN003 BKN010 BECMG 2600/2603 22003KT BECMG 2609/2612 06005KT RJFU 251106Z 2512/2618 12004KT 8000 -SHRA FEW008 SCT010 BKN020 TEMPO 2513/2518 3000 SHRA BR FEW005 BKN008 BKN010 BECMG 2515/2517 04005KT TEMPO 2518/2521 4000 -SHRA BR FEW005 BKN008 BKN010 BECMG 2521/2523 12007KT RJGG 251105Z 2512/2618 32016KT 9999 FEW030 BECMG 2603/2606 20008KT BECMG 2609/2612 32010KT RJNK 251107Z 2512/2618 16004KT 9999 FEW020 BECMG 2600/2603 34012KT BECMG 2612/2615 14004KT RJNS 251106Z 2512/2618 30004KT 9999 FEW020 BECMG 2600/2603 18008KT BECMG 2609/2612 30004KT RJNT 251105Z 2512/2618 18004KT 9999 FEW010 BKN015 BECMG 2600/2603 36010KT BECMG 2609/2612 22004KT RJOA 251106Z 2512/2618 32004KT 9999 FEW020 BECMG 2522/2600 14005KT BECMG 2609/2612 33004KT RJOB 251109Z 2512/2618 03004KT 9999 FEW020 BECMG 2600/2603 20005KT BECMG 2609/2612 03004KT RJOC 251107Z 2512/2618 17005KT 9999 FEW025 BECMG 2600/2603 06012KT BECMG 2609/2612 17005KT RJOH 251108Z 2512/2618 18004KT 9999 FEW025 BECMG 2600/2603 06012KT BECMG 2612/2615 18004KT RJOI 2513/2613 VRB05KT 9999 FEW030 SCT150 BKN200 621654 QNH2986INS FM260000 VRB05KT 9999 FEW030 BKN120 600000 QNH2988INS BECMG 2603/2605 VRB04KT 9999 SCT100 QNH2986INS FM260900 VRB04KT 9999 SCT020 BKN050 BKN240 622103 QNH2988INS T21/2520Z T28/2605Z RJOK 251110Z 2512/2618 35005KT 9999 FEW020 SCT070 BECMG 2600/2603 18006KT BECMG 2609/2612 35005KT RJOM 251105Z 2512/2618 12004KT 9999 FEW020 SCT070 BECMG 2521/2523 28006KT BECMG 2609/2612 12005KT RJOO 251110Z 2512/2618 32005KT 9999 FEW020 RJOT 251105Z 2512/2618 20004KT 9999 FEW025 BECMG 2521/2523 04006KT RJSA 251107Z 2512/2618 22005KT 9999 FEW020 SCT040 BECMG 2600/2603 36005KT BECMG 2609/2612 24004KT RJSF 251105Z 2512/2618 35008KT 9999 FEW020 SCT030 BECMG 2513/2515 14004KT BECMG 2519/2521 35005KT RJSI 251105Z 2512/2618 01004KT 9999 FEW020 SCT040 BECMG 2606/2609 19008KT RJSK 251105Z 2512/2618 30005KT 9999 FEW020 SCT030 BECMG 2512/2514 14004KT BECMG 2600/2603 28008KT BECMG 2612/2615 14004KT RJSN 251107Z 2512/2618 34006KT 9999 FEW015 BKN025 BECMG 2514/2516 14004KT BECMG 2600/2603 36010KT BECMG 2606/2609 04008KT RJSS 251105Z 2512/2618 34004KT 9999 FEW020 SCT040 BECMG 2600/2603 12008KT RJTT 251105Z 2512/2618 16008KT 8000 FEW008 BKN020 BECMG 2515/2517 02010KT TEMPO 2515/2518 4000 SHRA BR FEW005 BKN008 BECMG 2603/2606 08012KT BECMG 2612/2615 04012KT RJTY 251300Z 2513/2619 17009KT 9999 BKN100 QNH2989INS BECMG 2517/2518 VRB06KT 8000 -SHRA BKN030 QNH2992INS BECMG 2601/2602 04009KT 9999 NSW SCT050 QNH2993INS BECMG 2611/2612 06006KT 9999 BKN020 QNH3000INS TX32/2606Z TN20/2522Z LAST NO AMDS AFT 2513 NEXT 2521 RKJB 251100Z 2512/2618 33006KT 9999 SCT030 BKN120 TN20/2520Z TX29/2605Z BECMG 2513/2514 07006KT 4200 BR BECMG 2521/2522 6000 NSW BECMG 2602/2603 15008KT BKN025 OVC110 BECMG 2612/2613 09006KT 4200 BR RKJK 250700Z 2507/2613 VRB06KT 9999 FEW200 QNH2989INS BECMG 2517/2518 08003KT 8000 BR SCT180 QNH2989INS BECMG 2522/2523 VRB06KT 9999 NSW SKC QNH2990INS TX27/2507Z TN21/2522Z RKNY 251100Z 2512/2618 25005KT 7000 SCT030 BKN120 TN20/2520Z TX27/2605Z BECMG 2601/2602 11007KT BECMG 2611/2612 25005KT RKPC 251100Z 2512/2618 08007KT 9999 FEW025 BKN070 TN22/2520Z TX27/2605Z BECMG 2518/2519 18006KT 6000 -RA BECMG 2602/2603 13008KT NSW TEMPO 2605/2607 -RA BECMG 2609/2610 19007KT BECMG 2616/2617 -RA RKPK 251100Z 2512/2618 03006KT CAVOK TN19/2520Z TX28/2605Z BECMG 2602/2603 15008KT BECMG 2612/2613 03006KT RKSG 251100Z 2511/2617 VRB04KT 9000 HZ FEW050 QNH2989INS BECMG 2521/2522 13006KT 6000 HZ FEW030 QNH2988INS BECMG 2605/2606 14006KT 9000 HZ FEW030 SCT040 QNH2979INS TX28/2606Z TN19/2519Z RKSI 251100Z 2512/2618 30007KT 9999 FEW030 TN22/2521Z TX29/2606Z TEMPO 2518/2521 24006KT BECMG 2522/2523 17006KT BECMG 2603/2604 31007KT BECMG 2612/2613 07006KT RKSM 251100Z 2512/2618 24006KT 9999 SCT030 TN21/2521Z TX31/2606Z RKSO 251100Z 2511/2617 VRB06KT 9999 FEW030 QNH2987INS BECMG 2517/2518 VRB06KT 8000 BR FEW030 QNH2991INS BECMG 2601/2602 14009KT 9999 NSW SCT030 SCT200 QNH2984INS TX32/2603Z TN21/2522Z RKSS 251100Z 2512/2618 26005KT 9999 FEW030 TN20/2521Z TX31/2606Z BECMG 2515/2516 15005KT 6000 NSC BECMG 2603/2604 26006KT 9999 FEW030 SCT180 BECMG 2615/2616 06005KT RKTN 251100Z 2512/2618 09006KT 9999 SCT040 SCT200 TN21/2521Z TX31/2606Z RKTU 251100Z 2512/2618 03006KT 9999 SCT030 SCT200 TN17/2521Z TX29/2606Z BECMG 2517/2518 4800 BR BECMG 2520/2521 1600 FEW005 SCT200 BECMG 2523/2524 4800 SCT030 SCT200 BECMG 2601/2602 9999 NSW ROAH 251105Z 2512/2618 15007KT 9999 FEW015 RODN 250800Z 2508/2614 14012KT 9999 SCT018 QNH2986INS BECMG 2519/2520 13009KT 9999 SCT016 QNH2988INS TX33/2607Z TN28/2522Z ROIG 251108Z 2512/2618 16011KT 9999 FEW010 SCT020 BECMG 2606/2609 10007KT ROTM 2509/2609 11010KT 9999 SCT015 SCT030 BKN060 QNH2985INS T28/2518Z T32/2604Z RPLB 251100Z 2512/2612 22007KT 9999 FEW020 BKN080 TX29/2606Z TN23/2521Z TEMPO 2512/2518 23008KT 6000 -TSRA FEW016CB BKN018 OVC070 RPLC 251100Z 2512/2618 17006KT 7000 SCT020 OVC100 TX29/2606Z TN24/2521Z TEMPO 2512/2518 22006KT 5000 -RA SCT018 OVC080 RPLI 251100Z 2512/2612 21010KT FEW018 SCT090 BKN290 TEMPO 2512/2518 17007KT FEW017CB SCT018 BKN090 RPLL 251100Z 2512/2618 26006KT 9999 FEW023 BKN100 TX30/2606Z TN25/2522Z TEMPO 2512/2518 28005KT 8000 -RA SCT022 OVC090 TEMPO 2518/2524 VRB03KT SCT023 BKN100 RPMD 251100Z 2512/2612 18006KT 9999 FEW016 SCT090 BKN290 TEMPO 2512/2518 00000KT -RA SCT016 BKN090 BKN290 RPMR 251100Z 2512/2612 18005KT 9999 FEW018 SCT080 TEMPO 2512/2518 25004KT FEW018 BKN080 RPMZ 251100Z 2512/2612 14006KT 9999 FEW017 SCT300 TEMPO 2512/2518 VRB03KT FEW016CB FEW017 BKN090 RPVD 251100Z 2512/2612 14006KT 9999 FEW015 SCT070 BKN220 TEMPO 2512/2518 32004KT FEW014CB SCT015 BKN070 RPVM 251100Z 2512/2618 23006KT 9999 FEW020 BKN300 TEMPO 2512/2518 26004KT FEW020 BKN100 TEMPO 2518/2524 VRB03KT RPVP 251100Z 2512/2612 18006KT 9999 FEW019 BKN080 TEMPO 2512/2518 27004KT -SHRA SCT019 OVC080 RTD MMMV 251332Z 2513/2606 00000KT 6SM HZ BKN050 BECMG 2518/2519 07010KT SCT040 SCT250 FM260100 09005KT P6SM SCT250 SAAR 251100Z 2512/2612 08005KT 8000 NSC TX21/2518Z TN12/2510Z BECMG 2513/2515 CAVOK BECMG 2517/2520 11005KT 9999 SCT030 BECMG 2604/2607 03005KT 4000 BR SCT020 TEMPO 2606/2611 2000 BR BKN010 SABE 251100Z 2512/2612 06010KT CAVOK TX16/2518Z TN11/2610Z BECMG 2514/2517 10010KT 9999 SCT035 BECMG 2520/2523 9999 SCT030 SCT100 BECMG 2604/2607 03005KT 8000 SCT025 SACO 251100Z 2512/2612 VRB03KT 9999 BKN030 OVC060 TX26/2518Z TN08/2610Z BECMG 2517/2520 05010G20KT 8000 BKN030 BECMG 2600/2603 36010KT CAVOK SADF 251100Z 2512/2612 05010KT CAVOK TX18/2519Z TN12/2610Z BECMG 2604/2606 36005KT 9999 SCT015 BECMG 2609/2611 BKN008 SAEZ 251100Z 2512/2612 06010KT CAVOK TX18/2518Z TN10/2610Z BECMG 2516/2518 9999 FEW050 BECMG 2523/2601 02005KT 9999 BKN045 PROB30 2607/2610 02003KT 5000 BR SCT015 SAME 251100Z 2511/2612 14005KT CAVOK TX24/2520Z TN07/2610Z TEMPO 2512/2514 00000KT 5000 FUHZ NSC SANR 251100Z 2512/2612 VRB03KT 5000 BR BKN040 OVC060 TX29/2518Z TN12/2610Z BECMG 2515/2518 23005KT 9999 OVC040 BECMG 2600/2603 VRB03KT SANT 251100Z 2512/2612 20010KT 4000 FU SCT035 BKN060 TX29/2518Z TN13/2610Z BECMG 2518/2521 16005KT 5000 FU BECMG 2600/2603 VRB03KT SARE 251100Z 2512/2612 05010KT 6000 HZ SCT030 TX26/2519Z TN16/2610Z BECMG 2515/2517 BKN025 SCT040 PROB30 TEMPO 2518/2601 16010KT 8000 SHRA SCT025 SCT040 FEW055CB SARF 251100Z 2512/2612 09010KT 8000 SCT025 TX27/2519Z TN17/2610Z BECMG 2519/2521 16010KT 8000 SHRA SCT025 SCT040 FEW055CB SARI 251100Z 2512/2612 VRB03KT CAVOK TX28/2518Z TN15/2610Z BECMG 2515/2517 05010KT 8000 SCT025 SCT070 BECMG 2521/2523 CAVOK SARP 251100Z 2512/2612 07010KT 8000 NSC TX27/2518Z TN16/2610Z BECMG 2515/2517 SCT025 SCT100 BECMG 2606/2609 8000 SHRA SCT025 SCT040 FEW055CB SASA 251100Z 2512/2612 VRB03KT CAVOK TX28/2518Z TN10/2610Z BECMG 2517/2520 05005KT FEW025 BECMG 2600/2603 25005KT CAVOK SASJ 251100Z 2512/2612 29005KT CAVOK TX29/2518Z TN13/2610Z BECMG 2516/2519 14005KT 9999 SCT030 BECMG 2520/2523 07010KT BECMG 2600/2603 29005KT SAVC 251100Z 2512/2612 29015G30KT CAVOK TX15/2519Z TN08/2611Z BECMG 2514/2516 27015KT BECMG 2519/2521 02015KT BECMG 2602/2604 36020G35KT 9999 -RADZ SCT030 BKN050 OVC070 SAWE 251100Z 2512/2612 23010KT CAVOK TX08/2518Z TN01/2611Z BECMG 2523/2601 02015G35KT BECMG 2605/2607 02025G48KT BECMG 2610/2612 36030G55KT 3000 RA SCT008 OVC020 SAWG 251100Z 2512/2612 32010KT CAVOK TX12/2518Z TN02/2611Z BECMG 2514/2516 02015KT BECMG 2601/2603 02030G48KT 9999 FEW030 OVC090 BECMG 2606/2608 02035G55KT 9999 -DZ SCT030 BKN050 OVC070 SAWH 251100Z 2512/2612 VRB03KT CAVOK TX08/2518Z TN02/2611Z BECMG 2513/2515 36010KT 9999 RADZ BKN020 BECMG 2521/2523 36015KT CAVOK BECMG 2609/2611 36015G35KT 2000 RABR SCT008 BKN015 OVC045 SAZM 251100Z 2512/2612 02010KT CAVOK TX16/2518Z TN05/2610Z BECMG 2516/2519 05015KT SAZN 251100Z 2512/2612 VRB03KT 9999 SCT040 TX16/2519Z TN08/2609Z BECMG 2516/2519 05010KT CAVOK BECMG 2603/2606 VRB03KT 9999 BKN040 SAZS 251100Z 2512/2612 16005KT 9999 SCT030 SCT100 TX07/2518Z TN02/2610Z BECMG 2517/2520 VRB03KT BKN030 BECMG 2521/2523 36015KT 8000 -SHRA BKN020 OVC050 BECMG 2601/2604 32015G25KT 5000 RA BKN010 OVC025 SBAC 251000Z 2512/2524 05010KT 9999 FEW025 TN25/2512Z TX30/2518Z BECMG 2519/2521 CAVOK RMK PEN SBAF 250915Z 2512/2524 16007KT 7000 SCT015 BKN030 TX22/2517Z TN18/2523Z BECMG 2512/2514 9999 NSW BKN030 RMK PDW SBAN 251000Z 2512/2524 12008KT CAVOK TX29/2517Z TN23/2523Z BECMG 2514/2516 15008KT 9999 SCT040 BECMG 2520/2522 12005KT CAVOK RMK PFF SBAR 251000Z 2512/2612 12008KT 9999 SCT015 TX26/2517Z TN24/2607Z BECMG 2514/2516 15015KT SCT023 BECMG 2520/2522 10010KT FEW017 BECMG 2523/2601 15010KT FEW015 RMK PEN SBAT 250900Z 2512/2524 31005KT 7000 NSC TN26/2512Z TX37/2518Z BECMG 2515/2517 06007KT 9999 SCT035 BECMG 2520/2521 10007KT RMK PGB SBBE 250900Z 2512/2612 08010KT 9999 SCT017 TX31/2517Z TN23/2609Z BECMG 2515/2516 12010KT BKN030 PROB30 2519/2521 7000 SHRA BKN020 FEW030CB BECMG 2521/2522 01007KT SCT030 BECMG 2601/2603 06005KT CAVOK BECMG 2609/2611 08010KT 9999 SCT017 RMK PGB SBBI 250915Z 2512/2524 08007KT 9999 BKN012 TX16/2518Z TN11/2523Z BECMG 2513/2515 BKN020 BECMG 2516/2518 SCT030 BECMG 2519/2521 SCT015 BECMG 2522/2524 BKN008 RMK PDW SBBR 251000Z 2512/2612 06008KT CAVOK TX30/2517Z TN17/2609Z BECMG 2514/2516 9999 SCT040 BECMG 2518/2520 12005KT CAVOK RMK PFF SBBU 250915Z 2512/2524 09010KT CAVOK TN17/2512Z TX27/2518Z RMK PDW SBBV 250900Z 2512/2612 03005KT 9999 FEW030 TX34/2519Z TN23/2609Z BECMG 2514/2516 08005KT SCT030 FEW040TCU PROB40 2517/2520 7000 SHRA BKN017 BECMG 2522/2601 12005KT CAVOK BECMG 2603/2604 34005KT FEW027 BECMG 2608/2610 36005KT SCT015 RMK PGB SBBW 251000Z 2512/2524 15008KT CAVOK TN27/2512Z TX35/2517Z BECMG 2514/2516 13010KT RMK PFF SBCF 251000Z 2512/2612 06008KT 9999 SCT025 TX25/2518Z TN13/2606Z BECMG 2516/2518 09010KT CAVOK BECMG 2520/2522 12010KT RMK PFF SBCG 250915Z 2512/2612 09015KT CAVOK TX30/2518Z TN20/2609Z BECMG 2514/2516 09010KT RMK PDW SBCJ 250900Z 2512/2524 04005KT 9999 SCT010 TN23/2512Z TX30/2518Z BECMG 2515/2516 09010KT SCT025 BECMG 2520/2521 00000KT RMK PGB SBCO 250915Z 2512/2524 12007KT CAVOK TX24/2518Z TN12/2523Z BECMG 2516/2518 12012KT RMK PDW SBCP 250915Z 2512/2524 21010KT 7000 BKN015 TX24/2515Z TN19/2524Z BECMG 2514/2516 17015KT 8000 BKN020 BECMG 2519/2521 15015KT 8000 SCT020 BECMG 2522/2524 15010KT RMK PGS SBCR 250915Z 2512/2612 07007KT 8000 NSC TX33/2518Z TN22/2608Z RMK PDW SBCT 250915Z 2512/2612 09008KT 9999 BKN012 TX16/2518Z TN09/2609Z BECMG 2513/2515 BKN020 BECMG 2516/2518 SCT030 BECMG 2519/2521 SCT015 BECMG 2522/2524 9000 BKN007 PROB40 TEMPO 2600/2610 3000 BR BKN004 OVC007 BECMG 2610/2612 9999 NSW BKN010 RMK PDW SBCY 250915Z 2512/2612 33005KT CAVOK TX37/2519Z TN21/2610Z BECMG 2512/2514 33015KT BECMG 2516/2518 33010KT SCT020 FEW025TCU BECMG 2521/2523 17005KT CAVOK BECMG 2603/2606 21005KT BECMG 2610/2612 33005KT 8000 NSC RMK PGS SBDN 250915Z 2512/2524 11012KT CAVOK TN17/2512Z TX29/2518Z BECMG 2516/2518 11007KT RMK PDW SBEG 250900Z 2512/2612 00000KT 9999 SCT016 TX31/2518Z TN22/2609Z BECMG 2513/2515 34005KT SCT020 BECMG 2517/2518 17007KT SCT025 FEW030TCU PROB40 2518/2521 24005KT 6000 TSRA SCT015 FEW030CB BECMG 2601/2603 31005KT FEW020 BECMG 2609/2611 00000KT SCT015 RMK PGB SBFI 250915Z 2512/2612 10008KT CAVOK TX28/2518Z TN14/2609Z BECMG 2514/2516 01008KT BECMG 2519/2521 12005KT RMK PDW SBFL 250915Z 2512/2612 22005KT 9999 BKN040 TX20/2516Z TN14/2608Z BECMG 2516/2518 08007KT SCT040 BECMG 2600/2602 33005KT BKN035 RMK PDW SBFN 251000Z 2512/2524 15015KT 9999 FEW020 TN25/2512Z TX31/2517Z RMK PEN SBFZ 251000Z 2512/2612 14015KT 8000 SCT020 FEW025TCU TX30/2517Z TN25/2606Z BECMG 2519/2521 09015KT 9999 SCT025 BECMG 2522/2524 08010KT FEW020 RMK PEN SBGL 250915Z 2512/2618 25005KT 7000 BKN015 TN18/2609Z TX26/2617Z BECMG 2512/2514 17010KT 8000 BKN020 BECMG 2515/2518 15015KT 9999 SCT020 BECMG 2522/2524 12010KT BECMG 2601/2603 10005KT SCT020 BECMG 2604/2606 07005KT 7000 SCT015 PROB30 2608/2612 4000 BR SCT012 BECMG 2612/2614 10010KT 8000 SCT020 BECMG 2615/2618 15015KT 9999 FEW025 RMK PGS SBGO 251000Z 2512/2612 12008KT CAVOK TX33/2518Z TN17/2610Z BECMG 2516/2518 15005KT BECMG 2604/2606 12008KT RMK PFF SBGR 251009Z 2512/2618 10005KT 9999 BKN015TN11/2608Z TX24/2617Z BECMG 2513/2515 BKN030 BECMG 2517/2519 15010KT BECMG 2521/2523 BKN013 BECMG 2600/2602 08005KT PROB40 2608/2611 BKN010 BECMG 2612/2614 FEW030 RMK PGN SBGW 250915Z 2512/2524 12006KT 6000 BKN015 TX25/2518Z TN14/2523Z BECMG 2512/2514 9999 NSW SCT025 BECMG 2522/2524 8000 SCT015 RMK PDW SBIH 250900Z 2512/2524 08010KT 9999 SCT025 TN27/2512Z TX36/2518Z BECMG 2516/2517 SCT020 FEW030TCU BECMG 2520/2522 05005KT FEW025 RMK PGB SBIL 251000Z 2512/2524 24005KT 8000 SCT020 TN25/2512Z TX27/2517Z BECMG 2514/2516 12010KT SCT020 FEW030TCU BECMG 2519/2521 15010KT 9999 FEW025 RMK PEN SBIZ 250900Z 2512/2524 08005KT 9999 SCT016 TN26/2512Z TX37/2518Z BECMG 2514/2516 12010KT SCT030 BECMG 2520/2521 08010KT FEW025 RMK PGB SBJE 251000Z 2512/2524 08015KT 9999 SCT025 TN26/2512Z TX34/2517Z BECMG 2517/2519 CAVOK RMK PEN SBJP 251000Z 2512/2612 22005KT 9999 FEW020 TX27/2517Z TN22/2608Z BECMG 2513/2515 16015KT BKN020 BECMG 2519/2521 SCT020 BECMG 2523/2601 17005KT BKN015 RMK PEN SBJV 250915Z 2512/2524 11007KT 9999 SCT030 TX20/2517Z TN14/2523Z RMK PDW SBKG 251000Z 2512/2524 17010KT 9999 BKN015 TN22/2512Z TX26/2516Z BECMG 2514/2516 14010KT SCT030 BECMG 2520/2522 FEW015 RMK PEN SBKP 251009Z 2512/2612 15012KT 9999 FEW020TX24/2517Z TN12/2609Z BECMG 2513/2515 12010KT SCT040 BECMG 2520/2522 15012KT CAVOK BECMG 2600/2602 13007KT RMK PGN SBLO 250915Z 2512/2524 11007KT CAVOK TN16/2512Z TX26/2518Z RMK PDW SBME 250915Z 2512/2524 24010KT 7000 BKN015 TX22/2516Z TN19/2524Z BECMG 2514/2516 17015KT 8000 BKN020 BECMG 2519/2521 15015KT SCT020 BECMG 2522/2524 13010KT RMK PGS SBMN 251000Z 2512/2524 14008KT CAVOK TN27/2512Z TX32/2518Z BECMG 2513/2515 08008KT 9999 SCT020 BECMG 2518/2520 16010KT SCT020 FEW025TCU BECMG 2521/2523 03005KT FEW020 RMK PEN SBMO 251000Z 2512/2524 17010KT 9999 BKN025 TN25/2512Z TX26/2516Z BECMG 2519/2521 14005KT FEW020 RMK PEN SBMQ 250900Z 2512/2612 32005KT 9999 SCT013 TX34/2518Z TN23/2609Z BECMG 2513/2514 10007KT SCT020 BECMG 2517/2519 07010KT FEW025 BECMG 2522/2524 05010KT CAVOK BECMG 2603/2604 01005KT SCT016 BECMG 2609/2611 04007KT RMK PGB SBNF 250915Z 2512/2612 26005KT 9999 FEW020 SCT040 TX20/2516Z TN14/2608Z BECMG 2516/2518 11007KT SCT040 BECMG 2522/2524 07005KT SCT020 PROB40 2606/2612 8000 BKN011 RMK PDW SBNT 251000Z 2512/2524 16015KT 9999 SCT021 TN25/2512Z TX27/2515Z BECMG 2520/2522 SCT017 RMK PEN SBPB 251000Z 2512/2524 08010KT 9999 SCT020 TN25/2512Z TX31/2515Z BECMG 2514/2516 07015KT FEW020 BECMG 2518/2520 CAVOK RMK PEN SBPJ 251000Z 2512/2524 05008KT CAVOK TX35/2518Z TN27/2523Z BECMG 2516/2518 27005KT 9999 SCT045 BECMG 2520/2522 00000KT RMK PFF SBPL 251000Z 2512/2524 15010KT 9999 FEW025 TN25/2512Z TX31/2517Z BECMG 2515/2517 16015KT BECMG 2520/2522 CAVOK RMK PEN SBPS 251000Z 2512/2524 09010KT 9999 SCT020 TN22/2512Z TX25/2517Z BECMG 2514/2516 SCT020 FEW025TCU BECMG 2521/2523 SCT015 RMK PEN SBRB 250915Z 2512/2524 35003KT 5000 FU NSC TN23/2512Z TX32/2517Z BECMG 2512/2514 32005KT 8000 NSW SCT025 BECMG 2516/2518 SCT030 FEW035TCU BECMG 2521/2524 01005KT 8000 NSC RMK PGS SBRF 251000Z 2512/2612 14010KT 9999 SCT025 TX27/2516Z TN22/2606Z BECMG 2513/2515 16015KT BECMG 2523/2601 17010KT SCT017 RMK PEN SBRJ 250915Z 2512/2524 17010KT 7000 BKN015 TX23/2517Z TN20/2524Z BECMG 2512/2514 15010KT 8000 BKN020 BECMG 2515/2518 13015KT 9999 SCT020 BECMG 2522/2524 10010KT RMK PGS SBRP 251009Z 2512/2524 10008KT CAVOK TN17/2512Z TX30/2517Z BECMG 2513/2515 07005KT BECMG 2520/2522 15005KT RMK PGN SBSC 250915Z 2512/2524 21007KT 8000 FEW015 BKN025 TX22/2517Z TN18/2523Z BECMG 2512/2514 9999 NSW BKN030 RMK PDW SBSG 251000Z 2512/2612 21010KT 8000 SCT017 TX29/2517Z TN23/2608Z BECMG 2514/2516 17010KT 9999 SCT020 FEW025TCU BECMG 2520/2522 19005KT FEW025 BECMG 2523/2601 22005KT RMK PEN SBSJ 250915Z 2512/2612 10005KT 7000 BKN012 TX21/2517Z TN12/2608Z BECMG 2512/2514 10005KT 8000 BKN015 BECMG 2515/2517 15015KT 9999 SCT020 BECMG 2522/2524 15005KT FEW020 BECMG 2601/2603 12005KT 8000 FEW015 BECMG 2604/2606 10005KT 7000 BKN012 PROB30 2608/2612 07003KT 4000 BR BKN007 RMK PGS SBSL 250900Z 2512/2612 05007KT 9999 SCT015 TX32/2518Z TN25/2609Z BECMG 2514/2516 08010KT BKN020 BECMG 2520/2521 03010KT FEW025 BECMG 2602/2604 06005KT CAVOK BECMG 2609/2611 08010KT 9999 SCT017 RMK PGB SBSM 250915Z 2512/2524 10007KT CAVOK TN13/2512Z TX25/2518Z RMK PDW SBSN 250900Z 2512/2612 09010KT 9999 FEW015 TX33/2518Z TN24/2609Z BECMG 2518/2519 12007KT FEW018 FEW025TCU BECMG 2521/2522 FEW020 BECMG 2600/2603 15005KT CAVOK BECMG 2609/2611 08010KT 9999 SCT015 RMK PGB SBSP 251009Z 2512/2524 13007KT 9999 BKN015TX19/2517Z TN12/2524Z BECMG 2513/2515 BKN030 BECMG 2517/2519 15010KT BECMG 2521/2523 BKN011 RMK PGN SBSV 251000Z 2512/2612 13010KT 9999 SCT020 TX27/2516Z TN25/2605Z BECMG 2516/2518 14015KT SCT020 FEW025TCU BECMG 2521/2523 13010KT SCT017 RMK PEN SBTE 251000Z 2512/2524 08010KT CAVOK TN27/2512Z TX35/2515Z BECMG 2516/2518 34005KT 9999 FEW040 BECMG 2520/2522 CAVOK RMK PEN SBTT 250915Z 2512/2612 30005KT 8000 BKN006 TN23/2512Z TX32/2519Z TEMPO 2514/2522 32010KT 4000 TSRA BKN015 FEW030CB BECMG 2522/2524 24005KT 8000 RA BKN020 FEW025TCU BECMG 2601/2603 28005KT NSW FEW020 BECMG 2604/2606 8000 FEW015 BECMG 2609/2611 BKN006 RMK PGS SBUG 250915Z 2512/2524 08006KT 9999 FEW030 TN13/2512Z TX23/2518Z BECMG 2522/2524 12012KT 8000 TSRA SCT030 FEW035CB RMK PDW SBUL 251009Z 2512/2524 09012KT CAVOK TN20/2512Z TX30/2517Z BECMG 2513/2515 03005KT BECMG 2520/2522 10005KT RMK PGN SBUR 251009Z 2512/2524 08010KT 8000 NSCTN20/2512Z TX30/2517Z BECMG 2513/2515 05005KT CAVOK BECMG 2520/2522 12005KT RMK PGN SBVH 250915Z 2512/2524 07005KT 7000 NSC TN24/2512Z TX33/2518Z BECMG 2513/2515 04005KT BECMG 2518/2520 35010KT SCT025 FEW030TCU PROB30 2520/2524 18010KT TS SCT020 FEW035CB RMK PGS SBVT 251000Z 2512/2524 16010KT 9999 SCT020 TN22/2512Z TX24/2517Z BECMG 2521/2523 19008KT SCT015 RMK PEN SBYS 251000Z 2512/2524 12005KT CAVOK TX22/2517Z TN16/2524Z BECMG 2518/2520 14005KT RMK PFF SCAR 251007Z 2512/2612 17004KT 9999 OVC018 TX18/2519Z TN15/2610Z BECMG 2516/2518 21010KT CAVOK BECMG 2522/2524 17004KT OVC018 BECMG 2604/2606 34004KT SCAT 251009Z 2512/2612 14004KT 9999 OVC005 TX17/2519Z TN12/2608Z BECMG 2512/2514 26004KT BKN008 BECMG 2515/2517 23012KT CAVOK BECMG 2601/2603 14008KT BECMG 2610/2612 18004KT SCBA 251006Z 2512/2612 31010KT CAVOK TX10/2519Z TN01/2608Z BECMG 2513/2515 9999 FEW050 BECMG 2522/2524 VRB03KT BECMG 2601/2603 9999 SCT050 BKN090 BECMG 2604/2606 29008KT 7000 -SHRA BKN030 OVC040 BECMG 2607/2609 31013KT 9999 -SHSN SCT025 BKN035 TEMPO 2609/2612 32018KT SCCF 251008Z 2512/2612 11020KT CAVOK TX23/2518Z TN04/2610Z BECMG 2514/2515 08007KT BECMG 2516/2518 26022KT BECMG 2523/2601 21007KT BECMG 2602/2604 09018KT BECMG 2609/2611 12025KT SCCI 251030Z 2512/2612 31015KT 9999 SCT010 TN03/2512Z TX08/2519Z BECMG 2512/2514 35013KT SCT040 BECMG 2522/2600 04015G25KT TEMPO 2603/2606 05028G38KT BECMG 2608/2610 29025G35KT 8000 -SHRA SCT025 BKN045 PROB40 TEMPO 2610/2612 27035G50KT SCCY 251030Z 2512/2524 VRB02KT 9999 FEW040 TN01/2512Z TX06/2418Z BECMG 2516/2518 36004KT FEW050 BKN180 BECMG 2519/2521 VRB02KT CAVOK SCDA 251016Z 2512/2612 17004KT 9999 OVC020 TX18/2519Z TN13/2611Z BECMG 2513/2515 24007KT FEW030 BECMG 2516/2518 24015KT BECMG 2520/2522 OVC020 BECMG 2602/2604 20004KT BECMG 2610/2612 SCT023 SCEL 251125Z 2512/2612 VRB02KT 9999 BKN160 TX21/2518Z TN09/2611Z BECMG 2516/2518 SCT150 BKN200 BECMG 2519/2521 19010KT SCT180 BKN220 BECMG 2600/2602 16004KT BKN180 BECMG 2606/2608 VRB02KT 8000 BKN160 SCFA 251008Z 2512/2612 23004KT 9999 OVC017 TX16/2516Z TN12/2606Z BECMG 2514/2516 FEW023 BECMG 2517/2519 22013KT BECMG 2522/2524 SCT013 BECMG 2603/2605 17004KT OVC009 SCIE 251010Z 2512/2612 VRB02KT 9999 FEW005 BKN100 TX15/2518Z TN08/2611Z TEMPO 2512/2514 4000 BR BKN004 BECMG 2515/2517 34005KT FEW020 BKN120 BECMG 2518/2520 35010KT SCT025 BKN080 BECMG 2601/2603 01016KT SCT020 BKN050 BECMG 2602/2604 02020G30KT 6000 -SHRA SCT020 BKN035 BECMG 2608/2610 35013KT 3000 RA SCT007 BKN015 OVC020 SCIP 251030Z 2512/2612 32020KT SCT015 BKN020 TX20/2521Z TN15/2610Z TEMPO 2512/2518 32023G33KT 5000 -SHRA BKN012 OVC020 BECMG 2518/2520 32025G35KT 2000 +RA SCT008 BKN015 OVC025 BECMG 2608/2610 4000 -RA SCT015 OVC030 TEMPO 2608/2612 32018G28KT 6000 -SHRA SCJO 251013Z 2512/2524 VRB02KT 0700 FG OVC001 TN06/2512Z TX13/2519Z TEMPO 2512/2514 03004KT 5000 BR OVC006 BECMG 2513/2515 02005KT 9999 NSW BKN010 BKN025 BECMG 2516/2518 02010KT SCT018 SCT030 BKN140 BECMG 2519/2521 02015KT 8000 -RA SCT018 BKN040 BECMG 2522/2524 02017G27KT 6000 RA BKN018 OVC030 SCPQ 251009Z 2512/2524 02004KT 0600 FG VV002 TN05/2512Z TX10/2519Z TEMPO 2513/2517 02010G20KT 7000 -SHRA SCT008 BKN016 SCT050 BECMG 2514/2516 02010KT 9999 NSW FEW010 SCT025 BKN150 BECMG 2517/2519 01015G25KT SCT025 OVC100 BECMG 2520/2521 02020G30KT 8000 -RA BKN025 BKN050 BECMG 2522/2524 02025G38KT 6000 RA BKN018 OVC025 SCQP 251124Z 2512/2612 VRB02KT 0700 FG FEW005 SCT025 TN07/2512Z TX16/2519Z BECMG 2513/2515 36004KT 9999 NSW SCT025 BKN140 BECMG 2516/2518 36010KT SCT025 SCT100 BKN140 TEMPO 2521/2602 03015G25KT 9000 -SHRA SCT016 BKN025 BECMG 2602/2604 36013G23KT 8000 RA SCT015 BKN025 BKN040 BECMG 2607/2609 33008KT 7000 SHRA SCT010 BKN016 OVC025 TEMPO 2610/2612 30005KT 9000 -SHRA SCT015 BKN025 BKN100 SCSE 251125Z 2512/2524 12004KT 3000 BR BKN007 BKN013 TX17/2519Z TN10/2512Z TEMPO 2512/2514 0500 FG VV002 BECMG 2515/2517 7000 FEW015 BECMG 2516/2518 28010KT CAVOK SCTE 251139Z 2512/2612 02005KT 9999 BKN018 SCT040 TN07/2512Z TX12/2619Z BECMG 2514/2516 02010KT BKN020 SCT040 BKN150 BECMG 2518/2520 02015KT SCT025 SCT050 BKN150 BECMG 2520/2522 01015G25KT 7000 -SHRA SCT025 BKN040 TEMPO 2523/2604 36020F30KT 9999 -SHRA BKN025 OVC035 BECMG 2604/2606 31010KT 9000 -SHRA BECMG 2607/2609 9999 NSW SCT025 BKN060 TEMPO 2609/2612 28008KT 9999 -SHRA BKN025 SCT060 SCVD 251007Z 2512/2524 VRB02KT 0400 FG OVC002 TN06/2512Z TX14/2518Z TEMPO 2512/2514 04004KT 5000 BR BKN010 SCT160 BECMG 2514/2516 01005KT 9999 NSW BKN015 BKN130 BECMG 2517/2519 35010KT SCT020 BKN080 BECMG 2520/2522 7000 RA BKN018 OVC035 SEGU 250420Z 2506/2606 22012KT CAVOK FM250800 22008KT 9999 BKN020 SCT100 FM251600 16007KT 9999 SCT026 FM260000 22012KT CAVOK TX29/2520Z TN20/2510Z SELT 250420Z 2506/2606 16006KT 9999 BKN030 BECMG 2513/2514 18016KT BECMG 2600/2601 17006KT TX14/2519Z TN06/2511Z SEMT 250420Z 2506/2606 20008KT 9999 OVC020 BECMG 2517/2518 SCT030 TX28/2520Z TN21/2510Z SEQM 250420Z 2506/2606 VRB03KT CAVOK BECMG 2510/2511 FEW033 BECMG 2518/2519 15010KT BECMG 2522/2523 04004KT TX25/2519Z TN07/2511Z SGAS 251102Z 2512/2612 07012KT 9999 SCT027 TX31/2518Z TN20/2609Z BECMG 2513/2516 02012G20KT 9999 BKN027 PROB30 2522/2600 11005KT 8000 -RA BKN025 BECMG 2604/2606 VRB05KT 9999 BKN020 PROB40 2610/2612 7000 TSRA BKN020 FEW040CB SGCO 251102Z 2512/2612 05015KT CAVOK TX35/2518Z TN22/2609Z TEMPO 2514/2516 05012G20KT 9999 SCT027 BECMG 2520/2623 09005KT 9999 BKN027 SGEN 251102Z 2512/2612 06014KT 9999 SCT027 TX28/2518Z TN17/2609Z TEMPO 2513/2516 02012G20KT 9999 SCT027 BECMG 2517/2519 09006KT 9999 BKN027 PROB30 2521/2600 11005KT 8000 TSRA BKN025 FEW040CB BECMG 2604/2606 8000 RA BKN027 PROB40 2610/2612 6000 TSRA BKN020 FEW040CB SGES 251050Z 2512/2612 09010KT CAVOK TX30/2518Z TN16/2609Z BECMG 2514/2517 02012G20KT 9999 SCT027 BECMG 2521/2523 11007KT 9999 BKN020 SKBG 251030Z 2512/2612 VRB03KT 6000 RADZ SCT010TCU BKN080 BECMG 2514/2516 32008KT 9999 NSW FEW015 SCT080 TEMPO 2519/2522 7000 DZ SCT010TCU BECMG 2601/2603 16004KT TX28/2519Z TN18/2611Z SKBO 251030Z 2512/2612 14012KT 9999 FEW020 SCT090 TEMPO 2517/2521 VCSH BKN020 BECMG 2600/2602 32004KT TX19/2518Z TN10/2611Z SKBQ 251030Z 2512/2612 01006KT 9999 SCT015 TEMPO 2512/2514 5000 BR SCT010 BECMG 2516/2517 36010KT PROB40 TEMPO 2519/2522 DZRA SCT015CB TX35/2517Z TN26/2610Z SKCC 251030Z 2512/2612 17015KT 9999 SCT020 SCT080 TEMPO 2512/2514 8000 RA SCT017TCU TEMPO 2513/2520 15025KT TX35/2518Z TN26/2611Z SKCG 251030Z 2512/2612 02005KT 9999 FEW020 SCT090 BECMG 2515/2517 36010KT TEMPO 2519/2522 7000 TSRA SCT015CB BKN080 BECMG 2600/2602 03004KT TX33/2518Z TN26/2611Z SKCL 251030Z 2512/2612 05004KT 9999 FEW023 BKN120 BECMG 2519/2521 32012KT BECMG 2601/2603 03005KT TX33/2519Z TN18/2611Z SKLT 251030Z 2512/2612 00000KT 9999 SCT017 SCT090 BECMG 2514/2516 31005KT BECMG 2523/2601 00000KT CAVOK TX32/2518Z TN21/2611Z SKPE 251030Z 2512/2612 08005KT 9999 FEW020 SCT090 BECMG 2514/2516 32008KT BECMG 2523/2601 10004KT TX31/2519Z TN18/2611Z SKRG 251030Z 2512/2612 36004KT 9999 SCT010 SCT090 BECMG 2514/2516 13010KT FEW020 BKN200 BECMG 2601/2603 06005KT TX24/2519Z TN11/2610Z SKSP 251030Z 2512/2612 06010KT 9999 FEW017 TX31/2518Z TN27/2611Z SLAL 251000Z 2512/2612 00000KT 9999 SCT010 TX21/2519Z TN05/2611Z BECMG 2515/2517 24012KT FEW020 SCT070 PROB30 TEMPO 2518/2520 FEW030CB BECMG 2521/2523 01010KT SLCB 251000Z 2512/2612 00000KT 9999 NSC TX29/2519Z TN08/2611Z BECMG 2515/2517 06012KT BECMG 2522/2524 00000KT SLCO 251000Z 2512/2612 30009KT 4000 FU FEW020 TX35/2520Z TN20/ 2611Z BECMG 2523/2603 00000KT 7000 SCT012 SLET 250930Z 2512/2612 33010KT 6000 NSC TX34/2520Z TN20/2611Z TEMPO 2515/2518 34015G25KT 7000 FEW023 BECMG 2602/2605 33010KT 5000 FU SCT070 SLLP 251000Z 2512/2612 12008KT 9999 FEW015 TX15/2520Z TNM04/2610Z TEMPO 2517/2521 FEW020CB BECMG 2603/0605 07005KT 3000E VCFG FEW002 SLPS 250930Z 2512/2612 00000KT 5000 FU NSC TX34/2520Z TN17/2611Z TEMPO 2515/2518 09010KT 7000 SCT070 BECMG 2602/2605 00000KT 5000 FU SLTJ 251000Z 2512/2612 00000KT 9999 FEW033 TX29/2519Z TN08/2611Z BECMG 2515/2517 15012KT FEW040 PROB30 TEMPO 2520/2522 FEW040CB SCT070 SLTR 251000Z 2512/2612 20008KT 4000 FU FEW023 TX34/2520Z TN19/2611Z BECMG 2523/2602 00000KT 5000 FU SCT012 SLVR 250930Z 2512/2612 33010KT 6000 NSC TX34/2520Z TN20/2611Z TEMPO 2515/2518 34015G25KT 7000 FEW023 BECMG 2602/2605 33010KT 5000 FU SCT070 SMJP 250400Z 2506/2606 VRB02KT CAVOK TX33/2518Z TN23/2509Z PROB30 TEMPO 2509/2510 3000 BR SCT002 FM251200 14008KT 9999 SCT020 TEMPO 2518/2521 VRB12G24KT 3000 TSRA FEW015CB SCT018 BECMG 2523/2601 09004KT SMZO 250400Z 2506/2606 VRB02KT CAVOK TX32/2518Z TN24/2509Z FM251200 14010KT 9999 SCT020 TEMPO 2517/2521 VRB12G24KT 3000 TSRA FEW015CB SCT018 BECMG 2523/2601 09004KT SOCA 251000Z 2512/2612 VRB05KT 9999 FEW020 SCT030 BECMG 2512/2514 12010KT FEW025TCU SCT040 PROB30 TEMPO 2515/2521 4000 SHRA SCT015CB BECMG 2521/2524 VRB05KT FEW020 SPCL 251100Z 2512/2612 VRB02KT 9999 SCT015 BKN080 TX34/2520Z TN22/2611Z BECMG 2516/2518 30004KT SCT020 SCT100 BECMG 2523/2601 01003KT SCT020 BKN100 PROB30 TEMPO 2610/2612 00000KT 5000 BR SCT010 BKN060 SPHI 251100Z 2512/2612 18007KT 9999 OVC007 TX22/2519Z TN15/2611Z TEMPO 2512/2514 VRB04KT BECMG 2515/2517 18008KT 9999 BKN014 FM251800 19015KT CAVOK FM260000 18006KT 9999 BKN010 SPHO 251100Z 2512/2612 00000KT CAVOK TX26/2519Z TN07/2611Z TEMPO 2518/2523 05010KT SPJC 251100Z 2512/2612 17006KT 7000 OVC011 TX17/2519Z TN15/2611Z TEMPO 2512/2514 5000 BR OVC007 BECMG 2515/2517 24005KT 7000 NSW OVC015 TEMPO 2518/2521 9999 BKN017 FM252200 18008KT OVC012 SPJL 251115Z 2512/2612 23005KT CAVOK TX16/2519Z TNM02/2610Z FM251900 19010KT 9999 SCT050 FM260030 VRB05KT CAVOK SPJR 251012Z 2512/2612 21006KT CAVOK TX23/2519Z TN04/2611Z FM251800 05009KT 9999 SCT033 SPME 251012Z 2512/2612 00000KT 8000 BKN012 TX26/2519Z TN18/2611Z BECMG 2515/2517 35010KT 9999 SCT014 BECMG 2522/2600 25004KT BKN013 SPMS 251100Z 2512/2612 23003KT 9999 SCT015 SCT100 TX33/2519Z TN22/2611Z TEMPO 2512/2514 00000KT 5000 BR SCT008 SCT100 PROB40 TEMPO 2520/2600 05004KT BKN015 SCT100 BECMG 2607/2609 00000KT 3000 BR SCT005 OVC080 SPNC 251012Z 2512/2612 00000KT 8000 FEW040 TX29/2519Z TN14/2611Z FM251700 06014KT 9999 FEW040 TEMPO 2519/2521 06014G25KT SPQT 251100Z 2512/2612 VRB02KT 9999 FEW015 SCT100 TX32/2519Z TN22/2611Z TEMPO 2412/2413 5000 BR SCT005 PROB40 TEMPO 2519/2522 09008KT 3000 SHRA BKN010 FEW020TCU OVC070 BECMG 2523/2601 30003KT SCT015 SCT080 PROB30 TEMPO 2609/2612 24003KT 0800 FG OVC005 SPQU 251100Z 2512/2612 35006KT CAVOK TX23/2517Z TN08/2610Z FM251400 25010KT CAVOK FM260000 05005KT CAVOK SPRU 251225Z 2512/2612 16005KT 4000 BR OVC004 TX18/2518Z TN15/2611Z BECMG 2514/2516 8000 NSW OVC012 FM251800 16012KT 9999 SCT017 FM260300 16006KT 8000 OVC013 SPSO 251225Z 2512/2612 30005KT 4000 BR OVC005 TX19/2519Z TN12/2611Z TEMPO 2512/2514 2000 BECMG 2514/2516 6000 NSW OVC010 FM251900 24012KT 8000 SCT014 FM260300 19006KT 9999 OVC013 SPST 251012Z 2512/2612 00000KT 9999 SCT015 SCT080 TX33/2519Z TN21/2611Z TEMPO 2511/2513 4000 BR SCT012 BKN070 FM251800 10003KT 9999 SCT020 SCT080 SPTN 251135Z 2512/2612 25005KT 7000 SCT010 OVC015 TX20/2519Z TN11/2610Z TEMPO 2512/2514 3000 BR BECMG 2513/2514 9999 SCT020 FM260000 VRB03KT 7000 SCT010 OVC012 SPTU 251100Z 2512/2612 VRB02KT 9999 FEW040 TX33/2519Z TN15/2611Z SPYL 251326Z 2513/2612 17014 CAVOK TX30/2519Z TN19/2611Z BECMG 2517/2519 23014KT BECMG 2609/2611 14017 SPZO 251100Z 2512/2612 00000KT 9999 FEW040 TX21/2519Z TN01/2611Z BECMG 2516/2517 02013KT BECMG 2600/2602 00000KT SUAA 251130Z 2512/2612 06010KT 9999 SCT020 BKN070 TX19/2518Z TN13/2610Z SUCA 251130Z 2512/2612 07008KT 9999 SCT020 BKN070 TX19/2518Z TN12/2610Z SUDU 251130Z 2512/2612 05010KT 9999 SCT023 BKN070 TX19/2518Z TN14/2610Z BECMG 2520/2522 9999 BKN015 BKN060 SULS 251130Z 2512/2612 07010KT 9999 SCT020 BKN070 TX19/2518Z TN13/2610Z SUMU 251130Z 2512/2612 06010KT 9999 SCT020 BKN070 TX19/2518Z TN12/2610Z SURV 251130Z 2512/2612 07008KT 9999 SCT023 BKN070 TX20/2518Z TN14/2610Z TEMPO 2513/2523 5000 TSSHRA BKN010 FEW040CB BKN060 SUSO 251130Z 2512/2612 05010KT 9999 SCT020 BKN070 TX21/2518Z TN14/2610Z PROB40 TEMPO 2513/2523 5000 TSSHRA BKN010 FEW040CB BKN060 SVBC 251000Z 2512/2612 14010KT 9999 SCT010 TX35/19Z TN25/09Z BECMG 2516/2520 05010KT 9000 -DZ BKN016 SVJC 251000Z 2512/2612 09006KT 9999 FEW016 TX34/18Z TN25/08Z BECMG 2516/2520 09014KT 9999 SCT016 SVMC 251000Z 2512/2612 09010KT 9999 SCT016 TX35/19Z TN26/08Z BECMG 2516/2520 18005KT 9000 DZ BKN016 SVMG 251000Z 2512/2612 08008KT 9999 FEW010 TX34/18Z TN24/08Z BECMG 2516/2520 24005KT 9000 -DZ SCT016 SVMI 251000Z 2512/2612 09004KT 9999 SCT016 TX31/18Z TN25/09Z BECMG 2516/2520 05005KT 9000 -DZ BKN016 SVSA 251000Z 2512/2612 09010KT 9999 BKN017 TX33/18Z TN24/08Z TEMPO 2516/2520 02005KT 9000 -DZ BKN017 SYCJ 251100Z 2512/2612 10012KT 9999 BKN020 SCT045 TEMPO 2515/2518 5000 SHRA FEW016CB BKN018 BECMG 2522/2600 06006KT 9999 FEW016 SCT100 SYEB 251100Z 2512/2523 12010KT 9999 BKN020 SCT045 TEMPO 2516/2520 5000 SHRA FEW018CB SYEC 251100Z 2512/2612 12012KT 9999 BKN018 SCT045 PROB30 TEMPO 2515/2518 6000 SHRA FEW015CB BECMG 2523/2601 04008KT 9999 FEW016 SCT100 SYKA 251100Z 2512/2523 10006KT 9999 BKN016 SCT040 TEMPO 2516/2522 5000 SHRA FEW014CB SYKM 251100Z 2512/2523 10006KT 9999 BKN016 SCT040 TEMPO 2516/2522 5000 SHRA FEW014CB SYLT 251100Z 2512/2523 12010KT 9999 BKN020 SCT045 TEMPO 2516/2520 5000 SHRA FEW018CB SYMB 251100Z 2512/2523 12010KT 9999 BKN018 SCT045 TEMPO 2515/2520 5000 SHRA FEW018CB TAPA 251100Z 2512/2612 09011KT 9999 SCT022= TRPG 251100Z 2512/2612 09012KT 9999 SCT022 TBPB 251100Z 2512/2612 10014KT 9999 SCT018 PROB30 TEMPO 2606/2612 SHRA BKN015 TDPD 251100Z 2512/2612 12005KT 9999 SCT018 PROB30 TEMPO 2606/2612 SHRA BKN015 TFFF 251100Z 2512/2612 10012KT 9999 SCT025 PROB40 TEMPO 2513/2520 3000 SHRA BKN018TCU PROB30 TEMPO 2603/2612 3000 SHRA BKN015TCU TFFR 251000Z 2512/2612 13012KT 9999 SCT025 BECMG 2522/2524 VRB03KT PROB40 TEMPO 2603/2612 3000 SHRA BKN015TCU BECMG 2610/2612 11010KT TGPY 250948Z 2512/2612 12016KT 9999 FEW020 BECMG 2522/2524 10012KT FEW018 BECMG 2606/2608 06014KT SCT018 TIST 251138Z 2512/2612 08009KT P6SM VCSH SCT025 FM251400 11014KT P6SM FEW025 SCT050 FM252300 07010KT P6SM FEW025 FM260300 09007KT P6SM SCT025 TISX 251138Z 2512/2612 09010KT P6SM SCT025 SCT080 FM251400 09013KT P6SM FEW030 SCT050 FM252200 06010KT P6SM FEW030 FM260300 07007KT P6SM SCT025 TJBQ 251138Z 2512/2612 09008KT P6SM SCT030 SCT050 FM251400 08015KT P6SM SCT025 FM251700 08016KT P6SM VCTS SCT025CB BKN050 FM252300 10007KT P6SM SCT030 SCT070 FM260300 VRB04KT P6SM FEW035 TJMZ 251138Z 2512/2612 07007KT P6SM SCT025 FM251430 26010KT P6SM FEW025 SCT040 FM251700 27010KT P6SM VCTS SCT025CB BKN040 FM252300 07006KT P6SM FEW025 FM260300 08005KT 6SM HZ SCT025 NOT SKED TJPS 251138Z 2512/2612 10006KT P6SM VCSH FEW030 FM251400 14015KT P6SM FEW035 SCT050 FM252330 10006KT P6SM FEW030 FM260300 06003KT 6SM HZ SCT020 TJSJ 251138Z 2512/2612 09012KT P6SM SCT025 SCT040 FM251400 07016KT P6SM FEW025 SCT050 FM252200 09012KT P6SM SCT030 SCT050 FM260300 10005KT 6SM HZ SCT025 TKPK 251138Z 2512/2612 08010KT P6SM SCT018 SCT035 FM251450 07012KT P6SM FEW022 FM260300 08008KT P6SM SCT019 SCT035 TKPN 251100Z 2512/2612 09011KT 9999 SCT022 TLPC 251100Z 2512/2612 10008KT 9999 SCT026 TEMPO 2606/2612 SHRA TLPL 251100Z 2512/2612 09015KT 9999 SCT026 TEMPO 2606/2612 SHRA TNCA 251100Z 2512/2612 08021KT 9999 SCT018= TNCB 251100Z 2512/2618 09018KT 9999 SCT018 TNCC 251100Z 2512/2612 10015KT 9999 SCT018 TNCM 251138Z 2512/2612 08010KT P6SM SCT018 FM251400 10009KT P6SM FEW022 FM260300 10009KT P6SM SCT020 TQPF 251100Z 2512/2612 09011KT 9999 SCT022 TRPG 251100Z 2512/2612 09012KT 9999 SCT022 TTCP 251000Z 2512/2612 11010KT 9999 FEW020 BECMG 2600/2602 00000KT TTPP 251000Z 2512/2612 10010KT 9999 SCT020 TEMPO 2515/2520 7000 SHRA VCSH FEW012CB BKN018 BECMG 2600/2602 00000KT FEW018 TUPJ 251100Z 2512/2612 10011KT 9999 SCT022 TVSA 251100Z 2512/2612 07008KT 9999 SCT018 PROB30 TEMPO 2604/2610 SHRA BKN015 TXKF 251133Z 2512/2612 22006KT 9999 VCSH FEW020 BKN200 PROB40 TEMPO 2512/2612 3200 SHRA BKN014 PROB30 TEMPO 2516/2523 28010G20KT 1600 TSRA BKN009CB UAAA 251100Z 2512/2612 16004MPS 9999 SCT050CB SCT100 TX30/2609Z TN13/2601Z TEMPO 2512/2514 08003G08MPS TEMPO 2514/2524 20003MPS 5000 FU BECMG 2602/2603 02003MPS TEMPO 2606/2612 06003G10MPS UACC 251100Z 2512/2612 17003MPS 9999 SCT040 BKN100 TX30/2610Z TN12/2523Z TEMPO 2512/2515 32003MPS BECMG 2602/2604 22006MPS UAII 251100Z 2512/2612 02003G08MPS CAVOK TX36/2610Z TN18/2601Z TEMPO 2512/2515 34006MPS TEMPO 2515/2603 10004MPS UAKK 251100Z 2512/2612 VRB02MPS 9999 NSC TX29/2611Z TN09/2523Z TEMPO 2603/2612 23005MPS UATE 251101Z 2512/2612 27008MPS CAVOK TX35/2610Z TN20/2601Z BECMG 2514/2516 VRB02MPS UATG 251059Z 2512/2612 22008MPS 9999 BKN030CB TX30/2611Z TN22/2601Z BECMG 2517/2518 32006MPS UATT 251100Z 2512/2612 230011MPS 9999 SCT040CB TX34/2512Z TN13/2601Z FM251800 33007MPS 9999 BKN020CB TEMPO 2603/2612 36012MPS UBBB 251117Z 2512/2612 04010KT CAVOK TX33/2512Z TN21/2602Z TEMPO 2512/2516 08014KT BECMG 2516/2518 35010KT TEMPO 2518/2603 FEW015 FEW050CB SCT100 BECMG 2603/2605 34022G32KT UBBG 251100Z 2512/2612 12012KT 9999 FEW040CB BKN080 TX33/2512Z TN20/2602Z TEMPO 2512/2516 VRB20KT -TSRA SCT040CB BECMG 2516/2518 VRB04KT SCT100 UBBL 251126Z 2512/2612 12008KT 9000 NSC TX32/2512Z TN19/2602Z TEMPO 2512/2518 07010KT BECMG 2518/2520 31006KT TEMPO 2520/2604 VRB04KT UBBN 251107Z 2512/2612 12010KT 9999 FEW045 FEW050CB SCT100 TX37/2512Z TN21/2602Z PROB30 TEMPO 2512/2522 14014KT -TSRA SCT040CB BKN090 TEMPO 2522/2605 11010KT UBBQ 251122Z 2512/2612 13008KT 9999 FEW030 SCT100 TX33/2512Z TN19/2602Z TEMPO 2512/2520 08014KT -TSRA SCT050CB BKN080 BECMG 2520/2522 02008KT TEMPO 2522/2606 33008KT FEW050CB BKN080 PROB40 TEMPO 2522/2606 -TSRA SCT040CB UCFM 251036Z 2512/2612 33003G08MPS 9999 SCT050CB TEMPO 2512/2518 03007G12MPS BECMG 2518/2520 12003G08MPS UCFO 251043Z 2512/2612 16005MPS 9999 NSC TEMPO 2512/2518 27005MPS 4000 HZ SCT050CB BECMG 2602/2604 32005MPS UDSG 251105Z 2512/2612 06012KT 9999 SCT050 TEMPO 2512/2519 VRB24G34KT -TSRA BKN040CB UDYZ 251120Z 2512/2612 22006KT 9999 FEW040 TEMPO 2512/2520 VRB24KT -TSRA BKN030CB UEEE 251400Z 2515/2621 30003MPS 9999 SCT030CB TEMPO 2518/2524 0300 FG VV003 UERP 251400Z 2515/2615 VRB01MPS 9999 SCT030 BKN100 UERR 251400Z 2515/2615 VRB01MPS CAVOK TEMPO 2521/2524 0500 FG VV003 UGKO 251100Z 2512/2612 VRB02KT 9999 SCT025 BKN045 TX29/2512Z TN19/2602Z PROB40 TEMPO 2512/2517 26012KT 3000 TSRA BKN020CB BECMG 2517/2520 SCT100 TEMPO 2600/2605 2000 BCFG BR UGSB 251100Z 2512/2612 25009KT 9999 SCT030 TX27/2611Z TN22/2602Z PROB40 TEMPO 2516/2522 VRB15KT TSRA BKN025CB BECMG 2517/2519 13010KT UGTB 251100Z 2512/2612 VRB02KT 9999 SCT060 TX33/2512Z TN21/2603Z BECMG 2514/2517 31016KT SCT050CB PROB40 TEMPO 2515/2523 VRB23KT TSRA BKN050CB UHBB 251350Z 2515/2615 19003MPS 3100 BR NSC BECMG 2517/2519 0300 FG VV002 FM260000 15003MPS 9999 SCT030CB UHHH 251400Z 2515/2621 23003MPS 3100 BR SCT003 FM251800 VRB01MPS 0400 FG VV002 FM260000 24006MPS 9999 SCT011 SCT025CB UHMA 251339Z 2515/2615 26003G08MPS 9999 SCT025 TEMPO 2515/2615 16007MPS 5000 -SHRA BR SCT010 BKN020CB UHMM 251348Z 2515/2621 21003MPS 9999 SCT013 OVC025CB TEMPO 2515/2524 3100 -SHRA BR BKN006 OVC011CB FM260000 22003G10MPS 9999 SCT013 OVC020CB TEMPO 2600/2621 5000 -SHRA BR BKN011 OVC017CB UHPP 251358Z 2515/2621 33003G12MPS 9999 -SHRA SCT011 OVC020CB TEMPO 2515/2522 06005G15MPS 1000 DZ BR VV003 FM252200 17003G12MPS 9999 -SHRA BKN011 OVC020CB TEMPO 2522/2608 2000 DZ BR BKN004 OVC015CB TEMPO 2608/2621 1000 SHRA BR VV003 UHSS 251350Z 2515/2621 36003MPS 9999 BKN007 BKN020CB TEMPO 2515/2523 2100 -SHRA BR BKN004 BKN017CB BECMG 2600/2603 27003MPS BKN030CB UHWW 251400Z 2515/2615 13003MPS 3100 BR BKN011 BKN020CB TEMPO 2515/2524 VRB01MPS 0400 FG VV002 FM260100 23003MPS 9999 BKN020CB TEMPO 2602/2610 5000 -SHRA BKN015CB UIAA 251400Z 2515/2615 27003MPS 3100 -SHRA BR SCT003 BKN030CB TEMPO 2518/2601 0500 FG VV001 TEMPO 2603/2615 30005MPS UIBB 251400Z 2515/2615 26003MPS 4000 BR FEW001 SCT016CB TEMPO 2515/2603 0300 FG VV001 BECMG 2603/2604 9999 NSW UIII 251400Z 2515/2615 30005MPS 9999 BKN009CB TEMPO 2515/2603 2900 -SHRA BR BKN003 BKN009CB BECMG 2603/2605 BKN012CB UIUU 251400Z 2515/2615 29003G08MPS 9999 BKN030CB TEMPO 2518/2602 -SHRA BKN014CB TEMPO 2602/2612 31008G13MPS UKBB 251100Z 2512/2612 04003G08MPS CAVOK TX28/2512Z TN13/2603Z BECMG 2517/2519 06003MPS BECMG 2605/2607 08003G08MPS UKDD 251107Z 2512/2612 02005G10MPS CAVOK TX33/2512Z TN20/2602Z BECMG 2602/2604 05004G09MPS UKDR 251101Z 2512/2612 04004MPS CAVOK TX32/2512Z TN16/2603Z TEMPO 2512/2516 04007G12MPS UKHH 251104Z 2512/2612 02005MPS CAVOK TX30/2512Z TN17/2603Z UKKK 251101Z 2512/2612 06003G08MPS CAVOK TX27/2512Z TN14/2602Z TEMPO 2518/2606 07003MPS UKLL 251104Z 2512/2612 09005MPS 9999 SCT025 TX29/2513Z TN15/2603Z TEMPO 2512/2521 BKN020CB BECMG 2605/2606 12005G11MPS UKOO 251106Z 2512/2612 13006G12MPS 6000 SCT020 SCT025CB TX33/2512Z TN20/2602Z BECMG 2518/2519 05005G11MPS 2100 BR ULAA 251352Z 2515/2615 31004MPS 9999 BKN015 TEMPO 2515/2518 33005G12MPS 5000 -SHRA BKN015CB BECMG 2518/2519 19003MPS BKN011 TEMPO 2519/2603 18003G08MPS 3100 -SHRA BR FEW004 BKN011CB FM260300 20005MPS 3100 -SHRA BKN007 BKN012CB TEMPO 2603/2612 22005G14MPS 1000 SHRA BR BKN009 BKN011CB ULLI 251358Z 2515/2615 30003MPS 9999 SCT020 FM252000 22003MPS 3100 BR SCT011 TEMPO 2520/2522 1000 BR SCT007 TEMPO 2522/2604 0300 FG SCT003 FM260400 24003G08MPS 9999 SCT015 TEMPO 2609/2615 26005G11MPS ULMM 251350Z 2515/2615 15003G08MPS 9999 BKN015 TEMPO 2515/2517 12003G08MPS 4000 -SHRA BKN015CB BECMG 2517/2518 3100 -SHRA BKN011CB TEMPO 2518/2606 12003G08MPS 1600 SHRA BR BKN006 BKN011CB FM260600 33003G08MPS 9999 BKN011 TEMPO 2606/2615 01005G10MPS 3100 -SHRA BKN011CB UMGG 251100Z 2512/2612 03006MPS 9999 SCT025 TEMPO 2520/2604 VRB02MPS 1200 BR SCT004 BECMG 2604/2606 09005MPS UMKK 251359Z 2515/2615 04006MPS CAVOK TEMPO 2518/2521 06003G08MPS BECMG 2521/2523 12003G08MPS TEMPO 2521/2604 3100 BR MIFG FEW002 PROB40 TEMPO 2521/2604 0500 PRFG UMMS 251104Z 2512/2612 04005MPS 9999 SCT040 TX25/2513Z TN12/2603Z BECMG 2518/2520 VRB02MPS TEMPO 2523/2605 1500 BCFG BR SCT004 BECMG 2605/2607 14005MPS UNAA 251357Z 2515/2615 25003G10MPS 9999 SCT020CB TEMPO 2515/2518 3500 -TSRA BKN015CB FM251800 22002MPS 3100 BR SCT011 TEMPO 2520/2602 0300 FG FM260300 13003G10MPS 9999 SCT025CB UNBB 251400Z 2515/2615 28003MPS 9999 SCT030CB TEMPO 2518/2603 3100 BR FU SCT004 SCT015CB UNEE 251400Z 2515/2615 26003G08MPS 9999 BKN030 TEMPO 2515/2518 3100 BR FU SCT011 BKN030 BECMG 2517/2518 12003MPS TEMPO 2518/2602 0200 FG BKN002 BKN030 UNKL 251400Z 2515/2615 26003G10MPS 9999 SCT020CB TEMPO 2515/2518 4000 -TSRA FM251800 27003G10MPS 3100 -SHRA BKN012CB BECMG 2602/2604 9999 NSW SCT020CB BECMG 2609/2611 11003MPS UNNT 251400Z 2515/2615 16003G08MPS CAVOK TEMPO 2516/2517 3100 BR TEMPO 2517/2603 0300 FG BKN002 BECMG 2603/2606 SCT040CB UNOO 251350Z 2515/2615 24003G08MPS 9999 BKN033 BECMG 2517/2519 16003G09MPS FM260000 14005G10MPS 6000 BKN030CB TEMPO 2609/2615 -SHRA BKN015CB UOOO 251400Z 2515/2615 14004G10MPS 5000 -SHRA BR BKN015CB TEMPO 2515/2520 2100 -SHRA BR BKN006CB TEMPO 2520/2602 0500 FG VV002 PROB40 TEMPO 2600/2615 -TSRA TEMPO 2602/2612 19005G10MPS 1000 SHRA SCT004 BKN007CB URFF 251350Z 2515/2615 05008G13MPS CAVOK BECMG 2516/2517 06003MPS BECMG 2605/2606 05009G14MPS URKA 251356Z 2515/2615 07005G11MPS 9999 SCT030CB TEMPO 2515/2615 02008G17MPS URKK 251352Z 2515/2615 06007G13MPS 9999 SCT030CB TEMPO 2515/2524 VRB09G17MPS 3100 -TSRA SCT011 BKN020CB TEMPO 2600/2615 06009G17MPS URMM 251400Z 2515/2615 08003G08MPS 9999 BKN030 TX27/2612Z TN18/2602Z TEMPO 2515/2524 VRB08G20MPS 1000 TSRAGR BKN004 BKN030CB TEMPO 2600/2605 3100 BR BKN011 TEMPO 2605/2615 09006G12MPS URRP 251356Z 2515/2615 05007G14MPS 9999 SCT030CB TX31/2612Z TN21/2602Z PROB40 TEMPO 2515/2521 -TSRA SCT020CB URSS 251358Z 2515/2615 28006MPS 9999 SCT030CB BKN100 TEMPO 2515/2518 VRB07G12MPS -TSRA BECMG 2518/2519 05005MPS BKN020CB BKN100 BECMG 2607/2608 28006MPS USCC 251400Z 2515/2615 32003G08MPS 9999 BKN020CB TEMPO 2515/2603 30003G10MPS 5000 -SHRA BKN011CB PROB40 TEMPO 2515/2521 -TSRA USHH 251359Z 2515/2615 09005G13MPS 9999 BKN011 TEMPO 2515/2606 2000 SHRA BR BKN006 OVC011CB TEMPO 2606/2612 3100 -SHRA BKN011CB USNN 251400Z 2515/2615 26003MPS 9999 BKN015 TEMPO 2516/2521 VRB01MPS 1000 BR BKN003 FM252100 08003MPS 4100 -SHRA BKN007 SCT015CB TEMPO 2521/2603 0300 FG VV002 USPP 251358Z 2515/2615 27005G13MPS 9999 BKN011CB TEMPO 2515/2517 -TSRA TEMPO 2517/2612 -SHRA BECMG 2518/2520 33007G16MPS USRR 251355Z 2515/2615 33004MPS 9999 SCT015 BKN020CB TEMPO 2515/2521 3100 -SHRA BKN015CB FM252100 10005MPS 3100 -SHRA BR BKN011 BKN015CB USSS 251354Z 2515/2615 25003G12MPS 9999 SCT020CB TEMPO 2515/2518 -TSRA FM251800 27003G12MPS 3100 -SHRA BKN011 SCT020CB FM260300 32003G12MPS 6000 -SHRA BKN016CB TEMPO 2603/2612 33006G16MPS USTR 251348Z 2515/2615 18003MPS 9999 BKN020CB TEMPO 2515/2520 20005G14MPS 4000 -SHRA TEMPO 2520/2605 2000 TSRA BR SCT007 BKN015CB BECMG 2601/2603 28007G12MPS TEMPO 2607/2615 VRB16MPS 3100 -TSRA SQ UTAA 251035Z 2512/2612 02014KT 6000 SCT050 TEMPO 2512/2516 31016KT TEMPO 2516/2601 21010KT 2000 HZ UTAK 251030Z 2512/2612 06014G24KT CAVOK TEMPO 2512/2518 30018KT TEMPO 2518/2604 6000 SCT020 TEMPO 2604/2612 13018KT 6000 SCT033 SCT100 UTAM 251030Z 2511/2612 02014KT 6000 NSC TEMPO 2511/2515 35014G24KT 3000 DRDU BECMG 2515/2516 33012KT BECMG 2603/2604 01016KT CAVOK UTAT 251031Z 2512/2612 01016KT CAVOK TEMPO 2512/2515 07014G24KT UTAV 251030Z 2512/2612 05010KT 5000 NSC 530003 TEMPO 2512/2514 01016G26KT 2000 BLDU 560006 TEMPO 2514/2601 VRB04KT 3000 HZ FU SKC BECMG 2603/2605 07012KT CAV0K 530007 UTDD 251200Z 2513/2601 VRB02MPS 6000 FEW066CB SCT130 TEMPO 2513/2516 27006MPS UTFN 251100Z 2512/2612 33010KT 9999 FEW050CB= UTNN 251100Z 2512/2612 34008G18KT CAVOK TEMPO 2512/2516 32016G26KT UTNN 251100Z 2512/2612 34008G18KT CAVOK TEMPO 2512/2516 32016G26KT UTNU 251100Z 2512/2612 34010G20KT 7000 NSC TEMPO 2515/2518 01006KT 3000 HZ UTSA 251101Z 2512/2612 VRB03KT 7000 NSC TX36/2611Z TEMPO 2512/2523 04012G22KT UTSB 251100Z 2512/2612 35010KT 7000 NSC TX36/2611Z TEMPO 2512/2523 02014G24KT UTSS 251057Z 2512/2612 11014KT 9999 NSC TEMPO 2512/2515 35010KT UTST 251100Z 2512/2612 VRB06KT 6000 NSC TX37/2611Z TEMPO 2512/2522 24008G18KT UTTT 251100Z 2512/2612 08012KT 7000 NSC TX36/2610Z TEMPO 2512/2518 35012G22KT UUBW 251357Z 2515/2615 02005MPS CAVOK TX19/2515Z TN09/2602Z FM251800 VRB01MPS 4000 BR FEW004 TEMPO 2523/2604 0300 FG FEW002 FM260600 25003MPS 9999 SCT030 UUDD 251354Z 2515/2621 03005MPS 9999 BKN030 TX20/2613Z TN09/2602Z FM251900 VRB01MPS 5000 BR SCT012 PROB40 TEMPO 2600/2604 0300 FG SCT002 FM260600 25003MPS 9999 SCT020 UUDL 251400Z 2515/2615 33003MPS 9999 SCT040 PROB40 TEMPO 2521/2606 0500 FG VV003 UUEE 251356Z 2515/2615 02005MPS 9999 SCT030 TX20/2612Z TN09/2602Z BECMG 2516/2519 VRB01MPS BECMG 2606/2608 25003G08MPS UUWW 251353Z 2515/2615 36004MPS 9999 SCT030 TX20/2615Z TN09/2603Z BECMG 2517/2520 VRB01MPS PROB40 TEMPO 2520/2604 0500 FG FEW003 BECMG 2606/2609 25003MPS UUYY 251400Z 2515/2615 36003G10MPS 6000 BKN011 BKN015CB TEMPO 2515/2606 3100 -SHRA BR FEW005 BKN012CB BECMG 2518/2519 33003G08MPS BECMG 2606/2607 24003MPS UWGG 251356Z 2515/2615 34003MPS 9999 BKN020 TX19/2612Z TN09/2603Z TEMPO 2515/2518 32006G13MPS UWKD 251400Z 2515/2615 33005G12MPS 9999 BKN020 TX19/2612Z TN10/2601Z TEMPO 2515/2518 31008G15MPS -SHRA BKN011 BKN020CB UWKE 251345Z 2515/2615 32006G12MPS 9999 BKN015 TEMPO 2515/2518 3100 -SHRA BKN011 SCT015CB TEMPO 2518/2606 32009G14MPS BKN011 UWLW 251345Z 2515/2615 30003G08MPS 8000 SCT033 TEMPO 2515/2521 34007G13MPS BKN020CB UWOO 251347Z 2515/2615 32006G12MPS 9999 BKN033 TX22/2612Z TN13/2601Z TEMPO 2515/2615 34010G15MPS SCT020CB UWUU 251345Z 2515/2615 32006G13MPS 9999 BKN015CB TEMPO 2515/2519 27008G18MPS 3100 -TSRAGR BKN011CB TEMPO 2519/2603 28003G08MPS 3100 -SHRA BKN011CB TEMPO 2603/2615 34009G14MPS 3100 -SHRA BKN011CB UWWW 251352Z 2515/2615 32006G12MPS 9999 SCT030 TX20/2611Z TN10/2601Z TEMPO 2515/2518 36008G15MPS BKN020CB BECMG 2518/2520 32003G08MPS TEMPO 2520/2604 36006G12MPS 3100 BR BKN011 TEMPO 2604/2615 36008G14MPS VAAH 251100Z 2512/2618 VRB03KT 4000 HZ FEW012 FEW020 FEW025TCU BKN080 TEMPO 2516/2520 22005KT 2000 -TSRA BECMG 2522 28006KT SCT020 BKN080 BECMG 2601/2603 2000 -RABR FEW012 SCT020 BKN080 BECMG 2604/2606 4000 HZ TEMPO 2606/2610 2000 RA BECMG 2612/2614 23004KT 3000 HZ FEW012 SCT020 FEW025TCU BKN080 TEMPO 2612/2614 2000 -TSRA VABB 251100Z 2512/2618 26010KT 3000 HZ DZ SCT020 SCT025 BKN100 TEMPO 2513/2522 2000 -RA -SHRA SCT012 FEW025TCU BKN080 BECMG 2514/2516 23008KT TEMPO 2600/2609 2000 -RA -SHRA SCT015 SCT020 FEW025TCU BKN080 BECMG 2604/2606 26007G17KT 4000 HZ DZ TEMPO 2612/2618 2000 -RA -SHRA SCT012 FEW025TCU BKN080 BECMG 2614/2616 26010KT 3000 HZ DZ VABJ 250930Z 2512/2524 23010KT 6000 SCT030 SCT100 BKN250 TEMPO 2512/2516 SCT030 BKN100 FEW030TCU VAJM 250930Z 2512/2524 25010KT 6000 SCT025 SCT250 VANP 251100Z 2512/2618 23006KT 3000 -RA HZ FEW010 SCT018 BKN080 BECMG 2522/2524 2000 RA SHRA SCT008 BKN015 FEW025TCU OVC080 BECMG 2605/2607 23010KT 3000 -RA DZ BECMG 2613/2615 23006KT 2500 -RA DZ FEW010 SCT018 BKN090 VAPO 250330Z 2506/2518 28010KT 6000 SCT025 SCT090 BKN250 VCBI 251100Z 2512/2618 21010KT 9999 SCT017 TX30/2608Z TN25/2600Z PROB30 TEMPO 2523/2603 7000 -SHRA FEW012 SCT016 FEW020CB VCRI 251100Z 2512/2618 22008KT 9999 SCT018 TX31/2607Z TN25/2600Z PROB30 TEMPO 2512/2514 2522/2603 7000 -TSRA/SHRA SCT016 FEW018CB BKN080 BECMG 2603/2605 23010G20KT BECMG 2613/2615 24006KT VDPP 251100Z 2512/2606 23010KT 9999 SCT017 TEMPO 2512/2516 SCT015 FEW017CB SCT040 VDSR 251100Z 2512/2606 23012KT 5000 TSRA 9999 SCT015 FEW017CB SCT040 BECMG 2513/2515 24007KT 9000 SCT015 SCT040 VDSV 251100Z 2506/2606 27009KT 9999 SCT017 SCT040 TEMPO 2512/2516 29015G27KT 5000 SHRA SCT015 FEW017CB BKN040 VEAB 250930Z 2512/2524 11008KT 6000 SCT025 BKN090 TEMPO 2412/2416 3000 TSRA SCT015 SCT025 FEW030CB BKN090 VEBD 250930Z 2512/2524 09010KT 6000 SCT030 SCT100 TEMPO 2510/2518 12010G20KT 3000 TSRA SCT015 FEW030CB BKN080 VEBN 251100Z 2512/2618 11005KT 4000 HZ SCT025 BKN100 TEMPO 2512/2516 1500 RA TSRA SCT025 FEW030CB OVC090 BECMG 2600/2602 VRB02KT 3000 HZ BR TEMPO 2600/2604 1500 RA TSRA SCT020 FEW030CB OVC090 BECMG 2604/2606 11008KT 5000 HZ TEMPO 2610/2614 1500 RA TSRA SCT020 FEW030CB OVC090 VECC 251100Z 2512/2618 13008KT 3100 -RA HZ SCT018 BKN090 TEMPO 2512/2516 2000 TSRA SCT015 FEW025CB OVC090 BECMG 2523/2601 00000KT 2200 -RA BR BECMG 2602/2604 16007KT 3200 -RA HZ VECX 250330Z 2506/2518 07010KT 6000 SCT015 BKN090 TEMPO 2508/2512 09010KT 5000 TSRA SCT015 FEW030CB BKN080 BECMG 2513/2515 VRB02KT 6000 SCT020 BKN090 BECMG 2516/2518 VRB02K5T 6000 -RA SCT025 BKN100 VEGK 250930Z 2512/2524 07005KT 6000 SCT025 SCT200 BECMG 2518/2522 SCT025 FEW030TCU SCT020 VEJT 250930Z 2512/2600 02005KT 6000 FEW025 SCT090 TEMPO 2512/2515 VRB02KT 6000 FEW025 FEW030TCU BKN250 VEKU 250930Z 2512/2524 VRB02KT 6000 SCT025 SCT100 TEMPO 2514/2518 SCT020 FEW025TCU/CB BKN100 TEMPO 2521/2524 4000 RABR SCT018 SCT025 BKN100 VEPT 251100Z 2512/2618 09007KT 4000 HZ SCT018 BKN100 BECMG 2522/2524 2500 BR BECMG 2604/2606 4000 HZ SCT018 BKN100 BECMG 2607/2609 3000 -TSRA HZ SCT018 FEW030CB BKN100 BECMG 2615/2617 BR SCT018 SCT100 VERP 251100Z 2512/2618 27006KT 4000 \u2013RA SCT020 SCT025 BKN090 TEMPO 2512/2514 20005KT 3000 -TSRA -SHRA FEW012 SCT020 FEW030CB BKN090 BECMG 2600/2602 VRB03KT 4000 \u2013RA/HZ SCT012 SCT020 OVC080 BECMG 2604/2606 24010KT 5000 \u2013RA HZ SCT025 BKN090 BECMG 2610/2612 23005KT 4000 -TSRA -SHRA SCT012 SCT020 FEW030CB BKN080 VETZ 250930Z 2512/2524 09008KT 6000 SCT020 TEMPO 2513/2515 09010KT 6000 -TS SCT020 FEW030CB SCT100 VGEG 251100Z 2512/2618 17008KT 5000 SCT015 BKN100 TEMPO 2514/2518 17015KT 2000 DZ/RA SCT008 FEW025CB BKN090 BECMG 2519/2521 14005KT 4000 FEW016 SCT100 BECMG 2610/2612 17008KT 5000 SCT015 BKN100 VGHS 251100Z 2512/2618 14010KT 4000 HZ FEW015 SCT100 BECMG 2518/2520 12008KT 3500 HZ SCT012 BKN100 TEMPO 2603/2609 15025KT 2000 RA/TSRA SCT008 FEW025CB BKN090 BECMG 2610/2612 16010KT 4000 HZ SCT015 BKN100 VHHH 251326Z 2513/2618 22015KT 8000 FEW025 TX34/2606Z TN27/2522Z TEMPO 2513/2517 3000 -TSRA SHRA FEW012CB SCT025 TEMPO 2521/2603 3500 SHRA FEW012CB SCT025 VIAG 250330Z 2506/2518 07008KT 6000 SCT020 BKN080 TEMPO 2508/2512 11012KT 3000 -TSRABR SCT008 SCT015 FEW030CB OVC080 VIAR 251100Z 2512/2618 09004KT 3500 HZ -RA BKN030 OVC090 BECMG 2512/2516 FEW035CB BECMG 2520/2522 VRB02KT 2500 BR FEW035 SCT080 BECMG 2603/2605 09008KT 3500 HZ -RA SCT030 BKN080 BECMG 2608/2612 FEW035CB BECMG 2615/2617 VRB02KT 2500 HZ BR VIAX 250930Z 2512/2524 14005KT 6000 SCT025 FEW030TCU BKN090 TEMPO 2517/2520 3000 TSRABR SCT020 FEW030CB BKN090= VIAG 250930Z 2512/2524 VRB02KT 6000 SCT020 BKN080 TEMPO 2520/2523 4000 TSRA SCT010 SCT020 FEW030CB BKN090 VICG 250930Z 2512/2524 14010KT 6000 SCT025 BKN090 TEMPO 2518/2522 5000 RA SCT020 BKN080 VICX 250930Z 2512/2524 09010KT 6000 SCT025 BKN100 TEMPO 2520/2522 VRB02KT 6000 -RA SCT020 BKN080 TEMPO 2523/2524 VRB02KT 6000 SCT020 BKN100 VIDP 251100Z 2512/2618 09008G18KT 3500 -RA SCT030 BKN090 BECMG 2512/2516 1500 TSRA SCT025 FEW035CB OVC080 BECMG 2520/2522 05006KT 2000 BR FEW030 SCT100 BECMG 2600/2604 FEW035CB BECMG 2605/2607 14008KT 3500 HZ -RA SCT030 BKN090 BECMG 2608/2612 FEW035CB BECMG 2615/2617 VRB02KT 2500 HZ BR VIGR 250930Z 2512/2600 35008KT 4000 RABR SCT015 SCT025 BKN080 TEMPO 2512/2515 02010KT 2000 TSRA SCT010 SCT015 FEW025TCU/CB BKN080 BECMG 2518/2521 34008KT 4000 BR SCT015 SCT025 BKN080 VIJO 250930Z 2512/2524 25010KT 6000 FEW025 FEW100 BKN250 VIJP 251100Z 2512/2618 13005KT 4000 HZ SCT030 BKN100 BECMG 2513/2515 VRB03KT 3000 HZ BECMG 2604/2606 12006KT 4000 HZ TEMPO 2608/2614 1500 TSRA FEW035CB OVC090 BECMG 2613/2614 VRB03KT 3000 HZ SCT030 BKN090 VIJR 250930Z 2512/2524 20010KT 6000 FEW 030 BKN 250 VIJU 250330Z 2506/2518 VRB02KT 6000 SCT030 SCT090 TEMPO 2512/2515 FEW030TCU/CB VILH 250330Z 2506/2518 28010KT 9999 FEW070 SCT100 TEMPO 2506/2510 BKN100 TEMPO 2512/2516 27020G30KT VILK 251100Z 2512/2618 09008KT 5000 HZ SCT020 SCT025 TEMPO 2512/2516 FEW030CB BECMG 2514/2516 09004KT 3000 HZ BR TEMPO 2520/2524 FEW030CB BECMG 2604/2606 09010KT 5000 HZ SCT020 SCT025 BKN100 TEMPO 2610/2614 FEW030CB BECMG 2612/2614 VRB02KT 3000 HZ BR VISR 250930Z 2512/2524 21005KT 6000 FEW030 SCT090 TEMPO 2513/2516 24005KT 6000 TS SCT025 FEW030CB VLLB 251100Z 2512/2612 09004KT 5000 TSRA SCT013 FEW027CB BKN060= VLLN 251100Z 2512/2612 24004KT 5000 RA SCT013 SCT050 BKN100 VLLN 250500Z 2506/2606 24004KT 9999 SCT020 FEW050 BKN100 VLPS 251100Z 2512/2612 18004KT 7000 TSRA SCT016 FEW023CB BKN050 SCT100 VLSK 251100Z 2512/2612 22004KT 4000 TSRA SCT016 FEW023CB BKN040 BKN083 VLVT 251100Z 2512/2612 22004KT 4000 TSRA SCT016 FEW023CB BKN050 VMMC 251100Z 2512/2618 21014KT 8000 FEW020 SCT035 TEMPO 2512/2518 VRB20G30KT 1400 +TSRA FEW008 SCT015CB TEMPO 2518/2604 4000 SHRA BECMG 2615/2618 15010KT VNKT 251100Z 2512/2612 20005KT 8000 FEW010 SCT030 BKN100 PROB40 2513/2517 24008KT 4000 -TSRA/RA FEW025CB BECMG 2514/2515 VRB02KT 6000 FEW015 SCT025 BKN100 PROB30 2600/2602 00000KT 5000 -RA/BR FEW008 BECMG 2603/2605 12005KT 7000 FEW015 SCT030 BKN100 BECMG 2607/2609 26008KT 8000 FEW020 SCT030 BKN100 PROB30 2607/2611 VRB06KT 5000 -TSRA FEW025CB VOBL 251100Z 2512/2618 27015KT 6000 SCT012 SCT080 TEMPO 2512/2518 4000 RA DZ SCT008 SCT012 FEW025CB BKN080 TEMPO 2521/2603 4000 DZ BR SCT008 SCT012 BKN080 TEMPO 2609/2615 4000 RA DZ SCT008 SCT012 BKN080 VOCB 251100Z 2512/2618 20010KT 6000 FEW015 BKN080 BECMG 2515/2516 5000 HZ TEMPO 2600/2603 3000 BR BECMG 2605/2606 20010KT 6000 TEMPO 2606/2612 20010G20KT VOCI 251100Z 2512/2618 09005KT 5000 HZ FEW010 SCT012 FEW025CB OVC080 TEMPO 2515/2521 29010KT 4000 BR .RA TEMPO 2600/2603 08005KT 2000 BR RA SCT008 SCT012 FEW025CB BKN080 BECMG 2604/2606 29010KT 5000 HZ SCT012 BKN080 TEMPO 2612/2616 2500 BR RA SCT008 SCT012 FEW025CB BKN080 VOCL 251100Z 2512/2618 24010KT 6000 FEW012 FEW025CB BKN080 TEMPO 2515/2521 2500 TSRA RA SCT006 SCT012 FEW025CB BKN080 TEMPO 2523/2603 07005KT 2000 BR RA SCT006 SCT012 FEW025CB BKN080 BECMG 2604/2606 29010KT 6000 TEMPO 2612/2616 2000 TSRA RA SCT008 SCT012 FEW025CB BKN080 VOHS 251100Z 2512/2618 28010KT 6000 SCT015 SCT025 TEMPO 2515/2518 27010KT 3000 TSRA SCT010 SCT015 FEW030CB OVC080 BECMG 2518/2521 26007KT 5000 DZ BR HZ SCT010 SCT015 BKN100 BECMG 2604/2606 28012KT 6000 SCT015 SCT025 TEMPO 2610/2616 FEW030CB VOKN 251100Z 2512/2618 VRB03KT 5000 DZ FEW004 SCT012 FEW025CB BKN080 TEMPO 2512/2521 29010KT 2000 BR RA BECMG 2522/2603 VRB03KT 1500 RA BR SCT006 SCT012 FEW025CB OVC080 BECMG 2604/2606 29010KT 5000 HZ SCT012 FEW025CB BKN080 TEMPO 2612/2616 2000 RA SCT008 SCT012 FEW025CB OVC080 VOMD 251100Z 2512/2618 32010KT 6000 FEW020 BKN100 TEMPO 2512/2518 SCT018 FEW025TCU/CB OVC100 BECMG 2521/2522 19010KT 5000 HZ BECMG 2603/2604 32010KT 6000 TEMPO 2606/2612 32010G20KT VOML 251100Z 2512/2618 VRB02KT 5000 DZ BR SCT008 SCT012 BKN080 TEMPO 2512/2518 3000 RA DZ SCT005 SCT012 BKN080 TEMPO 2521/2603 2000 RA BR SCT003 SCT012 FEW025CB BKN080 BECMG 2606/2607 27010KT TEMPO 2609/2615 4000 RA DZ SCT004 SCT012 BKN080 BECMG 2514/2515 VRB02KT VOMM 251100Z 2512/2618 16010KT 6000 FEW020 BKN100 TEMPO 2512/2518 4000 -TSRA/RA SCT018 FEW025CB BKN080 BECMG 2521/2522 25010KT 5000 -DZ/HZ BECMG 2603/2604 6000 VOTR 251100Z 2512/2618 27010KT 6000 FEW016 BKN100 TEMPO 2512/2518 4000 -TSRA/RA SCT016 FEW025TCU/CB OVC100 BECMG 2521/2522 5000 HZ BECMG 2603/2604 6000 VOTV 251100Z 2512/2618 30010KT 5000 HZ FEW010 SCT015 FEW025CB BKN080 TEMPO 2512/2516 30010G20KT 2500 TSRA RA BECMG 2518/2520 30010KT 4000 BR SCT012 FEW025CB BKN080 TEMPO 2523/2603 2000 BR RA SCT008 SCT012 FEW025CB BKN080 BECMG 2604/2606 6000 SCT012 BKN080 TEMPO 2612/2616 2500 TSRA RA SCT008 SCT012 FEW025CB BKN080 VOVZ 251100Z 2512/2618 25010KT 5000 HZ FEW018 BKN090 TEM[PO 2514/2517 3500 -RA DZ BECMG 2518/2520 VRB02KT TEMPO 1600/1603 3000 BR BECMG 2604/2606 25010KT 5000 HZ FEW018 SCT090 TEMPO 2609/2613 29008G18KT 3000 -TSRA SCT014 FEW025CB BKN080 VRMG 251100Z 2512/2618 17007KT 9999 FEW018 TEMPO 2512/2518 FEW018CB VRMH 251100Z 2512/2618 27008KT 9999 FEW017TCU TEMPO 2512/2518 5000 -TSRA SCT018CB VRMM 251100Z 2512/2618 25010KT 9999 FEW018TCU TEMPO 2512/2518 5000 -TSRA FEW018CB VTBD 251100Z 2512/2618 23008KT 9999 FEW020 SCT040 TEMPO 2608/2613 25015KT 5000 TSRA FEW018CB SCT030 BKN100 VTBO 251100Z 2512/2612 23008KT 8000 FEW020 SCT100 TEMPO 2512/2516 VRB15KT 5000 TSRA FEW018CB SCT030 BKN100 VTBS 251100Z 2512/2618 22008KT 9999 FEW020 SCT040 TEMPO 2608/2613 25015KT 5000 TSRA FEW018CB SCT030 BKN100 VTBU 251100Z 2512/2612 23006KT 9999 FEW020 SCT100 TEMPO 2515/2519 VRB14KT 5000 SHRA FEW018CB SCT035 BECMG 2600/2602 24010KT VTCC 251100Z 2512/2618 20005KT 9999 SCT035 TEMPO 2514/2518 VRB15G25KT 5000 TSRA FEW020CB BKN025 VTCH 251100Z 2512/2612 24005KT 9999 BKN025 TEMPO 2512/2518 VRB15G25KT 5000 TSRA FEW020CB BKN025 VTCL 251100Z 2512/2612 26005KT 9999 SCT030 TEMPO 2513/2518 VRB15G25KT 5000 TSRA FEW020CB BKN025 VTCN 251100Z 2512/2612 20005KT 9999 BKN030 TEMPO 2512/2518 VRB15G25KT 5000 TSRA FEW020CB BKN025 VTCP 251100Z 2512/2612 22005KT 9999 SCT025 TEMPO 2514/2518 VRB15G25KT 5000 TSRA FEW020CB BKN025 VTCT 251100Z 2512/2618 06005KT 9999 BKN025 TEMPO 2512/2518 VRB15G25KT 5000 TSRA FEW020CB BKN025 VTPB 251100Z 2512/2612 18005KT 9999 BKN025 TEMPO 2512/2518 VRB15G25KT 4000 TSRA FEW020CB BKN025 VTPH 251100Z 2512/2612 24005KT 9999 FEW025 SCT040 TEMPO 2512/2516 VRB15KT 6000 -TSRA FEW018CB SCT030 BKN100 VTPM 251100Z 2512/2612 26005KT 9999 BKN025 TEMPO 2512/2515 VRB15G25KT 4000 TSRA FEW020CB BKN025 VTPO 251100Z 2512/2612 20005KT 9999 BKN025 TEMPO 2512/2516 VRB15G25KT 4000 TSRA FEW020CB BKN025 VTPP 251100Z 2512/2612 18005KT 9999 BKN025 TEMPO 2514/2518 VRB15G25KT 4000 TSRA FEW020CB BKN025 VTPT 251100Z 2512/2612 26005KT 9999 BKN025 TEMPO 2512/2516 VRB15G25KT 5000 TSRA FEW020CB BKN025 VTSB 251100Z 2512/2612 19003KT 9999 FEW020 BKN100 TEMPO 2521/2603 5000 TSRA FEW016CB SCT018 BKN100 BECMG 2603/2605 25010KT TEMPO 2605/2611 25010G20KT 5000 TSRA FEW016CB SCT018 BKN100 VTSC 251100Z 2512/2612 19003KT 9999 FEW020 BKN100 TEMPO 2522/2604 5000 TSRA FEW016CB SCT018 BKN100 BECMG 2604/2606 27010KT TEMPO 2606/2612 27010G20KT 5000 TSRA FEW016CB SCT018 BKN100 VTSE 251100Z 2512/2612 27005KT 9999 FEW020 BKN100 TEMPO 2521/2603 5000 TSRA FEW016CB SCT018 BKN100 TEMPO 2603/2609 27010G20KT 5000 TSRA FEW016CB SCT018 BKN100 VTSF 251100Z 2512/2612 VRB02KT 9999 FEW020 BKN100 TEMPO 2522/2604 5000 TSRA FEW016CB SCT018 BKN100 TEMPO 2604/2610 VRB10G20KT 5000 TSRA FEW016CB SCT018 BKN100 VTSG 251100Z 2512/2612 25007KT 9999 FEW020 BKN100 BECMG 2514/2516 00000KT TEMPO 2520/2602 26015G30KT 5000 TSRA FEW018CB SCT020 BKN100 VTSH 251100Z 2512/2612 24005KT 9999 FEW020 BKN100 PROB30 TEMPO 2513/2519 5000 RA SCT015 BKN100 TEMPO 2522/2604 5000 TSRA FEW016CB SCT018 BKN100 TEMPO 2604/2610 24010G20KT 5000 TSRA FEW016CB SCT018 BKN100 VTSK 251100Z 2512/2612 29005KT 9999 FEW020 BKN100 TEMPO 2522/2604 5000 TSRA FEW016CB SCT018 BKN100 TEMPO 2604/2610 29010G20KT 5000 TSRA FEW016CB SCT018 BKN100 VTSM 251100Z 2512/2612 28005KT 9999 FEW020 BKN100 TEMPO 2522/2604 5000 TSRA FEW016CB SCT018 BKN100 TEMPO 2604/2610 28010G20KT 5000 TSRA FEW016CB SCT018 BKN100 VTSP 251100Z 2512/2618 26015KT 9999 FEW020 BKN100 TEMPO 2522/2604 26015G30KT 5000 TSRA FEW018CB SCT020 BKN100 VTSR 251100Z 2512/2612 24006KT 9999 BKN020 TEMPO 2518/2524 26015G30KT 5000 TSRA FEW018CB SCT020 BKN100 VTSS 251100Z 2512/2612 24005KT 9999 FEW020 BKN100 PROB30 TEMPO 2512/2518 5000 RA SCT015 BKN100 TEMPO 2521/2603 5000 TSRA FEW016CB SCT018 BKN100 TEMPO 2603/2609 24010G20KT 5000 TSRA FEW016CB SCT018 BKN100 VTST 251100Z 2512/2612 28005KT 9999 SCT020 BECMG 2514/2516 00000KT TEMPO 2520/2602 26015G30KT 5000 TSRA FEW018CB SCT020 BKN100 VTUD 251100Z 2512/2612 26006KT 9999 BKN020 BKN080 TEMPO 2512/2518 VRB10G20KT 5000 TSRA FEW018CB BKN020 BKN100 TEMPO 2523/2605 VRB10G20KT 5000 TSRA FEW018CB BKN020 BKN100 VTUI 251100Z 2512/2612 22006KT 9999 BKN020 BKN080 TEMPO 2512/2518 VRB10G20KT 5000 TSRA FEW018CB BKN020 BKN100 TEMPO 2523/2605 VRB10G20KT 5000 TSRA FEW018CB BKN020 BKN100 VTUJ 251100Z 2512/2612 24007KT 9999 SCT025 TEMPO 2512/2514 VRB15KT 5000 TSRA FEW018CB BKN020 VTUK 251100Z 2512/2612 24006KT 9999 BKN025 BKN100 TEMPO 2512/2518 VRB10G20KT 5000 TSRA FEW018CB BKN020 BKN100 TEMPO 2523/2605 VRB10G20KT 5000 TSRA FEW018CB BKN020 BKN100 VTUL 251100Z 2512/2612 24006KT 9999 BKN020 BKN080 TEMPO 2512/2518 VRB10G20KT 5000 TSRA FEW018CB BKN020 BKN100 TEMPO 2523/2605 VRB10G20KT 5000 TSRA FEW018CB BKN020 BKN100 VTUO 251100Z 2512/2612 25007KT 9999 SCT025 TEMPO 2512/2514 VRB15KT 5000 TSRA FEW018CB BKN020 VTUQ 251100Z 2512/2612 26008KT 9999 SCT025 VTUU 251100Z 2512/2612 23007KT 9999 SCT025 TEMPO 2514/2517 VRB15KT 5000 TSRA FEW018CB BKN020 VTUV 251100Z 2512/2612 23007KT 9000 SCT025 TEMPO 2512/2515 VRB15KT 5000 TSRA FEW018CB BKN020 VTUW 251100Z 2512/2612 22006KT 9999 BKN020 BKN080 TEMPO 2512/2518 VRB10G20KT 5000 TSRA FEW018CB BKN020 BKN100 TEMPO 2523/2605 VRB10G20KT 5000 TSRA FEW018CB BKN020 BKN100 VVCI 251100Z 2512/2612 17006KT 9999 FEW020 BECMG 2522/2523 4000 BR BECMG 2600/2601 6000 NSW VVCR 251100Z 2512/2612 24006KT 9999 FEW015 BECMG 2602/2603 13010KT VVCT 251100Z 2512/2612 23008KT 9999 SCT015 TEMPO 2603/2609 25016G32KT 3000 SHRA BKN013 SCT015CB VVDN 251100Z 2512/2612 22004KT 9999 FEW015 BKN060 TEMPO 2608/2612 4000 TSRA SCT013 FEW015CB BKN050 VVNB 250500Z 2506/2606 06006KT 9999 FEW020 TEMPO 2507/2511 TS SCT015 FEW027CB BECMG 2522/2523 4000 BR BECMG 2600/2601 6000 NSW VVPB 251100Z 2512/2612 23004KT 9999 FEW015 SCT060 TEMPO 2609/2612 4000 TSRA SCT013 FEW017CB BKN050 VVPQ 251100Z 2512/2612 26010KT 9999 SCT015 TEMPO 2514/2523 5000 SHRA SCT015 FEW017CB BKN040 TEMPO 2523/2603 26016G32KT 1500 +TSRA BKN013 SCT015CB VVTS 251100Z 2512/2618 25010KT 9999 SCT017 TEMPO 2604/2607 25016G28KT 5000 SHRA BKN015 FEW017CB TEMPO 2607/2610 27017G32KT 1500 +TSRA BKN013 SCT015CB VYMD 251100Z 2512/2612 13005KT 7000 BKN018 FEW020CB TEMPO 2512/2518 17007KT 5000 -TSRA BKN015 FEW018CB OVC090 VYNT 251100Z 2512/2612 18008KT 5000 BKN017 FEW020CB TEMPO 2512/2518 19010G16KT 5000 -TSRA BKN015 FEW018CB OVC100 VYYY 251100Z 2512/2612 24006KT 7000 BKN015 FEW018CB BKN110 TEMPO 2512/2518 5000 -RA/-SHRA WAAA 251100Z 2512/2618 19003KT 8000 FEW019 BECMG 2521/2523 9999 BECMG 2603/2605 32010KT WABB 251100Z 2512/2618 27005KT 9999 SCT018 TEMPO 2518/2522 7000 -RA BKN018 WADD 251100Z 2512/2612 12008KT 9999 SCT015 BECMG 2601/2603 12013KT WADL 251100Z 2512/2612 13010KT 7000 BKN016 TEMPO 2421/2423 3000 BR WALL 251100Z 2512/2618 23003KT 9000 FEW020 BECMG 2514/2516 SCT020 TEMPO 2521/2524 FEW020CB BECMG 2600/2602 9999 WALS 251100Z 2512/2524 00000KT 8000 SCT015 WAMM 251100Z 2512/2618 VRB03KT 9999 FEW023 BECMG 2600/2602 18010KT SCT022 WAOO 250500Z 2506/2606 18006KT 9999 SCT020= WAQA 251100Z 2512/2524 00000KT 6000 BKN012 WAQD 251100Z 2512/2524 00000KT 7000 BKN015 TEMPO 2512/2515 FEW015CB WAQJ 251100Z 2512/2524 00000KT 2000 -TSRA FEW010CB SCT010 BECMG 2513/2515 4000 BR BKN013 WAQQ 251100Z 2512/2524 00000KT 8000 SCT015 WAQT 251100Z 2512/2524 00000KT 8000 SCT017 BECMG 2516/2518 4000 BR WARR 251100Z 2512/2612 12010KT 8000 FEW020 BECMG 2516/2518 26005KT 4000 HZ BECMG 2600/2602 10010KT 9999 NSW WATT 251100Z 2512/2612 13011KT 8000 FEW018 BECMG 2602/2604 10018KT WBGB 251100Z 2512/2612 12005KT 9999 FEW016 WBGG 251100Z 2512/2612 VRB02KT 9999 SCT020 TEMPO 2512/2515 4000 RA SCT018 WBGR 251100Z 2512/2612 VRB03KT 9999 SCT016 TEMPO 2522/2602 4000 RA FEW003 SCT014 WBGS 251100Z 2512/2612 13005KT 9999 SCT018 TEMPO 2512/2515 4000 RA SCT016 WBKK 251100Z 2512/2612 11005KT 9999 FEW014 TEMPO 2512/2516 30006G25KT 3000 TSRA FEW013 FEW016CB SCT035 BECMG 2600/2602 26010KT WBKL 251100Z 2512/2612 VRB03KT 9999 FEW014 TEMPO 2513/2517 4000 TSRA FEW010 FEW015CB SCT030 WBKS 251100Z 2512/2612 22005KT 9999 FEW016 TEMPO 2512/2516 14005G20KT 4000 TSRA FEW015 FEW016CB SCT030 BECMG 2603/2605 04008KT WBKW 251100Z 2512/2612 30008KT 9999 FEW017 WBSB 251100Z 2512/2618 22003KT 9999 FEW015 BECMG 2603/2605 33010KT FEW016 FEW017CB TEMPO 2604/2608 6000 -SHRA SCT015 FEW016CB WIDD 251100Z 2512/2612 17005KT 9000 SCT014= WIEE 251100Z 2512/2612 20008KT 9999 BKN020 TEMPO 2513/2514 26009KT 4000 RA BKN016 BECMG 2516/2518 03002KT 8000 SCT020 WIHH 251100Z 2512/2612 03010KT 5000 HZ FEW022 BECMG 2515/2517 21005KT WIII 251100Z 2512/2618 04010KT 9000 FEW020 BECMG 2517/2519 21004KT WIMM 251100Z 2512/2612 VRB03KT 5000 -RA FEW017CB BKN018 TEMPO 2514/2516 VRB15KT 2000 TSRA BECMG 2601/2602 04005KT 8000 BKN020 WIPB 250500Z 2506/2518 09005KT 9999 SCT010= WIPP 251100Z 2512/2612 10008KT 9999 SCT010 TEMPO 2521/2601 3000 BR WIPY 250500Z 2506/2518 10005KT 9999 SCT010= WITT 251100Z 2512/2524 28008KT 8000 SCT018 BECMG 2519/2521 VRB05KT WMAP 251100Z 2512/2612 VRB03KT 9999 FEW017CB BECMG 2514/2516 13005KT FEW018 PROB30 TEMPO 2604/2608 4000 TSRA FEW017CB SCT018 WMBT 251100Z 2512/2612 VRB02KT 9999 FEW025 WMKA 251100Z 2512/2612 VRB03KT 9999 FEW020 BECMG 2606/2608 24008KT WMKB 251100Z 2512/2612 VRB02KT 7000 FEW023 BECMG 2523/2601 07005KT 8000 SCT020 TEMPO 2606/2610 29010KT 6000 -TSRA FEW017CB WMKC 251100Z 2512/2612 26005KT 9999 FEW020 TEMPO 2607/2612 7000 -TSRA FEW010 FEW017CB WMKD 251100Z 2512/2612 VRB03KT 9999 FEW024= WMKE 251100Z 2512/2612 VRB03KT 3000 HZ FEW014 TEMPO 2607/2610 7000 -TSRA FEW010 FEW014CB WMKI 251100Z 2512/2612 VRB02KT 5000 -TSRA FEW008 FEW017CB BECMG 2513/2515 04007KT 8000 NSW FEW010 BECMG 2600/2602 VRB03KT FEW020 TEMPO 2608/2612 24010KT 5000 -TSRA FEW017CB WMKJ 251100Z 2512/2612 VRB02KT 9000 FEW017CB BECMG 2514/2516 8000 FEW023 TEMPO 2603/2607 27010KT 3000 TSRA FEW010 FEW016CB SCT018 WMKK 251100Z 2512/2618 23005KT 9999 FEW017CB BECMG 2513/2515 VRB02KT 8000 FEW030 TEMPO 2520/2600 3000 TSRA FEW008 FEW016CB SCT018 WMKL 251100Z 2512/2612 VRB03KT 9999 FEW020 BECMG 2604/2606 22006KT WMKM 251100Z 2512/2612 24005KT 9999 FEW020 TEMPO 2519/2523 4000 TSRA FEW017CB SCT018 WMKN 251100Z 2512/2612 VRB03KT 9999 FEW022 BECMG 2604/2606 05006KT TEMPO 2607/2611 7000 -TSRA FEW010 FEW017CB WMKP 251100Z 2512/2612 VRB03KT 8000 FEW020 BECMG 2603/2605 22008KT 9999 WMPA 250500Z 2506/2606 20008KT 9000 FEW017CB BECMG 2510/2512 VRB03KT 9999 FEW032 TEMPO 2520/2600 6000 -TSRA FEW017CB WMSA 251100Z 2512/2612 26006KT 9999 FEW018 BECMG 2514/2515 VRB03KT FEW026 TEMPO 2520/2600 3000 TSRA FEW008 FEW016CB SCT018 BECMG 2602/2604 19007KT FEW018 WPDL 250646Z 2508/2520 06010KT CAVOK FM251400 15005KT CAVOK WSAP 251100Z 2512/2618 19007KT 9999 FEW015 SCT020 TEMPO 2603/2607 3000 TSRA FEW012CB BKN015 WSSL 251100Z 2512/2618 19007KT 9999 FEW015 SCT020 TEMPO 2603/2607 3000 TSRA FEW012CB BKN015 WSSS 251100Z 2512/2618 19007KT 9999 FEW015 SCT020 TEMPO 2603/2607 3000 TSRA FEW012CB BKN015 YAMB 251056Z 2512/2606 28005KT CAVOK FM260300 08006KT CAVOK PROB30 2518/2522 0500 FG YBAS 251105Z 2512/2612 12008KT CAVOK YBBN 251109Z 2512/2618 28006KT CAVOK FM260000 06012KT CAVOK FM261200 VRB03KT 9999 SCT025 YBCG 251116Z 2512/2612 29005KT CAVOK FM260000 07010KT CAVOK FM261100 VRB03KT 9999 SCT025 YBCS 251115Z 2512/2612 17007KT 9999 SCT025 FM260100 13014KT 9999 FEW040 FM260800 17007KT 9999 FEW025 YBHM 251052Z 2512/2524 12014KT 9999 SCT025 SCT050 FM251600 16014KT 9999 SCT018 TEMPO 2520/2523 9999 BKN015 YBMA 251004Z 2512/2524 17007KT CAVOK FM252300 15017G27KT CAVOK YBRK 251129Z 2512/2612 VRB03KT 9999 FEW020 FM251600 VRB03KT 9999 MIFG NSC FM252200 06005KT CAVOK FM260900 17004KT CAVOK PROB30 2519/2521 0500 FG YBRM 251008Z 2512/2612 VRB03KT CAVOK FM252300 16006KT CAVOK FM260300 30010KT CAVOK PROB30 2516/2523 0500 FG YBTL 251134Z 2512/2612 11008KT 9999 SCT020 FM251600 17004KT 9999 MIFG FEW015 FM252200 13008KT 9999 FEW025 FM260100 07016KT 9999 SCT050 FM260800 09007KT 9999 FEW025 YCFS 251112Z 2512/2612 24005KT 9999 -SHRA SCT020 FM252100 18008KT 9999 -SHRA FEW015 BKN025 FM260100 13014KT 9999 -SHRA FEW015 BKN020 BECMG 2608/2610 18005KT 9999 -SHRA SCT010 BKN020 INTER 2601/2612 4000 SHRA BKN015 YCIN 251220Z 2514/2602 VRB05KT CAVOK FM260000 34007KT CAVOK PROB30 2516/2523 0500 FG YFRT 251206Z 2514/2602 11012KT CAVOK FM260000 07010KT CAVOK YGEL 251010Z 2512/2606 15014KT CAVOK FM260100 10014KT CAVOK YGLA 251125Z 2512/2524 VRB03KT CAVOK FM251600 23003KT 9999 MIFG NSC FM252100 20003KT CAVOK FM252300 13006KT 9999 FEW030 YHID 251123Z 2512/2612 13014KT 9999 SCT020 FM252300 11018KT 9999 SCT025 FM260900 13014KT 9999 SCT020 YLHI 251125Z 2512/2612 30012KT 9999 -SHRA SCT030 FM251400 28010KT 9999 -SHRA FEW015 BKN025 BECMG 2521/2523 15012KT 9999 -SHRA FEW015 SCT025 BECMG 2608/2610 12006KT 9999 -SHRA FEW010 SCT020 INTER 2515/2524 4000 SHRA BKN015 YMAV 251108Z 2512/2612 29008KT 9999 SCT035 FM260000 24010KT 9999 FEW035 FM260600 VRB05KT 9999 -SHRA FEW025 BKN035 YMHB 251106Z 2512/2612 33010KT 9999 FEW045 FM260100 30014KT 9999 BKN050 FM260800 33008KT 9999 SCT035 YMLT 251108Z 2512/2612 34005KT CAVOK FM252300 31010KT CAVOK FM260500 34014KT CAVOK PROB30 2515/2523 0500 FG YMML 251110Z 2512/2618 29008KT 9999 FEW025 BKN040 FM252300 24010KT 9999 FEW040 FM260200 21007KT 9999 SCT040 FM260800 VRB05KT 9999 SCT030 FM261400 30008KT 9999 FEW025 YPAD 251100Z 2512/2618 14005KT 9999 FEW030 FM251500 05005KT 9999 FEW025 FM260100 24008KT 9999 FEW025 FM260800 VRB04KT 9999 FEW020 YPCC 251008Z 2512/2612 12018KT 9999 -SHRA SCT015 BKN030 INTER 2512/2518 3000 SHRA BKN012 YPDN 251106Z 2512/2618 VRB03KT 9999 FEW020 FM260300 33010KT CAVOK FM261000 VRB03KT 9999 FEW020 YPEA 251011Z 2512/2606 13006KT CAVOK FM260100 09010KT CAVOK YPGV 251201Z 2514/2602 15003KT 9999 FEW020 FM260000 10013KT 9999 SCT025 YPJT 251010Z 2512/2606 13007KT CAVOK FM260100 09010KT CAVOK YPKG 251101Z 2512/2612 10008KT CAVOK YPKU 251201Z 2514/2602 VRB03KT CAVOK FM260100 08012KT CAVOK YPLM 251009Z 2512/2612 20014KT CAVOK FM260300 16010KT CAVOK YPPD 251009Z 2512/2612 24005KT CAVOK FM260300 33010KT CAVOK YPPH 251101Z 2512/2618 13008KT CAVOK FM252200 09010KT CAVOK YPTN 251105Z 2512/2612 11008KT CAVOK YPWR 251100Z 2512/2524 15010KT CAVOK YPXM 251009Z 2512/2612 12014KT 9999 SCT015 BKN025 TEMPO 2514/2612 BKN012 YSCB 251413Z 2514/2612 19005KT 9999 BKN015 BECMG 2521/2523 08008KT 9999 -SHRA FEW015 BKN040 PROB40 2514/2523 0200 FG BKN001 YSDU 251100Z 2512/2606 19008KT CAVOK FM251800 15005KT 9999 SCT010 BECMG 2523/2601 22008KT CAVOK YSNF 251129Z 2512/2612 32005KT 9999 -SHRA BKN035 YSRI 251051Z 2512/2612 21005KT 9999 SCT030 SCT040 FM251600 19005KT 9999 -SHRA SCT025 BKN040 YSSY 251100Z 2512/2618 15010KT 9999 SCT035 FM251400 16010KT 9999 -SHRA FEW020 SCT030 FM251800 22008KT 9999 -SHRA SCT015 BKN025 FM260000 14012KT 9999 -SHRA SCT015 BKN025 YSTW 251101Z 2512/2606 VRB03KT CAVOK BECMG 2523/2601 24006KT CAVOK YTNK 251201Z 2514/2602 11008KT CAVOK FM252300 11018G28KT CAVOK YTRE 251249Z 2514/2602 VRB03KT 9999 -SHRA FEW015 BKN030 BECMG 2600/2602 12008KT 9999 -SHRA SCT015 BKN030 INTER 2520/2602 4000 SHRA BKN015 YWLM 251057Z 2512/2612 16005KT 9999 -SHRA BKN030 FM252300 13012KT 9999 -SHRA SCT025 BKN035 FM261000 10005KT 9999 -SHRA BKN025 INTER 2523/2606 5000 SHRA BKN015 ZBAA 250930Z 2512/2612 18004MPS CAVOK TX28/2607Z TN20/2521Z ZBHH 250905Z 2512/2612 23004MPS 9999 FEW040 TX26/2608Z TN13/2522Z BECMG 2602/2603 36006MPS TEMPO 2604/2607 -TSRA FEW040CB FEW040 ZBSJ 250703Z 2512/2612 18003MPS 3500 HZ NSC TX29/2606Z TN18/2521Z BECMG 2520/2521 2000 BR BECMG 2600/2601 3500 HZ ZBTJ 250853Z 2512/2612 21003MPS 5000 HZ NSC TX29/2607Z TN21/2521Z ZBYN 250913Z 2512/2612 09004MPS 6000 NSC TX27/2607Z TN17/2522Z ZGGG 251422Z 2512/2612 24004MPS 3500 SHRA FEW030CB BKN033 TX32/2607Z TN25/2522Z BECMG 2521/2522 6000 -SHRA TEMPO 2514/2520 21008G15MPS 2000 TSRA SCT011 SCT030CB BKN040 ZGHA 250951Z 2512/2612 34004MPS 6000 SCT040 TX33/2607Z TN26/2522Z TEMPO 2604/2608 2500 SHRA BR FEW040CB BKN040 ZGKL 250911Z 2512/2612 05003MPS 9999 SCT040 TX36/2607Z TN24/2522Z TEMPO 2517/2523 VRB08G13MPS 2000 +TSRA FEW012 FEW030CB OVC033 TEMPO 2523/2605 VRB08G13MPS 2000 +TSRA BR FEW012 SCT033CB OVC033 ZGNN 250909Z 2512/2612 36003MPS 7000 FEW030 TX35/2607Z TN25/2522Z TEMPO 2605/2611 SHRA SCT023 FEW026CB ZGOW 250909Z 2512/2612 16004MPS 6000 FEW020 BKN040 TX32/2606Z TN25/2522Z TEMPO 2512/2516 3200 SHRA FEW011 FEW026CB BKN030 TEMPO 2605/2609 2100 SHRA SCT011 SCT026CB BKN030 ZGSZ 250904Z 2512/2612 18004MPS 6000 SCT020 BKN040 TX32/2607Z TN26/2522Z TEMPO 2512/2516 2000 TSRA SCT010 FEW020CB BKN030 TEMPO 2520/2602 SHRA SCT012 FEW020CB BKN030 ZHCC 250905Z 2512/2612 03004MPS 6000 NSC TX31/2607Z TN22/2522Z ZHHH 250818Z 2512/2612 02004MPS 6000 SCT020 TX37/2607Z TN25/2522Z TEMPO 2604/2608 3000 SHRA BR SCT011 FEW030CB OVC033 ZJHK 250831Z 2512/2612 18004MPS 9999 SCT020 TX33/2607Z TN26/2521Z TEMPO 2606/2612 SCT020 FEW023CB ZJSY 250901Z 2512/2612 26004MPS 9999 FEW020 TX32/2606Z TN26/2521Z ZKPY 251000Z 2512/2612 31003MPS CAVOK TX29/2606Z TN18/2521Z TEMPO 2518/2524 4000 BR ZKWS 251000Z 2512/2612 05003MPS CAVOK TX28/2606Z TN18/2521Z BECMG 2600/2602 19003MPS ZLLL 250904Z 2512/2612 05003MPS 6000 SCT013 OVC040 TX21/2512Z TN13/2522Z BECMG 2516/2517 4000 -RA TEMPO 2518/2524 RA BECMG 2603/2604 6000 ZLXY 250920Z 2512/2612 06003MPS 3000 BR BKN060 TX30/2607Z TN23/2521Z BECMG 2514/2515 2700 BR BECMG 2600/2601 3000 ZMUB 251040Z 2512/2618 VRB02MPS 9999 FEW030CB SCT033 TN06/2521Z TX17/2607Z PROB30 TEMPO 2603/2612 VRB08MPS TS SHRA SCT030CB SCT033 BECMG 2604/2606 33007MPS BECMG 2611/2613 VRB02MPS ZPPP 250704Z 2512/2612 06004MPS 9999 FEW026 TX28/2608Z TN14/2523Z ZSAM 250911Z 2512/2612 18004G10MPS 6000 SCT017 BKN030 TX31/2606Z TN26/2521Z TEMPO 2514/2520 SHRA BKN008 FEW026CB BKN030 ZSFZ 250903Z 2512/2612 18004MPS 6000 BKN015 TX30/2606Z TN26/2521Z ZSHC 250912Z 2512/2612 09004MPS 6000 BKN025 TX37/2606Z TN26/2521Z ZSNB 250812Z 2512/2612 15004MPS 3500 BR SCT030 TX37/2606Z TN26/2521Z TEMPO 2606/2612 TSRA BKN020 FEW030CB ZSNJ 250903Z 2512/2612 10005MPS 4000 BR SCT020 TX34/2607Z TN25/2521Z ZSOF 250910Z 2512/2612 06004MPS 6000 BKN030 TX35/2606Z TN26/2522Z TEMPO 2606/2612 TSRA FEW030CB ZSPD 250922Z 2512/2612 15004MPS 6000 BKN015 TX33/2606Z TN26/2520Z ZSQD 250906Z 2512/2612 18004MPS 5000 BR BKN030 TX30/2606Z TN20/2521Z ZSSS 250905Z 2512/2612 12004MPS 6000 BKN023 TX32/2606Z TN26/2521Z ZUCK 250907Z 2512/2612 03003MPS 6000 FEW040 TX38/2608Z TN28/2521Z ZUGY 250821Z 2512/2612 04003MPS 6000 SCT033 TX32/2607Z TN19/2522Z ZUUU 250826Z 2512/2612 02003MPS 8000 SCT050 TX34/2607Z TN26/2521Z ZWSH 250910Z 2512/2612 33006MPS 8000 FEW030CB SCT033 TX28/2609Z TN19/2600Z BECMG 2601/2602 12004MPS -SHRA ZWWW 250914Z 2512/2612 36004MPS CAVOK TX30/2609Z TN20/2523Z BECMG 2513/2514 18004MPS BECMG 2602/2603 36004MPS ZYCC 250907Z 2512/2612 16005MPS 6000 BKN023 TX26/2606Z TN18/2521Z TEMPO 2515/2521 2000 TSRA SCT020CB BKN023 ZYHB 250908Z 2512/2612 16004MPS 6000 SCT030 TX24/2606Z TN16/2521Z TEMPO 2512/2516 -SHRA FEW023CB SCT030 ZYTL 250907Z 2512/2612 19004MPS 8000 SCT033 TX30/2606Z TN20/2521Z ZYTX 250915Z 2512/2612 18004MPS CAVOK TX29/2606Z TN20/2521Z TEMPO 2512/2514 -SHRA FEW030CB BKN033

Airline NOTAMS

OopsThere are no NOTAMs. You can resume flight ops normally